Warning: file_exists(): File name is longer than the maximum allowed path length on this platform (4096): /var/www/customers/vh-7192/web/home/phpvms//lib/skins/crystal-II/ <table> <tr> <td>ICAO:</td> <td></td> <td>Name / Country:</td> <td> / </td> </tr> <tr> <td>Latitude:</td> <td></td> <td>Longitude:</td> <td></td> </tr> <tr> <td>Total Arrivals:</td> <td><br /> <b>Deprecated</b>: Non-static method AirportData::getarrflights() should not be called statically, assuming $this from incompatible context in <b>/var/www/customers/vh-7192/web/home/phpvms/core/templates/airport_info.tpl</b> on line <b>18</b><br /> 0</td> <td>Total Departures:</td> <td><br /> <b>Depr in /var/www/customers/vh-7192/web/home/phpvms/core/classes/TemplateSet.class.php on line 96
Airports - MATRA Airlines
Sign-in with your pilot id or email, or register

ICAO: Name / Country: /
Latitude: Longitude:
Total Arrivals:
Deprecated: Non-static method AirportData::getarrflights() should not be called statically, assuming $this from incompatible context in /var/www/customers/vh-7192/web/home/phpvms/core/templates/airport_info.tpl on line 18
0
Total Departures:
Deprecated: Non-static method AirportData::getdeptflights() should not be called statically, assuming $this from incompatible context in /var/www/customers/vh-7192/web/home/phpvms/core/templates/airport_info.tpl on line 21
0
Latest Arrival: (-) Latest Departure: (-)
Metar: 00000Z 17014KT 9999 -RADZ SCT015 SCT025 06/04 Q1009 00100Z 17004KT 5000 MIFG BR NSC 05/04 Q1025 001800Z VRB02KT 9999 SCT020 BKN200 20/10 Q1015 00300Z 27003KT CAVOK 17/08 Q1019 NOSIG 00400Z 31007KT 6000 NSC 08/M01 Q1026 TEMPO 6000 FU 00600Z 09003KT CAVOK 24/22 Q1011 00800Z 20007KT 5000 OVC009 13/13 Q1013 01200Z 36010KT CAVOK 22/17 Q1012 01300Z 08012KT 9999 -DZ BKN013 21/19 Q1010 01400Z 21012KT 8000 -RA FEW015 SCT025 FEW045TCU BKN090 15/11 Q1016 RERA TEMPO 18010KT 6000 TSRA BKN030 FEW045CB 01600Z 18024KT 5000 BLDU FEW020 SCT035 26/16 Q1008 NOSIG 01700Z 09009KT 9999 FEW030 22/14 Q1018 NOSIG 01900Z 03008KT 8000 -TSRA BKN050 FEW050CB 20/16 Q1015 NOSIG RMK PP001 02300Z 02005KT 9999 FEW050CB BKN100 27/10 Q1012 NOSIG RMK CB OBS TO S 10111Z 23012KT 9999 TSRA BKN020 FEW040CB 15/14 Q1006 10300Z0 32011KT CAVOK 06/02 Q1022 10400Z 00000KT CAVOK 04/03 Q1018 10600Z 21011KT 9999 FEW050CB BKN060 21/17 Q1016 NOSIG RMK CB OBS TO S 11000Z 07018G32KT 050V110 9999 FEW040 15/M14 Q1015 11100Z 27008KT CAVOK 02/M02 Q1031 11200Z 27018G28KT CAVOK 31/11 Q1005 11400Z 25003KT 200V300 CAVOK Q1010 11433Z 24014KT 5000 +DZ BKN003 OVC040 19/18 Q1017 11500Z 36013KT CAVOK 31/17 Q1015 11800Z 16010KT 1000 R11/P2000 +RA BR BKN016 BKN039TCU 21/19 Q1010 NOSIG 11900Z 07009KT 9999 FEW038 SCT100 23/12 Q1014 NOSIG RMK PP000 12000Z 16014KT 9999 SCT025 FEW050CB 24/17 Q1009 RETS NOSIG 12030Z 18021G31KT 2000 TSRA BKN040 SCT045CB 27/12 Q1008 12100Z 00000KT CAVOK 15/06 Q1017 12300Z 09004KT CAVOK 11/05 Q1029 NOSIG 20000Z 18002KT 9999 FEW030 SCT100 22/20 Q1014 20100Z 08011KT 8000 -RA BKN006 OVC014 15/14 Q1006 20200 00000KT CAVOK 11/09 Q1016 2021/10/06 12:50 20300Z 27009G37KT CAVOK 17/02 Q1002 20400Z 05007KT 330V090 CAVOK 17/15 Q1018 20800Z 19006KT 7000 NSC 09/09 Q1013 20900Z 27003KT CAVOK 02/M00 Q1022 21000Z 20003KT 120V260 2000 BR OVC003 16/16 Q1016 TEMPO 2000 DZ BR OVC003 21100Z 10011KT 070V130 9000 BKN008 BKN049 OVC090 19/18 Q1011 RERA 21202Z 09009KT 0800 FG OVC006 15/14 Q1016 21300Z VRB08KT CAVOK 12/04 Q1021 21400Z 28015KT CAVOK 26/13 Q1001 RMK PP/// 21500Z VRB06KT 9999 FEW045 FEW100 26/10 Q1006 NOSIG 21600Z VRB02KT 9999 FEW040 BKN090 22/08 Q1019 NOSIG 21700Z 16010KT 120V190 9999 FEW030 FEW040CB SCT200 34/13 Q1009 NOSIG RMK PP000 21800Z 11023KT 3000 -TSRA BKN040 FEW045CB 25/21 Q1001 22000Z 32011KT 310V030 8000 -TSRA BKN015 FEW038CB OVC060 23/19 Q1006 RMK CB OBS TO SW 22100Z 04004KT 9999 FEW026 FEW056TCU 22/18 Q1012 22200Z 16017KT 5000 BLDU FEW045CB 31/13 Q1010 NOSIG PP000 30000Z 20016KT 9999 FEW035CB BKN090 21/12 Q1008 NOSIG 30100Z 19013KT 150V210 8000 -TSRA FEW035CB BKN090 18/13 Q1009 TEMPO 5000 TSRA SCT030CB 30400Z 15014G26KT 130V210 CAVOK 18/05 Q1016 NOSIG RMK PP000 30700Z 34007KT 310V030 CAVOK 19/14 Q1008 30800Z 30006KT 8000 TSRA FEW040CB OVC080 19/17 Q1014 NOSIG 31100Z 29018KT 9999 SCT030 07/M01 Q1015 31500Z 24003KT 160V310 7000 BKN015 19/16 Q1009 NOSIG 31600Z 21007KT 140V280 9999 BKN030TCU 20/12 Q1007 NOSIG FEW TCU OBS TO W 31700Z VRB05KT 9000 SCT020 BKN100 19/15 Q1007 TEMPO 3000 -RADZ BKN010 OVC040 31725Z 23025G48KT 5000 DU FEW040 FEW045CB BKN050 31/17 Q1001 31735Z 05008KT 8000 SCT010 BKN015 OVC060 15/15 Q1017 31800Z 23015KT 210V270 9999 FEW025 17/M00 Q1012 31900Z 34016KT CAVOK 24/M00 Q1014 32000Z 32014KT CAVOK 25/01 Q1013 32100Z 14013KT 7000 -TSRA FEW020 BKN045 FEW050CB 28/22 Q1008 RMK CB OBS ON MET 32300Z 15005KT 110V180 9999 SCT015 BKN023 FEW040CB 19/16 Q1014 NOSIG RMK CB OBS TO E 40100Z 23011KT CAVOK 14/09 Q1012 40300Z 21004KT 160V270 CAVOK 03/M03 Q1014 40700Z 12004KT 1500 MIFG BR BKN035 07/07 Q1017 NOSIG 40800Z 27005KT 9999 BKN008 OVC050 16/16 Q1011 40900Z 13007KT 9999 FEW015 BKN100 20/17 Q1018 NOSIG RMK PP000 41100Z 00000KT 8000 NSC 01/M01 Q1023 41300Z 01007KT 330V040 9999 SCT020 BKN080 21/16 Q1019 NOSIG RMK PP000 41400Z 08007KT 9999 FEW010 SCT080 21/18 Q1019 NOSIG 41600Z 32007KT CAVOK 13/09 Q1009 41700Z VRB04G15KT 5000 RA SCT040 SCT050TCU 15/14 Q1009 TEMPO 6000 SHRA FEW040TCU BKN045 41900Z 04009KT CAVOK 24/13 Q1015 NOSIG 42200Z 20013G25KT 140V280 9999 FEW035 BKN041 16/07 Q1010 NOSIG 42300Z 32013KT CAVOK 14/03 Q1015 42335Z 27021G35KT 8000 TS RA BKN010 SCT040CB BKN060 37/17 Q1003 50000Z 09008KT CAVOK 23/19 Q1010 RMK PP000 50100Z 23028G41KT 8000 FEW050CB OVC070 22/19 Q1011 RMK CB OBS TO VV PPP/// 50400Z 22003KT 9000 MIFG FEW040 SCT100 09/09 Q1021 50500Z 16006KT 120V200 5000 -DZ BR SCT009 BKN025 13/11 Q1016 NOSIG 50521Z 27016KT 9999 -SN SCT015 BKN035 03/01 Q0988 50600Z 01009KT 350V050 7000 SCT003 BKN010 09/08 Q1028 TEMPO 0800 FG BKN004 50900Z 10005KT CAVOK 19/16 Q1019 RMK PP000 51100Z 01009KT 9999 FEW045 19/14 Q1010 NOSIG RMK PP000 51300Z 18015KT 9999 BKN100 25/16 Q1011 51447Z 02003KT CAVOK 22/17 Q1011 RERA 51500Z 18006KT 110V260 CAVOK 16/M06 Q1024 NOSIG 51800Z VRB02KT 9999 OVC025 22/16 Q1021 NOSIG RMK PP000 51900Z 18024G36KT 9999 VCSH BKN023 16/09 Q1012 NOSIG 52100Z 05014KT 9999 FEW045 34/01 Q1011 NOSIG 60000Z 09010KT 060V130 9999 FEW040 22/13 Q1014 60200Z 07005KT 030V120 CAVOK 20/17 Q1008 60400Z 00000KT 6000 MIFG NSC 05/05 Q1019 60500Z 34003KT CAVOK 15/13 Q1021 60600 23010KT CAVOK 15/05 Q1013 60700Z 20014KT CAVOK 07/00 Q1023 61100Z 08003KT 350V100 9000 NSC 24/09 Q1014 NOSIG 61200Z 18005KT 110V240 8000 -RA FEW011 BKN100 15/13 Q1016 RMK PP001 61300Z 19011KT 160V230 9999 BKN016 16/13 Q1016 RMK PP000 61400Z 21024G34KT 9999 FEW040 SCT060 BKN100 15/03 Q1022 NOSIG RMK PP000 61700Z 29014KT 9999 FEW040 BKN100 12/02 Q1009 61900Z 29019G31KT 260V320 9999 SCT040 SCT200 15/M04 Q1005 62300Z 20005KT CAVOK 21/17 Q1015 RMK PP/// 70100Z 29013KT 5000 RA SCT015 OVC050 20/20 Q1017 RETS 70200Z 14017KT 9999 BKN020 SCT200 15/07 Q1022 70400Z 16003KT CAVOK 17/14 Q1019 70700Z 25005KT CAVOK 03/02 Q1030 70900Z 25007KT 9999 OVC011 19/17 Q1008 71100Z 00000KT 9000 NSC 20/09 Q1020 NOSIG 71300Z 04015KT CAVOK 22/09 Q1017 NOSIG 71404Z 09005KT 9999 SCT025 22/12 Q1018 71600Z 29004KT 9999 FEW040 21/13 Q1020 71700Z 32003KT CAVOK 13/01 Q1017 71800Z 10003KT 070V150 6000 SCT040 SCT100 15/13 Q1016 NOSIG 72100Z 29007KT 240V330 9999 SCT31 SCT036 22/16 Q1011 NOSIG 72200Z 15008KT 9999 BKN017 BKN025 15/11 Q1012 BECMG 18020G30KT 5000 BLDU BKN020 FEW050CB 80/04KT CAVOK 21/14 Q1011 80000Z 09005KT CAVOK 13/07 Q1016 RMK ESTIMATED WIND 80200Z 29005KT CAVOK 17/10 Q1009 RMK PP000 80334Z 10021KT 4400 TSRA OVC004 FEW045CB 15/15 Q1010 NOSIG RMK CB OBS TO NW 80400Z 18008KT 9999 OVC045 21/16 Q1016 80700Z 08010KT 7000 -RA FEW013 SCT021 OVC050 22/18 Q1008 NOSIG RMK PP000 81400Z 09011KT 6000 -RA SCT008 OVC050 18/17 Q1016 81700Z 10010KT 9999 FEW010 15/12 Q1006 81900Z 18010KT CAVOK 17/07 Q1014 81946Z 34017KT 9999 FEW047TCU FEW050CB 35/14 Q0999 90000Z 09006KT 010V100 CAVOK 12/03 Q1017 90300Z 23004KT 9999 FEW005 BKN100 20/20 Q1008 90400Z 28012KT CAVOK 18/04 Q1012 RMK PP000 90700Z 04001KT 0800 R05/P2000N FG NSC 05/05 Q1023 90744Z 09004KT 5000 MIFG BR NSC 07/07 Q1024 NOSIG 91000Z 21010KT 9999 FEW017 06/03 Q1025 91030Z 20023G33KT BKN010 FEW045CB 5000 TSRA 21/20 Q1005 91300Z 21014G24KT 9999 FEW021 SCT028 21/16 Q1003 RMK PP000 91400Z 18012KT 150V210 9999 FEW040 15/04 Q1022 NOSIG 91502Z VRB03KT CAVOK 17/07 Q1015 91601Z 04017G27KT 010V070 CAVOK 25/06 Q1015 91801Z 32012KT CAVOK 25/09 Q1009 RMK ESTIMATED WIND 91900Z 25022G32KT 9999 FEW030TCU SCT035 15/06 Q0986 92200Z 20009KT 9999 VCSHRA SCT015 SCT100 FEW050CB BKN200 27/21 Q1013 : :e; principal:: AAXX 150600Z 32006KT 9999 SCT030 SCT100 13/03 Q1012 AGGG 181800Z 14003KT 9999 FEW014 SCT300 23/23 Q1010 AGGH 061700Z 20007KT 9999 FEW014 SCT300 24/24 Q1005 AGGL 090000Z 09006KT 9999 -SHRA BKN017 29/26 Q1010 AGGM 312200Z 05008KT 9999 FEW018 SCT300 28/25 Q1012 ANYN 060300Z 22005KT 9999 SCT020 31/25 Q1005 AYMH 060900Z 32010KT 9999 SCT010 SCT030 BKN080 19/16 1016 AYMO 120300Z VRB02KT 9999 SCT018 SCT140 BKN300 31/24 Q1008 AYNZ 060800Z 04015G20KT 9999 SCT035 SCT050 29/23 Q1004 RMK AYPY 061700Z VRB04KT 9999 SCT075 24/24 Q1005 AZUH 240952Z 00000KT CAVOK 19/M00 Q1018 BGBW 061650Z 06002KT 9999 FEW020 SCT160 BKN180 M07/M14 Q0995 BGGH 061650Z 24009KT 200V270 9999 FEW008 SCT023 M05/M09 Q0995 BGGN 052350Z AUTO 23006KT //// ///////// M00/M01 Q1003 BGJH 081205Z 25002KT 0700 FG VV001 00/00 Q1014 BGJN 061650Z 10016KT 9999 FEW050 SCT100 M06/M16 Q0991 BGKK 061650Z AUTO 06020KT 9999NDV FEW015/// SCT052/// M01/M03 Q0983 BGQQ 261450Z 2615/2619 08015KT 9999 SCT030 BKN060 TEMPO 2615/2619 BKN030 BGSF 061650Z AUTO 08008KT 040V160 9999NDV BKN170/// M07/M14 Q0993 BGTL 061728Z AUTO 07013KT 9999 BKN017 BKN028 M02/M02 A2908 RMK AO2 WSHFT 26 SLP834 TSNO $ BGUK 261450Z 2615/2620 18008KT 9999 SCT012 BKN050 TEMPO 2615/2620 4000 RADZ BKN012 BGUQ 261450Z 2615/2619 10018KT 9999 FEW030 BKN070 TEMPO 2615/2619 BKN030 BIAR 061700Z 00000KT 9999 -RASN FEW026 BKN038 OVC045 00/M00 Q0985 BIBD 061600Z 23002KT 9999 SCT045 03/M02 Q0984 BIEG 061700Z 23005KT 190V300 9999 VCSH FEW020 BKN030 BKN045 02/M02 Q0985 BIGJ 031438Z 22008KT 9999 SCT024 M00/M04 Q0984 BIGR 061600Z 11017KT 9999 BKN010 OVC034 03/01 Q0986 BIHN 061700Z 02010KT 9999 RA FEW010 BKN017 OVC027 03/01 Q0983 BIHU 061700Z 16002KT 9999 SCT012 OVC050 01/01 Q0985 BIIS 061600Z VRB04KT CAVOK 03/M01 Q0984 BIKF 061730Z 29013KT 9999 VCSH BKN019 OVC039 02/M00 Q0984 BIRK 061700Z 30012KT 9999 FEW008 BKN014 BKN023 02/00 Q0984 BITN 061200Z 12015KT 9999 BKN015 02/00 Q0989 BIVM 061700Z 30009KT 9999 FEW044 03/00 Q0983 BIVO 061300Z 04011G22KT 350V080 9999 SCT020 SCT040 04/M00 Q0988 BKPR 061730Z 35015KT 9999 -RA SCT010 BKN030 02/02 Q1005 NOSIG CAHR 061700Z AUTO 12011G16KT M00/M04 RMK AO1 PRESFR PK WND 11018/1644 SLP233 T10011042 58078 CBAR 061700Z AUTO ///// ////SM FEW130 BKN160 BKN240 ///// A//// CBBC 061700Z AUTO VRB02KT 9SM OVC066 M00/M01 A2990 RMK SLP128 CERM 061700Z AUTO 14009G16KT M04/M06 RMK AO1 4PAST HR PRESFR SOG 25 8082 PK WND 15018/1622 SLP118 P0009 T10411059 50110 CFOX 061700Z AUTO ///// ////SM SCT004 M21/M23 A2910 CLAB 060900Z AUTO 32029KT ////SM OVC002 05/05 A2937 CMFM 061700Z AUTO 32002KT M05/M05 RMK AO1 3PAST HR PRESFR SOG 39 8073 SLP054 P0001 T10461053 50042 CMGB 061700Z AUTO 17008KT 08/05 RMK AO1 8PAST HR PRESFR 8070 PK WND 15020/1616 SLP991 P0003 T00760053 50018 CPBT 061700Z AUTO 31006KT M05/M10 RMK AO1 T10531103 CPEH 061700Z AUTO 00000KT M14/M15 RMK AO1 T11381153 CPFI 061700Z AUTO 27003KT M08/M11 RMK AO1 T10751109 CPIN 061700Z AUTO 19011KT ////SM NCD M26/M29 A2987 CPIR 061500Z AUTO 27001KT M14/M15 RMK AO1 T11381147 CPRO 061700Z AUTO 35003KT M18/M20 RMK AO1 T11841199 CPRY 061700Z AUTO 26007KT M05/M11 RMK AO1 T10531111 CPST 061700Z AUTO 29003KT M14/M15 RMK AO1 5PAST HR M P0002 T11361154 50005 CPSV 061700Z AUTO 15011KT M10/M13 RMK AO1 T11011127 CPXL 061700Z AUTO 00000KT M13/M16 RMK AO1 T11271155 CTCK 061700Z AUTO 15007KT 04/04 RMK AO1 0PAST HR PRESFR SOG 05 8061 SLP957 P0008 T00390037 50072 CTNK 061700Z AUTO 26003KT 03/02 RMK AO1 5PAST HR SOG 11 7024 SLP943 P0006 T00260023 50029 CTRA 061700Z AUTO 32005KT M22/M26 RMK AO1 SOG 15 0010 SLP241 T12211255 CWAE 061700Z 00000KT 3/4SM -SN VV020 M05/M06 A3004 RMK SN8 /S01AFT15UTC WIND ESTD SLP200 CWAF 061700Z AUTO M04/M06 RMK AO1 T10441055 CWAJ 061700Z AUTO 27016G27KT RMK AO1 PK WND 24035/1629 51024 CWAQ 061700Z AUTO 00000KT M19/M22 RMK AO1 SLP262 T11931215 56024 CWAV 061700Z AUTO 22001KT M14/M16 RMK AO1 SOG 08 5001 SLP215 T11381155 CWBA 061700Z AUTO 17004KT 01/01 RMK AO1 SOG 16 T00100005 50001 CWBE 061700Z AUTO 26017G24KT 02/M01 RMK AO1 PK WND 24026/1601 SLP939 T00151013 56005 CWBK 061700Z AUTO 15017KT 03/M00 RMK AO1 PRESFR PK WND 14026/1644 SLP253 T00331001 58069 CWBO 061700Z AUTO 16003KT M13/M14 RMK AO1 SOG 04 6019 SLP198 T11271144 CWBS 061700Z AUTO 04001KT M01/M01 RMK AO1 T10071010 CWBT 061700Z AUTO 06004KT M08/M10 RMK AO1 2PAST HR 8036 SLP263 P0001 T10791102 50002 CWBU 061700Z AUTO 20004KT M26/M30 RMK AO1 SOG 14 8008 SLP231 T12601301 CWBV 061700Z AUTO 16027KT 07/04 RMK AO1 PK WND 16031/1648 T00700035 CWBY 061700Z AUTO 10007KT M06/M07 RMK AO1 6PAST HR PRESFR SOG 02 8048 SLP250 P0002 T10571071 50020 CWBZ 061700Z AUTO 02001KT 03/03 RMK AO1 7PAST HR PRESFR 8067 SLP958 P0003 T00300029 50041 CWCF 061700Z AUTO 28013KT M21/M25 RMK AO1 SOG 13 7011 PK WND 28017/1606 SLP222 T12091248 CWCI 061700Z AUTO 35023G29KT M05/M06 RMK AO1 PK WND 34031/1632 SLP979 T10451064 52042 CWCJ 061700Z AUTO 02008G19KT M09/M12 RMK AO1 SOG 15 3023 PK WND 01021/1611 SLP019 T10881124 CWCO 061700Z AUTO 26009G17KT 06/M01 RMK AO1 PK WND 26027/1634 SLP973 T00581006 50001 CWCT 061700Z AUTO 20007KT M16/M18 RMK AO1 SLP219 T11571179 56017 CWDA 040400Z AUTO 28042G59KT 01/ RMK AO1 PK WND 28059/0350 T0010 CWDC 061700Z AUTO 08002KT M24/M27 RMK AO1 SOG 29 SLP182 T12351273 CWDJ 061700Z AUTO 27007KT M21/M25 RMK AO1 SLP262 T12061246 58016 CWDK 061700Z AUTO 36002KT M12/M14 RMK AO1 SOG 01 5006 SLP205 T11241144 CWDM 061700Z AUTO 29002KT M06/M12 RMK AO1 SLP298 T10621116 CWDO 061700Z AUTO 26018G23KT M01/M07 RMK AO1 SOG 01 3004 PK WND 26025/1648 SLP289 T10121067 CWDQ 061700Z AUTO 18007KT M00/M01 RMK AO1 8PAST HR PRESFR SOG 15 8067 SLP002 P0003 T10041012 50017 CWDT 061700Z AUTO 10009KT RMK AO1 6PAST HR PRESFR 6089 P0002 50022 CWDV 061700Z AUTO 33008G18KT M19/M24 RMK AO1 SOG 21 3024 PK WND 33022/1622 SLP145 T11941235 50001 CWDZ 061700Z AUTO 32001KT M20/M22 RMK AO1 SLP230 T11961220 55013 CWEB 061700Z AUTO 12012G21KT 05/ RMK AO1 SOG 01 5012 PK WND 12025/1619 SLP125 T0050 50002 CWEE 061700Z AUTO M09/M11 RMK AO1 PRESFR SLP997 T10931111 58078 CWEF 061700Z AUTO M01/ RMK AO1 SLP302 T1006 58026 CWEH 061700Z AUTO 19002KT M16/M19 RMK AO1 SLP216 T11621186 56031 CWEK 061700Z AUTO 06033G38KT M01/M04 RMK AO1 PK WND 05041/1613 SLP154 T10101037 58020 CWEL 061700Z AUTO 09012KT 03/02 RMK AO1 6011 SLP185 T00280016 50004 CWEP 061700Z AUTO 12014G21KT 01/M04 RMK AO1 PRESFR SOG 04 8057 PK WND 13021/1648 SLP267 T00111039 CWEQ 061700Z AUTO 22011G16KT M23/M27 RMK AO1 SOG 12 6003 SLP245 T12281270 CWER 061500Z AUTO 05027G32KT RMK AO1 PK WND 05032/1433 CWEU 061700Z 07003KT 12SM IC FEW011 SCT210 M33/M36 A2928 RMK SC2CC2 SLP932 CWEW 061700Z AUTO 05005KT 01/01 RMK AO1 4PAST HR PRESFR SOG 09 8072 SLP991 P0017 T00100007 50087 CWEZ 061700Z AUTO 07017KT 03/02 RMK AO1 2PAST HR 6016 PK WND 06020/1656 SLP183 P0001 T00280024 50032 CWFD 061700Z AUTO ///// ////SM BKN002 OVC033 M14/M15 A2887 CWFF 061700Z AUTO 24007KT M25/M30 RMK AO1 SOG 09 5012 SLP234 T12451299 CWFJ 061700Z AUTO 29006KT M05/M11 RMK AO1 T10511112 CWFQ 061700Z AUTO 16009KT 06/04 RMK AO1 PRESFR PK WND 15019/1604 SLP995 T00630040 57067 CWGB 061700Z AUTO 10019KT 03/ RMK AO1 6010 PK WND 10024/1604 SLP180 T0034 50018 CWGD 061700Z AUTO 26024G31KT 03/M04 RMK AO1 2PAST HR 2012 PK WND 26042/1618 SLP021 P0001 T00271040 50002 CWGH 061700Z AUTO 19010KT 08/08 RMK AO1 PK WND 19017/1600 SLP966 T00840078 56050 CWGL 061700Z AUTO 26024G29KT 04/01 RMK AO1 PK WND 25031/1643 SLP957 T00390012 55000 CWGM 061700Z AUTO 22018G27KT M06/M12 RMK AO1 PK WND 22028/1600 T10611121 CWGR 061700Z AUTO 12007KT M03/M04 RMK AO1 7PAST HR PRESFR 8045 SLP282 P0003 T10271036 50012 CWGT 061700Z AUTO 09014KT 02/01 RMK AO1 PK WND 09017/1647 SLP178 T00220007 56010 CWGW 061700Z AUTO 18008KT M08/M10 RMK AO1 3PAST HR SOG 05 6009 SLP208 P0001 T10811100 50004 CWGX 252100Z AUTO 10009G17KT M09/M24 RMK AO1 SOG 23 8011 PK WND 09017/2054 SLP248 T10881238 CWGY 061700Z AUTO 13006KT M18/M20 RMK AO1 SOG 05 6020 SLP230 T11781204 CWGZ 061700Z 00000KT 10SM IC BKN066 M19/M22 A2920 RMK AC7 CALL-OUT SLP896 CWHI 061500Z AUTO 26002KT M19/M21 RMK AO1 T11861211 CWHL 061700Z AUTO 06015G23KT 01/M04 RMK AO1 PK WND 07024/1647 SLP132 T00081037 58023 CWHN 061400Z AUTO 24005KT 9SM CLR M26/M31 A2995 RMK SLP217 CWHO 061700Z AUTO M11/M17 RMK AO1 26 6002 SLP218 T11071170 CWHP 061700Z AUTO 21010KT M03/ RMK AO1 8029 SLP279 T1029 50007 CWHQ 061700Z AUTO 08004KT M02/M04 RMK AO1 T10151035 50020 CWHT 061700Z AUTO 13001KT M27/M30 RMK AO1 SOG 21 8022 SLP179 T12711303 CWHV 061700Z AUTO 16006KT 02/01 RMK AO1 1PAST HR PRESFR 8073 SLP041 P0008 T00180009 50072 CWID 061700Z AUTO 09002KT M31/M34 RMK AO1 SLP154 T13101343 55010 CWIG 061700Z AUTO 03015G21KT RMK AO1 PK WND 02022/1647 CWII 061700Z AUTO 24013KT M20/M24 RMK AO1 SLP252 T12031242 57009 CWIJ 061700Z AUTO 23003KT M26/M29 RMK AO1 SOG 34 5002 SLP134 T12621289 CWIK 061700Z AUTO 26009KT M21/M24 RMK AO1 SOG 01 8012 SLP259 T12091243 CWIL 061700Z AUTO 31022KT ////SM OVC065 ///// A//// CWIP 291300Z AUTO 05002KT 15/10 RMK AO1 T01500095 CWIS 061700Z AUTO 02003KT M09/M09 RMK AO1 0PAST HR PRESFR SOG 50 8073 SLP069 P0004 T10861089 50087 CWIT 061700Z AUTO 16010G16KT 07/05 RMK AO1 2PAST HR PRESFR 8067 PK WND 17022/1634 SLP969 P0001 T00690054 50005 CWIW 060300Z AUTO 28007KT M22/M26 RMK AO1 SOG 03 SLP333 T12231257 CWIX 061700Z AUTO 11021KT M06/M08 RMK AO1 3PAST HR PRESFR 8090 SLP010 P0001 T10581078 50014 CWIZ 061700Z AUTO 17020G27KT 06/04 RMK AO1 6PAST HR M PK WND 17027/1654 P0002 T00550042 50020 CWJB 061700Z AUTO 05008KT M03/ RMK AO1 SOG 20 T1032 50056 CWJC 061700Z AUTO 32013KT M29/M32 RMK AO1 SOG 01 6003 PK WND 32019/1638 SLP135 T12921315 CWJD 061700Z AUTO 28006KT M22/M27 RMK AO1 SOG 24 5001 SLP225 T12211271 CWJH 061700Z AUTO 23002KT M29/M32 RMK AO1 SOG 35 5004 SLP209 T12851315 CWJI 061700Z AUTO 22006KT M19/M23 RMK AO1 SLP255 T11881228 56022 CWJO 061600Z AUTO 09014G24KT M07/M09 RMK AO1 2PAST HR PRESFR 8087 PK WND 11027/1541 SLP066 P0001 T10651093 50022 CWJR 061700Z AUTO 00000KT M05/M07 RMK AO1 3PAST HR SOG 03 6015 SLP236 P0001 T10521069 50007 CWJT 061700Z AUTO 11002KT 02/02 RMK AO1 0PAST HR PRESFR 8063 SLP973 P0016 T00240024 50090 CWJU 061700Z AUTO 08013G24KT 01/M02 RMK AO1 PK WND 10024/1655 SLP141 T00141015 57018 CWJV 061700Z AUTO 09004KT M05/M07 RMK AO1 5006 SLP227 T10531072 50024 CWJW 061700Z AUTO 13003KT M12/M14 RMK AO1 SOG 12 6007 SLP223 T11181139 50007 CWJX 061700Z AUTO 12003KT M17/M20 RMK AO1 SLP233 T11681196 56027 CWKD 061700Z AUTO 11021KT M13/M14 RMK AO1 PRESFR 7083 SLP098 T11271139 50001 CWKG 061700Z AUTO 13010G21KT 06/05 RMK AO1 5PAST HR 8060 PK WND 15021/1652 SLP196 P0002 T00550052 50007 CWKH 061700Z AUTO M00/M00 RMK AO1 SLP168 T10011002 56015 CWKK 061700Z AUTO 35021G28KT M12/M14 RMK AO1 SOG 07 1026 PK WND 35030/1631 SLP105 T11221136 CWKM 061700Z AUTO 18015KT ////SM BKN140 OVC180 M03/M09 A2920 CWKO 061700Z AUTO 21008KT M21/M24 RMK AO1 SLP259 T12121242 56024 CWKP 061700Z AUTO 20022G28KT ////SM SCT190 SCT210 M17/M20 A2955 CWKX 061700Z AUTO 00000KT M30/M32 RMK AO1 SOG 27 5023 SLP247 T12951324 CWLB 061700Z AUTO RMK AO1 CWLC 061700Z AUTO 07001KT M00/M04 RMK AO1 T10021042 CWLE 061700Z AUTO 23007KT M19/M21 RMK AO1 SOG 01 6029 SLP242 T11881210 CWLI 060000Z AUTO 18013KT ////SM OVC090 M30/M33 A2992 CWLM 061700Z AUTO 06005KT 03/03 RMK AO1 2PAST HR 6018 SLP176 P0005 T00250028 50090 CWLP 061700Z AUTO 11036G46KT 03/01 RMK AO1 5007 PK WND 12046/1613 SLP113 T00330012 50004 CWLS 061700Z AUTO 26008KT 01/M01 RMK AO1 SLP987 T00111008 50002 CWLX 061700Z AUTO ///// ////SM BKN002 OVC070 M16/M18 A2905 CWLY 061700Z AUTO 03003KT 9SM -SN OVC035 M03/M05 A3013 RMK SLP217 CWME 061700Z AUTO 04036G43KT 01/M03 RMK AO1 PK WND 04043/1606 SLP130 T00131028 57012 CWMJ 061700Z AUTO 18006KT 03/03 RMK AO1 1PAST HR PRESFR SOG 12 8057 SLP936 P0008 T00320029 50090 CWMM 061700Z AUTO 00000KT M00/00 RMK AO1 SLP201 T10030000 56014 CWMQ 061700Z AUTO 20008KT M10/M14 RMK AO1 SOG 03 6033 SLP217 T10951144 CWMT 061700Z AUTO 09004KT M34/M37 RMK AO1 SOG 14 6008 SLP151 T13351368 CWMZ 061700Z AUTO 23034G40KT 05/M02 RMK AO1 PK WND 24040/1658 SLP961 T00451019 57006 CWNC 061700Z AUTO 23016KT 07/07 RMK AO1 5PAST HR M PK WND 23020/1658 SLP949 P0002 T00650069 CWND 061700Z AUTO 19019KT M14/M17 RMK AO1 PK WND 19022/1655 SLP903 T11421168 58021 CWNE 061700Z AUTO 12025G31KT M00/M01 RMK AO1 PRESFR 8089 PK WND 11033/1646 SLP216 T10031014 50032 CWNH 061700Z AUTO 03003KT M07/M09 RMK AO1 5PAST HR PRESFR SOG 24 8082 SLP098 P0002 T10711086 50045 CWNK 061700Z AUTO 27011KT M20/M25 RMK AO1 SLP265 T12011250 56011 CWNL 121300Z AUTO 32006KT 05/02 RMK AO1 SLP295 T00530023 51017 CWNM 061700Z AUTO 21002KT M05/M06 RMK AO1 3PAST HR SOG 06 8009 SLP230 P0001 T10461059 50019 CWNP 061700Z AUTO 05001KT M05/M06 RMK AO1 3PAST HR SOG 04 6006 SLP229 P0001 T10481060 50021 CWNQ 061700Z AUTO 05003KT M01/M01 RMK AO1 7PAST HR PRESFR 8078 SLP000 P0003 T10101011 50019 CWNZ 061700Z AUTO 34011G19KT M11/M14 RMK AO1 3PAST HR SOG 36 3001 PK WND 34020/1636 SLP008 P0001 T11121135 50030 CWOB 061700Z AUTO 29016G28KT 260V320 ////SM FEW027 SCT033 BKN038 M14/M15 A2932 CWOC 061700Z AUTO 09007KT M03/M04 RMK AO1 6PAST HR PRESFR 8086 PK WND 09018/1649 SLP212 P0010 T10311037 50072 CWOD 061700Z AUTO 11011KT M07/M08 RMK AO1 4PAST HR PRESFR SOG 12 6089 PK WND 11018/1618 SLP019 P0002 T10661079 50018 CWOE 061700Z AUTO 00010KT M18/M20 RMK AO1 SOG 03 6023 SLP218 T11811198 CWOY 061700Z AUTO 25007KT M22/M26 RMK AO1 SOG 09 6008 SLP246 T12151259 CWPC 061700Z AUTO 25035G42KT 08/07 RMK AO1 PK WND 25042/1658 SLP998 T00760067 53004 CWPD 061700Z AUTO 18006KT M04/M04 RMK AO1 PRESFR 8074 SLP039 T10351044 50020 CWPE 061700Z AUTO 15026G31KT 09/08 RMK AO1 PRESFR PK WND 15035/1644 SLP150 T00870077 58081 CWPF 061730Z AUTO 35010KT 03/02 RMK AO1 SLP178 T00280019 56011 CWPK 061700Z AUTO 13003KT M03/M04 RMK AO1 5PAST HR PRESFR SOG 26 6066 SLP962 P0002 T10341044 50022 CWPO 061700Z AUTO 28014KT M21/M25 RMK AO1 SOG 09 7010 SLP275 T12081252 CWPR 061700Z AUTO 00000KT M06/M07 RMK AO1 1PAST HR SOG 12 7005 SLP208 P0004 T10611071 50049 CWPS 061700Z AUTO RMK AO1 51027 CWPX 061700Z AUTO 32013KT ////SM //// NCD M27/M30 A2975 CWPZ 061700Z AUTO 15001KT M14/M16 RMK AO1 SOG 05 5001 SLP224 T11431161 CWQH 061700Z AUTO 13004KT 07/04 RMK AO1 PRESFR SOG 01 8085 SLP017 T00680043 50036 CWQK 061700Z AUTO 01023KT 03/03 RMK AO1 PK WND 01028/1613 SLP172 T00330028 56020 CWQO 061700Z AUTO 08007KT M06/M06 RMK AO1 T10561064 CWQP 061700Z AUTO 19022KT 09/08 RMK AO1 0PAST HR 7037 PK WND 18029/1602 SLP963 P0004 T00900079 50035 CWQR 061700Z AUTO 06013KT M07/M08 RMK AO1 T10661081 CWQS 061700Z AUTO 09023G33KT 03/M02 RMK AO1 PK WND 10034/1631 SLP111 T00311023 58003 CWQV 061700Z AUTO 08020G26KT M05/M08 RMK AO1 PK WND 08028/1606 T10531080 CWRA 061700Z AUTO 20004KT 02/M03 RMK AO1 SLP335 T00231033 56010 CWRF 061710Z AUTO 27030KT 230V290 ////SM BKN015 M26/M29 A2930 CWRH 061700Z AUTO 25036G43KT ////SM ////// M13/M13 A2948 CWRJ 061700Z AUTO 24005KT M20/M23 RMK AO1 SLP238 T12011232 56025 CWRK 061700Z AUTO 19003KT 05/05 RMK AO1 9PAST HR SOG 06 7037 SLP939 P0004 T00500048 50090 CWRM 061700Z AUTO 34001KT M16/M18 RMK AO1 SOG 13 5004 SLP193 T11581178 CWRN 061700Z AUTO 14018KT 05/01 RMK AO1 PRESFR PK WND 15023/1644 SLP290 T00480009 58053 CWRO 061700Z AUTO 06016KT M00/ RMK AO1 PK WND 06020/1654 SLP142 T1004 58014 CWRT 061700Z AUTO 29013G22KT M08/M13 RMK AO1 PK WND 30025/1600 SLP188 T10791134 56009 CWRU 061700Z AUTO 11038G50KT 04/04 RMK AO1 8001 PK WND 12051/1606 SLP063 T00350042 50002 CWRX 061700Z AUTO ///// ////SM NCD M20/M22 A//// CWRY 061700Z AUTO 17004KT M12/M14 RMK AO1 SOG 07 6024 SLP201 T11201137 CWRZ 061700Z AUTO 12014KT M03/M03 RMK AO1 PRESFR PK WND 11018/1651 SLP235 T10251032 58070 CWSA 061700Z AUTO 15019G27KT 9SM FEW037 SCT120 08/02 A3042 RMK SLP303 CWSD 061700Z AUTO 12014G19KT 01/M03 RMK AO1 PRESFR 8086 PK WND 12020/1649 SLP222 T00051033 50003 CWSF 061700Z AUTO 14010G15KT M06/M09 RMK AO1 PRESFR 8069 PK WND 12017/1629 SLP214 T10621089 50004 CWSG 061700Z AUTO 08012G19KT M06/M07 RMK AO1 5PAST HR PRESFR 8091 PK WND 09019/1652 SLP172 P0002 T10581070 50014 CWSK 061700Z AUTO 35003KT M01/M01 RMK AO1 5PAST HR SOG 08 6012 SLP206 P0002 T10081012 50056 CWSL 061700Z AUTO 00000KT M05/M06 RMK AO1 2PAST HR 5004 SLP234 P0001 T10471060 50018 CWSP 061700Z AUTO 09007KT 03/01 RMK AO1 6020 SLP172 T00250013 50002 CWSR 061700Z AUTO 01002KT M27/M31 RMK AO1 SOG 12 6019 SLP212 T12671309 50002 CWSS 061700Z AUTO 13007KT 07/07 RMK AO1 PRESFR SLP133 T00730070 58081 CWST 061700Z AUTO 04007KT M06/M07 RMK AO1 0PAST HR PRESFR SOG 18 8086 SLP081 P0004 T10621073 50101 CWSW 061700Z 17008G16KT 3SM -SN VV019 M08/M11 A2993 RMK SN8 SLP208 CWTA 061700Z AUTO 19005KT 06/05 RMK AO1 7PAST HR PRESFR SOG 07 8068 SLP977 P0007 T00560049 50053 CWTG 061700Z AUTO 07024KT M04/M04 RMK AO1 4PAST HR PRESFR 8094 PK WND 06030/1628 SLP166 P0005 T10391043 50051 CWTN 061700Z AUTO 36008KT M02/M05 RMK AO1 3PAST HR PRESFR 8089 PK WND 00019/1634 SLP067 P0001 T10231047 50056 CWTT 061700Z AUTO 20009KT 05/04 RMK AO1 T00450038 CWTY 061700Z AUTO 06002KT M01/M02 RMK AO1 PRESFR SLP013 T10121018 58080 CWUP 061700Z AUTO 20019KT ////SM BKN039 OVC065 M13/// A2896 CWUS 061700Z AUTO 28004KT M04/M06 RMK AO1 0PAST HR SOG 22 5003 SLP229 P0004 T10351058 50119 CWUW 061700Z AUTO 18011KT ////SM SCT004 SCT030 OVC080 M15/// A2895 CWUX 061500Z AUTO 10013G20KT M08/M10 RMK AO1 PRESFR PK WND 08023/1442 SLP107 T10751102 58078 CWVD 061727Z AUTO 11003KT ////SM FEW002 FEW007 OVC043 M12/M14 A2897 CWVF 061700Z AUTO 08015KT 01/01 RMK AO1 PK WND 08017/1637 T00140008 CWVH 061700Z AUTO 19022G28KT ////SM FEW160 BKN190 OVC250 M12/M14 A2932 CWVI 061700Z AUTO 18004KT M20/M23 RMK AO1 SOG 10 6011 SLP216 T12001229 CWVN 061700Z AUTO 06004KT M21/M23 RMK AO1 SOG 02 8035 SLP254 T12061234 CWVP 061700Z AUTO 20007KT M15/M18 RMK AO1 SLP196 T11541176 56024 CWVQ 061700Z AUTO 14007KT 06/05 RMK AO1 2PAST HR PRESFR SOG 06 8070 SLP968 P0005 T00590050 50032 CWVT 061700Z AUTO 17004KT M26/M30 RMK AO1 SOG 12 8018 SLP211 T12641297 CWVU 061700Z AUTO 12029G40KT 09/09 RMK AO1 8PAST HR PRESFR 8065 PK WND 13040/1650 SLP151 P0007 T00920089 50022 CWWA 061700Z AUTO 00000KT M00/M00 RMK AO1 6PAST HR SOG 03 6014 SLP189 P0002 T10031002 50023 CWWB 061700Z AUTO 25010G17KT 07/04 RMK AO1 PK WND 26019/1613 SLP992 T00710038 53018 CWWE 061700Z AUTO 13021G27KT 09/08 RMK AO1 9PAST HR PRESFR 8073 PK WND 13028/1621 SLP201 P0007 T00860077 50019 CWWF 061700Z AUTO 27005KT M21/M25 RMK AO1 SOG 03 8019 SLP264 T12101247 CWWK 061700Z AUTO 06003KT 01/M00 RMK AO1 0PAST HR SOG 01 6015 SLP196 P0004 T00091002 50012 CWWL 061700Z AUTO 05004KT M00/M04 RMK AO1 SLP132 T10031036 58014 CWWS 061700Z AUTO 29012G17KT M21/M25 RMK AO1 SOG 12 6009 PK WND 28019/1634 SLP205 T12081246 CWWU 041438Z 25027G38KT 15SM SCT055 01/M07 A2946 RMK SC3 SLP976 CWWX 111400Z AUTO 33016KT 05/02 RMK AO1 PK WND 34021/1308 SLP196 T00470019 51010 CWWZ 061700Z AUTO 27023G32KT 08/06 RMK AO1 7PAST HR 3005 PK WND 27032/1659 SLP987 P0003 T00750060 50018 CWXA 061700Z AUTO 26008KT M09/M16 RMK AO1 SLP215 T10931155 56007 CWXC 061700Z AUTO 23002KT M04/M07 RMK AO1 5PAST HR PRESFR 6092 SLP040 P0002 T10421072 50032 CWXI 061700Z AUTO 28014KT M05/M11 RMK AO1 PK WND 28023/1635 SLP287 T10471110 52004 CWXL 061700Z AUTO 16013KT M13/M15 RMK AO1 PK WND 16017/1602 SLP195 T11261153 56023 CWXR 061700Z AUTO 24019KT ////SM NCD M21/M25 A2975 CWYJ 061700Z AUTO 07002KT 03/03 RMK AO1 8PAST HR 6018 SLP179 P0003 T00320032 50073 CWYL 241500Z AUTO 25009KT M08/M08 RMK AO1 SOG 48 3017 SLP241 T10761084 CWYY 061700Z AUTO 00000KT M02/M03 RMK AO1 5PAST HR SOG 09 6006 SLP226 P0006 T10221033 50047 CWZA 061700Z AUTO 03003KT 01/M00 RMK AO1 4PAST HR SOG 03 6014 SLP203 P0002 T00091004 50032 CWZG 061700Z AUTO 24005KT M12/M15 RMK AO1 SOG 16 6007 SLP196 T11231153 CWZL 061700Z AUTO 05011KT 03/M00 RMK AO1 SLP138 T00341003 58012 CWZN 061700Z AUTO 23014G20KT 02/M04 RMK AO1 PK WND 24021/1625 SLP321 T00181044 56015 CWZO 061700Z AUTO 08008KT RMK AO1 CWZQ 061700Z AUTO 14010G17KT M00/M06 RMK AO1 PRESFR PK WND 13017/1658 SLP290 T10021059 58044 CWZV 061700Z AUTO 07033G39KT 04/03 RMK AO1 4PAST HR 8009 PK WND 05042/1647 SLP093 P0002 T00350028 50031 CWZW 061700Z AUTO 10006KT M30/M34 RMK AO1 SOG 24 6019 SLP246 T13021336 CWZZ 061700Z AUTO 27022G30KT ////SM SCT027 SCT043 M100/// A2972 CXAF 061700Z AUTO 18001KT M24/M26 RMK AO1 T12381255 50005 CXAG 061700Z AUTO 21004KT M20/M23 RMK AO1 T12011227 CXAJ 061700Z AUTO 19002KT M25/M28 RMK AO1 SOG 20 T12541275 CXAK 061700Z AUTO 23008KT M13/M13 RMK AO1 T11271127 CXAT 061700Z AUTO M21/M26 RMK AO1 SOG 01 2010 SLP893 T12131260 CXBA 061700Z AUTO 16008KT M20/M22 RMK AO1 T12041218 CXBI 061700Z AUTO 27013G19KT 03/M00 RMK AO1 3004 PK WND 28025/1646 SLP984 T00271003 50042 CXBK 061700Z AUTO 25006KT M21/M24 RMK AO1 SOG 01 6020 SLP258 T12091237 CXBO 061700Z AUTO 07012G17KT M03/M04 RMK AO1 3PAST HR M PK WND 07024/1600 P0001 T10291040 50058 CXBR 061700Z AUTO 24011KT M05/M13 RMK AO1 PK WND 26021/1600 T10521127 CXBW 061700Z AUTO 31006KT M11/M13 RMK AO1 T11141127 CXCA 061700Z AUTO 35013G22KT M13/M16 RMK AO1 SOG 14 1032 PK WND 34026/1621 SLP095 T11291157 50006 CXCD 061700Z AUTO 06001KT M30/M34 RMK AO1 2PAST HR M P0005 T13031336 CXCK 061700Z AUTO 00000KT M33/M36 RMK AO1 SOG 28 6016 SLP213 T13261361 CXCP 061700Z AUTO 31007KT M12/M13 RMK AO1 0PAST HR M P0004 T11221134 50019 CXCS 061700Z AUTO 22003KT M20/M24 RMK AO1 7PAST HR M P0003 T12031238 50007 CXDB 061700Z AUTO 28007KT M07/M10 RMK AO1 T10681101 CXDE 061700Z AUTO M26/M29 RMK AO1 SOG 18 6018 SLP103 T12551294 CXDI 061700Z AUTO 30010G21KT 06/01 RMK AO1 3017 PK WND 27021/1643 SLP013 T00570011 50038 CXDK 061700Z AUTO 31005KT M25/M31 RMK AO1 SOG 26 SLP175 T12531306 CXDP 081800Z AUTO 24002KT M02/M04 RMK AO1 T10201039 50010 CXDW 061700Z AUTO 26019KT M21/M26 RMK AO1 SOG 06 8012 PK WND 26023/1659 SLP264 T12101255 CXEA 061700Z AUTO 28005KT M24/M28 RMK AO1 SOG 26 0005 SLP214 T12441275 CXEC 061700Z AUTO 25002KT M13/M17 RMK AO1 SLP197 T11321173 56012 CXEG 061700Z AUTO 28003KT M13/M17 RMK AO1 SOG 07 6010 SLP199 T11311173 CXET 061700Z AUTO 27011G21KT 03/M00 RMK AO1 SOG 01 3008 PK WND 29022/1644 SLP987 T00291002 50001 CXFM 061700Z AUTO 21012KT M10/M12 RMK AO1 T11041118 CXFR 061700Z AUTO 32003KT M24/M25 RMK AO1 T12361253 CXGH 061700Z AUTO 23006KT M21/M26 RMK AO1 SLP240 T12141255 57015 CXHA 061700Z AUTO 27020G32KT 03/M05 RMK AO1 PK WND 26032/1652 SLP064 T00261047 52030 CXHD 061700Z AUTO 22003KT M15/M18 RMK AO1 T11491177 CXHF 061700Z AUTO 01/01 RMK AO1 3PAST HR M P0013 T00100010 CXHM 061700Z AUTO 27010G21KT 07/04 RMK AO1 2016 PK WND 28024/1624 SLP994 T00670036 50024 CXHP 061700Z AUTO 00000KT M23/M26 RMK AO1 8PAST HR M P0003 T12311255 CXHR 061700Z AUTO 30002KT M13/M16 RMK AO1 T11311159 CXIB 061700Z AUTO 17003KT 00/M07 RMK AO1 SOG 01 8028 SLP305 T00001066 CXKA 061700Z AUTO 36011KT M09/M12 RMK AO1 SOG 26 6027 SLP959 T10921119 50008 CXKE 061700Z AUTO 19006KT 07/07 RMK AO1 4PAST HR SOG 03 8049 SLP954 P0009 T00740070 50062 CXKI 061700Z AUTO M05/M07 RMK AO1 4PAST HR SOG 27 6039 SLP909 P0002 T10521067 50013 CXKM 061700Z AUTO 21002KT M15/M18 RMK AO1 T11531179 CXKT 061700Z AUTO 10004KT 05/03 RMK AO1 PRESFR SLP197 T00490030 58083 CXLB 061700Z AUTO 13023G28KT 08/06 RMK AO1 PRESFR PK WND 14029/1619 SLP208 T00820062 56063 CXLC 170300Z AUTO 08001KT 03/M01 RMK AO1 SLP114 T00301014 58002 CXLL 061700Z AUTO 00000KT M36/M39 RMK AO1 SOG 35 5010 SLP142 T13571392 CXMD 061700Z AUTO 28011G16KT M20/M26 RMK AO1 SOG 05 8013 PK WND 29018/1646 SLP269 T12011259 50001 CXMG 061700Z AUTO 18009KT M26/M30 RMK AO1 T12631296 CXMI 061700Z AUTO 14021G27KT 08/05 RMK AO1 PRESFR PK WND 11029/1638 SLP229 T00770047 58058 CXMM 061700Z AUTO 08001KT M27/M30 RMK AO1 SOG 32 6018 SLP177 T12741295 CXMO 061700Z AUTO 21003KT M16/M16 RMK AO1 T11611163 CXMY 061700Z AUTO 06/02 RMK AO1 T00560016 CXNM 061700Z AUTO 12008KT M05/M07 RMK AO1 SOG 19 T10451067 CXNP 061700Z AUTO 16017G24KT 04/M01 RMK AO1 PRESFR SOG 01 6085 PK WND 15032/1622 SLP199 T00421008 CXOL 061700Z AUTO 28008KT M13/M16 RMK AO1 T11331159 CXOX 061700Z AUTO 23001KT M26/M31 RMK AO1 SOG 19 8009 SLP214 T12591306 CXOY 061700Z AUTO 22007KT M17/M17 RMK AO1 T11711171 CXPA 061700Z AUTO 06003KT M24/M26 RMK AO1 9PAST HR M P0004 T12351263 CXPC 061700Z AUTO 04/M00 RMK AO1 2PAST HR 6006 SLP952 P0001 T00391003 50002 CXPL 061700Z AUTO 08002KT M17/M17 RMK AO1 T11701172 CXQT 251700Z AUTO 03003KT 17/12 RMK AO1 T01680118 CXRB 061700Z AUTO 32025KT M23/M27 RMK AO1 SOG 03 0008 PK WND 32026/1650 SLP935 T12251274 CXRH 061700Z AUTO 27006KT M03/M05 RMK AO1 SOG 08 8004 SLP306 T10271052 CXRL 061700Z AUTO 00000KT M26/M29 RMK AO1 T12641288 CXSC 061700Z AUTO 08003KT M17/M19 RMK AO1 7PAST HR M P0003 T11721190 CXSE 061700Z AUTO 00028KT M25/M27 RMK AO1 SLP035 T12491274 CXSH 061700Z AUTO 07002KT M01/M02 RMK AO1 PRESFR SLP014 T10141020 58073 CXSL 061700Z AUTO 16002KT M21/M23 RMK AO1 T12101229 CXSP 061700Z AUTO 21005KT M21/M24 RMK AO1 T12121235 50004 CXTD 061700Z AUTO 12008KT 02/M02 RMK AO1 T00171017 CXTH 061700Z AUTO 20008KT M19/M20 RMK AO1 T11851197 CXTN 061700Z AUTO 19020KT M19/M21 RMK AO1 SOG 21 8010 PK WND 19025/1600 SLP064 T11861208 CXTO 061700Z AUTO 07/03 RMK AO1 3010 SLP983 T00650031 50013 CXTP 061700Z AUTO 26007KT M01/M07 RMK AO1 SLP316 T10131074 55004 CXTV 061700Z AUTO 21022KT M13/M16 RMK AO1 SOG 21 8022 PK WND 20024/1658 SLP950 T11281160 CXVM 061700Z AUTO 15002KT M18/M20 RMK AO1 T11801203 CXVN 061700Z AUTO 27018G27KT 08/05 RMK AO1 1PAST HR 3011 PK WND 27027/1651 SLP983 P0000 T00750054 50017 CXVW 061700Z AUTO 17011KT M16/M20 RMK AO1 SLP186 T11551204 56012 CXWB 211500Z AUTO 32007KT 01/M05 RMK AO1 SLP154 T00121050 51010 CXWM 061700Z AUTO 19006KT M09/M11 RMK AO1 7PAST HR M P0003 T10921108 50007 CXWN 061700Z AUTO 23004KT M21/M26 RMK AO1 SLP261 T12061259 58009 CXYH 061700Z AUTO M17/M20 RMK AO1 SOG 40 6019 SLP107 T11741195 CXZC 061700Z AUTO 05012G18KT M08/M10 RMK AO1 8PAST HR SOG 19 6055 PK WND 05018/1638 SLP986 P0007 T10811100 50041 CXZV 061700Z AUTO 06007KT M09/M10 RMK AO1 2PAST HR PRESFR SOG 01 8072 SLP210 P0001 T10881104 50008 CYAB 061200Z 34011G16KT 15SM FEW005 FEW015 FEW025 M21/M25 A2915 RMK SC1SC1SC2 SC TR SC TR FROIN SNW CVR/MUCH LOOSE SLP876 CYAH 061700Z AUTO 10011G19KT 9SM OVC086 M12/M16 A2980 RMK PRESFR SLP124 CYAM 061742Z 32021G33KT 10SM R12/4000VP6000FT/U -SHSN DRSN FEW008 BKN014 OVC038 M02/M04 A2938 RMK CF1CU5SC2 PRESRR SLP962 CYAS 061700Z 26024G29KT 15SM DRSN FEW011 M15/M17 A2978 RMK ST2 SLP103 CYAT 061731Z AUTO 34009G19KT 1 1/4SM -SN OVC024 M17/M19 A2973 RMK SLP071 CYAW 061740Z 13013G25KT 15SM -SHRA OVC014 07/05 A3019 RMK SC8 DA-963FT PCPN VRY LGT SLP227 CYAY 061600Z AUTO /////KT A3037 RMK WIND MISG CLD MISG WX MISG VIS MISG PCPN MISG PRES MISG T MISG DP MISG ICE MISG DENSITY ALT MISG CYAZ 061700Z 08009KT 15SM OVC028 03/02 A2995 RMK SC8 SLP144 CYBB 061700Z 22019G25KT 6SM VCBLSN SCT012 M24/M27 A2947 RMK SC3 SLP983 CYBC 061738Z AUTO 10022G28KT 3/8SM R10/3500FT/N SN VV006 M04/M05 A2991 RMK PRESFR SLP133 CYBD 061700Z CCA 06008KT 15SM FEW068 SCT074 M02/M06 A3006 RMK AC2AC1 SLP184 CYBG 061742Z 10021G28KT 3SM BLSN OVC038 M06/M08 A2956 RMK SC8 VIS VRB 2-4 PRESFR SLP024 CYBK 061700Z 32013KT 6SM -SN DRSN OVC061 M24/M28 A2977 RMK SC8 SLP085 CYBL 061700Z 13005KT 1SM R12/6000FT/D -SN BKN004 VV010 00/00 A3006 RMK SF5SN3 /S09/ SLP186 CYBN 061700Z AUTO 26014G19KT 9SM OVC024 OVC042 OVC058 03/ A2946 RMK SLP983 CYBQ 282000Z AUTO 13003KT 110V170 9SM CLR M18/M20 A2995 RMK SLP175 CYBR 061700Z 25010KT 15SM SKC M22/M26 A3018 RMK SLP270 CYBU 061729Z AUTO 17004KT 9SM CLR M25/M29 A3008 RMK ICE SLP237 CYBV 061700Z 28014KT 15SM DRSN FEW020 M21/M25 A3009 RMK SC1 SLP221 CYBW 061742Z AUTO 33004KT 6SM -SN OVC055 M11/M12 A2985 RMK SLP190 CYBX 061700Z CCA 29009G15KT 15SM FEW140 SCT220 BKN240 M08/M15 A3040 RMK AC1CI2CS4 SLP300 CYCA 061700Z AUTO 25014G21KT 220V290 9SM BKN035 M10/M16 A3027 RMK SLP253 CYCB 061700Z 27012KT 15SM DRSN FEW006 SCT060 M24/M27 A2980 RMK SF1SC2 CLD HGTS ESTD SLP099 CYCD 061700Z 18003KT 1SM -SN OVC003 00/00 A3009 RMK SN4SF4 CIG RAG SLP192 CYCG 061700Z 00000KT 4SM -SN BR FEW004 FEW009 BKN027 OVC044 M06/M07 A3014 RMK SN1CF1CF1SF3SC3 CF TR CIG LWR S-W SLP235 CYCK 061700Z AUTO 29024G32KT 9SM SCT037 BKN046 02/M03 A2965 RMK SLP046 CYCO 061700Z 22007KT 15SM FEW100 M26/M30 A2991 RMK AC1 AC TR SLP133 CYCP 061700Z VRB02KT 15SM FEW002 FEW055 M11/M13 A3010 RMK ST1CU1 ST TR CU TR FROIN SLP246 CYCQ 061700Z 23007KT 220V300 35SM SKC M12/M17 A2993 RMK SLP187 CYCS 061700Z 27016KT 10SM DRSN FEW140 SCT240 M31/M34 A2970 RMK AS1CI2 VIS N-SE 2 BR SLP061 CYCX 061700Z 05007KT 2 1/2SM -FZRA BR SCT003 OVC009 M01/M01 A2997 RMK ST4SC4 DA-1807FT VIS VRB 1 1/2-4 PRESFR SLP151 CYCY 061738Z AUTO 31016KT 3SM -SN M13/M15 A2911 RMK CLD MISG SLP862 CYDA 061700Z 00000KT 15SM SCT080 BKN200 M32/M36 A2994 RMK AC4CI1 SLP202 CYDB 061700Z 00000KT 10SM OVC140 M19/M21 A2963 RMK AS8 SLP129 CYDC 061700Z 00000KT 5/8SM -SN BR OVC024 M06/M07 A3004 RMK FG5ST3 /S04 AFT 1500 UTC SLP212 CYDF 061654Z 23008KT 15SM -SHSN FEW015 OVC033 M02/M06 A3044 RMK SC2SC6 CVCTV CLD EMBD VIS LWR W-N SLP311 CYDL 061700Z AUTO VRB02KT 9SM CLR M29/M33 A2995 RMK SLP228 CYDN 061700Z AUTO 26020G26KT 4SM HZ CLR M20/M25 A3016 RMK SLP250 CYDP 061700Z 27021G30KT 15SM FEW024 M13/M20 A3009 RMK SC1 SLP192 CYDQ 061700Z AUTO 00000KT 9SM CLR M18/M21 A2991 RMK SLP188 CYED 061700Z 25005KT 15SM FEW120 BKN200 M15/M18 A2993 RMK AC1CI6 DA-1221FT SLP193 CYEG 061700Z 29003KT 250V310 20SM SCT110 BKN140 BKN220 M13/M17 A2994 RMK AS3AC2CI2 SLP203 CYEK 061700Z 30012KT 15SM IC FEW090 BKN260 M27/M31 A2984 RMK AS1CS5 SLP109 CYEN 061700Z AUTO 24010KT 9SM CLR M22/M25 A3017 RMK SLP281 CYER 061700Z AUTO 26009KT 9SM CLR M29/M34 A2997 RMK SLP152 CYET 061700Z AUTO 26003KT 9SM CLR M17/M19 A2989 RMK SLP211 CYEV 061700Z 18012G19KT 15SM FEW160 SCT220 M11/M15 A2944 RMK AC1CS3 AC TR SLP978 CYFB 061700Z 33003KT 260V010 30SM FEW020 SCT043 BKN150 BKN260 M11/M16 A2944 RMK SC1SC4AC1CI1 SC TR SLP973 CYFC 061744Z AUTO 07010KT 3SM -SN -FZUP OVC004 M01/M01 A2992 RMK ICE PRESFR SLP135 CYFO 061700Z 28006KT 15SM SKC M26/M30 A3005 RMK SLP219 CYFR 061700Z VRB02KT 15SM FEW040 FEW100 M30/M33 A2995 RMK SC1AC1 SC TR AC TR SLP167 CYFS 061700Z 00000KT 15SM FEW110 FEW250 M37/M41 A2987 RMK AC1CI1 AC TR SLP150 CYFT 061700Z 25015G25KT 15SM FEW025 SCT220 M12/M19 A3015 RMK SC1CI3 SC TR SLP220 CYGE 061700Z 30004KT 5SM -SN BR BKN055 M10/M11 A3009 RMK FG6SC1 VIS N HIER SLP248 CYGH 061700Z 12003KT 25SM SCT140 BKN220 M27/M31 A2964 RMK AS3CI3 SLP054 CYGK 061700Z 19021G27KT 6SM -RA BR FEW013 OVC022 09/07 A2942 RMK SC1SC7 SLP966 CYGL 061700Z 06011KT 15SM -SN FEW011 OVC060 M11/M14 A2969 RMK SC1SC8 SC TR PRESFR SLP076 CYGP 061700Z 09006KT 2SM -SN VV012 M06/M07 A3023 RMK SN8 SLP242 CYGQ 061647Z 36015KT 6SM -SN DRSN OVC048 M18/M21 A2968 RMK SC8 WIND ESTD SLP083 CYGR 061700Z 13009KT 2SM -SN SCT008 OVC035 M02/M04 A3036 RMK SN3SC1SC4 VIS VRB 1-3 /S02/ PRESFR SLP285 CYGT 061722Z 33022KT 5SM BR DRSN FEW007 FEW070 M22/M24 A2923 RMK SF2AC1 AC TR VIS N-E 2 SLP907 CYGV 061743Z AUTO 06016KT 6SM -SN FEW021 OVC032 M07/M09 A3023 RMK PRESFR SLP243 CYGW 061738Z AUTO 10007KT 9SM -SN SCT024 OVC071 M10/M13 A2981 RMK PRESFR SLP098 CYGX 061700Z 27008KT 15SM FEW120 M30/M34 A2997 RMK AS1 AS TR SLP176 CYHA 061700Z 26018G26KT 15SM DRSN FEW022 M12/M16 A2971 RMK SC1 SLP066 CYHD 061700Z AUTO 31008G15KT 280V360 9SM CLR M23/M28 A3005 RMK SLP221 CYHE 061737Z AUTO 11006KT 3SM -SN FEW005 BKN027 OVC038 00/M00 A3012 RMK SLP203 CYHI 061700Z 04008KT 15SM SKC M24/M27 A2981 RMK SLP104 CYHK 061700Z CCA 31016KT 10SM IC DRSN SCT029 M22/M24 A2955 RMK SC3 SLP017 CYHM 061738Z 26019G33KT 15SM SCT010 BKN017 OVC032 05/01 A2951 RMK SC3SC2SC3 SLP000 CYHU 061743Z AUTO 17016G22KT 6SM -RA BR FEW009 OVC039 06/05 A2940 RMK PRESFR SLP957 CYHY 061700Z 19003KT 15SM FEW140 FEW240 M30/M33 A2993 RMK AC1CI1 SLP163 CYHZ 061737Z 14019G29KT 8SM -RA BKN013 OVC023 06/03 A3015 RMK SC7SC1 VIS LWR NE PRESFR SLP218 CYIK 061700Z 25026G37KT 15SM -SN DRSN FEW022 BKN025 BKN032 M11/M15 A2956 RMK SC2SC3SC2 SLP018 CYIN 061700Z AUTO 09002KT 9SM -SN BKN066 BKN080 M11/M12 A2993 RMK SLP204 CYIO 061700Z 10002KT 25SM -SN FEW055 SCT085 BKN096 BKN230 M17/M20 A2913 RMK SC1AC2AC1CC1 SLP874 CYIV 061700Z AUTO 27005KT 9SM CLR M29/M32 A3000 RMK SLP198 CYJF 061700Z 04003KT 14SM IC FEW130 SCT220 M31/M35 A2985 RMK AC1CI2 SLP143 CYJT 061655Z 20016KT 15SM BKN036 M01/M04 A3044 RMK SC7 SLP313 CYKA 061700Z 10007KT 8SM -SN FEW011 SCT026 BKN150 M05/M07 A3014 RMK SF1SC2AC4 /S02/ SLP231 CYKD 061700Z VRB02KT 15SM FEW100 SCT240 M18/M21 A2942 RMK AC1CS2 PRESFR SLP965 CYKF 061742Z AUTO 27022G31KT 9SM BKN023 OVC036 03/M01 A2949 RMK SLP998 CYKG 061700Z 25030G37KT 15SM DRSN FEW035 M14/M19 A2956 RMK SC1 SLP031 CYKJ 061700Z AUTO 24003KT 9SM CLR M30/M33 A2990 RMK SLP198 CYKL 061700Z AUTO 16004KT 150V210 9SM FEW130 M17/M21 A3003 RMK SLP226 CYKO 061700Z 26013G19KT 7SM DRSN SCT050 M10/M16 A2967 RMK SC4 SLP053 CYKP 061733Z AUTO 33013G21KT 3SM -SN BKN044 OVC050 M21/M24 A2979 RMK SLP118 CYKQ 061700Z 07009G20KT 5/8SM -SN OVC026 M10/M12 A2945 RMK NS8 PRESFR SLP976 CYKY 061700Z 17006KT 10SM OVC120 M19/M21 A3000 RMK AC8 BR SLP233 CYLA 052200Z 24011KT 15SM FEW020 FEW100 M15/M18 A2960 RMK SC1AC1 SC TR LAST OBS/NEXT 061300UTC SLP029 CYLC 031900Z 36011KT 15SM FEW020 SCT050 M14/M17 A2928 RMK SC1SC2 LASTSTFD OBS/NXT 131200Z SLP921 CYLD 061700Z 35008KT 310V010 15SM -SN BKN013 OVC110 M09/M12 A2928 RMK SC6AS2 /S02/ SLP951 CYLH 061725Z AUTO 33006G15KT 270V010 6SM -SN FEW018 OVC040 M22/M26 A2990 RMK SLP158 CYLJ 061700Z VRB02KT 15SM BKN230 M24/M28 A3000 RMK CI5 SLP219 CYLK 290100Z 11007KT 070V130 20SM -SN OVC032 M09/M12 A2944 RMK SC8 LAST STFD OB NEXT 291500 SLP989 CYLL 061700Z 22008KT 15SM FEW160 BKN240 M18/M22 A2994 RMK AC2CS5 SLP212 CYLT 061700Z 32005KT 1 1/2SM -SN OVC005 M24/M27 A2929 RMK ST8 VIS VRB 1-2 SLP922 CYLU 061700Z 21013G20KT 13SM SCT016 M13/M17 A2996 RMK SC4 CVCTV CLD EMBD SLP155 CYLW 061733Z AUTO 00000KT 7SM -SN BKN025 BKN050 M05/M05 A3013 RMK SLP230 CYMA 061700Z 07002KT 20SM SCT090 BKN230 M34/M38 A2995 RMK AC4CS1 SLP233 CYMH 061700Z AUTO 26015G21KT 9SM CLR M10/M17 A3034 RMK SLP277 CYMJ 061700Z 23011KT 12SM FEW015 BKN220 M19/M22 A3012 RMK FU1CS7 HALO SLP258 CYMM 061700Z AUTO 00000KT 9SM FEW190 M27/M30 A2994 RMK SLP188 CYMO 061719Z AUTO 06011KT 1/2SM SN VV008 M08/M10 A2945 RMK PRESFR SLP976 CYMT 061723Z AUTO 10014G21KT 3/4SM -SN VV015 M10/M11 A2935 RMK PRESFR SLP967 CYMU 061700Z 15011KT 15SM DRSN OVC023 M10/M14 A2985 RMK SC8 SLP118 CYMX 061728Z CCA 03005KT 2 1/2SM -RA OVC002 00/00 A2941 RMK ST8 PRESFR SLP966 CYNA 061731Z AUTO 11007KT 9SM -SN SCT017 BKN025 M05/M08 A3035 RMK SLP279 CYNC 061700Z 05011G16KT 15SM SCT060 OVC075 M10/M14 A2964 RMK SC4AS4 PRESFR SLP042 CYND 061731Z 09006KT 2SM -RA BR OVC002 01/01 A2936 RMK ST8 PRESFR SLP946 CYNE 061700Z AUTO 32005KT 260V340 9SM CLR M25/M28 A3005 RMK SLP210 CYNM 061708Z AUTO 11007KT 1 1/4SM -SN FEW009 OVC015 M09/M11 A2926 RMK SLP931 CYOC 061700Z VRB02KT 15SM OVC110 M28/M31 A2954 RMK AC8 SLP043 CYOD 061700Z 17003KT 15SM BKN180 M27/M32 A2996 RMK AC5 DA-3707FT SLP212 CYOJ 061700Z 00000KT 15SM FEW120 M34/M37 A2990 RMK AC2 SLP182 CYOO 061700Z AUTO 28019G25KT 9SM OVC015 07/06 A2943 RMK PRESRR SLP972 CYOW 061711Z 17009KT 3SM R32/3000VP6000FT/U -RA BR OVC004 06/06 A2937 RMK SF8 SLP951 CYOY 061700Z AUTO 08004KT 030V140 6SM -FZRA OVC009 M01/M03 A2963 RMK ICG PCPN 0.5MM PAST HR PRESFR SLP047 CYPA 061700Z VRB02KT 15SM BKN250 M27/M30 A3008 RMK CI7 SLP243 CYPC 061738Z 18028G35KT 3SM BLSN FEW150 SCT210 M16/M20 A2962 RMK AC1CI3 SLP034 CYPD 061710Z AUTO 11011G18KT 9SM BKN023 OVC034 02/M01 A3034 RMK PRESFR SLP281 CYPE 061700Z 23008KT 15SM FEW210 M25/M27 A2991 RMK CI1 CI TR SLP198 CYPG 061700Z 23015KT 15SM SKC M20/M25 A3021 RMK SLP262 CYPH 061648Z AUTO 26012KT 9SM -SN BKN025 OVC043 M09/M12 A2975 RMK SLP078 CYPL 061700Z AUTO 30009G16KT 250V350 9SM CLR M25/M29 A2994 RMK SLP183 CYPO 061700Z AUTO 28007KT 9SM CLR M27/M32 A2994 RMK SLP150 CYPQ 061740Z AUTO 28014G27KT 7SM -RA SCT009 BKN014 OVC020 05/04 A2940 RMK SLP963 CYPR 061700Z AUTO 08005KT 9SM CLR M03/M05 A2995 RMK SLP144 CYPW 061700Z 06002KT 10SM FEW030 OVC048 00/00 A3007 RMK SC1SC8 SC TR VIS N-E 5 LO CLD BR SLP190 CYPX 061736Z AUTO 26018KT 1/2SM SN BKN024 BKN034 OVC042 M10/M12 A2970 RMK SLP063 CYPY 061700Z AUTO 09003KT 9SM CLR M28/M31 A2995 RMK SLP179 CYQA 061739Z AUTO 24012G19KT 220V290 9SM SCT020 BKN025 BKN029 OVC038 03/00 A2939 RMK SLP964 CYQB 061700Z 06021G27KT 4SM -FZRA BKN006 OVC014 M04/M05 A2964 RMK SF5SC3 PRESFR SLP044 CYQD 061700Z AUTO 24008KT 9SM CLR M25/M29 A3009 RMK SLP228 CYQF 061700Z AUTO 22005KT 9SM OVC086 M15/M19 A2990 RMK SLP211 CYQG 061737Z AUTO 26026G38KT 9SM -RA FEW044 OVC060 02/M05 A2969 RMK SLP060 CYQH 061700Z 32003KT 290V080 20SM FEW020 FEW240 M37/M40 A2996 RMK SC1CI1 SLP252 CYQI 061740Z 15016G27KT 3SM -RA OVC004 10/10 A2998 RMK NS8 PRESFR SLP155 CYQK 061700Z 30007KT 15SM FEW012 SCT250 M22/M26 A3010 RMK SC1CI2 SLP238 CYQL 061736Z 33007KT 1 1/2SM -SN OVC024 M07/M10 A2989 RMK SC8 SLP196 CYQM 061700Z 11012KT 12SM BKN023 M00/M04 A3010 RMK SC7 SLP200 CYQQ 061700Z 00000KT 2 1/2SM -RASN BR OVC006 00/M00 A3008 RMK SF8 VIS VRB 1 1/2-4 CIG VRB 4-8 SLP189 CYQR 061700Z 26007KT 15SM OVC280 M20/M24 A3012 RMK CI8 SLP262 CYQT 061700Z 31017G26KT 20SM DRSN BKN026 M14/M18 A2985 RMK SC5 VIS NE 6 SLP125 CYQU 061700Z 31003KT 25SM FEW140 M22/M25 A2993 RMK AC1 SLP210 CYQV 061700Z AUTO 21008KT 9SM CLR M23/M26 A3010 RMK SLP257 CYQW 061700Z AUTO 10004KT 9SM CLR M24/M27 A3004 RMK SLP239 CYQX 061700Z 25015G22KT 20SM BKN028 BKN150 M01/M08 A3044 RMK SC7AS1 AS TR SLP318 CYQY 061700Z 12005KT 15SM BKN100 M00/M05 A3044 RMK AS7 SLP314 CYQZ 061656Z AUTO VRB02KT 9SM CLR M13/M15 A3008 RMK SLP237 CYRA 061700Z 13002KT 15SM FEW080 M31/M35 A2987 RMK AC1 AC TR SLP153 CYRB 061700Z 31023KT 20SM IC DRSN FEW180 BKN210 M23/M28 A2934 RMK AC1CS5 SLP950 CYRJ 061739Z 11012G18KT 2SM -SN OVC007 M06/M07 A2948 RMK SN4SC4 PRESFR SLP998 CYRL 061741Z 30008KT 15SM IC FEW015 FEW240 M23/M27 A3003 RMK SC1CI1 CI TR SLP217 CYRQ 061715Z AUTO 06011KT 3SM -SN OVC004 M01/M01 A2951 RMK ICE PRESFR SLP997 CYRT 061700Z 30011KT 15SM FEW010 FEW076 BKN250 M31/M35 A2973 RMK SC1AC2CI4 SC TR SLP076 CYRV 061739Z AUTO 00000KT 1 1/2SM -SN OVC030 M05/M06 A3015 RMK SLP240 CYSB 061737Z 23011G20KT 2 1/2SM -SN SCT009 OVC028 M02/M02 A2928 RMK SC4SC4 SLP934 CYSC 061700Z AUTO 13009G15KT 9SM OVC025 06/03 A2956 RMK PRESFR SLP024 CYSF 061734Z AUTO VRB02KT 7SM FEW001 SCT019 OVC026 M31/M34 A2998 RMK SLP192 CYSJ 061723Z 14014G21KT 2SM +SHRA BR BKN005 OVC015 06/05 A2999 RMK SF7SC1 CVCTV CLD EMBD PRESFR SLP163 CYSK 061700Z 17013KT 7SM -SN DRSN SCT020 BKN070 M11/M15 A2982 RMK SC3AC4 SLP104 CYSM 061700Z 00000KT 15SM FEW150 M32/M36 A2994 RMK AC2 SLP175 CYSN 061700Z 25020G30KT 8SM FEW009 BKN012 OVC027 09/07 A2947 RMK SF1SC5SC2 PRESRR SLP985 CYSP 061729Z 36016G27KT 7SM DRSN SCT015 BKN021 M12/M15 A2955 RMK SC3SC4 SLP034 CYSY 061724Z 15023KT 15SM IC DRSN FEW020 FEW140 FEW210 M20/M22 A2957 RMK SC1AC2CI1 SC TR CI TR SLP029 CYTE 061700Z 26023G29KT 1 3/4SM -SN BLSN OVC019 M14/M16 A2936 RMK SN3SC5 SLP948 CYTH 061700Z 27004KT 15SM SKC M30/M33 A3000 RMK SLP198 CYTL 061649Z AUTO 29009KT 4SM -SN SCT004 M28/M31 A2997 RMK SLP185 CYTQ 061700Z 24023KT 15SM FEW008 M13/M17 A2991 RMK SC1 SLP134 CYTR 061743Z 20016G21KT 5SM -RA BR OVC015 10/08 A2935 RMK SC8 VIS VRB 3-7 SLP942 CYTS 061700Z 01005KT 3/4SM R03/5500VP6000FT/U -SN VV016 M08/M10 A2925 RMK SN8 SLP929 CYTZ 061743Z AUTO 29021G32KT 9SM SCT023 BKN028 OVC032 06/02 A2948 RMK SLP986 CYUA 061647Z AUTO 19048G56KT ////SM SCT100 BKN130 OVC140 M11/M12 A2925 CYUB 061700Z 17013KT 15SM FEW180 M16/M20 A2939 RMK AS1 SLP956 CYUL 061700Z 15012KT 12SM -RA FEW015 OVC036 06/05 A2944 RMK SF1SC8 SF TR PRESFR SLP974 CYUS 061700Z AUTO 27008G16KT 240V310 ////SM //// FEW014 OVC025 M23/M26 A2947 CYUT 061700Z 31011KT 10SM FEW080 BKN220 M24/M28 A2951 RMK AC2CI4 SLP997 CYUX 061729Z 32019KT 4SM BLSN SCT320 M22/M24 A2927 RMK CS3 SLP917 CYUY 061742Z VRB02KT 2 1/2SM -SN BKN014 OVC020 M05/M06 A2919 RMK SC6SC2 SLP907 CYVC 061700Z 00000KT 15SM BKN250 M27/M30 A3004 RMK CI7 SLP224 CYVL 061700Z AUTO 09004KT 9SM BKN180 M29/M31 A2962 RMK SLP076 CYVM 061700Z 00000KT 15SM -SN FEW025 OVC065 M10/M11 A2912 RMK SC2SC6 SLP862 CYVO 061724Z 18007KT 1 1/2SM -SN OVC007 OVC013 M03/M03 A2920 RMK SF6SC2 SLP912 CYVP 061700Z 22015G21KT 15SM FEW050 FEW260 M12/M17 A2999 RMK SC1CI1 SC TR CI TR SLP161 CYVQ 061700Z 10004KT 070V130 30SM FEW190 BKN210 BKN240 M26/M30 A2975 RMK AC2CI3CI2 SLP089 CYVR 061700Z 08007KT 2SM -RASN BR FEW003 BKN015 OVC029 01/00 A3010 RMK SC2SC3SC3 SLP195 CYVT 061700Z AUTO 19007KT 9SM FEW170 M27/M30 A2995 RMK SLP197 CYVV 061700Z 26017G25KT 10SM OVC020 02/M01 A2943 RMK SC8 SLP975 CYWA 061731Z AUTO 25002KT 1 1/4SM OVC002 OVC020 01/01 A2931 RMK SLP933 CYWE 061700Z AUTO 05004KT 9SM OVC004 M32/M36 A2983 RMK ICE SLP168 CYWG 061700Z 25011KT 15SM SKC M22/M26 A3022 RMK SLP264 CYWH 061700Z 02006KT 340V060 1 1/2SM -RA BR SCT003 OVC007 04/03 A3006 RMK SF4SF4 SLP181 CYWJ 061700Z 11004KT 40SM FEW230 M22/M25 A2973 RMK CI1 SLP099 CYWK 061700Z 16007KT 15SM -SN OVC016 M15/M18 A3004 RMK SC8 PRESFR SLP228 CYWL 061700Z 09004KT 15SM FEW040 M11/M13 A2998 RMK SC1 SC TR SLP220 CYWY 061700Z 08003KT 070V170 25SM FEW100 FEW190 SCT240 M35/M39 A2987 RMK AC1AS2CC2 AC TR SLP143 CYXC 061700Z 26002KT 4SM -SN OVC032 M09/M10 A3002 RMK SC8 SLP221 CYXE 061700Z 19005KT 15SM BKN190 M22/M26 A3006 RMK CI7 SLP243 CYXH 061700Z 02003KT 320V030 30SM OVC090 M14/M16 A2996 RMK AC8 SLP206 CYXJ 061700Z 23003KT 15SM PRFG FEW120 M24/M26 A2989 RMK AC1 AC TR SLP199 CYXL 061700Z CCA 33011KT 15SM DRSN FEW015 M24/M28 A3004 RMK CF1 CF TR SLP212 CYXN 061700Z 29013KT 15SM DRSN BKN080 M29/M33 A2977 RMK AC7 SLP085 CYXP 061732Z 26013KT 15SM DRSN VCSH BKN025 BKN140 M11/M14 A2925 RMK SN2SC4AC1 VIS SW 5 SLP908 CYXQ 061700Z 30003KT 270V340 30SM BKN120 OVC160 M26/M29 A2961 RMK AC6AC2 SLP113 CYXR 061720Z AUTO 21006KT 9SM BKN013 OVC071 M04/M06 A2922 RMK ICE SLP910 CYXS 061721Z AUTO 00000KT 0SM FZFG VV001 M14/M16 A3004 RMK SLP234 CYXT 061700Z 01019G25KT 20SM FEW009 SCT120 BKN210 M07/M10 A3008 RMK SF1AC2CI2 PRESFR SLP202 CYXU 061733Z 28018G29KT 15SM SCT020 BKN028 02/M01 A2957 RMK CF1SC6 PRESRR SLP023 CYXX 061720Z 02005KT 2SM -SN BR SCT003 OVC026 00/00 A3010 RMK SF3ST5 SLP196 CYXY 061720Z 14009KT 25SM FEW002 FEW150 BKN240 M22/M25 A2979 RMK ST1AC1CI5 ST TR SLP170 CYXZ 061700Z 35012G21KT 320V030 8SM -SN BKN020 M09/M12 A2940 RMK SC6 SLP977 CYYB 061729Z 24011G21KT 12SM OVC004 00/00 A2929 RMK ST8 SLP938 CYYC 061653Z 33007KT 280V340 3/4SM -SN VV007 M09/M11 A2987 RMK SN8 SLP198 CYYD 061700Z VRB02KT 10SM -SN OVC005 M11/M12 A3010 RMK ST8 SLP229 CYYE 061700Z VRB02KT 30SM FEW230 M32/M36 A2988 RMK CI2 SLP173 CYYF 061723Z 33005KT 3/8SM SN VV012 M04/M05 A3014 RMK SN8 SLP228 CYYG 061700Z 11015G21KT 15SM BKN031 OVC100 01/M04 A3022 RMK SC7AC1 PRESFR SLP238 CYYH 061700Z 28014KT 8SM -SN SCT023 BKN200 M24/M27 A2943 RMK SC4CI2 SLP972 CYYJ 061727Z 24005KT 2SM -RA BR BKN004 OVC012 01/01 A3007 RMK ST7SC1 SLP186 CYYL 061700Z AUTO 28005KT 9SM CLR M29/M31 A2993 RMK SLP189 CYYN 061700Z AUTO 18006KT 9SM CLR M17/M19 A2998 RMK SLP233 CYYQ 061700Z 27010KT 15SM FEW250 M30/M34 A2993 RMK CI1 SLP142 CYYR 061700Z 24010KT 15SM FEW025 FEW210 BKN230 M12/M19 A3034 RMK CF1CI1CS6 CIG ESTD SLP278 CYYT 061700Z 27010KT 210V290 15SM FEW028 BKN035 M00/M06 A3049 RMK CU1SC6 SLP335 CYYU 061736Z 33013KT 1SM -SN DRSN VV008 M10/M12 A2935 RMK SN8 SLP959 CYYW 061731Z AUTO 33012G20KT 290V360 2 1/2SM -SN OVC045 M20/M24 A2985 RMK SLP159 CYYY 061710Z 35004KT 1 1/2SM -SN OVC030 M07/M09 A2990 RMK SC8 PRESFR SLP131 CYYZ 061729Z 28016G26KT 15SM SCT020 BKN040 05/02 A2948 RMK SC5SC2 SLP988 CYZE 061700Z AUTO 25021G28KT 9SM FEW035 BKN044 BKN050 OVC071 02/M02 A2934 RMK SLP944 CYZF 061700Z 06005KT 15SM FEW020 FEW045 BKN058 BKN068 M30/M34 A2992 RMK SC1SC1SC5AC1 SC TR SC TR AC TR SLP167 CYZG 061300Z 24019KT 15SM DRSN FEW010 M17/M20 A2947 RMK SF2 SNW CVR/HARDPACK/LAST STFD OBS/NEXT071300 UTC SLP009 CYZH 061700Z AUTO 12005KT 9SM CLR M26/M28 A2993 RMK SLP204 CYZP 061700Z AUTO 07009G15KT 9SM SCT028 OVC037 03/M02 A2993 RMK SLP136 CYZR 061700Z AUTO 26016G23KT 9SM BKN044 OVC055 03/M04 A2961 RMK SLP033 CYZS 061712Z 28011KT 3SM -SN OVC046 M19/M22 A2948 RMK SC8 SLP993 CYZT 061700Z 10028G39KT 12SM SCT014 OVC030 02/M00 A2989 RMK SF3SC5 SLP126 CYZU 061700Z 27004KT 15SM FEW210 M17/M20 A2992 RMK CI1 CI TR SLP206 CYZV 061731Z 07013G20KT 3SM -SN DRSN OVC015 M08/M11 A3009 RMK SN5SC3 VIS VRB 2-4 PRESFR SLP197 CYZW 061700Z 07006KT 060V120 8SM BKN014 OVC120 OVC190 M30/M34 A2995 RMK SF5AC2CI1 SLP242 CYZX 061700Z 08005KT 12SM -SHRA OVC014 06/04 A3010 RMK SC8 SLP193 CYZY 061728Z AUTO 03003KT 320V060 6SM -SN OVC013 M13/M15 A3007 RMK SLP242 CZBF 061742Z AUTO 36004KT 1/2SM SN VV010 M06/M07 A3006 RMK PRESFR SLP186 CZCP 061700Z AUTO 14017KT ////SM //// BKN170 OVC190 M21/M23 A2959 CZCR 061700Z AUTO 10010G15KT M06/M07 RMK AO1 6PAST HR PRESFR SOG 16 8082 SLP194 P0006 T10571068 50028 CZDB 061700Z AUTO 10010KT 03/M01 RMK AO1 PRESFR SLP241 T00281011 58069 CZEL 061700Z AUTO 26015G20KT 03/01 RMK AO1 3005 PK WND 27021/1620 SLP001 T00270005 50008 CZEM 061700Z 06016KT 2 1/2SM -SN VV021 M10/M12 A2954 RMK SN8 PRESFR SLP006 CZEV 061700Z AUTO 18005KT M12/M14 RMK AO1 SOG 23 6023 SLP979 T11191142 CZFA 061700Z 14008KT 30SM FEW085 SCT150 SCT190 M35/M39 A2989 RMK AC2AC1AC1 SLP242 CZFM 061700Z 16008KT 10SM FEW080 M10/M14 A2948 RMK AC2 SLP988 CZFN 061700Z 03009KT 15SM SCT190 M26/M29 A2976 RMK AC4 AS ASOCTD SLP095 CZFS 061700Z AUTO 00000KT M37/M41 RMK AO1 SOG 24 6016 SLP145 T13741410 CZHY 061700Z AUTO 18004KT M28/M32 RMK AO1 SOG 14 6010 SLP156 T12841316 CZKD 061700Z AUTO 27003KT M29/M32 RMK AO1 SOG 24 8001 SLP179 T12891321 CZMD 061700Z AUTO 20006KT 9SM CLR M28/M31 A2997 RMK SLP190 CZMJ 061700Z AUTO 24009KT M18/M21 RMK AO1 SOG 01 6021 SLP266 T11831214 CZMT 061700Z 15003KT 120V190 15SM BKN020 M02/M04 A2996 RMK SC6 FROIN SLP149 CZMU 061700Z AUTO 20007KT M17/M19 RMK AO1 SOG 01 T11701192 CZOL 061700Z AUTO 31001KT M15/M15 RMK AO1 T11501150 CZPC 061700Z AUTO 26005KT 9SM FEW046 BKN055 BKN069 BKN095 M06/M13 A2985 RMK SLP194 CZPS 061700Z AUTO 24007KT M13/M16 RMK AO1 T11321155 CZRP 061700Z AUTO 32011KT M22/M24 RMK AO1 SOG 48 3003 PK WND 31018/1605 SLP020 T12161237 CZSJ 061700Z AUTO 27004KT 210V310 9SM SCT081 OVC100 M28/M31 A3000 RMK SLP201 CZSM 061700Z AUTO 20002KT M32/M36 RMK AO1 SOG 28 6011 SLP174 T13241355 CZSP 061700Z AUTO 12007G16KT 01/M03 RMK AO1 PRESFR SLP256 T00101033 58071 CZST 061700Z 36004KT 15SM SKC M11/M13 A3016 RMK FROIN WIND ESTD SLP215 CZTB 061700Z AUTO 32015G21KT M14/M19 RMK AO1 SOG 03 1048 PK WND 32028/1603 SLP125 T11401188 CZUM 061700Z AUTO 20004KT 150V230 9SM CLR M15/M19 A3015 RMK SLP257 CZVL 061700Z AUTO VRB02KT 9SM FEW140 M16/M18 A2993 RMK SLP197 CZZJ 061700Z AUTO 27002KT M17/M20 RMK AO1 SOG 23 6009 SLP207 T11671203 DAAD 061700Z 32018KT 7000 SCT030 11/M02 Q1022 DAAE 061700Z 27008KT 8000 FEW020 FEW023TCU SCT033 14/05 Q1021 DAAG 061730Z 28008KT 9999 FEW020 SCT046 13/05 Q1024 DAAJ 061700Z 28005KT CAVOK 20/M12 Q1018 DAAP 061700Z 32009KT 8000 NSC 15/M02 Q1021 DAAS 061700Z 29009KT 7000 FEW010 FEW023TCU SCT026 04/M01 Q1019 DAAT 061730Z 28007KT CAVOK 18/M12 Q1021 DAAV 061700Z 31019G33KT 9999 SCT020TCU FEW026CB 14/02 Q1020 DAAY 061700Z 29010KT 7000 SCT026 09/M01 Q1027 DABB 061700Z 35014KT 6000 FEW010 SCT016 FEW023CB BKN030 10/07 Q1016 RESHRA DABC 061700Z 34013KT 9999 -RA SCT010 FEW020CB BKN023 06/03 Q1018 DABS 061700Z 29016G27KT 7000 -RA FEW010 OVC023 03/01 Q1016 DABT 061700Z 28016KT 9999 FEW020CB BKN023 05/03 Q1018 DAFH 061700Z 35018KT 4000 DRSA NSC 11/M02 Q1022 DAOB 061700Z 28008KT 9999 FEW020 06/M00 Q1025 DAOF 061700Z 09005KT CAVOK 21/M06 Q1022 DAOI 061700Z 29005KT 9999 FEW023 13/03 Q1024 DAOL 061700Z 25012KT 9999 FEW023 14/09 Q1026 DAON 061730Z 00000KT 9999 FEW026 12/08 Q1026 DAOO 061730Z 23007KT 9999 FEW026 12/08 Q1025 DAOR 061700Z 04006KT CAVOK 17/M06 Q1024 DAOV 061700Z 29008KT 9999 FEW023 10/03 Q1025 DAOY 061700Z 35012KT 9999 BKN023 04/00 Q1023 DATM 061700Z 02008KT CAVOK 27/// Q1015 DAUA 061700Z 03011KT CAVOK 19/M01 Q1022 DAUB 061700Z 31017KT 7000 SCT033 15/00 Q1019 DAUE 061700Z 33005KT CAVOK 13/02 Q1024 DAUG 061700Z 32015KT 2000 HZ NSC 14/M04 Q1023 DAUH 061730Z 29005KT 5000 NSC 13/M01 Q1021 DAUI 061700Z 05013KT CAVOK 19/M04 Q1021 DAUK 061700Z 32011KT 3000 SA NSC 15/M03 Q1019 DAUL 061700Z 32012KT 5000 FEW030 10/M04 Q1022 DAUO 061700Z 32010KT 6000 NSC 15/M01 Q1019 DAUT 061700Z 04010KT 8000 NSC 16/M01 Q1023 DAUU 061700Z 33004KT 6000 NSC 15/M02 Q1020 DAUZ 061700Z 32013KT CAVOK 13/M04 Q1020 DBBB 061700Z 23008KT 9999 FEW012 30/26 Q1009 NOSIG DFFD 061700Z 06006KT CAVOK 34/01 Q1010 NOSIG DFOO 061700Z 06008KT CAVOK 34/00 Q1011 DGAA 061700Z 19012KT CAVOK 30/25 Q1010 NOSIG DGLE 080000Z 00000KT CAVOK 27/23 Q1008 NOSIG DGSI 022100Z 14003KT CAVOK 27/24 Q1015 NOSIG DGTK 280500Z 00000KT 9999 FEW011 25/24 Q1010 NOSIG DIAP 061730Z 21008KT 9999 FEW012 29/25 Q1010 NOSIG DIBK 061700Z 10002KT 6000 HZ NSC 32/17 Q1012 NOSIG DIKO 190500Z 20002KT CAVOK 22/22 Q1012 NOSIG DIOD 071100Z 14002KT 9999 BKN013 28/21 Q1016 NOSIG DISP 251400Z 18008KT 9999 FEW015TCU 31/25 Q1007 NOSIG DIYO 061700Z 36004KT 6000 HZ NSC 32/20 Q1010 NOSIG DNAA 061700Z 13004KT CAVOK 32/16 Q1011 NOSIG DNAK 061700Z 19004KT 5000 HZ SCT015 31/24 Q1011 DNAS 190700Z 18002KT 2500 BR 0VC006 25/24 Q1012 DNBA 230900Z 05010KT 3500 HZ NSC 23/03 Q1020 DNBE 061700Z 23003KT 4000 HZ NSC 31/26 Q1010 DNCA 180900Z VRB02KT 5000 -RA SCT010 FEW019CB 26/24 Q1015 TEMPO 3000 -RA DNEN 061700Z VRB05KT 5000 HZ NSC 33/22 Q1009 NOSIG DNGO 061600Z 03005KT 1100 HZ 32/08 Q1011 DNIB 042000Z 00000KT 8000 FEW012 29/23 Q1011 DNIL 061600Z 35006KT CAVOK 34/11 Q1010 DNIM 061000Z 00000KT 8000 BKN011 30/25 Q1012 DNJO 061000Z 08017KT CAVOK 26/04 Q1019 DNKA 061600Z 06007KT 7000 NSC 31/10 Q1014 DNKN 061700Z 05007KT 2000 HZ NSC 28/04 Q1015 BECMG 3000 DNKT 061700Z 08006KT 1500 HZ NSC 29/07 Q1014 DNMA 061600Z 02008KT 5000 HZ NSC 33/07 Q1009 DNMK 091000Z 23008KT 9999 BKN012 29/25 Q1011 DNMM 061700Z 25007KT 8000 FEW013 31/25 Q1010 NOSIG DNMN 061700Z 33004KT 6000 NSC 34/13 Q1010 DNPO 061100Z 33003KT 8000 BKN010 FEW020CB 30/26 Q1011 NOSIG DNSO 061100Z 12008KT 8000 HZ NSC 31/08 Q1014 DNSU 220100Z N19 Q1011 NOSIG DNYO 050400Z 00000KT CAVOK 24/15 Q1011 DNZA 021400Z 01014KT 3500 HZ NSC 33/04 Q1012 DRRB 061200Z 06006KT 120V350 CAVOK 39/04 Q//// DRRM 061700Z 00000KT 2000 DU NSC 30/M01 Q1012 DRRN 061700Z 05009KT 8000 NSC 34/M06 Q1011 NOSIG DRRT 061700Z 06008KT CAVOK 32/M06 Q1013 DRZA 061700Z 12010KT CAVOK 28/M00 Q1014 DRZR 061700Z 05008KT 2000 DU NSC 29/03 Q1014 DTKA 061700Z 30023G34KT 9999 SCT020 SCT030 12/06 Q1013 NOSIG DTMB 061730Z 28021KT 8000 SCT023 SCT030 09/03 Q1012 DTNH 061730Z 28015KT 9999 FEW026TCU SCT033 08/05 Q1011 DTTA 061730Z 28016G27KT 9999 FEW020 SCT033 11/05 Q1011 DTTB 061700Z 31023G35KT 5000 SCT016TCU FEW023CB BKN030 13/04 Q1010 DTTD 061700Z 29010KT 250V320 5000 NSC 11/M01 Q1017 DTTF 061700Z 33013KT 300V010 8000 SCT026 11/M01 Q1017 NOSIG DTTG 061700Z 28012KT 6000 SCT020 SCT030 13/M01 Q1016 NOSIG DTTJ 061730Z 31022KT 8000 FEW020 SCT026 15/03 Q1014 NOSIG DTTK 061700Z 30011G22KT 210V010 9999 SCT023 11/02 Q1012 DTTL 061700Z 25006G16KT 8000 SCT020 SCT030 09/08 Q1008 RERA DTTN 061700Z 32014G24KT 260V350 9999 SCT020 SCT030 10/03 Q1013 DTTR 061600Z 28019KT 3000 SA NSC 13/M02 Q1018 DTTX 061700Z 27013KT 9999 FEW020 SCT030 13/01 Q1013 DTTZ 061700Z 29015KT 3000 SA SCT033 14/M01 Q1016 DXNG 061700Z 07003KT 8000 NSC 32/06 Q1013 DXSK 061500Z 04006KT 7000 NSC 36/06 Q//// DXXX 061700Z 21010KT 9999 FEW014 30/26 Q1010 NOSIG EBAW 061650Z 16008KT 9999 -RA BKN019 04/01 Q1008 TEMPO BKN012 EBBE 061625Z AUTO 18013KT 9999 FEW040/// OVC120/// 03/00 Q1008 BLU EBBL 061625Z AUTO 20006KT 9999 FEW041/// OVC140/// 04/00 Q1009 BLU EBBR 061650Z 19012KT 8000 -RA FEW012 BKN023 04/01 Q1008 TEMPO 3000 RASN BKN012 EBCI 061650Z 16008KT 140V200 8000 -RASN SCT007 BKN011 02/00 Q1008 TEMPO 2000 RASN BR SCT005 BKN008 EBCV 061638Z AUTO 17008KT 3600 -RASN OVC015/// 04/03 Q1008 YLO EBDT 061625Z AUTO 18009KT 9999 OVC041/// 04/00 Q1009 BLU EBFN 061625Z 19010KT 8000 -RA SCT015 BKN030 05/04 Q1006 WHT WHT TEMPO GRN EBFS 061625Z AUTO 18009KT 9999 BKN009/// BKN016/// 01/00 Q1009 GRN EBLB 061625Z AUTO 20009KT 9999 OVC007/// ///// Q1008 GRN EBLG 061650Z 19012KT 9999 SCT032 03/M00 Q1009 TEMPO 2500 RASN BKN008 EBOS 061650Z 20012KT 8000 -RA FEW011 SCT016 BKN039 04/03 Q1006 NOSIG EDAC 061720Z AUTO 10002KT 9999 // OVC016/// M00/M02 Q1014 EDAH 011020Z 20006KT 170V230 CAVOK 11/08 Q1001 EDDB 061720Z 13003KT 9999 BKN016 BKN047 00/M01 Q1015 NOSIG EDDC 061720Z VRB01KT 3200 -SN BR SCT003 BKN007 M01/M01 Q1014 REFZDZ TEMPO 2500 -FZDZ EDDE 061720Z 15003KT 110V170 8000 SCT005 BKN044 M00/M01 Q1012 NOSIG EDDF 061720Z 18005KT 9999 FEW008 SCT020 BKN028 03/01 Q1013 NOSIG EDDG 061720Z VRB02KT 8000 NSC 01/01 Q1010 BECMG 17008KT EDDH 061720Z 13013KT 9999 BKN011 BKN045 01/M01 Q1012 NOSIG EDDK 061720Z 17010KT 9999 BKN025 03/M00 Q1011 NOSIG EDDL 061720Z 15012KT CAVOK 04/00 Q1010 NOSIG EDDM 061720Z 25004KT 9999 FEW017 01/M00 Q1014 NOSIG EDDN 061720Z 12003KT 9999 FEW008 SCT018 01/M00 Q1014 NOSIG EDDP 061720Z 15006KT 9999 FEW010 BKN015 00/M02 Q1015 NOSIG EDDR 061720Z 17005KT 140V210 9999 FEW007 00/M01 Q1012 NOSIG EDDS 061720Z 22003KT 9999 FEW020 01/M02 Q1013 NOSIG EDDT 090650Z 09006KT 050V120 3000 BR OVC003 06/05 Q1027 EDDV 061720Z 12006KT 080V170 9999 BKN011 02/M00 Q1012 BECMG SCT010 EDDW 061720Z 13011KT 9999 BKN009 02/M00 Q1011 BECMG SCT012 EDFH 061720Z 19007KT 9999 BKN016 01/M01 Q1010 EDFM 061720Z VRB03KT 9999 SCT028 03/00 Q1013 EDGS 061720Z AUTO 18012KT 150V220 9999 SCT003/// OVC005/// M00/M01 Q1009 EDHI 061720Z 12008KT 090V150 8000 BKN011 01/M01 Q1012 EDHK 061720Z AUTO 13012KT 120V180 9999 // SCT015/// OVC054/// 01/M02 Q1013 EDHL 061720Z 13006KT 080V160 9999 SCT008 01/M00 Q1013 EDJA 061720Z 21007KT CAVOK M01/M02 Q1014 EDLN 061720Z 15006KT 9999 FEW034 03/01 Q1010 EDLP 061720Z 14006KT CAVOK 03/M02 Q1010 EDLV 061720Z 16007KT 9999 BKN042 03/02 Q1009 EDLW 061720Z 18006KT CAVOK 03/M01 Q1010 EDMA 061720Z 11002KT 9999 BKN020 BKN031 M00/M00 Q1014 EDMO 061720Z 19002KT 9999 SCT020 BKN024 M01/M01 Q1014 EDNY 061720Z 09002KT 9999 SCT019 SCT025 M00/M01 Q1015 EDQM 061720Z VRB02KT 6000 -SN BKN004 OVC005 M02/M02 Q1012 EDSB 061720Z 20006KT 9999 FEW027 02/M00 Q1014 EDTL 061720Z 16005KT CAVOK 03/M00 Q1014 EDTY 061720Z 12003KT 8000 BKN019 OVC023 01/00 Q1013 EDVE 061720Z 11007KT 9999 OVC047 00/M01 Q1013 EDVK 061720Z 14008KT CAVOK 01/M01 Q1011 EDWE 061720Z AUTO 15010KT 9999 // FEW011/// OVC014/// 02/01 Q1009 EDXW 061720Z AUTO 15019KT 9999 // OVC012/// 01/M01 Q1010 EEEI 061550Z VRB02KT CAVOK M18/M20 Q1019 NOSIG EEKA 061620Z 13004KT CAVOK M15/M16 Q1019 EEKE 061720Z 01005KT CAVOK M16/M17 Q1019 EEPU 301420Z VRB02KT 3600 -SN BR BKN009 OVC014 M00/M00 Q1015 EETN 061720Z VRB02KT 9999 SCT015 M18/M20 Q1018 TEMPO 3000 SN BKN010 EETU 061720Z AUTO 00000KT 9999 NCD M22/M24 Q1018 EFET 061720Z 19003KT 150V230 CAVOK M22/M25 Q1020 EFHA 061720Z AUTO 09002KT 6000 -SHSN OVC026 M12/M13 Q1020 EFHK 061720Z 01004KT 9999 -SN FEW020 M16/M18 Q1019 TEMPO 7000 EFIV 061720Z 26008KT 9999 BKN011 M16/M18 Q1022 EFJO 061720Z AUTO 10008KT 9999 -SN BKN018 M08/M10 Q1022 EFJY 061720Z AUTO 08004KT 7000 FEW017 SCT028 M13/M14 Q1021 EFKE 061720Z AUTO 02005KT CAVOK M23/M25 Q1025 EFKI 061720Z AUTO VRB02KT CAVOK M13/M15 Q1024 EFKK 061720Z AUTO 04003KT CAVOK M13/M15 Q1023 EFKS 061720Z AUTO VRB01KT 9999 SCT001 M27/M30 Q1025 EFKT 061720Z 17005KT 9999 -SN OVC017 M17/M20 Q1023 EFKU 061720Z AUTO 08008KT 9999 -SN SCT023 M08/M10 Q1022 EFLP 061720Z AUTO 07006KT 9000 -SN SCT010 OVC031 M11/M12 Q1019 EFMA 061720Z AUTO 34003KT 6000 -SN OVC021 M10/M12 Q1019 EFMI 061720Z AUTO 05004KT 020V080 6000 -SN SCT026 SCT035 M11/M13 Q1020 EFOU 061720Z AUTO 12003KT 9999 -SHSN NSC M15/M17 Q1025 EFPO 061720Z AUTO 09003KT CAVOK M13/M15 Q1021 EFRO 061720Z AUTO 08005KT 9999 FEW001 M19/M21 Q1024 EFSA 061720Z 08008KT 9999 FEW014 SCT038 M11/M14 Q1021 EFSI 061720Z AUTO 04002KT 9999 -SN OVC041 M15/M17 Q1021 EFTP 061720Z AUTO VRB01KT 9999 BKN043 M17/M19 Q1019 EFTU 061720Z AUTO VRB02KT CAVOK M17/M19 Q1019 EFUT 061720Z AUTO VRB02KT 8000 -SN BKN011 OVC032 M14/M16 Q1019 EFVA 061720Z AUTO 08003KT 050V110 9999 -SHSN OVC035 M12/M13 Q1022 EG EGAA 061720Z 25014KT 9999 FEW009TCU 03/01 Q1002 REUP EGAC 061720Z AUTO 25010G19KT 220V290 9999 -RA FEW017/// SCT032/// 04/01 Q1002 EGAE 061650Z 23015G25KT 9999 4500N SHRA FEW009 SCT018CB 04/02 Q1002 EGBB 061720Z 26007KT 9999 VCSH FEW026 05/03 Q1004 EGBJ 061650Z 22004KT 180V250 9999 FEW015 04/02 Q1006 EGCC 061720Z 24008KT 9999 VCSH SCT030CB 05/02 Q1003 TEMPO SHRA EGCK 061720Z AUTO 29025KT 9999 BKN035/// 08/00 Q1005 EGCN 061720Z 20004KT 9999 FEW030 SCT035 02/02 Q1003 EGDM 061650Z 29010KT 9999 FEW030 05/02 Q1006 RMK BLU EGDR 061725Z 27013KT 9999 FEW030 SCT080 08/04 Q1012 TEMPO 4000 SHRA FEW010 BKN018TCU RMK BLU TEMPO GRN EGDY 061720Z 25009KT 9999 FEW040 05/02 Q1008 NOSIG RMK BLU BLU EGEC 061650Z 26026G37KT 230V290 9999 SHRA FEW013CB SCT015 05/03 Q0999 EGEO 061450Z 25020KT 9999 VCSH BKN024 06/03 Q0996 EGFF 061720Z AUTO 29012KT 9999 FEW033 06/03 Q1008 EGGD 061720Z AUTO 26016KT 9999 NCD 05/02 Q1007 EGGP 061720Z 26016KT 9999 VCSH FEW024 SCT027 BKN034 06/02 Q1003 EGGW 061720Z AUTO 29012KT 9999 NCD 05/03 Q1004 EGHC 061720Z 28021KT 9999 VCSH FEW011 FEW020CB 08/04 Q1012 EGHE 061620Z 29021KT 9999 FEW020 10/05 Q1013 EGHH 061720Z 29011KT 9999 FEW036 06/02 Q1008 EGHI 061720Z 26004KT CAVOK 06/03 Q1007 EGHQ 061720Z 28019G31KT 9999 VCSH BKN033 08/03 Q1011 EGJA 061720Z 31021G31KT 9999 VCSH FEW020CB SCT028 10/05 Q1010 EGJB 061720Z 29018G29KT 9999 FEW020CB 09/03 Q1011 EGJJ 061720Z 30020G33KT 270V330 9999 FEW020CB 10/04 Q1011 EGKA 061720Z 28016KT 9999 FEW014 07/03 Q1006 EGKB 061650Z 27008KT 240V300 9999 SCT020 06/04 Q1004 EGKK 061720Z 26011KT 9999 FEW040 06/04 Q1005 EGLC 061720Z AUTO 27007KT 9999 SCT031 07/05 Q1005 EGLF 061720Z 29007KT 230V320 9999 FEW036 05/02 Q1006 EGLL 061720Z AUTO 28010KT 9999 FEW047 06/03 Q1005 NOSIG EGMC 061720Z 25008KT 9999 FEW030 06/05 Q1004 EGMD 061720Z 26005KT 230V290 9999 SCT025 06/05 Q1005 EGNH 061650Z 30022KT 9999 SCT028 07/03 Q1002 EGNJ 061720Z 25009KT 9999 FEW044 04/02 Q1001 EGNM 061720Z 24009KT 9999 FEW021CB SCT042 03/01 Q1001 EGNO 061720Z 28016KT 9999 VCSH SCT028 06/02 Q1002 EGNR 061720Z 27012KT 9999 FEW024 06/M00 Q1004 EGNS 061720Z 27017KT 230V300 9999 FEW025 06/01 Q1002 NOSIG EGNT 061720Z 25007KT 9999 FEW028 03/01 Q0999 EGNV 061720Z 22006KT 9999 FEW025 01/M00 Q1000 EGNX 061720Z 24011KT 9999 FEW040 04/02 Q1003 EGOM 061650Z AUTO 26011KT 9999 FEW020/// 02/01 Q0998 EGOP 061650Z AUTO 29016KT 9999 // NCD 07/03 Q1008 EGOS 061720Z 26013KT 9999 SCT040 04/01 Q1004 TEMPO -SHRA SCT020 RMK BLU TEMPO WHT EGOV 061721Z 28023KT 9999 SCT034 07/01 Q1005 NOSIG RMK BLU BLU EGOW 061350Z 28019KT 9999 FEW025CB 08/02 Q1002 RMK BLU EGPA 061720Z 20014KT 9999 FEW012 04/01 Q0992 EGPB 061720Z 22014KT 9999 SCT024 07/02 Q0992 NOSIG EGPC 061650Z 20007KT 9999 FEW022CB 04/01 Q0992 EGPD 061720Z AUTO 23008KT 9999 NCD 03/M00 Q0995 NOSIG EGPE 061650Z 22011KT 9999 FEW013 FEW025CB 03/02 Q0994 EGPF 061720Z AUTO 24010KT 4200 RA SCT020/// BKN027/// //////TCU 04/02 Q0998 EGPH 061720Z 24010KT 9999 FEW018 02/01 Q0998 EGPI 061720Z 29023KT 9999 -SHRA FEW014CB SCT023 04/02 Q0999 EGPK 061720Z 27017KT 9999 SCT015 BKN022 OVC030 05/03 Q0999 EGPL 061650Z 26022G33KT 9999 VCSH FEW004 SCT020CB BKN030 05/02 Q0993 RESHRA RESHGS EGPN 061720Z 25006KT 9999 FEW012 04/03 Q0997 EGPO 061650Z 21010KT 9999 VCSH FEW010 SCT014CB BKN040 04/01 Q0990 EGPU 061650Z 30022G33KT 9999 -SHRA SCT029CB 05/03 Q0996 EGQA 061550Z 19009KT 9999 FEW012 SCT043 04/// Q0993 RMK BLU EGQK 061650Z AUTO 21007KT 9999 SCT150/// SCT220/// 03/01 Q0994 EGQL 061720Z 24008KT CAVOK 03/01 Q0996 EGQM 061650Z AUTO 26011KT 9999 NCD 04/01 Q0998 EGQS 061720Z 21007KT CAVOK 01/M01 Q0994 NOSIG RMK BLU BLU EGSC 061650Z 27008KT 9999 FEW020 06/04 Q1003 EGSH 061650Z 25011KT 9999 SCT007 BKN010 05/04 Q1002 EGSS 061720Z AUTO 28006KT 9999 FEW035 05/04 Q1004 EGSY 061650Z 29014KT 9999 FEW027 07/02 Q1008 EGTC 061620Z 26009KT 9999 FEW016 05/04 Q1004 EGTE 061720Z VRB03KT 9999 -SHRA FEW030CB 05/03 Q1009 EGTK 061720Z 26010KT 9999 FEW013 05/02 Q1005 EGUB 061721Z 26009KT CAVOK 05/02 Q1006 NOSIG RMK BLU BLU EGUL 061656Z 27010KT 9999 FEW060 FEW070 05/05 A2960 RMK AO2A SLP027 T00500049 $ EGUN 061656Z 27010KT 9999 FEW020 SCT060 BKN100 05/05 A2961 EGUW 061650Z 26009KT 9999 FEW015 SCT050 05/04 Q1002 NOSIG RMK BLU BLU EGVA 061656Z AUTO 26005KT 9999 CLR 03/03 A2968 RMK AO2 SLP058 T00300029 $ EGVN 061720Z 25004KT CAVOK 04/01 Q1006 NOSIG RMK BLU BLU EGVO 061650Z 28013KT 9999 FEW040 SCT140 06/02 Q1006 NOSIG RMK BLU BLU EGVP 061650Z AUTO 28011KT 9999 SCT150/// 06/02 Q1006 REUP EGWC 061550Z 24006KT 9999 FEW018 05/04 Q1004 RMK BLU EGWU 061720Z 28013KT 9999 FEW020 SCT140 07/03 Q1005 NOSIG RMK BLU BLU EGXC 061720Z 26006KT CAVOK 03/02 Q1002 NOSIG RMK BLU BLU EGXE 061720Z 21005KT 9999 FEW040 02/00 Q1000 NOSIG RMK BLU BLU EGXP 061650Z AUTO 24007KT 9999 // FEW070/// 01/01 Q1001 EGXS 061650Z AUTO 22009KT 9999 // BKN080/// BKN130/// 03/02 Q1001 EGXT 061650Z AUTO 26011KT 9999 SCT160/// 03/02 Q1002 EGXU 270050Z 23004KT 9999 BKN041 SCT050 15/14 Q1000 RMK BLU EGXV 061650Z AUTO 25011KT 9999 FEW180/// 03/02 Q1000 EGXW 061650Z 24007KT 9999 FEW040 03/02 Q1002 NOSIG RMK BLU BLU EGXZ 061650Z AUTO 16002KT 3700 NCD 00/M00 Q1000 EGYD 061720Z 27015KT 9999 FEW020 BKN050 03/03 Q1002 TEMPO -SHRA SCT020 RMK BLU TEMPO WHT EGYE 061250Z 18009KT 5000 DZ BKN005 OVC025 ///// Q1003 RMK YLO1 EGYH 061450Z 23012KT 9999 BKN012 04/03 Q1002 RMK GRN EGYM 061650Z 27008KT 9999 SCT015 BKN050 04/04 Q1002 WHT EGYP 061720Z 31025KT CAVOK 16/01 Q1013 NOSIG EHAK 061725Z AUTO 22019KT 170V240 9999 -RA SCT015/// BKN019/// BKN027/// 07/03 Q1000 RERA REDZ EHAM 061655Z 15013KT 7000 -RA FEW011 SCT030 BKN040 03/02 Q1006 BECMG RA BKN014 EHBK 061655Z AUTO 20012KT 170V230 9999 NSC 03/M00 Q1009 NOSIG EHDL 061655Z AUTO 15008KT 080V190 8000 BR FEW024 OVC030 03/02 Q1008 BLU EHDV 061725Z AUTO 21025KT 170V250 8000 -SHRA +DZ FEW011/// SCT016/// BKN023/// 06/02 Q1000 EHEH 061655Z AUTO 17009KT 9999 SCT041 OVC110 04/01 Q1009 BLU NOSIG EHFD 061725Z AUTO 17031KT 6000 -RA FEW009/// SCT011/// BKN014/// 07/04 Q1002 EHFS 061725Z AUTO 18020KT 9999 DZ FEW009 SCT014 BKN019 05/04 Q1005 EHGG 061655Z AUTO 16009KT 130V200 6000 SCT009 BKN010 OVC013 03/02 Q1008 BECMG BKN008 EHGR 061655Z AUTO 17011KT 130V210 9999 SCT049 SCT057 BKN063 04/01 Q1007 BLU BECMG 4500 -RA SCT005 BKN007 EHHW 061725Z AUTO 17028KT 9999 FEW008/// SCT009/// BKN011/// 05/02 Q1006 EHJA 061725Z AUTO 21018KT 9999 -SHRA FEW010/// BKN015/// BKN018/// 05/02 Q1000 EHJR 061725Z AUTO 20026KT //// // ///////// 06/04 Q//// RE// W10/H19 EHKD 061655Z AUTO 16013KT 9999 DZ SCT024 OVC028 03/01 Q1005 WHT BECMG 4500 -RA FEW010 SCT015 OVC020 EHKV 061725Z AUTO 20021KT 7000 SHRA FEW010 BKN015CB BKN019 06/03 Q1001 EHLE 061725Z AUTO 16014KT 8000 FEW043 03/01 Q1007 BECMG 7000 RA EHLW 061655Z AUTO 15013KT 120V180 7000 BR FEW007 SCT010 OVC110 03/02 Q1007 GRN EHMA 061725Z AUTO 17026KT 7000 FEW008 SCT009 BKN011 03/02 Q1006 EHMG 061725Z AUTO 18034KT 9000 -UP SCT010 BKN013 05/01 Q1006 EHPG 061725Z AUTO VRB34KT 5000 -RA FEW006 SCT014 FEW015CB BKN016 06/05 Q1001 EHQE 061725Z AUTO 18033KT 6000 DZ FEW009 SCT010 BKN013 FEW015CB 06/03 Q1003 EHRD 061725Z AUTO 18012KT 140V210 7000 -RA SCT013 BKN015 OVC019 04/02 Q1006 BECMG RA BKN014 EHSA 061725Z AUTO 17032KT 7000 -RA ///////// 07/04 Q1003 RERA REDZ W11/H19 EHSC 061725Z AUTO 19028KT 9999 ///////// 06/03 Q1005 W10/H14 EHVK 061655Z AUTO 16005KT 130V190 9999 OVC037 03/02 Q1009 BLU EHVL 061655Z AUTO 17021KT //// // FEW011/// SCT040/// BKN050/// 04/01 Q1005 RE// EHWO 061655Z AUTO 19009KT 140V230 9999 -RA BKN016 BKN019 OVC031 05/02 Q1007 WHT EICK 061730Z 25010KT 9999 FEW018CB 03/00 Q1010 NOSIG EIDL 061730Z 31028KT 9999 SCT030 06/02 Q1001 EIDW 061730Z 25012KT 9999 FEW014 FEW020CB 04/00 Q1005 NOSIG EIKN 061600Z 27016KT 9999 FEW010 FEW020CB 03/M00 Q1004 NOSIG EIKY 061730Z 25009KT 9999 VCSH SCT026CB 05/02 Q1010 EIME 061700Z 24014G24KT 9999 FEW015 FEW018CB 03/01 Q1005 EINN 061730Z 22005KT 9999 FEW010 FEW018CB SCT040 05/01 Q1009 NOSIG EISG 061730Z 26015KT 220V290 6000 SCT022 SCT028 BKN033 04/02 Q1004 EIWF 061730Z 29008KT 9999 FEW020 04/00 Q1009 R21/2///// EKAH 061720Z AUTO 13011G22KT 100V160 9999 BKN056/// BKN170/// 02/M02 Q1014 EKBI 061720Z AUTO 11009KT 9999 SCT005/// BKN160/// 00/M00 Q1011 EKCH 061720Z AUTO 11016KT 9999 FEW047/// SCT190/// 00/M04 Q1016 NOSIG EKEB 061720Z AUTO 14014KT 9999 OVC054/// 01/M01 Q1010 EKKA 061720Z 12009KT 9999 -SN FEW015 BKN023 01/M01 Q1011 TEMPO 7000 EKOD 061550Z 13010KT 9999 BKN045 02/M01 Q1014 EKRK 061720Z AUTO 12013KT 9999 SCT026/// BKN050/// 00/M04 Q1015 EKRN 061720Z AUTO 06003KT 9999 OVC035/// M00/M06 Q1017 EKRS 061720Z AUTO 11006KT 030V160 9999 NCD 00/M00 Q1014 EKSB 061650Z 15015KT 9999 SCT025 03/M01 Q1012 EKSN 061350Z 10011KT 9999 FEW018 BKN036 M01/M04 Q1016 R08/750392 EKSP 061650Z 14011KT 9999 FEW015 SCT060 BKN180 01/M02 Q1012 TEMPO BKN010 EKVD 061720Z AUTO 15009KT //// ///////// 02/M01 Q1011 EKVG 061720Z AUTO 19020G30KT 9999 OVC021/// 06/03 Q0978 RMK OVC018/// WIND SKEID VRB07G29KT EKVJ 061520Z 12012KT CAVOK 01/00 Q1013 EKYT 061720Z 13012KT CAVOK 00/M03 Q1013 NOSIG ELLX 061650Z 17007KT 140V200 5000 BR BKN003 BKN030 01/00 Q1010 TEMPO 4000 BR ENAL 061720Z 13016KT CAVOK 00/M07 Q1005 ENAN 061720Z 17014KT 9999 BKN023 M03/M07 Q1015 ENAT 061720Z 17013KT CAVOK M17/M24 Q1020 RMK WIND 700FT 17015KT ENBL 061720Z 15005KT 110V210 9999 FEW060 BKN090 M02/M11 Q1005 ENBN 061650Z 11015KT CAVOK M07/M15 Q1014 ENBO 061720Z 09020KT CAVOK M10/M20 Q1015 TEMPO 10020G30KT ENBR 061720Z 14011KT 9999 FEW045 SCT085 02/M08 Q1004 NOSIG RMK WIND 1200FT 12031KT ENBS 061720Z 19015KT 9999 -SN DRSN FEW015 SCT026 BKN040 M09/M11 Q1015 ENBV 061720Z 25013KT 9999 -SHSN FEW010 BKN038 M04/M05 Q1016 ENCN 061650Z 05013KT 9999 -SNSG FEW007 BKN013 M05/M07 Q1013 ENDR 061720Z AUTO 12027KT M02/M06 Q1007 ENDU 061720Z 00000KT CAVOK M28/M30 Q1018 NOSIG RMK WIND 1100FT 15008KT WIND 2200FT 16008KT ENEV 061720Z 16003KT 130V210 CAVOK M14/M18 Q1017 RMK WIND 1400FT 15012KT ENFB 061650Z AUTO 15059KT 9999NDV BKN016/// 05/02 Q0997 W///S7 ENFL 061720Z 11020KT 9999 SCT045 BKN070 02/M06 Q1005 ENGC 061713Z 16058KT 9999 OVC018 05/02 Q0997 W07/S7 ENGK 241420Z 21004KT 170V260 4500 BR BKN003 06/06 Q1015 ENGM 061720Z VRB01KT 9999 -SHSN BKN016 M13/M14 Q1017 NOSIG ENHD 061720Z 12023KT CAVOK 01/M05 Q1005 ENHE 061720Z 14025KT 9999 BKN020 M01/M05 Q1008 W///S5 ENHF 061650Z 24007KT 9999 FEW020 BKN038 M04/M07 Q1016 RMK WIND 1254FT 24010KT ENHK 061450Z 08007KT 040V110 9999 FEW012 M05/M07 Q1017 ENHM 061720Z AUTO 14051KT 6000NDV -RA SCT014/// BKN019/// BKN025/// 05/03 Q0998 W08/S/ ENHV 061650Z 19020KT 5000 -BLSN VV011 M03/M04 Q1016 ENKB 061720Z 09007KT 060V130 CAVOK M03/M09 Q1006 RMK WIND 745FT 14016KT ENKR 061720Z 24019KT 9999 BKN027 M15/M20 Q1020 RMK WIND 731FT 24022KT ENLA 061720Z AUTO 15021KT 9999NDV -SHRA BKN014/// 06/04 Q0997 RESHRA W///S5 ENLE 061720Z 18023KT 9999 -SHRA SCT015 BKN030 06/03 Q0999 W09/S5 ENLK 061720Z 09005KT 9999 FEW040 M06/M15 Q1015 ENMH 061650Z 22016KT 9000 -SHSN VV019 M02/M03 Q1015 ENML 061720Z 04008KT CAVOK M07/M10 Q1007 ENMS 061720Z VRB01KT CAVOK M15/M21 Q1016 RMK WIND 412FT VRB02KT ENNA 061650Z 17021KT 9999 FEW045 M18/M23 Q1019 RMK WIND 1800FT 15003KT ENNE 061720Z 11031KT 9999 BKN022 M02/M07 Q1009 W///S5 ENNM 061550Z 10013KT CAVOK M10/M16 Q1015 ENNO 061720Z VRB02KT 7000 -SN OVC030 M08/M10 Q1018 ENOA 061650Z /////KT 9999 OVC018 04/01 Q0998 RMK WIND OSC 16060KT W///S6 ENOL 061720Z 12018KT CAVOK M06/M12 Q1009 TEMPO 12022G32KT ENOV 061650Z VRB04KT CAVOK 00/M08 Q1006 RMK WIND 2090FT 13022KT ENQA 061720Z AUTO 16046KT 9999NDV OVC024/// 03/M01 Q1001 W06/S6 ENQC 061720Z AUTO 14048KT 9999NDV OVC025/// 04/M01 Q1001 W///S6 ENQR 061720Z AUTO 14053KT 6000NDV -SHRA OVC017/// 05/02 Q0997 W///S7 ENRA 061650Z 09011G21KT CAVOK M13/M22 Q1018 ENRM 061720Z 11015KT 080V140 CAVOK M08/M15 Q1013 ENRO 061720Z 29004KT 260V340 CAVOK M25/M28 Q1010 ENRS 061720Z 10009KT 9999 BKN027 M03/M07 Q1014 ENRY 061720Z 03006KT 9999 FEW012 SCT034 BKN045 M10/M12 Q1018 ENSB 061720Z 23011G24KT 190V280 9999 -RASN FEW030 BKN051 01/M03 Q1000 RMK WIND 1400FT 24030G42KT ENSD 061720Z 16004KT 9999 FEW036 SCT100 M02/M07 Q1007 RMK WIND 1138FT 08010KT ENSE 061720Z AUTO 16057KT 9999NDV OVC018/// 05/02 Q0997 W///S7 ENSF 061720Z AUTO 15058KT 8000NDV -SHRA BKN015/// 06/02 Q0996 W///S6 ENSG 061720Z 04009KT 9999 FEW050 BKN080 M07/M14 Q1008 RMK WIND 3806FT 09012KT ENSH 061650Z 06010KT CAVOK M06/M12 Q1016 RMK WIND 150FT 06017KT ENSK 061720Z 16016KT 9999 FEW032 BKN038 M04/M12 Q1015 ENSL 061720Z AUTO 15041KT 9999NDV -RA BKN012/// 06/03 Q0997 W06/S6 ENSO 061720Z 12023G33KT CAVOK 01/M07 Q1005 ENSR 061720Z 16019KT 9999 VCFZFG DRSN NSC M16/M24 Q1019 RMK WIND 1119FT 14019G29KT ENSS 061720Z 24021KT 9999 DRSN FEW020 BKN055 M09/M12 Q1016 RMK WIND 500FT 23024KT ENST 061720Z 08006KT 020V120 CAVOK M08/M21 Q1014 RMK WIND 300FT 11014G24KT ENTC 061720Z VRB03KT CAVOK M11/M13 Q1017 NOSIG RMK WIND 2600FT 18004KT ENTO 061720Z 01008KT 9999 -SN SCT010 OVC042 M08/M09 Q1017 TEMPO 4000 -SN BKN010 ENUG 061720Z AUTO 24014KT 230V290 9999NDV BKN012/// 03/01 Q1013 W///S4 ENUN 061720Z AUTO 14022KT 9999NDV BKN020/// 00/M05 Q1010 W04/S4 ENVA 061720Z 09008KT CAVOK M10/M16 Q1012 NOSIG RMK WIND 670FT 13013KT ENVD 061720Z 30013KT 3000 -SHSN VV013 M11/M14 Q1018 ENVR 061450Z 11014KT CAVOK M04/M11 Q1016 ENWV 061720Z AUTO 20023KT 9999NDV -SHRA FEW012/// OVC017/// 06/04 Q0999 RESHRA W///S5 ENZV 061720Z 12023G34KT CAVOK 01/M05 Q1005 TEMPO 14021KT EPBY 061730Z 03009KT 9999 OVC044 M01/M04 Q1015 EPGD 061730Z 01007KT 9999 -SN OVC023 M02/M08 Q1015 EPKK 061730Z 28005KT 260V330 9999 -SN OVC011 01/M01 Q1011 EPKT 061730Z 33004KT 300V360 9000 -SN OVC005 M01/M01 Q1011 EPLB 061730Z 02007KT 3000 -SN BR BKN005 OVC032 M00/M00 Q1010 EPLL 061730Z 02007KT 5000 -SN BR BKN004 M01/M03 Q1013 EPMO 061730Z 35007KT 5000 BR BKN006 M03/M03 Q1013 EPPO 061730Z 03004KT 9999 OVC041 M01/M03 Q1015 EPRA 061500Z 02006KT 1300 SN BR OVC005 M01/M01 Q1011 EPRZ 061730Z 34004KT 3000 -SN BR BKN003 00/00 Q1009 EPSC 061730Z 06003KT 020V090 9999 OVC033 M01/M05 Q1016 EPSY 061730Z 35007KT 7000 OVC005 M05/M06 Q1014 EPWA 061730Z 01008KT 8000 BKN007 M01/M02 Q1013 NOSIG EPWR 061730Z 36006KT 2700 -SG BR BKN005 M01/M02 Q1014 EPZG 061730Z VRB02KT 5000 -SN BR OVC030 M00/M00 Q1016 EQBK 061656Z AUTO 30007KT 6000 -RA BR BKN002 04/03 A2967 RMK AO2 LTG DSNT S-SW SLP055 WND DATA ESTMD P0008 T00350031 EQEZ 250956Z 21008KT 9999 BKN040 13/09 A2993 RMK SLPNO WND DATA ESTMD ALSTG ESTMD EQPH 061630Z AUTO 20002KT 9999 SCT229/// 15/03 Q1022 EQYA 061656Z AUTO 00000KT 2800 BR FEW002 OVC050 M01/M01 A2992 RMK AO2 SLP148 T10071008 $ EQYB 061656Z AUTO 00000KT 9000 BR OVC055 00/M00 A3002 RMK AO2 SLP175 T00041002 $ EQYC 061656Z AUTO 00000KT 9999 OVC050 M00/M01 A2994 RMK AO2 SLP157 T10031014 $ EQYD 061656Z AUTO 00000KT 8000 BR FEW005 OVC050 M01/M02 A2992 RMK AO2 SLP156 T10071017 $ EQYE 061656Z AUTO 00000KT 9999 OVC055 00/M01 A2993 RMK AO2 SLP171 T00001011 $ EQYF 061656Z AUTO 00000KT 9999 OVC055 M00/M01 A2992 RMK AO2 SLP132 T10021013 $ EQYK 061656Z AUTO 05004KT 9999 OVC085 13/07 A3016 RMK AO2 SLP217 T01290067 $ EQYL 061656Z AUTO 30008KT 9999 CLR 19/12 A3041 RMK AO2 SLP301 T01850122 $ EQYQ 171155Z 08012KT 9999 SCT025 BKN037 11/03 A3003 RMK SLPNO WND DATA ESTMD ALSTG/SLP ESTMD EQYT 061656Z AUTO 00000KT 9999 CLR M01/M01 A2993 RMK AO2 SLP173 T10081015 FZRANO $ EQYV 061656Z AUTO 03005KT 9999 CLR 03/M07 A2983 RMK AO2 SLP110 T00321070 $ ESCF 061720Z AUTO 00000KT 9999 OVC008/// M16/M17 Q1019 ESCM 061720Z AUTO 00000KT 9999 -SHSN NCD M17/M18 Q1020 ESDF 061720Z 03005KT 9999 BKN048 M05/M06 Q1018 ESGG 061720Z 10008KT CAVOK M08/M11 Q1016 ESGJ 061720Z AUTO 00000KT 9999 OVC044/// M13/M14 Q1017 ESGR 061720Z AUTO VRB03KT 9999 -SN OVC011/// M08/M10 Q1018 ESGT 061720Z AUTO 10005KT 060V130 9999 OVC044/// M07/M10 Q1018 ESIA 061720Z AUTO 08007KT 9999 -SN OVC014/// M08/M11 Q1019 ESIB 061720Z AUTO 11008KT 9999 OVC043/// M07/M09 Q1018 ESKM 061720Z AUTO 33002KT 9999 -SN BKN016/// OVC024/// M10/M11 Q1019 RESG ESKN 061720Z VRB02KT CAVOK M18/M19 Q1019 ESKS 061720Z AUTO 11004KT 9999 NCD M16/M18 Q1015 ESMK 061720Z AUTO 03005KT 9999 OVC038/// M03/M05 Q1017 ESMQ 061720Z 35005KT 9999 BKN048 M10/M11 Q1019 ESMS 061720Z 07008KT 9999 BKN033 M02/M05 Q1016 ESMT 061720Z 10009KT 9999 BKN045 M05/M08 Q1016 ESMX 061720Z 05003KT 020V080 CAVOK M12/M13 Q1017 ESND 061720Z AUTO VRB03KT 9999 -SN OVC020/// M12/M15 Q1017 RESN ESNG 061720Z 31002KT 9999 FEW015 M32/M36 Q1021 ESNK 061720Z 33004KT 9000 -SN SCT003 BKN006 BKN013 M14/M16 Q1022 RESG ESNL 061720Z AUTO 00000KT 9999 R14/P2000N R32///// FZUP FEW004/// OVC035/// M24/M27 Q1022 ESNN 061720Z 30009KT 3000 -SN FEW007 SCT020 BKN032 M10/M12 Q1021 RESN ESNO 061720Z 34005KT 310V010 9999 -SN FEW015 OVC039 M13/M13 Q1021 ESNQ 061720Z AUTO 20006KT 9999 NCD M20/M22 Q1016 ESNS 061720Z 22003KT 7000 -SN SCT025 M16/M18 Q1023 ESNU 061720Z 32005KT 5000 -SN FEW008 OVC022 M12/M13 Q1022 ESNV 061720Z AUTO VRB02KT 9999 SG OVC019/// M20/M22 Q1019 ESNX 061720Z 31003KT 7000 BKN003 M25/M26 Q1020 ESNZ 061720Z 14014KT 9999 -SN FEW023 M13/M16 Q1016 ESOE 061720Z 24003KT CAVOK M16/M18 Q1020 RESG ESOH 061720Z AUTO 01001KT 9999 NCD M20/M21 Q1019 ESOK 061720Z 07006KT 9999 BKN026 M13/M14 Q1019 ESOW 061720Z AUTO 34003KT 9999 NCD M17/M19 Q1020 ESPA 061720Z 35004KT 330V030 9999 -SN FEW014 BKN033 M16/M18 Q1024 ESPE 061720Z 00000KT 5000 -SN SCT006 BKN015 M22/M25 Q1023 ESSA 061720Z 30002KT 9999 -SHSN SCT016 M15/M17 Q1019 NOSIG ESSB 061720Z VRB02KT 9999 4500SE NSC M14/M15 Q1019 ESSD 061720Z AUTO 23002KT 9999 -SN BKN024/// OVC030/// M12/M13 Q1019 ESSL 061720Z 00000KT CAVOK M15/M17 Q1020 ESSP 061720Z AUTO 00000KT 9999 NCD M16/M18 Q1020 ESST 061720Z AUTO 33003KT 9999 NCD M17/M19 Q1019 ESSV 061720Z 11003KT 9999 BKN027 M06/M07 Q1018 ESTA 061720Z 11010KT 9999 BKN046 M04/M07 Q1016 ESTL 061720Z AUTO 10007KT 9999 OVC038/// M03/M06 Q1017 ESUP 061720Z AUTO 00000KT 9999 OVC012/// M19/M21 Q1023 ESUT 061720Z AUTO 36004KT 300V080 9999 NCD M25/M27 Q1016 ETAD 061726Z 16003KT 9999 FEW006 OVC030 00/00 A2985 RMK AO2A SLP118 FZRANO TSNO $ ETAR 061656Z 00000KT 9999 SCT030 02/02 A2990 RMK AO2A SLP141 T00160016 ETEB 061656Z AUTO 24003KT 9999 OVC018 01/01 A2993 RMK AO2 SLP172 T00080007 FZRANO $ ETEK 061656Z AUTO 20007KT 9999 BKN006 OVC013 M00/M01 A2987 RMK AO2 CIG 006V008 SLP020 T10011008 $ ETGG 061720Z AUTO 14011KT 9999 // ////// 01/M01 Q1011 /// ETHA 061720Z 25007KT 9999 FEW030 BKN050 M01/M03 Q1013 BLACKBLU ETHB 061720Z 18010KT 9999 BKN170 02/00 Q1011 BLU BLU ETHC 061720Z 11008KT 8000 OVC008 01/M01 Q1012 GRN ETHF 061720Z 19004KT 9999 OVC180 00/M01 Q1012 BLU ETHL 061720Z 21003KT 9999 FEW025 SCT060 00/M02 Q1013 BLU+ ETHN 061720Z 20003KT 9999 FEW006 OVC014 01/M00 Q1013 GRN GRN TEMPO YLO ETHS 061720Z 14007KT 8000 BKN009 BKN047 M00/M02 Q1012 GRN ETIC 061656Z AUTO 00000KT 9999 FEW014 OVC050 01/M01 A2990 RMK AO2 SLP149 T00051008 FZRANO $ ETIH 061656Z AUTO 26005KT 9999 OVC055 M01/M03 A2994 RMK AO2 SLP166 T10061027 ETIK 061656Z AUTO 00000KT 9999 OVC020 02/02 A2996 RMK AO2 SLP164 T00160016 ETML 312320Z AUTO 26010KT //// // ////// 16/14 Q1004 /// ETMN 061720Z 14012KT 6000 BKN006 01/M01 Q1010 YLO GRN TEMPO YLO ETND 061420Z 11004KT 9999 SCT013 BKN200 02/01 Q1012 BLU+ ETNG 061650Z 18005KT CAVOK 04/00 Q1009 NOSIG ETNH 061720Z 12009KT 9999 BKN050 01/M01 Q1012 BLU ETNL 061720Z 10006KT 9999 FEW023 BKN050 M00/M02 Q1014 BLU BLU TEMPO GRN ETNN 061720Z 14007KT 9999 BKN024 BKN150 03/M00 Q1010 WHT WHT BECMG GRN ETNS 061720Z 12012KT 9000 BKN012 BKN040 01/M01 Q1012 GRN GRN ETNT 061720Z 14009KT 8000 BKN008 02/00 Q1009 GRN GRN ETNW 061720Z 15008KT 9999 SCT011 BKN190 02/00 Q1011 BLU ETOU 061721Z 20007KT 9999 BKN029 BKN180 03/M03 A2992 RMK AO2A CIG 029V035 SLP142 $ ETSB 061720Z 19008KT 7000 SCT002 BKN008 M00/M01 Q1010 GRN GRN BECMG YLO ETSH 061720Z 09001KT 4000 MIFG BR FEW003 SCT045 M03/M03 Q1015 GRN ETSI 061720Z AUTO 26005KT 9999 // ////// 01/M01 Q1014 /// ETSL 061720Z 22004KT 9999 -SN FEW010 SCT020 BKN045 01/M01 Q1014 BLU BLU TEMPO GRN ETSN 061720Z 28003KT 9999 SCT021 00/M02 Q1014 BLU+BLU+ TEMPO GRN ETWM 061720Z AUTO 12005KT //// // ////// 03/01 Q1009 /// EVGA 061720Z 00000KT 9999 BKN009 M18/M20 Q1017 NOSIG EVLA 061650Z AUTO 05002KT 4300 BR ///////// M15/M16 Q1018 EVRA 061720Z VRB02KT 9999 OVC010 M13/M14 Q1017 NOSIG EVVA 061720Z AUTO 01002KT 2200 PRFG NSC M16/M18 Q1018 EYKA 061720Z 36006KT 330V030 9999 -SN OVC012 M10/M13 Q1015 EYPA 061650Z 08002KT CAVOK M11/M13 Q1018 EYSA 061720Z 36008KT 2000 -SN BR OVC002 M13/M14 Q1016 NOSIG EYVI 061720Z 02008KT 8000 -SN OVC005 M06/M07 Q1013 NOSIG FABL 061700Z 21007KT CAVOK 21/10 Q1018 NOSIG FABM 041118Z 21009KT 9999 TS SCT015 FEW025CB OVC090 16/14 Q1021 RERA FACT 061700Z 20012KT CAVOK 19/11 Q1018 NOSIG FACV 060225Z AUTO 26007KT //// // ////// 11/10 Q1016 FADY 051014Z 33006KT 9999 BKN030 FEW040TCU 17/14 Q1015 FAEL 061700Z 24013KT 9999 FEW024 20/16 Q1016 FAEO 060654Z 34015KT 9999 OVC015 19/15 Q1024 FAGG 061700Z 23003KT 9999 FEW013 SCT025 OVC037 16/14 Q1018 FAGM 051500Z 04017KT 9999 BKN008 16/14 Q1021 FAHS 061700Z AUTO 01004KT //// // ////// 28/22 Q1014 FAIR 050052Z 10008KT 9999 -RA OVC025 15/14 Q1022 FAJB 060900Z AUTO 33002KT //// // ////// 21/15 Q1022 FAKM 061700Z 21006KT CAVOK 23/10 Q1017 FAKN 061700Z 06008KT 9999 FEW040 26/19 Q1016 NOSIG FALA 061700Z 35006KT 9999 FEW045 23/15 Q1020 NOSIG FALE 061700Z 14004KT 100V170 9999 BKN048 23/18 Q1013 NOSIG FALW 061700Z AUTO /////KT //// // ////// 19/10 Q1017 FAMM 061700Z 24002KT 9999 FEW035 27/13 Q1017 NOSIG FAOB 061500Z AUTO 29006KT //// // ////// 21/11 Q1017 FAOR 061730Z VRB02KT 9999 SCT043 20/14 Q1022 NOSIG FAPE 061700Z 24010KT 9999 FEW015 OVC026 18/17 Q1016 NOSIG FAPN 061500Z AUTO 35008G18KT //// // ////// 27/16 Q1016 FAPP 061700Z 27001KT 9999 FEW035 SCT100 25/16 Q1018 NOSIG FASB 060746Z 10007KT 9999 BKN020 14/10 Q1019 FASI 061600Z AUTO 35006KT //// // ////// 22/14 Q1023 FATT 050900Z 13010KT 9999 BKN020 30/18 Q1017 FAUP 061700Z 20006KT CAVOK 26/06 Q1016 NOSIG FAUT 061700Z AUTO 18010KT //// // ////// 19/14 Q1017 FAVV 030400Z AUTO 02002KT //// // ////// 16/14 Q1021 FAWB 061600Z 03004KT CAVOK 25/18 Q1017 FAWK 011400Z AUTO 02007KT //// // ////// 30/14 Q1018 FAYP 061200Z 25010KT 9999 SCT030 22/// Q1018 FBFT 260800Z VRB03KT CAVOK 25/06 Q1021 FBKE 061700Z 11006KT 9999 FEW030CB BKN070 27/14 Q1015 FBMN 061700Z 34003KT 9999 FEW030 30/16 Q1014 FBMP 180500Z 30008KT CAVOK 23/15 Q1016 FBPM 061700Z 08009KT 050V110 9999 FEW030 SCT070 29/19 Q1017 FBSK 061700Z 11005KT 080V150 9999 TS SCT030 FEW035CB 23/17 Q1015 NOSIG FBSP 061100Z VRB02KT 9999 BKN030 30/// Q//// FCBB 061500Z 21005KT 170V250 9999 SCT020 FEW030CB 31/23 Q1009 BECMG TS FCPA 021200Z VRB02KT 9999 BKN016 28/20 Q//// FCPP 061500Z 24004KT 200V280 9999 FEW013 FEW030CB 27/24 Q1009 NOSIG FDBB 061400Z AUTO 04006KT //// // ////// 34/23 Q1007 FDMS 021200Z 18011KT 9999 SCT040 24/11 Q1025 NOSIG FDMY 061500Z AUTO 08003KT //// // ////// 32/22 Q1020 FDOT 020700Z AUTO 07003KT //// // ////// 28/22 Q1015 FDPP 231300Z AUTO 00000KT //// // ////// 19/17 Q1009 FDSK 061300Z 03009KT CAVOK 31/21 Q1010 NOSIG FDST 061300Z AUTO 22006KT //// // ////// 29/22 Q1011 FEFF 061500Z VRB03KT 9999 SCT026 FEW040CB 35/23 Q1007 TEMPO TS FEFO 200800Z 08014KT CAVOK19/18 Q1019 FEFT 040800Z 28004KT CAVOK 26/22 Q1014 FGBT 061500Z 24006KT 9999 SCT010 29/27 Q1008 FGSL 061500Z 25007KT 220V290 8000 SCT011 30/25 Q1009 NOSIG FHAW 011230Z 19009KT 160V220 9999 SCT015 31/26 Q1010 NOSIG FIMP 061700Z 11006KT 9999 SCT019 26/21 Q1020 FIMR 311100Z 09010KT 9999 SCT018 31/23 Q1012 FJDG 061655Z 09007KT 9999 FEW019 FEW050 SCT250 28/26 A2987 RMK SLP112 T02790259 FKKD 061500Z VRB04KT 8000 SCT016 FEW020CB 30/26 Q1008 NOSIG FKKL 061400Z 04009KT 350V090 4500 DU NSC 35/09 Q1011 FKKN 251000Z 12004KT 9999 FEW020 28/20 Q1017 FKKR 061500Z 12007KT 080V170 7000 NSC 37/05 Q1008 NOSIG FKYS 061500Z VRB02KT 9999 SCT020 29/23 Q1013 NOSIG FLHN 061200Z 12004KT 9999 SCT040TCU SCT090 34/15 Q1015 FLKK 042300Z VRB02KT CAVOK 22/12 Q1017 FLMF 051600Z 0518/0624 03005KT 9999 FEW///CB BECMG 0604/0606 VRB04KT BKN010 BECMG 0608/0610 BKN040TCU PROB40 TEMPO 0612/0617 -SHRA FEW045CB FLND 051600Z 0518/0624 VRB03KT 9000 -SHRA FEW///CB BKN090 PROB40 TEMPO 0520/0601 34005KT -RA PROB40 TEMPO 0603/0707 33005KT -RADZ BKN009 BECMG 0608/0610 BKN035 FMCH 061700Z 12011KT 9999 FEW023 29/22 Q1015 NOSIG FMCZ 061730Z AUTO 26005KT CAVOK 28/24 Q1015 NOSIG FMEE 061730Z AUTO 16013KT 9999 FEW052 BKN130 BKN150 25/20 Q1019 NOSIG FMEP 061730Z AUTO 11013KT 9999 FEW054 SCT086 26/20 Q1019 FMMI 061730Z 11011KT 9999 FEW017 19/16 Q1024 NOSIG FMMS 060900Z 15004KT 9999 FEW020 31/23 Q1018 FMMT 061700Z VRB02KT 9999 SCT017 26/22 Q1019 NOSIG FMNA 061500Z 14018KT 9999 SCT020 29/21 Q1013 FMNM 061700Z 28008KT 9999 FEW020 29/23 Q1013 NOSIG FMNN 061300Z 22006KT 9999 FEW020 31/// Q1012 FMSD 061700Z 08025G35KT CAVOK 26/23 Q1014 FNCA 061700Z 25005KT 9999 FEW020 BKN080 FEW090CB 26/24 Q1010 FNCT 061600Z 27006KT 9999 FEW015 BKN120 28/24 Q1011 FNDU 061300Z 00000KT 9999 SCT023 FEW033CB ///// Q//// FNGI 061600Z 27004KT 9999 SCT020 35/11 Q1012 FNHU 051500Z 13004KT 9999 SCT019 BKN060 24/17 Q1019 FNKU 061300Z 04008KT 9999 BKN030 22/17 Q1021 FNLU 061700Z 22007KT 9999 FEW020 BKN080 26/23 Q1008 FNMA 061200Z 09004KT 9999 BKN012 BKN070 26/23 Q1014 FNMN 240500Z 06006KT CAVOK 23/08 Q1018 FNMO 061000Z 26010KT 9999 FEW020 26/17 Q1010 FNSA 061300Z 00000KT 9999 BKN027 30/18 Q1016 FNSO 061300Z 25004KT 7000 DZ SCT009 BKN060 28/25 Q//// FNSU 061300Z 27006KT 9999 OVC013 27/24 Q1010 FNTC 031600Z 26006KT 9999 BKN015 27/23 Q1009 FNUB 061600Z 27010KT 9999 FEW030 SCT030 26/09 Q1022 FNUE 060700Z 21006KT 9999 SCT030 20/18 Q1023 FNUG 061600Z 21004KT 9999 FEW025 BKN080 27/21 Q1011 FOGK 230900Z 20/20 Q1017 FOGM 121200Z /////KT 9999 SCT012TCU 31/24 Q//// FOGO 061400Z /////KT 9999 SCT013 BKN030 27/22 Q//// FOGR 061400Z /////KT 9999 SCT010 FEW020CB OVC030 30/25 Q//// FOOB 061200Z /////KT 9999 SCT013 OVC026 28/23 Q1010 FOOG 061500Z 19008KT 9999 SCT008 BKN030 27/24 Q1010 FOOK 061400Z /////KT 9999 TS BKN018TCU FEW020CB 30/24 Q//// FOOL 061500Z 17006KT 8000 SCT010 BKN030 26/24 Q1009 NOSIG FOON 061500Z /////KT 9999 SCT020 FEW023CB 32/22 Q1009 FOOR 061400Z /////KT 9999 SCT006 FEW013CB 31/23 Q//// FOOT 061400Z 00000KT 9999 SCT010 OVC026 30/23 Q//// FPST 061200Z 19010KT 9999 -TSRA SCT020CB BKN033 OVC090 24/22 Q1012 NOSIG FQBR 061600Z 12014KT 9999 BKN018 29/26 Q1010 FQCB 250200Z 09005KT 9999 BKN015 FEW020CB 23/23 Q1014 RMK CB TO S/W FQCH 061700Z 16020KT 9999 FEW015 27/25 Q1017 FQIN 061600Z 06008KT 9999 FEW020 29/22 Q1013 FQLC 061700Z 09007KT 9999 FEW020 SCT/// 24/14 Q1020 FQMA 061700Z 08009KT 9999 FEW025 28/23 Q1010 NOSIG FQMP 271100Z 14009KT 9999 SCT020 28/19 Q1016 NOSIG FQNC 061100Z 05011KT 9999 FEW020 SCT100 31/22 Q1014 FQNP 061700Z 06015KT 9999 FEW020 31/18 Q1014 FQPB 061600Z 04011KT 9999 FEW020 BKN/// 28/24 Q1014 FQQL 061700Z 09016KT 9999 FEW020 SCT/// 29/23 Q1010 FQTT 061700Z 05005KT 9999 FEW020 BKN/// 38/14 Q1008 FQVL 061700Z 08007KT 9999 SCT020 28/27 Q1012 FQXA 060820Z 35013KT 9999 BKN070 33/18 Q1014 FSBP 201200Z 34007KT 9999 SCT030 32/22 Q1012 FSIA 061700Z 21002KT 9999 FEW022 27/23 Q1013 NOSIG FTTA 061700Z 00000KT CAVOK 30/16 Q1010 FTTC 051000Z 10006KT CAVOK 33/// Q1014 FTTD 061200Z 36010KT CAVOK 34/13 Q//// FTTJ 061600Z 03004KT 4500 DU NSC 34/02 Q1009 NOSIG FTTY 041400Z 04006KT CAVOK 33/// Q1013 FVCZ 220400Z 00000KT 9999 OVC020 22/22 Q1018 FVFA 040600Z 04011KT CAVOK 29/13 Q1016 NOSIG FVJN 060400Z 09007KT CAVOK 18/16 Q1021 NOSIG FVKB 050900Z 06008KT CAVOK 38/19 Q1011 FVMV 040600Z 05010KT CAVOK 28/17 Q1019 FVRG 060900Z 03012KT 360V070 CAVOK 29/13 Q1022 NOSIG FVWN 030900Z 03003KT CAVOK 34/14 Q1018 FWCL 061400Z 06011KT 9999 FEW032TCU SCT035 34/14 Q1014 NOSIG FWKI 061700Z 08009KT 9999 FEW042 25/12 Q1018 NOSIG FXMM 061200Z 27014KT 9999 BKN030 23/08 Q1021 NOSIG FYGB 241000Z AUTO /////KT //// // ////// 25/M05 Q1023 FYGF 061700Z AUTO 00000KT //// // ////// 28/14 Q1017 FYKM 061700Z AUTO 11004KT //// // ////// 29/15 Q1013 FYKT 061700Z /////KT CAVOK 27/M04 Q1017 FYLZ 061700Z AUTO 20018KT //// // ////// 21/14 Q1012 FYML 241000Z AUTO 10006KT //// // ////// 27/M06 Q1023 FYOA 061400Z 00000KT 9999 FEW050CB FEW050CB 34/05 Q1011 FYOO 241400Z AUTO 36006KT //// // ////// 33/04 Q1014 FYOW 241400Z AUTO 32005KT //// // ////// 31/06 Q1015 FYRU 061400Z 30008KT 9999 FEW035CB SCT040TCU ///// Q1017 FYWB 061700Z 26012KT CAVOK 21/12 Q1013 FYWE 061700Z 26007KT 220V290 CAVOK 28/M10 Q1020 FYWH 061700Z 28009KT CAVOK 28/M06 Q1019 NOSIG FYWW 061700Z AUTO 26008KT //// // ////// 28/M08 Q1019 FZAA 060200Z 18006KT 7000 SCT018 BKN100 24/22 Q1011 NOSIG FZIC 251400Z 00000KT 9999 FEW028 32/23 Q1007 NOSIG FZNA 090900Z 18010KT 6000 SCT020 FEW022CB 26/17 Q1020 NOSIG FZQA 251300Z 09008KT 9999 FEW018 FEW025CB BKN100 25/17 Q1016 NOSIG FZQM 170910Z 29007KT 9999 BKN017TCU 26/18 Q1021 NOSIG FZRF 251400Z 25006KT -RA FEW005 FEW027CB OVC100 18/18 Q1014 NOSIG FZWA 090900Z 36012KT 9999 SCT026TCU 30/22 Q1014 NOSIG GABS 061730Z 06008KT CAVOK 32/01 Q1012 NOSIG GAGO 071100Z 04005KT 1400 DU SKC 41/05 Q1011 GAKD 061500Z 08008KT 8000 NSC 34/04 Q1011 GAKL 221000Z 07012G18KT 6000 DU NSC 22/M01 Q1022 GAKO 250300Z 22008KT CAVOK 31/19 Q1004 GAKT 172100Z 36004KT 2000 HZ NSC 30/09 Q1013 GAMB 061500Z 36012KT 8000 NSC 34/00 Q1010 GANK 212100Z 00000KT CAVOK 34/21 Q//// GANR 061500Z 04006KT CAVOK 32/02 Q1013 GATB 070900Z 04010KT 7000 DU NSC 35/M01 Q1011 GBYD 061700Z 31007KT CAVOK 35/12 Q1008 GCFV 061730Z 04016KT 9999 BKN025 19/13 Q1022 GCGM 061730Z 23005KT 200V260 9999 SCT030 19/12 Q1022 RMK R09/21004KT 140V290 ARP/21004KT 150V280 GCHI 061730Z 07009KT 050V120 9999 SCT033 20/14 Q1022 GCLA 061730Z 03009KT 9999 -DZ SCT028 BKN050 20/14 Q1023 GCLP 061730Z 02015KT 9999 FEW025 SCT035 20/13 Q1022 NOSIG GCRR 061730Z 05018KT 9999 SCT025 18/14 Q1023 GCTS 061730Z 06020KT 9999 SCT039 20/12 Q1022 NOSIG GCXO 061730Z 12011KT 080V150 9999 FEW011 BKN018 14/12 Q1024 NOSIG GECE 061730Z AUTO 27003KT CAVOK 15/07 Q1025 GEML 061730Z 25006KT 190V290 CAVOK 15/08 Q1026 GFLL 061600Z 30006KT 9999 BKN011 FEW027CB 31/24 Q1008 RMK CB -NE GGOV 061700Z 08003KT 040V130 7000 NSC 34/17 Q1009 NOSIG GLRB 061730Z 25010KT 9999 SCT015 FEW024CB 30/25 Q1009 RMK CB/NW-NE GMAD 061730Z 24009KT CAVOK 18/08 Q1020 NOSIG GMAG 061700Z 28005KT 8000 NSC 22/06 Q1020 NOSIG GMAT 061700Z 34009KT 9999 FEW016 18/07 Q1020 NOSIG GMFB 031700Z 24020KT 3000 SA SCT030 35/M02 Q1018 NOSIG GMFF 061730Z 06002KT CAVOK 11/06 Q1027 NOSIG GMFK 061700Z 15006KT CAVOK 18/M11 Q1026 NOSIG GMFM 061700Z 06006KT CAVOK 13/07 Q1026 NOSIG GMFO 061730Z 33003KT CAVOK 11/08 Q1026 NOSIG GMMB 061700Z 02013KT 8000 FEW016 14/09 Q1026 NOSIG GMMC 061700Z 06012KT CAVOK 16/10 Q1025 GMMD 061700Z 30002KT CAVOK 20/00 Q1023 NOSIG GMME 061730Z 04006KT 8000 FEW020 14/09 Q1026 NOSIG GMMH 061700Z 01020KT 010V070 CAVOK 21/08 Q1017 NOSIG GMMI 061700Z AUTO VRB17G22KT 9999NDV ////// 22/05 Q1021 NOSIG GMML 061700Z 36013KT CAVOK 20/13 Q1021 NOSIG GMMN 061730Z 03012KT CAVOK 14/12 Q1026 NOSIG GMMT 061600Z 22060KT 9999 OVC008 21/19 Q1015 NOSIG GMMW 061700Z 31004KT CAVOK 14/05 Q1026 NOSIG GMMX 061730Z 04007KT 020V080 CAVOK 18/03 Q1023 NOSIG GMMZ 061700Z 07003KT CAVOK 20/M16 Q1023 NOSIG GMTA 061700Z 31004KT 280V340 CAVOK 15/10 Q1025 NOSIG GMTN 061700Z 27009KT 240V310 9999 FEW020 17/09 Q1025 NOSIG GMTT 061730Z 28003KT 240V310 9999 SCT016 13/10 Q1027 NOSIG GOBD 061730Z 05009KT CAVOK 35/03 Q1010 NOSIG GOGG 061700Z 06006KT CAVOK 34/15 Q1010 GOGK 061700Z 08006KT CAVOK 35/12 Q1008 GOGS 061700Z 04006KT CAVOK 33/15 Q1009 GOOD 061700Z 04004KT CAVOK 37/07 Q1009 GOOG 061700Z 10008KT CAVOK 35/06 Q1008 GOOK 061500Z 08006KT CAVOK 37/06 Q1011 GOOY 061700Z 36010KT 7000 NSC 27/16 Q1010 GOSM 061700Z 10006KT CAVOK 35/07 Q1010 GOSP 061700Z 36002KT CAVOK 34/01 Q1011 GOSS 061700Z 02006KT 340V090 CAVOK 34/03 Q1011 GOTK 061700Z 06002KT CAVOK 36/05 Q1008 GOTT 061700Z 04008KT 010V090 8000 NSC 37/M04 Q1009 GQNI 230900Z 22006KT 7000 NSC 35/M11 Q1011 GQNO 061730Z 06011KT 3500 BLDU NSC 28/M08 Q1013 NOSIG GQPA 060900Z 02010KT 7000 NSC 18/01 Q1020 GQPP 061700Z 07013KT 48U NSC 28/M08 Q1013 NOSIG GQPZ 231200Z 25 Q1012 NOSIG GUCY 061700Z 23008KT 5000 HZ FEW015 31/25 Q1008 NOSIG GUNZ 100600Z VRB02KT 9999 BKN012 22/21 Q//// NOSIG GVAC 061700Z 06014KT 3800 HZ SCT014 25/19 Q1013 NOSIG GVBA 061700Z 08014KT 4800 HZ FEW014 28/15 Q1012 NOSIG GVNP 061700Z 03016KT 4300 HZ NSC 28/18 Q1012 NOSIG GVSV 061700Z 04019KT 7000 FEW022 26/18 Q1013 NOSIG HAAB 251200Z 08010KT 9000 BKN025 SCT057 19/10 Q1024 HBBA 061300Z 24003KT 7000 TS SCT025TCU FEW030CB BKN090 30/21 Q1011 HCGR 230800Z 07004KT CAVOK 27/12 Q1017 HCMF 061400Z 03010KT CAVOK 27/22 Q1013 HCMH 210800Z 09004KT CAVOK 27/09 Q1015 HCMM 061400Z 08013KT CAV0K 29/24 Q1011 HDAM 011200Z 07011KT 9999 FEW023 36/22 Q1003 HDAN 161100Z 31087KT 8000 HZ SKC 39/22 Q1003 HEAL 300400Z NI HEAR 261200Z 01006KT CAVOK 27/16 Q1014 NOSIG HEAT 061700Z 34005KT CAVOK 18/05 Q1019 NOSIG HEAX 061700Z 19002KT 9999 SCT020 19/13 Q1017 NOSIG HEBA 061700Z 05003KT 9999 SCT020 16/12 Q1017 NOSIG HEBL 061700Z 32004KT CAVOK 22/05 Q1015 NOSIG HECA 061730Z VRB01KT 4000 HZ FEW025 OVC070 19/11 Q1018 NOSIG HECP 061700Z 06005KT CAVOK 18/07 Q1018 NOSIG HEGN 061700Z 00000KT CAVOK 20/10 Q1017 NOSIG HEIS 061600Z 00000KT CAVOK 19/09 Q1018 HELX 061700Z 00000KT 6000 NSC 17/08 Q1016 NOSIG HEMA 061700Z 33010KT CAVOK 20/13 Q1017 NOSIG HEMM 061700Z 16006KT 9999 SCT020 16/07 Q1016 NOSIG HEPS 061700Z 24006KT CAVOK 18/13 Q1018 NOSIG HESC 061700Z 06007KT CAVOK 13/03 Q1024 NOSIG HESG 061700Z 12004KT CAVOK 18/06 Q1015 NOSIG HESH 061700Z 15006KT CAVOK 22/08 Q1017 NOSIG HESI 171100Z 28016KT 9999 SCT025 23/09 Q1014 HESN 061700Z 36006KT CAVOK 22/08 Q1016 NOSIG HESW 061700Z 17006KT 9999 FEW025 SCT100 15/05 Q1016 HETB 052000Z NI NOSIGL HETR 061700Z 00000KT CAVOK 20/11 Q1017 HKEL 061700Z 16006KT 9999 FEW017 17/09 Q1024 HKJK 061700Z 05009KT 9999 FEW025 20/12 Q1022 NOSIG HKKI 061700Z 22005KT 9999 SCT023 24/18 Q1016 HKML 061700Z 10004KT 9999 FEW022 28/24 Q1012 HKMO 061500Z 07009KT 9999 FEW025CB SCT250 28/23 Q1012 NOSIG HKNW 061700Z 07008KT 9999 FEW023 21/13 Q1021 HKWJ 061600Z 00000KT CAVOK 32/19 Q1009 HRYR 061730Z 33006KT 9999 SCT025 22/14 Q1019 NOSIG HSDN 271400Z 01011KT CAVOK 29/M05 Q1012 HSFS 271400Z 05008KT CAVOK 31/M02 Q1011 HSNN 271400Z 03008KT CAVOK 34/M05 Q1011 HSOB 201000Z 01015KT CAVOK 24/M10 Q1019 NOSI8 HSPN 240200Z 30007KT CAVOK 20/15 Q1015 HSSJ 210700Z 00000KT 9999 FEW040 28/17 Q1011 HSSK 061700Z 01005KT CAVOK 29/04 Q1012 NOSIG HSSS 140500Z 21008KT CAVOK 28/21 Q1013 NOSIG HTAR 051800Z 11010KT 9999 SCT026 22/16 Q1022 NOSIG HTBH 171600Z AUTO VRB01KT //// 21/11 Q1015 HTBU 051800Z 27005KT 9999 FEW018 FEW020CB 21/19 Q1015 HTD0 062000Z 09015KT CAVOK 18/13 Q1023 NOSIG HTDA 061700Z 13005KT 9999 FEW012 27/25 Q1014 NOSIG HTDO 051800Z 09015KT 9999 FEW024 SCT090 22/16 Q1019 NOSIG HTGW 170200Z 00000KT 9999 FEW018 18/13 Q1018 NOSIG HTHA 091300Z 17005KT 9999 BKN024 26/17 HTI4 070200Z 19005KT 9999 FEW018 15/11 Q1021 HTIB 051800Z 16008KT 9999 FEW023 FEW024CB BKN090 26/15 Q1014 HTIR 051700Z 13007KT 9999 DZ BKN024 FEW025CB 22/15 Q1021 HTJN 201100Z AUTO //KT //// 29/21 Q//// HTKA 051800Z 00000KT 9999 FEW022 FEW023CB BKN080 25/21 Q1012 NOSIG HTKB 091300Z 11014KT 9999 SCT024 29/21 HTKI 091300Z 08012KT 9999 SCT024 28/22 Q1018 HTKJ 061700Z 12010KT 9999 FEW030CB SCT031 27/15 Q1016 NOSIG HTKP 171200Z AUTO 19314KT //// ///// Q//// HTMG 051800Z 00000KT 9999 FEW016 23/22 Q1016 HTMH 091300Z 08007KT 9999 SCT022 26/15 HTMP 041500Z 00000KT 9999 RA SCT024 FEW026CB BKN100 27/16 Q1015 HTMS 091300Z 09005KT 9999 SCT030 BKN120 28/15 Q1018 HTMT 051800Z 16008KT 9999 SCT012 BKN017 FEW018CB 24/23 Q1016 RESHRA HTMU 051800Z 00000KT 9999 FEW020 FEW022CB 22/17 Q1017 HTMW 061700Z 33008KT 9999 FEW024 FEW025CB 25/19 Q1015 NOSIG HTNG 171600Z AUTO //KT //// 24/21 Q1015 HTPE 091300Z 14008KT 9999 SCT019 27/21 Q1017 HTS0 101700Z 00000KT 9999 SCT020 FEW021CB 21/19 Q1016 HTSE 091300Z 09006KT 9999 BKN025 SCT090 26/15 HTSI 210800Z 09015KT 9999 FEW024 27/10 Q1021 HTSO 051800Z 09013KT 9999 FEW025 24/17 Q1020 HTSU 051800Z 12014KT 9999 SCT020 FEW022CB 19/13 Q1023 HTSY 061700Z 18003KT 9999 FEW025 FEW026CB 29/12 Q1013 HTTB 051800Z 09018KT 9999 FEW024 27/13 Q1017 NOSIG HTTG 091300Z 14013KT 9999 FEW021 28/21 Q1016 HTZA 061700Z 10010KT 9999 FEW022 28/24 Q1013 NOSIG HUEN 061700Z 18003KT 9999 FEW022 FEW024CB 24/18 Q1015 HUGU 250900Z 26004KT 9000 BKN022 FEW023CB 25/21 HUJI 290900Z 23007KT 9999 SCT020 FEW022CB 24/19 Q1018 HUKA 250900Z 00000KT 5000 RA BKN017 FEW019CB OVC090 19/19 Q///// HUKB 250900Z 09004KT 9999 SCT018 OVC118 19/16 HUKS 270700Z 02002KT 9999 SCT021 FEW024CB 22/20 Q1017 HULI 250900Z 18002KT 9999 BKN020 23/18 HUMA 250900Z 36003KT 9999 SCT017 FEW018CB 19/18 RERA HUSO 250900Z 19007KT 9999 BKN020 24/20 1019 HUTO 281952Z 33019G25KT 10SM OVC003 13/07 A3001 RMK AO2 T01330072 K K00U 061735Z AUTO 00000KT 9SM BKN002 M14/M16 A3002 RMK A01 K04V 061735Z AUTO 11008KT 10SM CLR 03/M12 A3016 RMK AO2 K04W 061735Z AUTO 31013G19KT 10SM CLR M15/M23 A3016 RMK AO2 K05U 061735Z AUTO 00000KT 10SM CLR 05/M09 A3020 RMK A01 K06C 061735Z AUTO 28013G24KT 10SM SCT034 01/M07 A2994 RMK AO2 T00071073 K06D 061735Z AUTO 25009KT 10SM CLR M22/M25 A3015 RMK AO2 K08D 061735Z AUTO 26009KT 10SM CLR M21/M24 A3014 RMK AO2 K0A0 061735Z AUTO 33004KT 10SM VCTS CLR 11/M07 A3024 RMK AO2 LTG DSNT ALQDS K0A9 061735Z AUTO 30005KT 7SM FEW041 SCT055 BKN070 16/13 A2989 RMK A01 K0CO 061735Z AUTO 30028G42KT 10SM CLR M06/M22 A3010 RMK AO2 K0E0 061735Z AUTO 17004KT 10SM CLR 02/M09 A3029 RMK AO2 T00151092 TSNO K0F2 061735Z AUTO 35016G21KT 10SM CLR 08/M08 A3031 RMK AO2 T00811082 K0J4 061658Z AUTO 22009KT 10SM SCT022 24/18 A3007 RMK AO2 SLP180 T02440178 K0J6 061735Z AUTO 21009KT 10SM BKN022 OVC029 22/18 A3006 RMK AO2 K0R0 061735Z AUTO 26004KT 10SM FEW034 SCT060 BKN065 22/20 A3005 RMK AO2 LTG DSNT N AND NE AND SW K0R4 221150Z AUTO 35007KT 10SM CLR 12/10 A3016 RMK AO2 60004 70009 T01200099 10171 20120 K0S9 061735Z AUTO 00000KT 10SM OVC015 04/03 A3004 RMK AO2 K0V4 061655Z AUTO 19014G24KT 10SM CLR 20/11 A2987 RMK AO1 T01980112 K0VG 061735Z AUTO 23006KT 10SM BKN020 BKN055 13/12 A2992 RMK AO2 K11R 061735Z AUTO 35015G22KT 10SM OVC024 15/10 A3011 RMK AO2 LTG DSNT NE AND SE T01500100 K12N 061654Z AUTO 18007KT 11/10 A2976 RMK AO1 SLP081 P0002 T01110100 K13K 061735Z AUTO 01010KT 10SM CLR 03/M08 A3041 RMK AO2 T00291084 K14Y 061735Z AUTO 33012G18KT 10SM CLR M18/M24 A3024 RMK AO2 K17J 061735Z AUTO 25009KT 10SM SCT025 SCT030 24/16 A3008 RMK AO2 T02370160 K18A 061730Z AUTO 23006KT 10SM OVC009 16/14 A3000 RMK AO2 T01630138 K18H 061735Z AUTO 17008KT 4SM HZ CLR 26/21 A3004 RMK A01 K19S 061735Z AUTO 07006KT 10SM CLR 00/M11 A3039 RMK AO2 T10021108 K1A5 061735Z AUTO 00000KT 5SM -RA SCT008 BKN028 OVC033 14/13 A3001 RMK AO2 P0006 T01430134 K1A6 061735Z AUTO 28003KT 10SM OVC022 14/12 A2993 RMK AO2 T01350124 K1A9 061735Z AUTO 24011G16KT 10SM SCT026 SCT050 BKN080 23/18 A2999 RMK AO2 T02330175 K1AM 061558Z AUTO 21011KT 10SM BKN065 M02/M14 A2989 RMK AO2 SLP149 T10201145 $ K1AN 061856Z AUTO 19009KT 7SM M M A2984 RMK AO2 SLPNO ALSTG ESTMD $ K1AW 061558Z AUTO 19010KT 10SM SCT160 M08/M15 A3011 RMK AO2 SLP274 T10771146 FZRANO $ K1BM 040258Z AUTO 13005KT 10SM BKN170 11/M06 A3003 RMK AO2 SLP175 T01081057 $ K1BN 170256Z AUTO 28032G42KT 10SM FEW045 SCT055 02/M08 A2954 RMK AO2 PK WND 28042/47 SLP019 T00161080 50009 $ K1BW 061558Z AUTO 19013KT 10SM CLR M07/M15 A3011 RMK AO2 SLP261 T10731153 $ K1CM 260958Z AUTO 26003KT 10SM CLR 14/M01 A2990 RMK AO2 SLP090 T01431014 $ K1CN 061656Z AUTO 00000KT 10SM M M22/M25 M RMK AO2 SLPNO T12181247 $ K1CW 061558Z AUTO 19005KT 10SM FEW120 M06/M15 A3023 RMK AO2 SLP282 T10611148 TSNO $ K1DM 061558Z AUTO 20007KT M M FEW060 FEW070 SCT220 M M RMK AO2 SLPNO PWINO $ K1DN 222256Z AUTO 05004KT 10SM BKN160 OVC190 30/16 A2845 RMK AO2 SLP622 T03010157 $ K1DW 030458Z AUTO 27011KT 10SM CLR 09/M06 A3006 RMK AO2 SLP139 T00901061 $ K1EM 061558Z AUTO 13003KT 10SM BKN070 M13/M15 A2994 RMK AO2 SLP237 T11281151 $ K1EN 171756Z AUTO 07009KT 10SM FEW150 SCT170 25/12 A2948 RMK AO2 SLP978 T02540119 10254 20174 55007 $ K1EW 061558Z AUTO 20012KT 10SM CLR M06/M14 A3015 RMK AO2 SLP284 T10611145 $ K1F0 061735Z AUTO 01014G20KT 10SM CLR 08/M10 A3031 RMK AO2 T00831097 K1FM 061558Z AUTO 20006KT 10SM OVC100 M07/M14 A2984 RMK AO2 SLP194 T10681138 $ K1FN 191656Z AUTO 03008KT 10SM M 19/13 A2982 RMK AO2 SLP133 T01880130 $ K1FW 011658Z AUTO 20003KT 10SM CLR 17/07 A3020 RMK AO2 SLP200 T01700073 $ K1GM 061558Z AUTO 22022G27KT 10SM M M05/M11 A2983 RMK AO2 PRESFR SLP177 T10491114 $ K1GN 241856Z AUTO 31013G21KT 10SM OVC016 18/13 A2992 RMK AO2 SLP141 T01770132 $ K1H2 061735Z AUTO 30018G22KT 10SM CLR 03/M06 A3019 RMK AO2 T00251059 K1HM 081556Z AUTO 21009KT 10SM CLR 24/09 A2989 RMK AO2 LTG DSNT N SLP088 T02390088 $ K1HN 130256Z AUTO 36005KT 10SM M 15/00 A3009 RMK AO2 SLPNO T01530003 53014 $ K1HW 061558Z AUTO 20008KT 10SM CLR M05/M12 A3020 RMK AO2 SLP276 T10521120 FZRANO $ K1IM 061558Z AUTO 20008KT 10SM OVC120 M04/M10 A2990 RMK AO2 SLP202 T10371105 $ K1IN 270356Z AUTO M M M M M M RMK AO2 SLPNO RVRNO PNO $ K1IW 061558Z AUTO 22005KT 10SM CLR M06/M12 M RMK AO2 SLPNO T10561124 $ K1J0 061704Z AUTO 20007KT 180V240 10SM BKN020 BKN060 23/18 A3008 RMK AO2 T02280178 K1JM 061558Z AUTO 00000KT 10SM OVC070 M11/M13 A2988 RMK AO2 SLP217 T11121130 $ K1JN 081756Z AUTO 32010KT 10SM CLR 21/07 A3011 RMK AO2 SLP199 T02110066 10211 20085 57006 $ K1JW 061558Z AUTO 20009KT 10SM CLR M06/M13 A3007 RMK AO2 SLP229 T10641133 $ K1K1 061735Z AUTO 02006G14KT 10SM CLR 02/M09 A3041 RMK AO2 T00201091 K1KM 061558Z AUTO 12003KT 10SM BKN075 M12/M13 A2996 RMK AO2 SLP242 T11171130 $ K1KN 170256Z AUTO 27034G46KT 10SM BKN028 M02/M06 A2947 RMK AO2 PK WND 27046/47 SLP000 T10161062 50004 $ K1KW 061558Z AUTO 18010KT 10SM CLR M06/M13 A3017 RMK AO2 SLP273 T10611130 $ K1LM 201856Z AUTO 28019KT 10SM CLR 02/M09 A2988 RMK AO2 SLP152 T00241094 $ K1LN 061656Z AUTO 27008KT 10SM CLR M20/M23 A3018 RMK AO2 SLP282 T12051235 $ K1LW 061558Z AUTO 22007KT 10SM CLR M09/M15 A3020 RMK AO2 SLP297 T10861152 $ K1M4 061732Z AUTO 34006KT 10SM FEW012 BKN019 OVC028 14/13 A3005 RMK AO2 RAB1657E13 P0000 K1M5 061735Z AUTO 31008G15KT 10SM FEW100 07/M01 A3009 RMK A01 K1MM 061558Z AUTO 21016KT 10SM FEW070 FEW140 M06/M12 A2992 RMK AO2 SLP216 T10601125 $ K1MN 071856Z AUTO 33024G35KT 10SM CLR 24/03 A2997 RMK AO2 PK WND 32039/1758 SLP151 T02370025 $ K1MW 061558Z AUTO 21006KT 10SM FEW240 M07/M14 A3023 RMK AO2 SLP291 T10701140 $ K1NM 061558Z AUTO 27005KT 10SM BKN095 M12/M14 A2994 RMK AO2 SLP233 T11171140 $ K1NN 061656Z AUTO M M M M M M RMK AO2 SLPNO RVRNO PWINO $ K1NW 061558Z AUTO 20009KT 10SM CLR M07/M15 A3019 RMK AO2 SLP275 T10681152 $ K1OM 061558Z AUTO 19012KT 10SM BKN075 M13/M14 A2995 RMK AO2 SLP226 T11271145 $ K1ON 061656Z AUTO 28008KT 10SM CLR M22/M25 A3022 RMK AO2 SLP288 T12161254 $ K1OW 291758Z AUTO 34020KT 10SM CLR 17/M03 A3015 RMK AO2 SLPNO T01711027 10171 20169 $ K1P1 061735Z AUTO 06003KT 1/4SM FG OVC006 02/02 A2972 RMK AO2 T00150015 K1R7 061735Z AUTO VRB05KT 5SM BR SCT010 SCT050 BKN090 21/21 A3006 RMK AO2 LTG DSNT ALQDS PWINO K1R8 061735Z AUTO 23010KT 10SM OVC022 24/20 A3001 RMK AO2 LTG DSNT N AND W K1S3 061730Z AUTO 10SM K1S5 061735Z AUTO 14004KT 10SM SCT055 SCT070 BKN090 01/M03 A3007 RMK AO2 T00101027 K1U7 061735Z AUTO 10005KT 10SM FEW055 M00/M04 A3013 RMK A01 K1V4 061654Z AUTO 04/03 A2964 RMK AO1 PRESFR SLP047 T00390028 K1V6 061735Z AUTO 00000KT 10SM CLR M01/M14 A3020 RMK AO2 K1YT 061626Z AUTO 08003KT 10SM FEW030 FEW070 SCT080 SCT100 M00/M05 A3003 RMK AO2 RAB1559E01SNB01E02RAB02E04SNB04E14SHSNB14E23SHRAB23E26 SLPNO $ K20U 061735Z AUTO 21007KT 10SM CLR M13/M16 A3014 RMK AO2 K20V 061735Z AUTO 00000KT 10SM CLR M03/M11 A3014 RMK AO2 K21D 061735Z AUTO 31019G24KT 10SM CLR M13/M21 A3020 RMK AO2 K22N 061735Z AUTO 00000KT 7SM OVC011 10/07 A2972 RMK AO2 K24A 061735Z AUTO 25003KT 4SM RA BR BKN017 BKN024 OVC048 13/12 A2999 RMK AO2 LTG DSNT SE P0006 T01330122 K24J 061735Z AUTO 23007G13KT 200V270 10SM CLR 25/14 A3008 RMK A01 K27K 061735Z AUTO 29016KT 10SM BKN021 OVC028 05/02 A2999 RMK AO1 K28J 061735Z AUTO 25007G14KT 10SM FEW033 24/16 A3007 RMK AO2 K2A0 061735Z AUTO 22004KT 10SM OVC090 15/14 A2994 RMK A01 K2C8 061735Z AUTO 28007KT 10SM CLR M19/M25 A3025 RMK AO2 K2D5 061735Z AUTO 32012KT 10SM CLR M16/M22 A3031 RMK AO2 K2DP 061656Z AUTO 20009KT 10SM FEW024 23/17 A2999 RMK AO2 LTG DSNT E SLPNO T02310173 K2G4 061735Z AUTO 26013G23KT 3SM SCT006 BKN010 OVC027 08/08 A2971 RMK AO1 K2G9 061735Z AUTO 25015G21KT 10SM RA BKN012 OVC017 09/07 A2969 RMK AO2 P0001 K2I0 061735Z AUTO 33011G18KT 10SM SCT036 06/M01 A3017 RMK AO2 T00591014 K2IS 061735Z AUTO 13005KT 10SM BKN017 BKN026 OVC050 26/21 A3009 RMK AO2 LTG DSNT S T02600214 K2J3 061735Z AUTO 25010G15KT 10SM SCT024 20/15 A3005 RMK AO2 T02050152 K2J5 061735Z AUTO 10SM SCT028 21/14 A3004 RMK AO2 T02110137 K2J9 061735Z AUTO 25003KT 10SM BKN022 BKN027 BKN090 22/18 A3010 RMK AO2 K2LS 011405Z AUTO 02005KT 10SM SCT018 SCT026 BKN035 28/24 A3002 RMK AO2 TSNO K2M2 061735Z AUTO 34011G18KT 10SM OVC007 09/07 A3006 RMK A01 K2P2 061735Z AUTO 33026G30KT 10SM OVC031 M02/M07 A2962 RMK AO2 T10181070 K2R9 060355Z AUTO 16006G16KT 10SM OVC010 23/21 A2990 RMK AO2 T02250209 K2V5 061735Z AUTO 09005KT 10SM CLR M01/M12 A3027 RMK AO2 K2V6 061734Z AUTO 16007KT 10SM CLR M02/M14 A3023 RMK AO2 K2W6 012015Z AUTO 15004KT 10SM CLR 13/01 A3016 RMK AO1 K2WX 061656Z AUTO 15004KT M11/M14 A3013 RMK AO1 SLP263 T11111144 K33N 061735Z AUTO 22013G25KT 10SM CLR 19/12 A2979 RMK A01 K33V 061735Z AUTO 25020G26KT 10SM BKN110 01/M20 A3007 RMK AO1 K35A 061735Z AUTO 25009KT 10SM OVC024 19/14 A3004 RMK A02 T01880137 K38S 061730Z AUTO 13003KT 10SM M08/M12 A2994 K3AU 061730Z AUTO 36011G16KT 10SM CLR 02/M12 A3041 RMK AO2 K3D2 061735Z AUTO 31015G26KT 7SM -SN SCT017 BKN023 OVC034 M02/M06 A2965 RMK AO2 T10201056 K3F3 061735Z AUTO 36011G18KT 10SM VCTS SCT041 18/10 A3012 RMK AO2 LTG DSNT E THRU S T01780095 K3I2 061735Z AUTO 24010G15KT 200V280 10SM SCT013 SCT018 BKN060 09/05 A2987 RMK AO2 T00900049 K3J7 061735Z AUTO 30005KT 10SM OVC013 17/14 A3004 RMK AO2 LTG DSNT NW K3K3 061735Z AUTO 15007KT 10SM CLR M01/M11 A3036 RMK AO2 K3K8 061735Z AUTO 02008KT 10SM CLR 01/M11 A3044 RMK AO2 K3L4 151235Z AUTO 15005KT 3SM BR FEW034 14/14 A3018 RMK A01 K3LF 061735Z AUTO 31017G22KT 10SM CLR 02/M07 A3022 RMK AO2 T00161071 K3N8 061735Z AUTO 28009KT 10SM CLR M20/M24 A3026 RMK AO2 T12041238 K3R7 061735Z AUTO 22010G14KT 10SM BKN018 BKN023 OVC044 25/22 A3000 RMK AO2 LTG DSNT NW THRU NE T02450216 K3S8 061735Z AUTO 00000KT 10SM SCT005 BKN055 OVC070 05/04 A3025 RMK AO2 K3T5 061735Z AUTO 35011G21KT 10SM BKN020 16/12 A3009 RMK AO2 LTG DSNT NE T01640118 K3U3 061730Z AUTO 20015G23KT 10SM 00/M11 A2989 K40B 061716Z AUTO VRB04KT M02/M02 A2972 RMK AO1 PRESRR SLP094 T10191018 56079 K41U 061735Z AUTO 00000KT 10SM CLR M01/M06 A3023 RMK AO1 T10061062 PNO K42J 061735Z AUTO 22012KT 10SM SCT035 26/16 A3007 RMK A01 K46D 061735Z AUTO 27011G18KT 10SM CLR M19/M22 A3028 RMK AO2 K46U 061735Z AUTO 00000KT 10SM FEW065 M01/M07 A3015 RMK A01 K48A 061735Z AUTO 21008KT 10SM CLR 20/15 A3005 RMK AO2 T02010145 K48W 282358Z 27005KT 12SM SKC 13/07 A3016 K49A 061735Z AUTO 19005KT 10SM -DZ SCT002 BKN009 OVC015 15/14 A3002 RMK AO2 T01450135 K4A6 061735Z AUTO 00000KT 10SM -DZ BKN040 OVC060 15/15 A2997 RMK AO2 LTG DSNT SE K4A9 061735Z AUTO 36009KT 3SM +RA BR SCT010 BKN015 OVC039 16/15 A2995 RMK AO2 LTG DSNT S P0010 T01600150 K4BM 061735Z AUTO 23007G14KT 190V260 10SM CLR M01/M23 A3014 RMK AO2 K4F2 061735Z AUTO 02016G22KT 10SM VCTS SCT030 18/09 A3011 RMK AO2 LTG DSNT SE AND S T01770090 K4I3 061715Z AUTO 27015G27KT 10SM BKN021 OVC030 03/M01 A2982 RMK AO2 K4M9 061735Z AUTO 36013G19KT 10SM CLR 07/M04 A3024 RMK AO2 PWINO K4MR 301258Z AUTO 05011KT 10SM CLR 05/M05 A2992 RMK AO2 PRESRR SLP096 T00471054 $ K4O4 061735Z AUTO 34015G22KT 10SM CLR 12/M05 A3020 RMK AO2 K4R5 061655Z AUTO 29019G26KT 1SM -SN OVC012 M11/M14 A2995 RMK AO2 T11151141 K4S1 061735Z AUTO 05006KT 5SM BR OVC050 09/07 A3019 RMK AO2 K4S2 061735Z AUTO 00000KT 10SM BKN005 BKN010 OVC019 01/01 A3010 RMK AO2 K4U6 182325Z AUTO 19014G21KT 10SM 34/M07 A2951 RMK A01 Circle K4V0 061735Z AUTO 00000KT 10SM OVC110 M01/M11 A3018 RMK AO2 T10131108 K4V1 061735Z AUTO 00000KT 10SM CLR M01/M15 A3017 RMK AO2 T10131149 K54A 061735Z AUTO 21006KT 10SM CLR 26/20 A3010 RMK AO2 K54J 061735Z AUTO 20007KT 170V250 10SM OVC024 24/18 A3006 RMK AO2 LTG DSNT W T02350181 K57C 061735Z AUTO 30020G33KT 10SM BKN038 00/M09 A2988 RMK AO2 T10031089 K59K 201945Z 30022KT 8SM BKN004 15/13 A3002 K5A6 061735Z AUTO 01009G19KT 10SM OVC010 13/11 A3009 RMK AO2 LTG DSNT E THRU SW T01310112 K5C1 061735Z AUTO 35016G22KT 10SM CLR 13/03 A3015 RMK AO1 K5H4 061735Z AUTO 25009KT 10SM CLR M19/M22 A3026 RMK AO2 K5M9 061735Z AUTO 36008KT 330V030 10SM CLR 04/M06 A3018 RMK AO2 T00441061 K5R8 061735Z AUTO 20006KT 10SM VCTS OVC015 24/22 A3001 RMK AO2 LTG DSNT SW THRU NE P0001 T02400216 K5SM 061735Z AUTO 23011G17KT 10SM SCT070 M03/M20 A3023 RMK AO2 K5T9 061730Z AUTO 32021G28KT 10SM CLR 09/M09 A3019 RMK A01 K63S 061735Z AUTO 00000KT 3/4SM BR OVC003 M06/M07 A3011 RMK A01 K65S 061730Z AUTO 00000KT 3SM -SN FEW004 BKN026 BKN033 M06/M08 A3008 RMK AO2 K66R 061735Z AUTO 35013G22KT 10SM SCT007 BKN023 OVC031 16/15 A3009 RMK AO2 LTG DSNT NE AND E P0008 T01570149 K6A1 061735Z AUTO 24010G17KT 10SM SCT029 SCT035 22/15 A3003 RMK AO2 T02230149 K6A2 061655Z AUTO 21007KT 180V240 10SM BKN010 OVC014 17/16 A3004 RMK AO2 LTG DSNT W K6B0 061735Z AUTO 18012G21KT 10SM OVC025 12/07 A2951 RMK AO2 T01170070 K6B9 061735Z AUTO 19009G22KT 160V230 3SM BR FEW013 BKN026 BKN050 09/09 A2950 RMK AO2 K6I2 061735Z AUTO 29014G21KT 10SM BKN110 06/M02 A3005 RMK AO2 K6L4 061735Z AUTO VRB04G12KT 8SM -DZ BKN010 BKN017 BKN026 12/12 A2985 RMK AO2 K6P9 061735Z AUTO 36013G19KT 10SM CLR 09/M07 A3029 RMK AO2 T00871069 K6R3 061655Z AUTO 23005KT 7SM OVC017 25/24 A3002 RMK AO2 LTG DSNT NE T02530236 K6R6 061651Z AUTO 34014G22KT 10/M07 A3036 RMK AO1 PK WND 35027/1613 SLP268 T01001072 K6S0 061735Z AUTO 09003KT 10SM SCT060 SCT070 M07/M09 A2988 RMK A01 K6S2 061655Z AUTO 00000KT 3SM BR OVC030 06/06 A3014 RMK AO2 P0005 T00580058 K6S5 071330Z AUTO 00000KT 10SM FEW090 BKN110 05/02 A3008 RMK AO2 K6S8 061725Z AUTO RMK A01 Choteau K74V 261515Z AUTO 00000KT 10SM CLR 18/10 A3022 RMK AO2 K77S 061735Z AUTO 00000KT 8SM SCT035 SCT041 BKN090 07/07 A3015 RMK A01 K79J 061739Z AUTO 22006KT 10SM FEW024 SCT030 26/18 A3002 RMK AO2 T02560183 K79S 030215Z AUTO 32012G19KT 10SM 03/M02 A3005 K7BM 061735Z AUTO 33007G16KT 200V040 10SM CLR 03/M20 A3009 RMK AO2 K7L2 061735Z AUTO 30006KT 10SM FEW014 FEW021 M15/M19 A3030 RMK AO2 K7N0 061656Z AUTO 20008G15KT 10SM FEW018 26/21 A3005 RMK AO2 SLP175 T02560206 K7S0 271355Z AUTO 00000KT 10SM CLR 09/07 A3002 RMK A01 Ronan K7S1 152200Z AUTO 35008KT 13/M07 A2974 RMK AO2 PWINO K7S6 050255Z AUTO 00000KT 7SM 06/04 A2988 RMK A01 White Sulphur Spg K7W4 061735Z AUTO 21010G20KT 10SM CLR 21/10 A2979 RMK AO1 T02070097 K7W6 061015Z AUTO 00000KT 1 1/4SM BR OVC003 08/06 A3010 RMK AO2 T00780063 K81R 061735Z AUTO 36015KT 10SM CLR 12/M05 A3026 RMK AO2 T01211046 K82C 061735Z AUTO 30019G28KT 5SM HZ SCT025 SCT030 BKN050 M07/M13 A2998 RMK AO2 T10671128 K82V 060955Z AUTO 31003KT 10SM OVC042 M09/M13 A3023 RMK AO2 K8A0 061735Z AUTO 34004KT 10SM SCT007 BKN012 OVC049 14/13 A2998 RMK AO2 P0001 K8A3 050345Z AUTO 03005KT 10SM CLR 03/M02 A3024 RMK A01 K8B0 061735Z AUTO VRB05G12KT 2 1/2SM BR BKN005 OVC008 03/03 A2966 RMK AO2 K8D3 061656Z AUTO 32016KT M14/M22 A3034 RMK AO1 SLP312 T11441222 K8W2 061735Z AUTO 21014G24KT 10SM SCT120 20/09 A2971 RMK AO1 T01950086 K96D 061735Z AUTO 26009KT 10SM CLR M19/M25 A3023 RMK AO2 K9A5 061735Z AUTO 35005KT 1/2SM OVC006 15/15 A2997 RMK AO2 VIS M1/4V5 T01480148 K9D7 061735Z AUTO 27016KT 10SM CLR M21/M21 A3023 RMK AO2 TSNO K9L2 061558Z AUTO 00000KT 10SM CLR 01/M13 A3014 RMK AO2 SLP213 T00071134 FZRANO $ K9MN 061735Z AUTO 26016G32KT 10SM CLR M12/M21 A3015 RMK AO1 T11191208 K9S2 061555Z AUTO 00000KT M25/M31 A3008 RMK Scobey K9S5 061655Z AUTO 00000KT 10SM M07/M11 A2996 RMK Three Fork K9S9 061655Z AUTO 00000KT 10SM FEW038 OVC046 02/02 A3008 RMK AO2 K9V9 061735Z AUTO 28008KT 10SM BKN025 M09/M15 A3036 RMK AO2 T10881155 KA08 281950Z AUTO 12006KT 10SM DZ SCT060 OVC090 A2987 RMK AO2 KA39 061735Z AUTO 13005KT 10SM SCT100 SCT120 17/00 A3015 RMK AO2 KAAA 061735Z AUTO 30012G19KT 10SM CLR 02/M07 A3016 RMK AO2 T00201067 KAAF 061715Z AUTO 20005KT 10SM SCT027 22/19 A3009 KAAO 061654Z AUTO 01012KT 10SM CLR 03/M09 A3041 RMK AO2 SLP308 T00281089 KAAS 061655Z AUTO 30008G14KT 10SM BKN025 OVC110 08/03 A3008 RMK AO1 KAAT 061655Z AUTO 00000KT 6SM HZ OVC095 00/M06 A3017 RMK AO2 SLP238 T00001061 KABE 061651Z 20007KT 9SM OVC013 11/08 A2977 RMK AO2 SLP081 T01060083 KABH 061558Z AUTO 20011KT 10SM CLR M07/M17 A3023 RMK AO2 SLP311 T10731172 KABI 061652Z 36019G28KT 10SM CLR 07/M08 A3034 RMK AO2 PK WND 35028/1644 SLP264 T00721083 KABQ 061652Z 02009KT 10SM FEW250 04/M07 A3026 RMK AO2 SLP228 T00391067 KABR 061653Z AUTO 33008KT 10SM CLR M14/M21 A3037 RMK AO2 SLP310 T11441211 KABY 061653Z 22009KT 10SM BKN060 23/13 A3011 RMK AO2 SLP194 T02330133 KAC KACB 061735Z AUTO 32012G19KT 3/4SM SN BKN006 OVC013 00/M02 A2950 RMK AO2 T00001020 KACJ 061730Z AUTO 23010G17KT 24/15 RMK AO2 PWINO KACK 061717Z 21015KT 7SM SCT007 15/12 A2991 RMK AO2 T01500122 KACP 061735Z AUTO 21004KT 10SM OVC015 24/20 A2999 RMK AO2 LTG DSNT E KACQ 061735Z AUTO 30023G28KT 10SM CLR M13/M20 A3026 RMK AO2 KACT 061651Z 36017G25KT 10SM CLR 15/M03 A3019 RMK AO2 PK WND 35032/1632 SLP219 T01501028 KACV 061734Z AUTO 00000KT 10SM SCT012 OVC070 09/09 A3020 RMK AO2 T00940089 KACY 061654Z AUTO 20016G24KT 5SM BR OVC004 12/11 A2988 RMK AO2 SLP117 T01170111 TSNO KADC 061736Z AUTO 31011G15KT 10SM SCT015 M21/M26 A3023 RMK AO2 TSNO KADF 061656Z AUTO 02013G21KT 10SM CLR 13/01 A3018 RMK AO2 SLP220 T01330011 KADG 061653Z AUTO 27015G31KT 10SM FEW030 BKN039 OVC050 01/M04 A2977 RMK AO2 PK WND 28033/1638 SLP087 T00061039 KADH 061735Z AUTO 03011G20KT 10SM CLR 06/M08 A3033 RMK AO2 LTG DSNT SE KADM 061650Z 36014KT 10SM CLR 08/M10 A3032 KADS 061647Z 36019G26KT 13SM SKC 11/M08 A3025 KADT 061730Z AUTO 00000KT 10SM CLR M02/M10 A3038 RMK AO2 T10191100 KADU 061735Z AUTO 32010G15KT 290V350 10SM SCT029 M07/M14 A3033 RMK AO2 KADW 061656Z AUTO 19024G30KT 10SM FEW120 17/11 A2976 RMK AO2 PK WND 21031/51 PRESFR SLP085 T01690105 $ KAEG 061647Z 05006KT 10SM CLR 05/M08 A3026 KAEJ 061655Z AUTO 10006KT 10SM CLR 01/M13 A3010 RMK AO2 T00121126 KAEL 061735Z AUTO 32013G29KT 10SM CLR M13/M21 A3022 RMK AO2 KAEX 061737Z 29014G23KT 1/2SM +RA FG FEW006 SCT016 OVC020 19/18 A3001 RMK AO2 PRESRR P0032 T01940178 KAFF 061558Z 16017KT 10SM FEW015 SCT200 M07/M18 A3015 RMK AO2A SLP273 T10681179 KAFJ 061656Z AUTO 22011G21KT 10SM -RA SCT013 BKN018 OVC055 11/10 A2971 RMK AO2 SLP061 P0006 T01110100 KAFK 061735Z AUTO 32011KT 10SM CLR M03/M12 A3039 RMK AO2 T10301116 KAFN 061652Z AUTO 19010KT 10SM SCT003 BKN009 OVC013 11/10 A2975 RMK AO2 SLP083 T01110100 KAFO 061735Z AUTO 31003KT 10SM OVC085 M02/M05 A3013 RMK AO2 KAFP 061735Z AUTO 23009KT 200V260 10SM CLR 22/11 A2997 RMK AO2 T02150113 KAFW 061653Z 01018G26KT 10SM CLR 10/M07 A3026 RMK AO2 PK WND 36030/1559 SLP244 T01001072 KAGC 061723Z 21013G20KT 5SM -RA BR FEW010 BKN017 OVC048 12/09 A2965 RMK AO2 P0002 T01170094 KAGI 061735Z AUTO 19009KT 10SM CLR 26/20 A3005 RMK AO2 LTG DSNT N AND NW T02590204 KAGR 061558Z AUTO 20004KT 10SM FEW028 25/M35 A3013 RMK AO2 LTG DSNT E SLP204 T02521348 $ KAGS 061653Z 25010G18KT 10SM CLR 23/13 A3003 RMK AO2 SLP169 T02330128 KAHN 061651Z VRB04KT 6SM HZ OVC009 17/13 A3005 RMK AO2 CIG 007V013 SLP175 T01670133 KAHQ 061655Z AUTO 33015G21KT 10SM CLR M06/M14 A3040 RMK AO2 T10601140 KAIA 061653Z AUTO 17006KT 10SM CLR M07/M11 A3021 RMK AO2 SLP276 T10721111 KAIB 161515Z AUTO 00000KT 10SM CLR 03/M06 A3050 RMK AO2 T00291057 KAID 061700Z 29017G23KT 10SM OVC035 00/M08 A3000 KAIG 061735Z AUTO 30023G33KT 2SM HZ OVC023 M09/M13 A2979 RMK AO2 VIS 1 1/4V3 T10911129 KAIK 061735Z AUTO 24011G20KT 10SM SCT030 22/13 A3003 RMK AO2 T02230134 KAIO 061735Z AUTO 32016G22KT 10SM CLR M06/M13 A3034 RMK AO2 KAIT 061735Z AUTO 30008G17KT 260V330 10SM CLR M17/M24 A3016 RMK AO2 KAIZ 061656Z AUTO 33009KT CLR 02/M09 A3032 RMK AO2 SLP272 T00171089 FZRANO $ KAJG 061735Z AUTO 30015G22KT 10SM CLR 04/M04 A3016 RMK AO2 P0002 T00371041 KAJO 061656Z AUTO 00000KT 2 1/2SM BR CLR 08/08 A3011 RMK AO2 SLP194 T00830078 KAJR 061735Z AUTO 21004KT 2 1/2SM BR OVC003 15/13 A3000 RMK AO2 LTG DSNT SE AND S T01450133 KAJZ 061735Z AUTO 11003KT 10SM CLR 03/M07 A3020 RMK AO2 T00301072 KAKH 061725Z AUTO 20008KT 10SM BKN029 18/12 A2997 RMK AO2 T01830117 KAKO 061653Z AUTO 16009KT 10SM CLR M04/M17 A3021 RMK AO2 SLP280 T10391167 KAKQ 061654Z AUTO 21009KT 10SM CLR 20/13 A2993 RMK AO2 SLP134 T02000133 KAKR 061739Z AUTO 28020G30KT 10SM BKN029 OVC060 06/M01 A2973 RMK AO2 PK WND 25032/1703 T00561011 KALB 061651Z 16022G30KT 10SM -RA BKN014 BKN043 11/08 A2966 RMK AO2 PK WND 17034/1622 RAB42 SLP044 P0000 T01110083 KALI 061653Z AUTO 23007KT 10SM FEW024 27/21 A3001 RMK AO2 SLP158 T02720206 KALK 061656Z AUTO 07004KT 10SM CLR 17/M04 A3022 RMK AO2 SLP169 T01721039 KALM 061735Z AUTO 21005KT 5SM HZ CLR 09/M06 A3029 RMK AO2 KALN 061650Z 31020G25KT 10SM CLR 03/M08 A3023 KALO 061654Z 31023G37KT 10SM CLR M08/M18 A3021 RMK AO2 PK WND 30037/1650 SLP242 T10781178 KALS 061652Z AUTO 00000KT 10SM CLR 01/M10 A3018 RMK AO2 SLP238 T00111100 KALW 061653Z 00000KT 10SM OVC040 03/01 A3005 RMK AO2 RAE24 SLP186 P0000 T00330006 KALX 061655Z AUTO 20013G17KT 10SM TS OVC017 21/18 A3000 RMK AO2 LTG DSNT NW THRU NE T02080177 KAMA 061653Z 03011KT 10SM CLR 00/M11 A3036 RMK AO2 SLP290 T00001106 KAMG 061653Z AUTO 20004KT 10SM CLR 20/14 A3010 RMK AO2 SLP190 T02000144 KAMN 061735Z AUTO 25013G25KT 5SM -SN BKN021 BKN027 OVC033 00/M03 A2966 RMK AO2 T10031026 KAMW 061653Z AUTO 31016G25KT 10SM CLR M06/M16 A3030 RMK AO2 PK WND 31031/1557 SLP270 T10561156 KANB 061726Z AUTO 20005KT 4SM VCTS -RA BR FEW036 SCT070 OVC090 17/16 A2998 RMK AO2 LTG DSNT ALQDS TSE20 P0025 T01720161 KAND 061656Z AUTO 26006KT 10SM OVC010 14/12 A3005 RMK AO2 SLP172 T01440117 KANE 061645Z 29021G30KT 10SM CLR M14/M23 A3019 KANJ 061655Z AUTO 27012G21KT 1/4SM SN FG VV006 00/M02 A2933 RMK AO2 SLP938 P0002 T00001022 KANK 061735Z AUTO 15007KT 10SM CLR M01/M10 A3017 RMK AO1 T10111102 KANQ 061735Z AUTO 26019KT 10SM SCT032 BKN039 OVC046 M00/M05 A2982 RMK AO2 KANW 061655Z AUTO 31003KT 10SM CLR M10/M15 A3031 RMK AO2 T10981155 KAOH 061653Z AUTO 27024G40KT 9SM -SN OVC034 01/M06 A2987 RMK AO2 PK WND 28041/1637 SLP120 P0000 T00061056 KAOO 061736Z AUTO 19007KT 10SM SCT027 OVC065 11/06 A2964 RMK AO2 RAB1657E20 P0000 T01060056 KAPA 061653Z 21005KT 10SM SCT130 BKN200 M06/M13 A3011 RMK AO2 SLP259 T10611128 $ KAPC 061654Z 09009KT 2SM BR OVC003 07/07 A3018 RMK AO2 SLP210 T00720067 KAPF 061653Z 25006KT 10SM FEW021 SCT028 27/22 A3010 RMK AO2 SLP192 T02720217 KAPG 061555Z 20011G19KT 8SM BKN015 OVC030 13/10 A2984 RMK SLP108 KAPN 061654Z 22012G23KT 10SM OVC045 00/M03 A2943 RMK AO2 SLP975 T00001033 KAPS 061735Z AUTO 24009G15KT 10SM SCT025 SCT030 SCT075 25/20 A3002 RMK AO2 LTG DSNT W THRU N T02520196 KAPY 061655Z AUTO 22003KT 7SM SCT014 26/21 A3002 RMK AO2 T02600208 TSNO KAQO 061735Z AUTO 34012G18KT 10SM FEW029 13/M03 A3022 RMK AO2 KAQP 061733Z AUTO 30011KT 10SM SCT025 M14/M21 A3034 RMK AO2 KAQR 282250Z AUTO RMK AO2 PNO TSNO KAQV 061736Z AUTO 01010G17KT 1/2SM +TSRA FG FEW008 BKN013 OVC019 19/18 A2999 RMK AO2 P0111 T01890183 KAQW 061652Z AUTO 13008G17KT 020V170 10SM OVC018 13/08 A2972 RMK AO2 PK WND 21026/1637 SLP068 T01280083 KAQX 061735Z AUTO 20007KT 10SM CLR 21/14 A3002 RMK AO2 KARA 061653Z 21011G23KT 10SM CLR 25/21 A3002 RMK AO2 SLP163 T02500206 $ KARB 061653Z 27019G33KT 8SM -SN BKN036 BKN046 OVC055 01/M04 A2971 RMK AO2 PK WND 28033/1650 SNB51 SLP065 P0000 T00111044 KARG 061656Z AUTO 35015G21KT 10SM CLR 07/M03 A3024 RMK AO2 PK WND 35026/1558 SLP243 T00721033 KARM 061655Z AUTO 23012G15KT 10SM SCT014 BKN020 OVC070 25/21 A3003 RMK AO2 T02470212 KARR 061652Z 30023G47KT 10SM CLR 00/M07 A2996 RMK AO2 PK WND 29047/1643 SLP153 T00001067 PNO KART 061656Z AUTO 18012G22KT 3SM RA BR BKN034 OVC044 11/08 A2944 RMK AO2 PK WND 18026/1612 SLP970 P0003 T01060083 $ KARV 061735Z AUTO 30015G24KT 1 3/4SM -SN SCT012 OVC022 M10/M23 A2982 RMK AO2 T11011232 KARW 061735Z AUTO 00000KT 10SM CLR 20/15 A3005 RMK AO2 KASD 061653Z AUTO 21008G16KT 10SM FEW014 25/21 A3001 RMK AO2 SLP163 T02500206 TSNO KASE 061653Z 00000KT 10SM OVC100 01/M15 A3016 RMK AO2 SLP197 T00111150 KASG 061648Z 36012KT 10SM CLR 04/M06 A3030 KASH 061656Z 00000KT 1/2SM FG OVC003 05/05 A2978 RMK AO2 SLP089 T00500050 KASJ 061735Z AUTO 21010G17KT 10SM CLR 19/12 A2995 RMK AO2 T01930117 KASL 061735Z AUTO 01012G18KT 10SM SCT029 17/09 A3015 RMK AO1 T01660085 KASN 061655Z AUTO 28015G20KT 3/4SM +TSRA 17/16 A3003 RMK AO2 LTG DSNT ALQDS P0021 T01660157 KAST 061738Z AUTO 09005KT 2 1/2SM -RA BR OVC014 05/05 A3005 KASW 061655Z AUTO 28021G29KT 10SM SCT034 BKN039 OVC046 00/M06 A2989 RMK AO2 KASX 061732Z AUTO 28017G27KT 4SM HZ OVC022 M13/M17 A3000 RMK AO2 PK WND 28027/1728 T11281172 KATL 061652Z 20007KT 10SM BKN011 OVC016 17/16 A3001 RMK AO2 DZE44 SLP159 CIG 009V013 P0000 T01720156 KATP 061735Z AUTO 00000KT 10SM SCT035 BKN046 27/20 A3007 RMK A01 KATS 061735Z AUTO 34003KT 10SM CLR 04/M14 A3041 RMK AO2 KATT 061651Z AUTO 34005G20KT 10SM OVC026 16/06 A3017 RMK AO2 SLP212 T01610056 KATW 061645Z 29027G24KT 10SM BKN027 M04/M09 A2979 KATY 061653Z AUTO 31016KT 10SM CLR M15/M21 A3029 RMK AO2 SLP294 T11501206 KAUG 061717Z AUTO 35004KT M1/4SM FG VV002 01/01 A2976 RMK AO2 T00110006 KAUH 061735Z AUTO 34008KT 10SM CLR M06/M14 A3040 RMK AO2 T10611141 KAUM 061735Z AUTO 30018G24KT 10SM M12/M19 A3020 RMK AO2 KAUN 061735Z AUTO 00000KT 1 3/4SM BR OVC003 06/06 A3018 RMK A01 KAUO 061656Z AUTO 20011KT 10SM OVC011 18/18 A3003 RMK AO2 SLP169 T01830183 KAUS 061653Z 01022G29KT 10SM OVC026 16/07 A3015 RMK AO2 PK WND 36029/1652 SLP204 T01560072 KAUW 061654Z AUTO 28024G34KT 4SM BLSN OVC024 M07/M13 A2984 RMK AO2 PK WND 28034/1632 UPB10E32SNE10B23E26B32E50 SLP127 P0000 T10721133 $ KAVC 061655Z AUTO 22014G25KT 10SM CLR 19/10 A2998 RMK AO2 T01890102 KAVK 061735Z AUTO 36009G14KT 10SM CLR 03/M09 A3045 RMK AO2 KAVL 061654Z 21007KT 170V260 8SM BKN060 BKN075 OVC120 16/12 A2999 RMK AO2 RAB01E20 SLP144 P0000 T01610117 KAVP 061654Z 20012G19KT 170V240 9SM BKN013 11/08 A2966 RMK AO2 PRESFR SLP042 T01110078 KAVQ 061655Z AUTO 13008KT 10SM CLR 15/M02 A3011 RMK AO2 T01531020 KAVX 061651Z AUTO 25005KT 10SM CLR 20/M01 A3010 RMK AO2 SLP173 T02001011 KAWG 061735Z AUTO 30022G31KT 10SM CLR M03/M13 A3021 RMK AO2 KAWM 061653Z AUTO 01018G28KT 10SM CLR 11/01 A3016 RMK AO2 PK WND 02028/1650 SLP212 T01110006 KAWO 061656Z AUTO 04004KT 3SM UP BR FEW010 OVC017 02/02 A3009 RMK AO2 UPE10B29 SLP194 P0000 T00220017 FZRANO KAXA 061735Z AUTO 32019G26KT 10SM CLR M10/M21 A3026 RMK A01 KAXH 061655Z AUTO 22003KT 7SM RA SCT018 BKN024 OVC031 25/24 A3002 RMK AO2 T02460238 KAXN 061737Z AUTO 30020G26KT 10SM SCT019 M18/M23 A3026 RMK AO2 PK WND 31026/1734 T11831233 KAXS 061735Z AUTO 03016G21KT 10SM CLR 06/M11 A3043 RMK AO2 T00571106 KAXV 061735Z AUTO 26019G26KT 10SM SCT022 OVC031 00/M05 A2991 RMK AO2 KAXX 061735Z AUTO 27015KT 10SM CLR 04/M12 A3020 RMK AO2 T00381123 KAYS 061735Z AUTO 23011G16KT 10SM CLR 24/14 A3007 RMK AO2 T02400138 KAZC 061735Z AUTO 12004KT 10SM CLR 11/M08 A3022 RMK AO2 KAZE 061735Z AUTO 23009G14KT 10SM CLR 23/14 A3005 RMK AO2 T02280139 KAZO 061653Z 27019G30KT 10SM SCT043 OVC049 01/M07 A2979 RMK AO2 PK WND 30033/1601 UPB28E38SNE28 SLP095 P0000 T00111067 KBAB 061628Z 20003KT 2 1/2SM BR BKN007 OVC011 08/02 A3016 RMK AO2A CIG 007V011 BKN V SCT CIG 006 RWY33 SLP217 $ KBAC 061735Z AUTO 30012KT 10SM -SN CLR M19/M23 A3028 RMK AO2 KBAD 061610Z 36014G28KT 10SM SCT011 17/04 A3006 RMK AO2A SLP181 KBAF 061730Z 00000KT 1/4SM R20/2600V2800FT FG VV002 05/05 A2976 RMK AO2 PRESFR T00500050 KBAK 061645Z 30014G28KT 10SM SCT037 02/M06 A3005 KBAM 061655Z AUTO 10003KT 10SM OVC110 00/M05 A3019 RMK AO1 KBAN 061652Z AUTO 00000KT 10SM CLR M01/M08 A3022 RMK AO2 SLP245 T10111078 FZRANO $ KBAX 061735Z AUTO 25015G32KT 10SM BKN020 OVC028 01/M01 A2956 RMK AO2 T00121015 KBAZ 061725Z 36017G25KT 10SM BKN025 18/08 A3013 RMK AO2 PK WND 36030/1653 T01780078 KBBB 061736Z AUTO 34013G18KT 5SM HZ CLR M17/M22 A3033 RMK AO2 KBBD 061735Z AUTO 35019G24KT 8SM 10/M06 RMK AO2 KBBG 061645Z 36012G16KT 10SM CLR 03/M07 A3029 KBBP 061735Z AUTO 21013G18KT 10SM SCT029 21/14 A2999 RMK AO2 KBBW 061653Z AUTO 00000KT 10SM CLR M09/M15 A3035 RMK AO2 SLP316 T10891150 KBCB 061735Z AUTO 21007KT 180V240 10SM SCT050 SCT100 BKN120 18/10 A2987 RMK AO2 T01830096 KBCE 061653Z AUTO 29003KT 10SM CLR 03/M11 A3023 RMK AO2 SLP222 T00331111 KBCK 061655Z AUTO 29014G27KT 10SM SCT028 BKN060 M09/M15 A3004 RMK AO2 T10891147 KBCT 061653Z 12005KT 10SM SCT030 26/24 A3011 KBDE 061653Z AUTO 28010KT 10SM SCT013 M21/M26 A3018 RMK AO2 SLP251 T12111256 KBDG 061655Z AUTO 15003KT 10SM 06/M10 A3028 RMK AO1 T00631101 KBDH 061735Z AUTO 30021G25KT 10SM CLR M16/M22 A3032 RMK AO2 KBDL 061651Z 17006KT 1/2SM R06/P6000FT BR BKN002 OVC022 07/06 A2980 RMK AO2 SFC VIS 2 1/2 SLP090 T00720061 $ KBDN 061655Z AUTO 22015G23KT 10SM -DZ CLR 06/02 A3008 RMK AO2 KBDR 061652Z 19014KT 10SM OVC029 13/11 A2983 RMK AO2 SLP100 T01280106 KBDU 061655Z AUTO 00000KT 10SM CLR M05/M14 A3015 RMK AO2 KBEA 061735Z AUTO 29006KT 10SM BKN018 BKN030 OVC039 25/21 A3003 RMK AO2 LTG DSNT NE T02470211 KBEC 061735Z AUTO 02013G16KT 10SM CLR 02/M09 A3041 RMK AO2 T00241091 KBED 061651Z 21010KT 10SM BKN016 14/13 A2977 RMK AO2 SLP093 T01440128 KBEH 061742Z AUTO 28029G37KT 10SM OVC032 01/M06 A2986 RMK AO2 PK WND 27040/1656 T00111056 $ KBFD 061723Z AUTO 22007KT 4SM -RA SCT010 BKN014 OVC042 10/07 A2954 RMK AO2 P0004 T01000072 KBFF 061653Z AUTO 13008KT 10SM FEW120 M05/M12 A3020 RMK AO2 SLP267 T10501122 KBFI 061653Z VRB06KT 9SM BKN012 OVC025 04/03 A3007 RMK AO2 SLP183 T00440033 KBFL 061654Z 19003KT 1 1/4SM HZ OVC009 08/06 A3018 RMK AO2 SFC VIS 1 1/2 SLP218 T00830056 KBFM 061723Z 21009G20KT 10SM BKN022 BKN031 26/19 A3003 RMK AO2 T02610194 KBFW 091555Z AUTO 00000KT 10SM 23/08 A3006 RMK AO2 KBGD 061651Z AUTO 05009KT 10SM CLR 01/M11 A3040 RMK AO2 SLP304 T00061111 KBGE 061655Z AUTO 22011KT 10SM BKN024 BKN095 24/17 A3010 RMK AO2 T02380172 KBGF 061655Z AUTO 35003KT 10SM FEW005 SCT011 BKN016 13/13 A2998 RMK A01 P0002 KBGM 061720Z 19011G17KT 10SM BKN016 BKN022 OVC044 09/07 A2955 RMK AO2 T00940067 KBGR 061653Z 34003KT 3/4SM R15/P6000FT -RA BR OVC006 04/04 A2982 RMK AO2 SFC VIS 1 CIG 003V008 SLP098 P0004 T00390039 KBHB 061656Z AUTO 17022G35KT 7SM OVC008 12/11 A2984 RMK AO2 PK WND 16035/1649 RAE37 SLP107 P0000 T01170106 KBHC 061735Z AUTO 24008KT 180V270 10SM CLR 21/13 A3007 RMK AO2 KBHK 061651Z AUTO 00000KT 10SM CLR M12/M16 A3014 RMK AO2 SLP261 T11171161 KBHM 061653Z 00000KT 4SM -TSRA BR FEW008 BKN012 OVC025 18/18 A2999 RMK AO2 LTG DSNT ALQDS SLP139 FRQ LTGICCG W-N TS W-N MOV E T01830178 PNO $ KBID 061656Z AUTO 21015G21KT 10SM FEW007 13/11 A2988 RMK AO2 PK WND 20026/1631 SLP118 T01330111 KBIE 061735Z AUTO 35009G15KT 10SM CLR M02/M11 A3040 RMK AO2 T10191106 KBIF 061558Z AUTO 09012KT 9SM CLR 07/M06 A3027 RMK AO2 SLP221 T00741064 $ KBIH 061656Z AUTO 00000KT 10SM CLR 08/M08 A3017 RMK AO2 SLP199 T00831083 KBIJ 061735Z AUTO 23008KT 10SM SCT021 SCT027 BKN035 22/16 A3008 RMK AO2 KBIL 061653Z 10003KT 5SM BR FEW002 BKN095 BKN150 M12/M13 A2999 RMK AO2 SLP218 VIS HIR SE-SW T11221133 KBIS 061652Z 28011KT 10SM FEW020 M14/M20 A3030 RMK AO2 SLP301 T11441200 KBIV 061653Z AUTO 28024G40KT 9SM OVC035 01/M06 A2978 RMK AO2 PK WND 29040/1651 SNE07B23E53 SLP090 P0000 T00061056 KBIX 061556Z 21007KT 7SM SCT025 BKN035 18/15 A3006 RMK SLP181 KBJC 061647Z 35004KT 10SM FEW060 SCT100 M06/M14 A3014 KBJI 061735Z AUTO 30011KT 10SM SCT022 M21/M25 A3019 RMK AO2 T12061252 KBJJ 061742Z AUTO 28020G27KT 10SM BKN029 OVC034 03/M02 A2978 RMK AO2 PK WND 28036/1719 T00281017 KBKB 061738Z AUTO 00000KT 10SM -TSRA SCT011 BKN017 OVC022 22/21 A2995 RMK AO2 TSB35B37 P0000 T02220206 KBKD 061655Z AUTO 36014G21KT 10SM CLR 09/M08 A3033 RMK AO2 T00851081 KBKE 061653Z AUTO 24003KT 10SM OVC020 M01/M04 A3014 RMK AO2 SLP235 T10111039 KBKF 061558Z 21003KT 10SM FEW140 BKN200 M06/M14 A3015 RMK AO2A SLP253 T10621136 KBKL 061653Z 25024G35KT 10SM BKN028 OVC034 06/01 A2969 RMK AO2 PK WND 26039/1632 SLP057 T00560006 KBKN 061735Z AUTO 02011G18KT 10SM CLR 04/M09 A3042 RMK AO2 KBKS 061735Z AUTO 26005KT 10SM SCT023 25/20 A2999 RMK AO2 T02500200 KBKT 061656Z AUTO 21011G21KT 10SM CLR 19/12 A2987 RMK AO2 PRESFR SLP118 T01930123 KBKV 061653Z 17006KT 10SM CLR 24/19 A3012 RMK AO2 SLP198 T02440194 KBKW 061651Z AUTO 27018G31KT 1 1/4SM -RA BR SCT018 BKN042 OVC060 12/11 A2987 RMK AO2 PK WND 24037/1618 CIG 021 RWY19 SLP114 P0013 T01170106 TSNO KBKX 061656Z AUTO 32016KT 10SM SCT024 M13/M19 A3031 RMK AO2 SLP310 T11331194 FZRANO KBLF 061742Z AUTO 25014G21KT 7SM -RA BKN012 BKN019 OVC049 11/09 A2989 RMK AO2 PK WND 25030/1659 P0006 T01110094 KBLH 061652Z AUTO 20003KT 10SM CLR 16/M06 A3007 RMK AO2 SLP180 T01561056 KBLI 061653Z 03008KT 3SM BR SCT003 OVC024 01/01 A3009 RMK AO2 RAB26E37UPB37E39 SLP198 P0000 T00060006 KBLM 061656Z AUTO 17011G16KT 10SM SCT015 SCT022 16/12 A2984 RMK AO2 SLP103 T01560122 PNO $ KBLU 061652Z AUTO 00000KT 10SM BKN110 11/M03 A3019 RMK AO2 SLP178 T01111033 KBLV 061556Z AUTO 31015KT 10SM CLR 03/M07 A3020 RMK AO2 PK WND 33027/54 SLP231 T00301075 $ KBMC 061735Z AUTO 27003KT 10SM OVC085 02/M03 A3019 RMK AO1 T00241035 KBMG 061653Z 29013G23KT 10SM SCT035 02/M05 A3007 RMK AO2 PK WND 29028/1610 SLP182 T00221050 KBMI 061656Z 30022G34KT 10SM CLR 00/M08 A3009 RMK AO2 PK WND 31035/1639 SLP194 T00001083 KBML 061652Z AUTO 18008G15KT 10SM BKN045 09/04 A2968 RMK AO2 PRESFR SLP059 T00940044 KBMQ 061653Z AUTO 34015G25KT 10SM OVC025 13/M01 A3022 RMK AO2 SLP225 T01281006 KBMT 061730Z AUTO 22012KT 10SM VCTS BKN016 26/22 A3000 RMK AO2 LTG DSNT W THRU NE T02580223 KBNA 061653Z 34011KT 10SM SCT022 BKN039 BKN100 09/03 A3010 RMK AO2 SLP189 T00940028 KBNL 061735Z AUTO 21007KT 10SM CLR 20/14 A3003 RMK AO2 KBNO 061731Z AUTO 06006KT 5SM UP BR SCT017 BKN038 OVC045 M01/M02 A3014 KBNW 061735Z AUTO 32014G22KT 10SM CLR M06/M17 A3031 RMK AO2 KBOI 061653Z 27004KT 10SM OVC055 01/M04 A3018 RMK AO2 SLP235 T00111039 KBOK 061656Z AUTO 00000KT 10SM OVC009 08/08 A3022 RMK AO2 CIG 007V012 SLP237 T00830083 KBOS 061722Z 21017G24KT 10SM BKN021 BKN029 BKN034 16/12 A2976 RMK AO2 T01610122 KBOW 061650Z 17008KT 10SM FEW020 26/18 A3012 KBPC 061655Z AUTO 02006KT 10SM CLR 01/M11 A3042 RMK AO2 KBPG 061735Z AUTO 02014KT 10SM CLR 07/M10 A3035 RMK AO2 LTG DSNT E T00651100 KBPI 061653Z AUTO 28003KT 10SM CLR M06/M09 A3011 RMK AO2 SLP215 T10561094 KBPK 061653Z AUTO 01008KT 330V050 10SM CLR 05/M07 A3026 RMK AO2 SLP245 T00501072 KBPT 061653Z 20010G17KT 10SM FEW034 25/22 A3000 RMK AO2 RAE1554 SLP159 P0000 T02500222 KBQK 061735Z AUTO 24011KT 10SM SCT027 SCT035 24/17 A3007 RMK AO2 T02410166 KBQP 301315Z AUTO 00000KT 7SM CLR 28/28 A3007 RMK AO2 T02840276 KBQX 061655Z AUTO 19008KT 6SM BR SCT041 24/22 A3004 RMK A01 KBRD 061653Z AUTO 31016G23KT 9SM CLR M18/M26 A3020 RMK AO2 PK WND 31026/1620 UPB01E11 SLP256 P0002 T11781256 TSNO KBRG 061735Z AUTO 09007KT 10SM CLR 07/M08 A3025 RMK AO2 T00741083 KBRL 061653Z AUTO 31015G34KT 10SM SCT037 M01/M09 A3021 RMK AO2 PK WND 32034/1648 SLP235 T10111094 KBRO 061736Z 20013KT 10SM BKN020 29/23 A2998 RMK AO2 T02940228 $ KBRY 061735Z AUTO 31008G16KT 10SM CLR 05/M01 A3005 RMK AO1 KBTA 061655Z AUTO 34016G22KT 10SM CLR M07/M14 A3038 RMK AO2 T10701140 KBTL 061653Z 28014G25KT 5SM -SN BKN014 BKN026 OVC044 00/M04 A2976 RMK AO2 PK WND 27037/1619 SNE33B50 SLP086 P0000 T00001039 KBTM 061653Z AUTO 00000KT 10SM SCT050 OVC060 M07/M13 A2993 RMK AO2 SLP212 T10721128 KBTN 061735Z AUTO 33013KT 10SM FEW027 M15/M20 A3032 RMK AO2 KBTP 061656Z AUTO 22009G17KT 10SM -RA OVC009 11/11 A2964 RMK AO2 CIG 007V013 SLP042 P0004 T01110106 KBTR 061653Z COR 19014G21KT 10SM BKN023 BKN085 24/20 A3001 RMK AO2 LTG DSNT NW SLP160 T02390200 KBTV 061654Z 17007KT 10SM OVC025 06/04 A2954 RMK AO2 RAB23E42 PRESFR SLP006 P0000 T00560039 KBUF 061654Z 23021G28KT 6SM -RA BR BKN007 OVC013 10/08 A2947 RMK AO2 PK WND 24032/1622 SLP983 CIG 005V010 P0004 T01000083 KBUR 061653Z 00000KT 10SM CLR 14/M01 A3008 RMK AO2 SLP177 T01391006 $ KBUU 061735Z AUTO 29019G28KT 10SM 00/M08 A2989 RMK AO2 T00011079 PWINO KBUY 061654Z AUTO 22014G22KT 10SM CLR 21/10 A2994 RMK AO2 PK WND 21027/1629 SLP134 T02060100 KBVI 061735Z AUTO 24016G27KT 10SM -RA CLR 11/08 A2965 RMK AO2 T01090077 KBVN 061735Z AUTO 33012G15KT 10SM CLR M08/M16 A3037 RMK AO2 T10771159 KBVO 061653Z AUTO VRB05G17KT 10SM CLR 04/M07 A3042 RMK AO2 SLP299 T00441072 KBVS 061735Z AUTO 06004KT 1 1/4SM BR OVC014 03/02 A3008 RMK A01 KBVU 061735Z AUTO 00000KT 10SM CLR 14/M09 A3013 RMK AO2 KBVX 061656Z AUTO 33010G17KT 280V360 10SM CLR 07/M06 A3025 RMK AO2 SLP242 T00721061 KBVY 061653Z 19012KT 10SM OVC023 16/14 A2977 RMK AO2 SLP075 T01610139 KBWD 061735Z AUTO RMK AO1 KBWG 061716Z AUTO 30010G21KT 10SM FEW022 FEW029 08/01 A3011 RMK AO2 T00830006 KBWI 061654Z 20015G25KT 10SM SCT085 BKN120 BKN200 17/11 A2976 RMK AO2 PK WND 21026/1556 SLP077 T01670106 KBWP 061735Z AUTO 32013KT 10SM SCT013 M18/M23 A3033 RMK AO2 KBWW 061735Z AUTO 24007KT 10SM CLR M12/M15 A3013 RMK AO2 KBXA 061735Z AUTO 23008G17KT 10SM SCT023 25/19 A3001 RMK AO2 T02470192 KBXK 061735Z AUTO 10008KT 10SM 19/M00 A3010 RMK A01 KBYG 061653Z AUTO 11005KT 10SM CLR M11/M14 A3000 RMK AO2 SLP219 T11061139 KBYH 022155Z 21010G16KT 10SM SKC 22/08 A3001 RMK LAST KBYI 061653Z AUTO 25009KT 10SM BKN065 OVC080 05/M04 A3014 RMK AO2 SLP211 T00501039 KBYL 061655Z AUTO 27005KT 10SM SCT012 BKN020 OVC032 10/10 A2996 RMK AO1 P0003 KBYS 061558Z AUTO 35003KT 10SM CLR 05/M14 A3012 RMK AO2 SLP197 T00501144 $ KBYY 061655Z AUTO 23013G17KT 10SM BKN020 BKN029 OVC060 26/22 A3002 RMK AO2 P0001 T02610222 KBZN 061656Z 00000KT 10SM OVC060 M05/M08 A2996 RMK AO2 SLP203 T10501083 KC07 061735Z AUTO 28005KT 10SM CLR M05/M16 A3014 RMK AO2 KC09 061655Z AUTO 29024G34KT 10SM CLR 00/M06 A3000 RMK AO2 T00001064 KC29 061735Z AUTO 27022G32KT 10SM OVC025 M04/M10 A2996 RMK AO1 T10391097 KC35 061735Z AUTO 28021G29KT 10SM OVC025 M06/M13 A2999 RMK AO2 T10651127 PWINO KC62 061735Z AUTO 26018G30KT 10SM BKN031 OVC043 00/M04 A2983 RMK AO2 T10021043 KC65 061735Z AUTO 26015G25KT 10SM OVC035 M00/M07 A2991 RMK A01 KC75 061735Z AUTO 29016G27KT 10SM CLR 01/M08 A3010 RMK AO2 T00051084 KC83 061735Z AUTO 14005KT 5SM BR OVC008 09/08 A3018 RMK AO2 KC99 061735Z AUTO 30013G24KT 10SM CLR M03/M22 A3004 RMK AO2 KCAD 061735Z AUTO 25012G18KT 1/2SM -SN OVC010 M01/M04 A2952 RMK AO2 T10151036 KCAE 061656Z 23011KT 10SM FEW045 SCT200 22/12 A3002 RMK AO2 SLP163 T02170122 KCAG 061653Z AUTO 00000KT 10SM OVC100 M05/M09 A3015 RMK AO2 SLP248 T10501094 KCAK 061651Z 29018G24KT 7SM FEW008 SCT014 OVC024 07/03 A2970 RMK AO2 PK WND 27027/1558 RAE17 SLP058 P0001 T00720033 KCAO 061655Z AUTO 20005KT 10SM CLR M03/M14 A3033 RMK AO2 SLP299 T10281144 KCAR 061726Z AUTO 10008KT 1 1/2SM -FZRA BR OVC004 M02/M03 A2982 KCAV 061735Z AUTO 32024G31KT 10SM CLR M10/M21 A3028 RMK A01 KCBE 061735Z AUTO 29005KT 10SM SCT044 OVC055 11/04 A2971 RMK AO2 T01120044 KCBF 061735Z AUTO 33017KT 10SM CLR M06/M17 A3035 RMK AO2 KCBG 061735Z AUTO 28015G23KT 10SM M14/M23 A3020 RMK AO2 KCBK 061715Z AUTO 16004KT 10SM CLR M03/M10 A3034 RMK AO2 T10261103 KCBM 061654Z 35005KT 10SM SCT015 BKN041 OVC055 16/15 A3003 RMK AO2A RAE1558DZB1558E00 CIG 015V040 BKN015 V SCT SLP171 $ KCCA 061735Z AUTO 36007G17KT 320V040 10SM CLR 08/M07 A3025 RMK AO2 KCCB 061655Z AUTO 00000KT 8SM CLR 18/M02 A3009 RMK AO2 KCCO 061735Z AUTO 23006KT 10SM VCTS OVC006 17/16 A3001 RMK AO2 LTG DSNT SW THRU NE T01710158 KCCR 061653Z 00000KT 4SM BR OVC005 08/07 A3018 RMK AO2 SLP205 T00780067 KCCU 061735Z AUTO 28004KT 10SM CLR M04/M16 A3018 RMK AO2 KCCY 061735Z AUTO 31025G33KT 10SM CLR M09/M20 A3021 RMK AO2 KCDA 061735Z AUTO 15006KT 2 1/2SM BR BKN002 OVC006 04/04 A2961 RMK AO2 T00430037 KCDC 061653Z AUTO 00000KT 10SM CLR 03/M07 A3020 RMK AO2 SLP224 T00331067 KCDD 061734Z AUTO 34005KT 3SM HZ BKN022 BKN029 M19/M23 A3010 RMK AO2 KCDH 061735Z AUTO 02007G13KT 9SM OVC065 15/04 A3017 RMK AO2 KCDI 061735Z AUTO 27008KT 220V310 10SM SCT023 OVC060 07/03 A2979 RMK AO2 T00690029 KCDJ 061652Z AUTO 33009G20KT 02/M08 A3034 RMK AO1 SLP285 T00221078 KCDN 061735Z AUTO 22009G14KT 10SM CLR 21/12 A3000 RMK AO2 KCDR 061653Z AUTO 00000KT 10SM CLR M07/M12 A3022 RMK AO2 SLP291 T10721122 KCDS 061653Z AUTO 03015G21KT 10SM CLR 04/M10 A3043 RMK AO2 RAB1557E27 SLP301 P0000 T00391100 KCDW 061729Z VRB05KT 10SM OVC017 14/11 A2976 RMK AO2 RAE1656 P0000 T01440111 KCEC 061706Z AUTO 08003KT 6SM BR OVC013 09/08 A3023 RMK AO2 T00890078 KCEF 061645Z 00000KT 1/2SM R23/P6000FT FG OVC002 05/05 A2979 RMK AO2A SLP096 KCEU 061730Z AUTO 00000KT 8SM OVC009 13/12 A3000 RMK AO2 T01330117 KCEW 061738Z AUTO 22007G20KT 10SM BKN026 26/18 A3004 RMK AO2 T02560183 KCEY 061735Z AUTO 33011G21KT 10SM CLR 06/M05 A3018 RMK AO1 KCEZ 061653Z AUTO 08006KT 10SM CLR 06/M11 A3021 RMK AO2 SLP224 T00611111 KCFD 061735Z AUTO 35011G18KT 10SM SCT026 15/05 A3014 RMK AO2 LTG DSNT E AND SE T01450048 KCFE 061735Z AUTO 31015G25KT 10SM CLR M16/M24 A3025 RMK AO2 KCFJ 061735Z AUTO 28018G26KT 10SM SCT031 M01/M09 A3006 RMK AO2 T10101095 KCFO 061725Z 22007KT 10SM SCT150 BKN220 M02/M12 A3012 KCFS 061735Z AUTO 26018G27KT 10SM SCT022 BKN028 OVC075 02/M03 A2959 RMK AO2 T00181027 KCFV 061652Z AUTO 03012G19KT 10SM CLR 04/M08 A3039 RMK AO2 SLP293 T00391078 KCGC 061735Z AUTO 25009KT 10SM CLR 26/18 A3010 RMK AO2 KCGE 061735Z AUTO 17013KT 10SM CLR 17/13 A2984 RMK A01 KCGF 061645Z 27020G34KT 10SM OVC024 06/03 A2967 KCGI 061653Z 33015KT 10SM CLR 05/M04 A3022 RMK AO2 PK WND 35027/1618 SLP233 T00501044 KCGS 061735Z AUTO 18005KT 10SM SCT120 16/10 A2973 RMK AO1 T01640095 KCGZ 061656Z AUTO 12003KT 10SM CLR 13/M01 A3012 RMK AO2 SLP198 T01331006 KCHA 061653Z 25005KT 10SM -RA FEW010 SCT017 BKN055 17/14 A2998 RMK AO2 LTG DSNT S SLP147 CB DSNT S P0018 T01670144 KCHD 061647Z 00000KT 10SM CLR 15/00 A3011 KCHK 061735Z AUTO 36018G21KT 10SM CLR 05/M10 A3035 RMK AO2 T00481096 KCHO 061653Z 20012G18KT 10SM FEW120 18/08 A2980 RMK AO2 SLP088 T01780083 KCHS 061656Z 24007KT 10SM FEW040 BKN200 21/15 A3006 RMK AO2 SLP179 T02110150 KCIC 061647Z 00000KT 1SM BR OVC005 08/07 A3019 KCID 061652Z 30025G36KT 10SM CLR M06/M13 A3019 RMK AO2 PK WND 32040/1606 SLP235 T10561133 KCII 061725Z AUTO 34005KT 10SM M10/M13 A2982 RMK A01 Choteau KCIN 061735Z AUTO 33020G26KT 10SM CLR M07/M18 A3032 RMK AO2 KCIR 061735Z AUTO 36014G21KT 10SM CLR 05/M03 A3022 RMK AO2 T00511035 KCIU 061740Z AUTO 31020G26KT 2SM -SN BR SCT008 OVC015 M01/M02 A2936 RMK AO2 PK WND 31030/1730 VIS 1V5 P0000 FZRANO KCJR 061655Z AUTO 19012G17KT 10SM SCT120 19/09 A2978 RMK AO2 T01870093 KCKB 061653Z 24010KT 5SM RA BR BKN013 OVC020 12/11 A2976 RMK AO2 SLP070 P0007 T01220106 KCKC 061737Z AUTO 31018G27KT SCT075 M17/M21 A2976 RMK AO2 PWINO KCKF 061735Z AUTO 24012G17KT 10SM BKN055 23/13 A3008 RMK AO2 T02250128 KCKI 061735Z AUTO 20011G16KT 170V230 10SM SCT029 22/12 A3002 RMK AO2 KCKM 061735Z AUTO 34017G23KT 10SM CLR 12/06 A3015 RMK A01 KCKN 061735Z AUTO 30011KT 10SM CLR M21/M25 A3029 RMK AO2 PWINO KCKP 061735Z AUTO 30011G18KT 10SM CLR M08/M16 A3034 RMK AO2 T10791162 KCKV 061652Z AUTO 35014KT 10SM BKN100 07/M01 A3015 RMK AO2 SLP207 T00671006 KCKZ 061735Z AUTO 19007KT 150V220 10SM OVC015 13/13 A2974 RMK AO2 KCLE 061739Z 25027G35KT 10SM BKN028 OVC035 03/M02 A2973 RMK AO2 PK WND 25036/1709 T00331022 KCLI 061735Z AUTO 31018G29KT 5SM HZ OVC028 M04/M10 A2983 RMK AO2 KCLK 061735Z AUTO 02013G19KT 10SM CLR 04/M10 A3041 RMK AO2 KCLL 061653Z 35021G30KT 10SM OVC021 14/07 A3012 RMK AO2 PK WND 34034/1555 SLP196 T01440067 KCLM 061653Z AUTO 18004KT 9SM OVC006 02/01 A3004 RMK AO2 SLP174 T00220011 KCLS 061735Z AUTO 18007G13KT 6SM BR OVC010 05/05 A3007 RMK AO2 KCLT 061652Z 22011KT 10SM FEW035 SCT200 BKN250 20/12 A3000 RMK AO2 SLP154 T02000117 KCLW 061735Z AUTO 21006KT 10SM CLR 25/18 A3009 RMK AO2 PWINO KCMA 061655Z 00000KT 8SM FEW002 10/08 A3008 RMK AO2 SLP196 T01000083 KCMD 061735Z AUTO 35007KT 10SM -RA SCT007 BKN042 OVC050 14/14 A3002 RMK AO2 LTG DSNT SE AND SW KCMH 061651Z 28021G29KT 10SM SCT027 BKN060 04/M02 A2986 RMK AO2 PK WND 29029/1644 SLP112 T00391017 KCMI 061653Z 29025G33KT 10SM CLR 01/M06 A3010 RMK AO2 PK WND 28034/1634 SLP195 T00111056 KCMR 061735Z AUTO 20007KT 10SM CLR 14/M13 A3024 RMK AO2 KCMX 061742Z AUTO 32023G32KT 1/4SM HZ OVC015 M07/M11 A2971 RMK AO2 PK WND 30033/1704 T10721111 PWINO FZRANO PNO $ KCMY 061558Z AUTO 28018G24KT 2 3/4SM -SN OVC021 M07/M11 A3001 RMK AO2 VIS 2 3/4V4 SNB04 SLP178 P0000 T10721115 $ KCNB 061735Z AUTO 29012G22KT 10SM CLR M12/M21 A3034 RMK AO2 T11211207 KCNC 061735Z AUTO 32024G29KT 10SM -UP CLR M02/M12 A3027 RMK AO2 KCNI 061735Z AUTO 00000KT 1/2SM RA OVC010 14/14 A3002 RMK AO2 KCNK 061655Z AUTO 32011KT 10SM CLR M01/M09 A3042 RMK AO2 SLP314 T10061089 KCNM 061653Z AUTO 34010KT 10SM CLR 05/M11 A3041 RMK AO2 SLP279 T00501111 KCNO 061653Z 17003KT 2SM HZ SCT200 11/08 A3011 RMK AO2 SLP195 T01110078 KCNU 061652Z AUTO 36012G19KT 10SM CLR 03/M08 A3039 RMK AO2 PK WND 36028/1610 SLP293 T00331078 KCNW 061655Z 01013G20KT 10SM SKC 15/M03 A3019 KCNY 061653Z AUTO 00000KT 10SM CLR 02/M06 A3017 RMK AO2 SLP229 T00221061 KCOD 061656Z AUTO 00000KT 10SM CLR M09/M12 A2998 RMK AO2 SLP231 T10941122 FZRANO KCOE 061656Z AUTO 03008KT 3/4SM -SN BR BKN010 OVC019 M06/M07 A3007 RMK AO2 CIG 008V013 SLP236 P0000 T10561067 FZRANO KCOF 061556Z 11005KT 10SM FEW025 24/21 A3012 RMK AO2A SLP204 T02370210 FZRANO $ KCOM 061735Z AUTO 35017G25KT 10SM CLR 10/M07 A3030 RMK AO2 LTG DSNT E T00961074 KCON 061730Z AUTO 00000KT 1/4SM FG VV002 04/03 A2975 KCOQ 061735Z AUTO 30017G22KT 10SM CLR M18/M24 A3005 RMK AO2 TSNO KCOS 061654Z 19014KT 10SM BKN250 M04/M18 A3020 RMK AO2 PK WND 17026/1559 SLP285 T10391183 KCOT 061722Z AUTO 02014G19KT 10SM SCT014 BKN023 OVC029 24/18 A3007 RMK AO2 T02440183 KCOU 061654Z 32014KT 10SM CLR 02/M08 A3030 RMK AO2 SLP264 T00221083 KCPC 061735Z AUTO 22014G18KT 200V260 10SM CLR 23/13 A3001 RMK AO2 T02280131 KCPF 061735Z AUTO 29009KT 10SM SCT013 BKN019 OVC030 11/11 A2992 RMK AO2 KCPK 061735Z AUTO 20016G23KT 7SM CLR 21/12 A2993 RMK AO2 T02140118 KCPR 061653Z 08004KT 10SM OVC110 A3003 RMK AO2 SLPNO $ KCPS 061653Z 32016G26KT 10SM CLR 03/M07 A3024 RMK AO2 PK WND 29028/1555 SLP243 T00331067 KCPT 061735Z AUTO 01018G24KT 10SM CLR 12/M07 A3024 RMK A01 KCPU 061655Z AUTO 14003KT M1/4SM FG 05/04 A3014 RMK AO2 T00460044 KCPW 061732Z AUTO 23013G18KT 10SM CLR M04/M09 A3030 RMK AO2 KCQB 061735Z AUTO 36009KT 10SM CLR 05/M08 A3038 RMK AO2 LTG DSNT SE T00471084 KCQC 061653Z AUTO 16010G16KT 10SM CLR M02/M11 A3028 RMK AO2 SLP251 T10221106 KCQF 061655Z AUTO RMK AO2 PWINO PNO KCQM 061737Z AUTO 31008G17KT 5SM -SN SCT023 M19/M24 A3007 RMK AO2 KCQT 061734Z AUTO 00000KT 2 1/2SM HZ CLR 16/09 A3008 RMK AO2 T01560089 KCQW 061735Z AUTO 22011G17KT 10SM FEW033 22/12 A2998 RMK AO2 PWINO KCQX 061728Z AUTO 21009G18KT 6SM BR OVC005 12/11 A2989 RMK AO2 CIG 004V007 T01220111 $ KCRE 061653Z 21008KT 10SM CLR 21/14 A3003 RMK AO1 SLP169 T02060139 KCRG 061653Z 24009KT 200V270 10SM CLR 24/17 A3008 RMK AO2 SLP187 T02390172 KCRP 061651Z 23009KT 10SM SCT019 SCT043 OVC250 27/22 A3000 RMK AO2 SLP159 T02670222 KCRQ 061653Z 23003KT 6SM HZ CLR 13/08 A3009 RMK AO2 SLP188 T01280083 KCRS 061653Z AUTO 02015G27KT 10SM CLR 14/M03 A3019 RMK AO2 PK WND 34031/1612 SLP222 T01391033 KCRW 061654Z 24010KT 7SM -RA BKN016 OVC032 13/11 A2982 RMK AO2 SLP096 P0029 T01280111 PNO KCRX 061735Z AUTO 35014G20KT 10SM SCT026 BKN080 12/05 A3012 RMK AO2 KCSG 061651Z 22006KT 10SM BKN017 21/17 A3003 RMK AO2 SLP165 T02060167 KCSM 061653Z 01019KT 10SM CLR 03/M10 A3040 RMK AO2 PK WND 01027/1614 SLP297 T00281100 KCSQ 061735Z AUTO 31019KT 10SM CLR M04/M11 A3031 RMK AO2 KCSV 061653Z AUTO 27007KT 10SM FEW005 OVC090 12/12 A2998 RMK AO2 RAE36 SLP145 P0003 T01220122 KCTB 061656Z AUTO 14003KT 8SM FEW050 BKN065 OVC100 M14/M16 A2986 RMK AO2 SLP195 I1001 T11441161 KCTJ 061735Z AUTO 22003KT 7SM TSRA OVC010 17/15 A3004 RMK AO2 LTG DSNT ALQS T01650151 KCTY 061735Z AUTO 22012G16KT 10SM SCT035 25/16 A3010 RMK AO2 T02510160 KCTZ 061655Z AUTO 22008G17KT 170V250 10SM CLR 20/14 A3002 RMK AO2 T02020140 KCUB 061653Z AUTO 23011G17KT 10SM CLR 22/13 A3003 RMK AO2 SLP167 T02170128 KCUH 061735Z AUTO 04010KT 10SM CLR 05/M09 A3038 RMK AO2 T00461086 KCUL 061735Z AUTO 10SM SCT039 04/M03 A3018 RMK AO2 KCUT 061653Z AUTO 24006KT 10SM CLR M09/M15 A3004 RMK AO2 SLP246 T10941150 KCVB 061735Z AUTO 34016G20KT 5SM HZ CLR 18/06 A3014 RMK AO2 LTG DSNT E KCVC 061740Z AUTO 17003KT 10SM OVC010 17/15 A3000 RMK AO2 LTG DSNT W AND NW KCVG 061652Z 28018G24KT 10SM BKN031 OVC130 03/M03 A2999 RMK AO2 PK WND 30027/1557 SLP155 BINOVC T00281033 KCVH 061735Z AUTO 00000KT 7SM CLR 06/06 A3018 RMK A01 KCVN 061656Z AUTO 05006KT 10SM CLR M01/M11 A3038 RMK AO2 SLP298 T10061111 FZRANO KCVO 061656Z AUTO 18007KT 10SM RA OVC035 06/05 A3014 RMK AO2 SLP211 P0002 T00610050 KCVS 061558Z AUTO 03010KT 10SM CLR M02/M14 A3037 RMK AO2 SLP283 T10181136 KCVX 061735Z AUTO 31025G38KT 1 1/2SM -SN SCT008 BKN012 OVC020 00/M03 A2946 RMK AO2 VIS 3/4V4 T00031027 KCWA 061649Z 29020G31KT 5SM HZ BKN025 M08/M13 A2986 KCWC 061655Z AUTO 01018G22KT 10SM CLR 06/M11 A3038 RMK AO2 T00591106 KCWF 061718Z 22018KT 10SM SCT013 24/21 A3001 KCWI 061656Z AUTO 29029G35KT 10SM CLR M03/M10 A3009 RMK AO2 PK WND 29040/1619 SLP202 T10331100 FZRANO KCWN 151458Z AUTO 14010KT 10SM CLR 16/M06 A3020 RMK AO2 SLP075 T01581065 52016 $ KCWV 061735Z AUTO 24004KT 10SM CLR 22/14 A3006 RMK AO2 T02150141 KCXE 061735Z AUTO 19006G17KT 10SM CLR 21/10 A2987 RMK AO1 T02080104 KCXO 061726Z 34016G31KT 10SM -RA SCT009 BKN016 OVC039 14/13 A3004 RMK AO2 PK WND 33031/1720 LTG DSNT NE AND E RAB10 P0001 T01440133 KCXP 061730Z AUTO 00000KT 10SM BKN110 03/M05 A3020 RMK AO2 KCXU 021635Z AUTO 33004KT 10SM CLR 21/13 A3018 RMK AO1 T02060125 KCXW 061735Z AUTO 02015KT 10SM CLR 10/M06 A3022 RMK A01 KCXY 061715Z 21007G16KT 10SM BKN024 OVC120 14/08 A2969 RMK AO2 T01440078 KCYD 061735Z AUTO 24015KT 7SM CLR 29/20 A3008 RMK A02 LTG DSNT E T02910196 KCYS 061653Z 21023G31KT 10SM CLR M07/M16 A3007 RMK AO2 PK WND 20031/1649 SLP247 T10671156 KCZL 061655Z AUTO 00000KT 3SM RA BKN018 OVC024 16/16 A3002 RMK AO2 KCZT 061730Z AUTO RMK TEMPORAIRILY INOPERATIVE KCZZ 261552Z AUTO 05012G17KT 09/M03 A2999 RMK AO1 SLP140 T00891028 KD07 061656Z AUTO 27005KT M11/M16 A3023 RMK AO1 SLP297 T11111156 KD25 061735Z AUTO 29013G22KT 3/4SM -SN BKN012 OVC018 M12/M15 A2983 RMK AO2 T11231151 KD39 061735Z AUTO 30016KT 10SM SCT018 BKN023 M18/M23 A3027 RMK AO2 T11781227 KD50 061735Z AUTO 23013KT 10SM CLR M22/M25 A3017 RMK AO2 KD55 061735Z AUTO 27017KT 3SM HZ M20/M23 A3017 RMK AO2 KD57 061735Z AUTO 30012KT 7SM -SN SCT004 SCT009 OVC014 M15/M20 A3022 RMK AO2 KD60 061735Z AUTO 25010KT 10SM CLR M22/M24 A3016 RMK AO2 KD73 061735Z AUTO 33006KT 10SM OVC011 17/16 A3001 RMK AO2 LTG DSNT W AND NW T01660159 KD95 061735Z AUTO 25017G28KT 3/4SM -SN BKN007 OVC019 00/M02 A2963 RMK AO2 T10041017 KDAA 061656Z AUTO 19006G16KT 10SM BKN120 16/10 A2979 RMK AO2 SLP091 T01580103 $ KDAB 061653Z 20006KT 10SM FEW024 FEW250 26/18 A3010 RMK AO2 SLP192 T02610183 KDAG 061650Z AUTO 29008KT 10SM CLR 12/M09 A3013 RMK AO2 SLP194 T01221094 KDAL 061653Z 36017G27KT 10SM FEW050 11/M07 A3024 RMK AO2 PK WND 01030/1605 SLP237 T01061067 KDAN 061653Z AUTO 22015G23KT 10SM CLR 21/10 A2990 RMK AO2 SLP116 T02110100 KDAW 061651Z AUTO 32005KT 1/2SM FG VV002 06/05 A2977 RMK AO2 RAB27E37 SLP081 P0000 T00560050 KDAY 061740Z 29023G34KT 10SM FEW024 BKN032 BKN130 02/M06 A2996 RMK AO2 PK WND 29034/1740 T00171061 KDBN 061735Z AUTO 23005KT 10SM CLR 22/13 A3006 RMK AO2 KDBQ 061653Z 28023G31KT 10SM CLR M06/M12 A3008 RMK AO2 PK WND 29043/1631 SLP200 T10561122 KDCA 061652Z 19013G21KT 10SM SCT120 BKN160 BKN200 15/09 A2979 RMK AO2 SLP088 T01500094 KDCM 061735Z AUTO 24007KT 170V270 10SM SCT025 SCT046 18/10 A3001 RMK AO2 KDCU 061721Z AUTO 33008KT 10SM SCT014 SCT039 OVC065 16/13 A3002 RMK AO2 T01560128 KDCY 061735Z AUTO 31015G21KT 10SM SCT036 02/M05 A3014 RMK AO2 T00191047 KDDC 061652Z AUTO 02012KT 10SM CLR M01/M10 A3040 RMK AO2 SLP315 T10061100 KDDH 061654Z AUTO 17014G23KT 10SM OVC019 13/09 A2966 RMK AO2 PK WND 17029/1625 SLP047 T01280089 KDEC 061654Z 31022G32KT 10SM CLR 01/M07 A3015 RMK AO2 PK WND 30037/1556 SLP212 T00111072 KDED 061730Z AUTO 27006KT 10SM SCT035 BKN044 26/17 A3009 RMK AO2 T02600173 KDEH 061735Z AUTO 31011G23KT 10SM CLR M10/M19 A3011 RMK AO2 KDEN 061653Z 17007KT 10SM SCT150 BKN220 M04/M13 A3014 RMK AO2 SLP242 T10391128 KDEQ 061653Z AUTO 03010G17KT 10SM CLR 13/M03 A3018 RMK AO2 SLP217 T01331033 TSNO $ KDET 061653Z 26013G27KT 10SM OVC047 03/M05 A2968 RMK AO2 PK WND 27038/1612 SLP054 T00331050 KDEW 061738Z AUTO 05004KT 2SM -SN BR SCT014 BKN049 OVC060 M05/M07 A3007 RMK AO2 P0003 T10501072 KDFI 061653Z AUTO 25010G31KT 10SM FEW039 OVC049 02/M06 A2984 RMK AO2 PK WND 28031/1650 SLP106 T00171056 KDFW 061653Z 36016G29KT 10SM FEW050 11/M07 A3023 RMK AO2 PK WND 01032/1606 SLP233 T01111067 KDGW 061653Z AUTO 14010KT 10SM OVC100 M08/M13 A3008 RMK AO2 SLP249 T10831128 KDHN 061653Z 22007KT 10SM BKN020 BKN026 22/17 A3011 RMK AO2 SLP193 T02220172 KDHT 061653Z AUTO 07007KT 10SM CLR M01/M12 A3037 RMK AO2 SLP297 T10111117 KDIJ 061656Z AUTO 19010KT 10SM OVC080 M01/M08 A3012 RMK AO2 SLP235 T10111083 KDIK 061656Z AUTO 26007KT 10SM FEW011 M14/M17 A3016 RMK AO2 SLP274 T11391172 KDKB 061735Z AUTO 27023G29KT 10SM CLR 00/M08 A2998 RMK AO2 T00001078 KDKK 061653Z AUTO 23023G30KT 5SM -RA BR BKN010 BKN026 OVC055 08/06 A2955 RMK AO2 PK WND 26036/1620 SLP009 P0001 T00830061 $ KDKR 061735Z AUTO 34012KT 10SM CLR 15/08 A3011 RMK AO2 LTG DSNT E AND S KDKX 061655Z AUTO 26004KT 6SM BR FEW004 SCT028 BKN034 14/13 A2994 RMK A01 P0046 KDLF 061556Z 34018G24KT 10SM CLR 13/02 A3023 RMK AO2A PK WND 01035/1456 PRESRR SLP233 T01320018 $ KDLH 061655Z 31016G28KT 7SM SCT018 M18/M22 A3000 RMK AO2 PK WND 32033/1600 SLP193 T11781222 KDLL 061735Z AUTO 28017G22KT 10SM OVC024 M07/M11 A2996 RMK AO2 T10661108 KDLN 061653Z AUTO 19011KT 10SM OVC050 M02/M12 A2995 RMK AO2 SLP186 T10171122 KDLO 061655Z AUTO 00000KT 2SM BR OVC005 06/05 A3020 RMK AO2 T00620051 KDLP 270100Z AUTO RMK A01 PNO KDLS 061653Z AUTO 00000KT 10SM CLR 04/01 A3012 RMK AO2 SLP201 T00390006 KDLZ 061735Z AUTO 27020G26KT 10SM OVC028 00/M04 A2989 RMK AO2 KDMA 061558Z AUTO 16007KT 10SM CLR 13/M02 A3012 RMK AO2 SLP184 T01281023 $ KDMN 061653Z AUTO 10011KT 10SM CLR 12/M06 A3025 RMK AO2 SLP209 T01171061 KDMO 061653Z AUTO 34014KT 10SM CLR 02/M08 A3035 RMK AO2 SLP281 T00171078 KDMW 061735Z AUTO 18011G18KT 10SM CLR 17/11 A2970 RMK AO2 KDNA 061735Z AUTO 13015G21KT 8SM CLR 10/M06 A3027 RMK AO2 KDNL 061653Z AUTO 22007KT 10SM CLR 22/13 A3005 RMK AO2 SLP172 T02170128 KDNN 061735Z AUTO 15003KT 4SM RA SCT004 BKN011 OVC021 16/15 A2998 RMK AO2 KDNS 061735Z AUTO 30014KT 10SM FEW029 M07/M15 A3036 RMK AO2 KDNV 061655Z AUTO 28016G28KT 10SM BKN031 00/M06 A3007 RMK AO2 T00021064 KDOV 061556Z AUTO 18013KT 10SM FEW012 FEW100 SCT130 15/12 A2989 RMK AO2 SLP125 T01470118 $ KDPA 061652Z 29021G30KT 10SM FEW035 00/M08 A2995 RMK AO2 PK WND 29037/1556 SLP148 T00001078 KDPG 061655Z 16003KT 45SM BKN110 OVC150 M00/M08 A3020 RMK SLP238 T10041076 KDPL 061735Z 10SM CLR 22/13 A2999 RMK AO2 KDQH 061735Z AUTO 24008KT 10SM CLR 22/14 A3008 RMK AO2 T02180138 KDRA 061653Z AUTO 00000KT 10SM CLR 12/M09 A3014 RMK AO2 SLP185 T01221089 KDRI 061735Z AUTO 21009KT 10SM VCTS OVC013 24/22 A3000 RMK AO2 LTG DSNT ALQDS T02350215 KDRM 061735Z AUTO 26009G16KT 230V290 10SM SCT025 BKN041 OVC060 01/M01 A2935 RMK AO2 T00111011 KDRO 061653Z AUTO 08005KT 10SM CLR 01/M07 A3021 RMK AO2 SLP245 T00111067 KDRT 061653Z AUTO 32014G28KT 10SM CLR 17/M01 A3026 RMK AO2 PK WND 28030/1620 SLP241 T01671006 KDSF 061655Z AUTO 17008KT 9SM CLR 24/21 A3009 RMK A01 KDSM 061654Z 33023G32KT 10SM FEW030 M04/M14 A3030 RMK AO2 PK WND 34037/1617 SLP273 T10441139 KDSV 061654Z AUTO 14007KT 10SM -RA FEW065 OVC080 11/08 A2951 RMK AO2 RAB18 SLP003 P0000 T01110083 KDTA 061655Z AUTO 12005KT 10SM CLR 00/M05 A3021 RMK AO1 KDTL 061735Z AUTO 32009KT 10SM SCT006 SCT010 BKN021 M21/M24 A3025 RMK AO2 KDTN 061653Z 05017G25KT 10SM CLR 18/04 A3011 RMK AO2 PK WND 03026/1640 SLP194 T01780044 KDTO 061653Z 36018G24KT 10SM CLR 10/M07 A3028 RMK AO2 PK WND 01030/1559 SLP250 T01001067 KDTS 061653Z VRB03KT 10SM SCT038 23/19 A3007 RMK AO2 SLP180 T02330189 KDTW 061731Z 25024G32KT 9SM BKN030 BKN050 02/M04 A2971 RMK AO2 PK WND 25033/1709 SNB21E29 P0000 T00221044 KDUA 061735Z AUTO 35013G21KT 250V020 10SM CLR 10/M12 A3028 RMK AO2 KDUB 061735Z AUTO 32019G30KT 10SM SCT120 M01/M12 A2994 RMK AO2 KDUC 061735Z AUTO 01013G22KT 10SM CLR 07/M11 A3036 RMK AO2 LTG DSNT SE T00671105 KDUH 061735Z AUTO 25012G18KT 10SM OVC055 02/M04 A2978 RMK AO2 T00171044 KDUJ 061740Z AUTO 23011G19KT 9SM -RA SCT010 BKN018 OVC060 11/09 A2959 RMK AO2 P0006 T01060089 KDUX 061735Z AUTO 05005KT 10SM CLR M01/M12 A3038 RMK AO2 T10071118 KDVK 061735Z AUTO 31009G15KT 10SM BKN022 OVC027 06/02 A3003 RMK AO2 KDVL 061656Z AUTO 28013KT 2SM HZ CLR M21/M24 A3025 RMK AO2 SNB38E48 SLP830 P0000 T12061239 FZRANO KDVN 061652Z AUTO 29027G37KT 10SM CLR M02/M11 A3014 RMK AO2 PK WND 28040/1606 SLP212 T10221111 KDVO 061735Z AUTO 00000KT 4SM BR OVC005 08/08 A3019 RMK AO2 KDVP 061733Z AUTO 30018G24KT 10SM CLR M12/M20 A3028 RMK AO2 T11161203 KDVT 061653Z 00000KT 10SM CLR 15/00 A3010 RMK AO2 SLP184 T01500000 KDWA 061655Z AUTO 22004KT 1 1/4SM BR OVC003 08/08 A3019 RMK AO2 KDWH 061653Z 25007KT 10SM SCT018 SCT024 BKN034 25/22 A3001 RMK AO2 RAB34E43 SLP160 P0000 T02500222 KDWU 061656Z AUTO 30008G16KT 10SM BKN018 OVC025 08/06 A2990 RMK AO2 RAE11 SLP125 P0000 T00780061 KDWX 061735Z AUTO 11004KT 10SM OVC090 M02/M09 A3016 RMK AO2 T10191087 KDXR 061653Z 20007G15KT 9SM OVC012 13/10 A2980 RMK AO2 SLP091 T01330100 KDXX 061735Z AUTO 30016G24KT 10SM CLR M13/M21 A3036 RMK AO2 KDY KDYA 061735Z AUTO 10SM BKN025 BKN030 OVC047 22/19 A2999 RMK AO2 T02230185 KDYB 061735Z AUTO 23005G10KT 10SM CLR 20/16 A3003 RMK AO2 KDYL 061654Z AUTO 19009G15KT 170V230 10SM OVC016 13/10 A2978 RMK AO2 RAE03 PRESFR SLP084 P0000 T01330100 KDYR 061656Z AUTO 36014G19KT 10SM CLR 08/00 A3020 RMK AO2 SLP231 T00830000 PNO $ KDYS 061656Z AUTO 02018KT 10SM CLR 07/M11 A3033 RMK AO2 PK WND 34027/51 SLP257 T00661106 KDYT 061735Z AUTO 30021G28KT 10SM SCT025 BKN030 M15/M20 A3013 RMK AO2 KDZB 061655Z AUTO 34015G18KT 10SM OVC028 13/01 A3022 RMK AO2 T01280007 KDZJ 061735Z AUTO 24003KT 7SM -RA BKN019 SCT055 OVC085 15/14 A2999 RMK AO2 LTG DSNT SE AND W P0003 T01540138 KE11 061735Z AUTO 01011G14KT 330V040 10SM CLR 05/M11 A3038 RMK AO2 LTG DSNT E T00531112 KE16 061735Z AUTO 00000KT 1 1/2SM BR OVC003 08/08 A3019 RMK AO2 PWINO PNO KE38 061735Z AUTO 06008KT 10SM CLR 05/M07 A3041 RMK AO2 T00491075 KE41 061735Z AUTO 03013G18KT 10SM CLR 07/M08 A3034 RMK AO2 LTG DSNT E T00681077 KE42 061735Z AUTO 04010KT 10SM CLR 00/M12 A3040 RMK AO2 T00041119 KEAN 061730Z AUTO 14006KT 10SM SCT100 M03/M11 A3007 RMK AO2 T10321115 KEAR 061656Z AUTO 32007KT 10SM CLR M08/M13 A3041 RMK AO2 SLP328 T10781133 FZRANO KEAT 061655Z AUTO 29003KT 10SM OVC049 M02/M04 A3007 RMK AO2 SNB04E24 SLP196 P0000 T10171044 KEAU 061705Z 28018G31KT 10SM SCT022 M12/M18 A3007 RMK AO2 PK WND 30031/1658 T11171183 KEBG 061655Z AUTO 17005KT 10SM BKN019 OVC026 26/22 A3001 RMK AO2 T02600219 TSNO KEBS 061655Z AUTO 32026KT 10SM CLR M08/M18 A3028 RMK AO2 KECG 061735Z 19013KT 10SM SCT031 21/14 A2995 RMK AO2 T02060139 KECP 061653Z 17008KT 10SM BKN020 23/19 A3007 RMK AO2 SLP195 T02280189 KECS 061735Z AUTO 17003KT 10SM CLR M10/M12 A3013 RMK AO2 KECU 061735Z AUTO 01010G20KT 10SM 11/M03 A3026 RMK AO2 KEDC 061655Z AUTO 36019G26KT 10SM OVC023 14/08 A3015 RMK AO2 KEDE 061735Z AUTO 21015G19KT 10SM CLR 22/16 A2997 RMK AO2 T02220159 KEDJ 061735Z AUTO 29017G28KT 10SM OVC026 00/M04 A2990 RMK A01 KEDN 061655Z AUTO 22006KT 10SM SCT015 SCT021 SCT036 22/18 A3006 RMK AO2 LTG DSNT N T02240181 KEDU 061655Z AUTO 22004KT 2SM OVC005 08/08 A3018 RMK AO1 KEDW 061558Z 23004KT 80SM BKN300 02/M10 A3013 RMK AO2A SLP212 T00241105 KEED 061656Z AUTO 26004KT 10SM CLR 17/M06 A3010 RMK AO2 SLP175 T01721056 KEEN 061656Z AUTO 23004KT 8SM BKN005 OVC010 04/04 A2975 RMK AO2 RAE25 CIG 004V008 SLP080 P0000 T00440044 $ KEEO 061653Z AUTO 00000KT 10SM BKN100 M03/M12 A3018 RMK AO2 SLP253 T10331117 KEET 061728Z AUTO 19004KT 5SM RA BR BKN008 BKN050 OVC090 18/16 A2996 RMK AO2 LTG DSNT NE AND W TSB1658E13 PRESFR P0005 T01780161 KEFD 061650Z 21008KT 10SM BKN018 BKN025 OVC070 26/22 A3001 KEFK 061735Z AUTO 16010G15KT 10SM OVC013 07/05 A2955 RMK AO2 T00650052 KEFT 061735Z AUTO 29022G34KT 10SM SCT023 M04/M10 A2997 RMK AO2 T10451100 KEGE 061656Z 00000KT 10SM CLR M04/M11 A3022 RMK AO2 SLP267 T10441106 KEGI 061620Z AUTO 20013KT 10SM SCT025 BKN031 OVC190 24/18 A3008 RMK AO2 SLP186 KEGV 061735Z AUTO 29023G30KT 3SM -SN OVC022 M09/M14 A2977 RMK AO2 T10951137 KEHA 061735Z AUTO 13006KT 10SM CLR M01/M12 A3039 RMK AO2 T10061118 KEHO 061735Z AUTO 22011G17KT 10SM OVC021 17/13 A2997 RMK AO2 T01720130 KEHR 061656Z AUTO 30015G23KT 10SM CLR 03/M04 A3018 RMK AO2 SLP222 T00331044 KEHY 061735Z AUTO 10SM OVC065 00/M22 A3000 RMK AO2 PWINO KEIK 061735Z AUTO 00000KT 10SM CLR M03/M17 A3013 RMK AO2 T10321172 KEIR 111515Z AUTO A3010 RMK A01 KEKA 301700Z 33005KT 7SM FEW/// 11/ A2994 RMK AO2 T0111 NOSPECI KEKE 061735Z AUTO 19013KT 9SM CLR 25/20 A3010 RMK A01 KEKM 061652Z 28017G25KT 10SM BKN038 BKN046 00/M06 A2986 RMK AO2 KEKN 061651Z AUTO 27012G20KT 6SM -RA OVC065 12/09 A2978 RMK AO2 PK WND 26039/1602 WSHFT 1554 RAB01 SLP086 P0002 T01220089 KEKO 061656Z AUTO 10004KT 10SM OVC100 M01/M07 A3019 RMK AO2 SLP247 T10111067 KEKQ 061656Z AUTO 30018G25KT 9SM OVC007 07/07 A3004 RMK AO2 SLP168 T00670067 KEKS 061655Z AUTO 19026KT 10SM OVC060 M00/M11 A2999 RMK AO2 KEKX 061655Z AUTO 28008KT 10SM BKN024 OVC110 05/00 A3007 RMK AO2 LTG DSNT S T00511005 KEKY 061741Z AUTO 25009KT 7SM RA OVC007 17/17 A3001 RMK AO2 LTG DSNT S-W TSE29 CIG 003V011 PRESRR P0012 KELA 061655Z AUTO 25006KT 10SM BKN016 BKN031 BKN042 26/22 A3002 RMK AO2 T02550220 KELD 061653Z AUTO 01012G18KT 10SM OVC050 12/04 A3015 RMK AO2 SLP208 T01220039 KELK 061735Z AUTO 35015G18KT 10SM CLR 03/M10 A3043 RMK AO2 LTG DSNT SE T00331104 KELM 061653Z 23009KT 10SM BKN025 OVC033 11/06 A2957 RMK AO2 SLP015 T01060056 KELN 061653Z AUTO 27003KT 10SM OVC039 M01/M03 A3002 RMK AO2 SNE12 SLP183 P0000 T10061033 KELO 061735Z AUTO 32012G20KT 10SM M18/M23 A2999 RMK AO2 KELP 061651Z 00000KT 10SM CLR 09/M06 A3029 RMK AO2 SLP227 HZ ALQDS MTNS OBSCD SW T00891061 KELY 061653Z AUTO 19011KT 10SM CLR 00/M11 A3021 RMK AO2 SLP247 T00001106 KELZ 061700Z AUTO 20012G18KT 6SM -RA BR SCT008 SCT018 OVC035 08/07 A2954 RMK AO2 P0001 T00780072 KEMK 061655Z AUTO 6SM HZ 26/22 A3005 RMK A01 KEMM 061730Z AUTO 27013G19KT 10SM CLR M02/M10 A3012 RMK AO2 KEMP 061653Z AUTO 36014G22KT 10SM CLR 02/M09 A3039 RMK AO2 SLP299 T00221089 KEMT 061645Z CALMKT 5SM HZ CLR 12/08 A3009 KEMV 061735Z AUTO 16009KT 10SM CLR 20/13 A2993 RMK AO2 T01970125 KEND 061656Z AUTO 02015G20KT 10SM CLR 03/M10 A3041 RMK AO2 SLP306 T00301096 $ KENL 061735Z AUTO 33016G21KT 10SM CLR 04/M05 A3020 RMK AO2 T00351053 KENV 061656Z AUTO 00000KT 10SM BKN110 00/M06 A3021 RMK AO2 SLP249 T00001061 FZRANO KENW 061653Z 30019G34KT 10SM OVC038 01/M08 A2986 RMK AO2 PK WND 28036/1642 SLP120 T00061078 KEOD 061558Z AUTO 35007KT 10SM BKN025 07/03 A3012 RMK AO2 SLP202 T00700026 KEOE 061735Z AUTO 27012G15KT 230V300 10SM OVC027 20/13 A3004 RMK AO2 KEOK 061735Z AUTO 30016KT 10SM SCT040 00/M09 A3024 RMK A01 KEPH 061653Z AUTO 02006KT 10SM OVC050 M01/M06 A3006 RMK AO2 SLP195 T10061056 KEQA 061735Z AUTO 02014G18KT 10SM CLR 03/M08 A3039 RMK AO2 KEQY 061653Z AUTO 23018G21KT 10SM CLR 20/12 A2999 RMK AO2 SLP164 T02000117 KERI 061739Z 25019G29KT 10SM SCT023 SCT028 OVC035 07/02 A2963 RMK AO2 PK WND 25029/1738 T00670017 KERV 061655Z AUTO 35017G21KT 10SM CLR 11/01 A3020 RMK AO2 T01130014 KERY 061735Z AUTO 30016G25KT 4SM BR OVC015 M03/M05 A2945 RMK AO2 T10321055 KESC 061656Z AUTO 32020G25KT 2SM -SN SCT022 BKN029 OVC043 M02/M06 A2959 RMK AO2 PK WND 30036/1605 VIS 1V5 UPB17E19SNE17B23 SLP031 P0000 T10221056 FZRANO $ KESF 061736Z AUTO 04004KT 10SM TS BKN018 OVC024 21/19 A2999 RMK AO2 LTG DSNT ALQDS TSB30 T02060189 KESN 061650Z 18017G20KT 10SM CLR 16/13 A2988 KEST 061652Z AUTO 31023G30KT 10SM CLR M11/M20 A3030 RMK AO2 PK WND 31031/1553 SLP283 T11061200 KETB 061735Z AUTO 29027G35KT 10SM BKN028 OVC034 M02/M07 A2983 RMK AO2 KETC 061735Z AUTO 21010G17KT 7SM CLR 21/12 A2995 RMK AO2 T02060122 KETH 061715Z AUTO 30011KT 10SM SCT022 M17/M23 A3037 RMK AO2 KETN 061735Z AUTO 33016G22KT 10SM CLR 09/M08 A3031 RMK AO2 LTG DSNT E T00851081 KEUF 061708Z AUTO 19007KT 170V240 10SM SCT022 BKN028 22/17 A3005 RMK AO2 T02220167 KEUG 061654Z 18007KT 8SM -RA FEW034 BKN050 OVC090 07/06 A3014 RMK AO2 SLP208 P0004 T00670056 KEUL 061740Z AUTO 01006KT 6SM -RA BKN023 BKN029 OVC043 02/M02 A3021 RMK AO2 RAB29 P0000 FZRANO KEVB 061650Z 23007KT 10SM SCT029 26/18 A3009 KEVM 061735Z AUTO 31015G20KT 7SM OVC016 M18/M23 A3006 RMK AO2 KEVU 061735Z AUTO 32012G18KT 10SM CLR 00/M08 A3035 RMK AO2 T10031090 KEVV 061354Z 32012G25KT 10SM SCT025 03/M02 A3005 RMK AO2 SLP175 T00331022 KEVW 061653Z AUTO 24018KT 10SM OVC085 01/M18 A3016 RMK AO2 PK WND 24026/1556 SLP216 T00111178 KEWB 061653Z 22018G30KT 10SM BKN012 OVC017 15/13 A2986 RMK AO2 PK WND 20030/1649 SLP109 T01500128 KEWK 061656Z AUTO 35014KT 10SM CLR 01/M08 A3041 RMK AO2 SLP304 T00111083 FZRANO KEWN 061654Z 23005KT 10SM BKN033 21/15 A3003 RMK AO2 SLP169 T02110150 KEWR 061651Z 19009KT 9SM -RA BKN015 BKN024 BKN110 15/12 A2981 RMK AO2 RAB51 SLP093 P0000 T01500117 KEXX 061735Z AUTO 23012G23KT 10SM CLR 20/11 A2992 RMK AO2 T02000114 KEYE 061653Z AUTO 28017G27KT 10SM OVC034 01/M06 A3003 RMK AO2 PK WND 29030/1643 SLP170 T00111056 KEYF 061655Z AUTO 24015G20KT 10SM CLR 22/13 A3002 RMK AO2 T02190133 KEYW 061653Z 05004KT 10SM FEW018 SCT025 28/23 A3011 RMK AO2 SLP194 T02780233 KEZF 061735Z AUTO 20020G28KT 10SM CLR 20/11 A2975 RMK AO2 T02040105 KEZM 061735Z AUTO 25008KT 10SM CLR 21/15 A3006 RMK AO2 T02120146 KEZS 061735Z AUTO 29015G25KT 10SM OVC030 M03/M09 A2980 RMK AO2 T10321094 KEZZ 061735Z AUTO 33015G20KT 10SM SCT035 01/M09 A3034 RMK AO2 T00071090 KF00 061735Z AUTO 36016G24KT 10SM CLR 09/M08 A3025 RMK AO2 LTG DSNT SE T00941075 KF05 061655Z AUTO 01017G24KT 10SM CLR 06/M10 A3042 RMK AO2 T00601105 KF17 061735Z AUTO 35011G16KT 10SM OVC013 16/12 A3010 RMK AO2 KF44 061655Z AUTO 02013G21KT 10SM CLR 13/00 A3015 RMK AO2 KF45 061645Z AUTO 19004KT A3011 RMK AO2 KF46 061655Z AUTO 01014G23KT 10SM CLR 11/M07 A3023 RMK AO2 T01101066 KF70 061655Z AUTO 00000KT 7SM CLR 13/02 A3011 RMK AO2 KFAF 061556Z 18008KT 10SM CLR 16/12 A2995 RMK AO2A SLP146 T01570115 $ KFAM 061656Z AUTO 32010KT 8SM CLR 03/M07 A3023 RMK AO2 SLP250 T00331072 KFAR 061653Z 28009KT 10SM UP CLR M19/M24 A3035 RMK AO2 UPB51 SLP304 P0000 T11941244 KFAT 061653Z 00000KT 1 1/2SM BR OVC005 08/07 A3022 RMK AO2 SLP232 T00780067 KFAY 061653Z 24015G20KT 10SM CLR 21/13 A3000 RMK AO2 SLP153 T02110128 KFBG 061622Z AUTO 24007KT 10SM CLR 19/13 A2999 RMK AO2 SLP158 $ KFBL 061735Z AUTO 29018G25KT 10SM CLR M13/M21 A3023 RMK AO2 KFBR 061655Z AUTO 28016G23KT 10SM OVC080 02/M19 A3017 RMK AO2 T00221191 KFCH 171215Z AUTO 36003KT 10SM OVC040 24/11 A2974 RMK A01 KFCI 061656Z AUTO 21010G15KT 10SM CLR 19/12 A2989 RMK AO2 SLP131 T01940122 KFCM 061653Z 30018G31KT 10SM CLR M13/M23 A3021 RMK AO2 PK WND 30031/1647 SLP246 T11331228 KFCS 061558Z AUTO 18018KT 10SM CLR M05/M20 A3020 RMK AO2 SLP302 T10531198 $ KFDK 061647Z 19013G18KT 10SM CLR 17/10 A2972 KFDR 061653Z AUTO 02017KT 10SM CLR 06/M11 A3037 RMK AO2 PK WND 01027/1558 SLP280 T00561111 KFDW 061715Z AUTO 23009G15KT 10SM CLR 20/12 A3002 RMK AO1 KFDY 061653Z AUTO 26026G39KT 10SM FEW034 SCT046 02/M06 A2983 RMK AO2 PK WND 27039/1650 SLP098 T00221056 KFEP 061730Z AUTO 27021G29KT 10SM SCT032 M02/M08 A3003 RMK AO2 T10191077 KFET 061735Z AUTO 32014G19KT 10SM CLR M05/M14 A3038 RMK AO2 T10521145 KFEW 061558Z 21018G20KT 10SM BKN160 M08/M17 A3008 RMK AO2A SLP258 T10821168 $ KFFA 061735Z AUTO 17003KT 10SM SCT020 BKN028 OVC034 19/14 A2996 RMK AO2 T01940142 KFFC 061724Z AUTO VRB04KT 10SM BKN014 OVC018 19/16 A3001 RMK AO2 T01890156 KFFL 061735Z AUTO 32022G32KT 10SM CLR M01/M14 A3023 RMK A01 KFFM 061735Z AUTO 31013KT OVC014 M18/M21 A3027 RMK AO2 PWINO KFFO 061556Z 28013G25KT 10SM BKN026 OVC140 03/M04 A2989 RMK AO2A PK WND 28032/37 T00311037 KFFT 061653Z AUTO 30012G24KT 270V330 10SM SCT120 07/M02 A3001 RMK AO2 SLP160 T00671022 KFFX 061720Z AUTO 28020G29KT 1SM -SN OVC016 M01/M04 A2970 RMK AO2 KFFZ 061654Z 00000KT 10SM CLR 17/M01 A3010 RMK AO2 SLP180 T01671006 $ KFGN 061735Z AUTO 31009KT 10SM CLR M21/M26 A3015 RMK AO2 KFGX 061735Z AUTO 31014KT 10SM BKN025 BKN030 OVC048 05/00 A2997 RMK AO2 T00510002 KFHB 061735Z AUTO 20006KT 10SM BKN035 24/18 A3006 RMK AO2 T02350175 KFHR 061653Z AUTO 07004KT 2SM BR BKN007 OVC013 03/03 A3007 RMK AO2 UPB1556E05 CIG 005V010 SLP184 P0002 T00330028 TSNO KFHU 061558Z AUTO 00000KT 10SM CLR 14/M04 A3021 RMK AO2 SLP191 T01351042 KFIG 061723Z AUTO VRB03KT 5SM -RA BR OVC004 07/07 A2961 RMK AO2 P0001 T00670067 KFIN 061650Z 21010KT 10SM CLR 26/18 A3010 KFIT 061729Z AUTO 00000KT 3SM BR 08/07 A2976 RMK AO2 T00780067 $ KFKA 061735Z AUTO 30024G29KT 10SM CLR M11/M19 A3013 RMK AO2 T11081193 KFKL 061656Z AUTO 28012G22KT 5SM RA BR OVC009 08/08 A2960 RMK AO2 WSHFT 1638 CIG 004V012 SLP029 P0008 T00830083 KFKN 061735Z AUTO 19010KT 10SM CLR 20/12 A2993 RMK AO2 T01950120 TSNO KFKR 061735Z AUTO 28021G29KT 10SM OVC029 M00/M05 A3001 RMK AO2 KFKS 061735Z AUTO 31024G41KT 3/4SM -SN BKN013 BKN020 OVC026 00/M04 A2959 RMK AO2 T10011040 KFLD 061653Z AUTO 30022G30KT 10SM BKN030 BKN035 00/M09 A2982 RMK AO2 PK WND 29037/1619 SLP108 T00001089 KFLG 061657Z 00000KT 10SM CLR 09/M12 A3026 RMK AO2 SLP218 T00941122 KFLL 061653Z 14011KT 10SM SCT015 BKN023 BKN046 27/25 A3009 RMK AO2 SLP188 T02720250 KFLO 061653Z 23014G19KT 10SM BKN031 23/13 A3002 RMK AO2 SLP164 T02280128 KFLP 061656Z AUTO 01010G19KT 10SM CLR 06/M07 A3029 RMK AO2 SLP254 T00561067 KFLY 061735Z AUTO 21014G22KT 7SM CLR A3016 RMK AO2 KFME 061735Z AUTO 20011G16KT 10SM SCT120 17/11 A2977 RMK AO1 KFMH 061656Z 21025G35KT 6SM BR OVC012 15/13 A2987 KFMM 061735Z AUTO RMK AO2 PNO PWINO TSNO KFMN 061653Z 09006KT 10SM CLR 02/M07 A3021 RMK AO2 SLP237 T00221067 KFMY 061653Z VRB05KT 10SM SCT024 SCT029 27/20 A3010 RMK AO2 SLP195 T02670200 KFNB 061653Z AUTO 31016G22KT 10SM CLR M01/M08 A3039 RMK AO2 PK WND 32030/1603 SLP299 T10061083 KFNL 061656Z 18006KT 10SM CLR M04/M16 A3019 RMK AO2 SLP261 T10441156 FZRANO KFNT 061736Z 26021G31KT 2SM R09/3000VP6000FT SN SCT023 BKN046 OVC075 01/M04 A2965 KFOA 061735Z AUTO 32013G23KT 10SM CLR 03/M06 A3019 RMK AO2 KFOD 061656Z AUTO 33016G21KT 10SM CLR M08/M17 A3031 RMK AO2 SLP312 T10831172 FZRANO KFOE 061653Z 34014G20KT 10SM CLR 02/M08 A3039 RMK AO2 SLP298 T00221083 KFOK 061653Z 20010G17KT 8SM OVC006 13/11 A2988 RMK AO2 SLP119 T01280111 KFOT 061655Z AUTO 00000KT 7SM SCT005 SCT017 07/07 A3022 RMK AO1 KFOZ 061653Z AUTO 31008KT 273V353 10SM M19/M23 A3017 RMK AO2 KFPK 061735Z AUTO 26013G23KT 5SM -SN SCT022 BKN039 OVC045 01/M03 A2972 RMK AO2 T00051034 KFPR 061722Z 06004KT 10SM BKN014 OVC022 24/20 A3009 RMK AO2 T02390200 KFPY 061735Z AUTO 21011G15KT 10SM CLR 25/14 A3009 RMK AO2 T02530136 KFQD 061655Z AUTO 21012G24KT 10SM CLR 18/12 A2997 RMK AO2 KFRG 061653Z 20017G24KT 8SM OVC006 13/11 A2985 RMK AO2 SLP109 T01280106 KFRH 061735Z AUTO 27009G19KT 10SM SCT035 02/M06 A3011 RMK AO1 KFRI 061556Z AUTO 02006KT 10SM CLR 00/M10 A3041 RMK AO2 SLP305 T00031097 KFRM 061656Z AUTO 32024G31KT 10SM CLR M13/M21 A3030 RMK AO2 PK WND 32033/1557 SLP285 T11331206 FZRANO KFRR 061655Z AUTO 22012G19KT 10SM CLR 20/10 A2970 RMK AO1 KFSD 061656Z 30014KT 10SM FEW020 FEW250 M12/ A3036 RMK AO2 SLP307 T1117 $ KFSE 061737Z AUTO 29007KT CLR M21/M26 A3024 RMK AO2 PWINO KFSI 061556Z AUTO 03021G30KT 10SM CLR 04/M11 A3035 RMK AO2 PK WND 03033/01 SLP277 T00411108 KFSM 061653Z 34012KT 10SM CLR 08/M07 A3028 RMK AO2 SLP253 T00831072 KFSO 061735Z AUTO 18004KT 10SM OVC025 07/06 A2948 RMK AO2 T00650058 KFST 061653Z AUTO 01010KT 10SM CLR 06/M09 A3038 RMK AO2 SLP269 T00611094 TSNO KFSW 061655Z AUTO 30022G27KT 10SM M01/M08 A3023 RMK AO2 KFTK 061656Z AUTO 29009G18KT 10SM BKN110 05/M03 A3006 RMK AO2 SLP182 T00461027 KFTN 061655Z AUTO 33014G19KT 10SM BKN014 OVC019 22/18 A3011 RMK A01 KFTW 061653Z 36019G25KT 10SM CLR 10/M07 A3025 RMK AO2 PK WND 01032/1604 SLP241 T01001072 KFTY 061653Z 20005KT 10SM OVC010 17/16 A3000 RMK AO2 RAB1556E22 CIG 007V015 SLP153 P0000 T01720156 KFUL 061653Z 00000KT 3SM HZ FEW250 12/09 A3008 RMK AO2 SLP187 T01220089 $ KFVE 061739Z AUTO 11012KT 3SM -FZRA BR BKN005 OVC009 M04/M06 A2977 RMK AO2 PK WND 11026/1719 UPE15FZRAB15 P0002 I1002 T10391056 KFVX 061735Z AUTO 20011G17KT 170V240 10SM CLR 22/11 A2982 RMK AO2 T02180109 KFWA 061737Z 26026G35KT 10SM OVC045 01/M06 A2990 KFWB 061735Z AUTO 36013KT 10SM CLR 03/M08 A3028 RMK AO2 KFWC 061735Z AUTO 29010G20KT 260V330 10SM CLR 03/M06 A3018 RMK AO1 T00321064 KFWN 061653Z AUTO 21007G15KT 8SM OVC010 11/10 A2975 RMK AO2 RAB03E36 SLP075 P0000 T01110100 KFWS 061650Z 35015G24KT 10SM CLR 12/M07 A3026 KFWZ 252135Z AUTO 24005G16KT 10SM CLR 27/M08 A3029 RMK AO2 KFXE 061717Z 15012KT 10SM BKN025 OVC030 27/24 A3007 RMK AO2 T02720239 $ KFXY 061735Z AUTO 31020G25KT 10SM CLR M11/M21 A3026 RMK AO2 KFYE 061655Z AUTO 34013G22KT 10SM OVC026 10/03 A3012 RMK A01 KFYG 061735Z AUTO 31013G20KT 10SM 03/M08 A3026 RMK AO2 KFYJ 061735Z AUTO 20009KT 10SM 19/12 A2987 RMK AO1 T01940120 KFYM 061700Z AUTO 02016KT 2 1/2SM BR SCT007 BKN014 OVC039 13/13 A3001 RMK A01 KFYV 061653Z 34013G19KT 10SM CLR 05/M07 A3029 RMK AO2 SLP253 T00501067 KFZG 061735Z AUTO 24007KT 10SM BKN055 22/14 A3008 RMK AO2 T02180136 KFZY 061654Z AUTO 19014G24KT 10SM SCT029 BKN034 OVC065 11/07 A2949 RMK AO2 RAE08 SLP985 P0000 T01110072 KGAD 061656Z AUTO 19006KT 9SM RA FEW041 BKN060 OVC070 17/17 A2998 RMK AO2 LTG DSNT E-S TSE47 SLP153 P0034 T01670167 $ KGAF 061735Z AUTO 28010KT 9SM CLR M20/M25 A3029 RMK AO2 KGAG 061653Z AUTO 01012KT 10SM CLR 02/M11 A3042 RMK AO2 SLP311 T00171106 $ KGAI 061656Z AUTO 18010G16KT 10SM FEW120 14/10 A2977 RMK AO2 SLP093 T01440100 KGAO 170246Z AUTO 17009KT 10SM SCT014 SCT023 BKN032 27/23 A2990 RMK AO2 KGBD 061656Z AUTO 36008KT 10SM CLR 00/M09 A3043 RMK AO2 SLP322 T00001094 FZRANO KGBG 061735Z AUTO 29019G31KT 10SM CLR 01/M07 A3017 RMK AO2 T00071074 KGBK 061735Z AUTO 18014KT 10SM SCT020 25/25 A3006 RMK A01 KGCC 061653Z AUTO 18015KT 10SM CLR M08/M13 A3005 RMK AO2 SLP239 T10831128 KGCD 061735Z AUTO 10005KT 4SM -SN BKN020 OVC025 M01/M01 A3011 RMK AO2 T10081012 KGCK 061654Z 03005KT 10SM CLR M01/M11 A3040 RMK AO2 SLP316 T10111111 KGCM 061735Z AUTO 36008KT 10SM CLR 05/M10 A3038 RMK AO2 KGCN 061654Z 00000KT 10SM CLR 10/M12 A3023 RMK AO2 SLP221 T01001117 KGCY 061655Z AUTO 24005KT 9SM BKN034 OVC075 15/13 A2993 RMK A01 P0001 KGDB 061735Z AUTO 31014G21KT 10SM BKN023 M13/M18 A3035 RMK AO2 T11261180 KGDJ 061655Z AUTO 35012G18KT 10SM CLR A3028 RMK AO2 KGDP 061651Z AUTO 06029G40KT 9SM CLR 02/M12 A3030 RMK AO2 PK WND 05044/1556 SLP239 T00171122 KGDV 061656Z AUTO 20009KT 10SM CLR M13/M16 A3017 RMK AO2 SLP272 T11331161 FZRANO KGED 061654Z AUTO 19016G22KT 10SM FEW110 18/12 A2987 RMK AO2 SLP115 T01830122 KGEG 061653Z COR 02006KT 1 1/2SM BR BKN025 OVC035 M05/M07 A3006 RMK AO2 SLP209 SNB28 P0000 T10501072 $ KGEU 061645Z 02003KT 10SM SKC 16/00 A3011 KGEV 061735Z AUTO 20010G18KT 170V260 10SM BKN046 BKN090 BKN120 16/04 A2990 RMK AO2 T01610039 KGEY 061653Z AUTO 11003KT 10SM FEW110 M09/M13 A3006 RMK AO2 SLP239 T10891128 KGEZ 061653Z AUTO 29019G27KT 10SM OVC036 02/M06 A3002 RMK AO2 PK WND 28031/1558 SLP169 T00171056 KGFA 061558Z AUTO 00000KT 10SM OVC075 M13/M14 A2992 RMK AO2 SLP227 T11301138 $ KGFK 061653Z 28010KT 10SM CLR M21/M25 A3031 RMK AO2 SLP289 P0000 T12061250 $ KGFL 061653Z AUTO VRB06KT 10SM OVC018 09/07 A2961 RMK AO2 PRESFR SLP032 T00890067 KGGE 061735Z AUTO 22012KT 10SM CLR 22/13 A3003 RMK AO2 KGGG 061653Z 35013G22KT 10SM CLR 16/06 A3013 RMK AO2 SLP199 T01610056 KGGI 061735Z AUTO 31022G29KT 10SM CLR M04/M15 A3027 RMK AO2 T10401146 KGGP 061735Z AUTO 28022G30KT 10SM OVC032 00/M18 A2999 RMK AO2 KGGW 061738Z AUTO 11010KT 3SM BR OVC003 M17/M19 A3008 RMK AO2 T11671189 KGHB 061735Z AUTO 22010KT 10SM SCT020 SCT026 SCT031 26/23 RMK A01 KGHG 061735Z AUTO 21014G27KT 10SM OVC021 16/12 A2979 RMK AO2 LTG DSNT SE AND S KGHW 061735Z AUTO 29018G24KT 10SM CLR M18/M23 A3027 RMK AO2 KGIC 061735Z AUTO 03008KT 10SM OVC035 M02/M03 A3000 RMK AO1 KGIF 061653Z AUTO 18008KT 10SM CLR 27/18 A3012 RMK AO2 SLP197 T02670183 KGJT 061653Z 00000KT 10SM CLR 02/M07 A3020 RMK AO2 SLP230 T00221072 KGKJ 061717Z AUTO 27011G19KT 4SM -RA BR BKN005 OVC011 05/04 A2961 RMK AO2 PK WND 28026/1705 CIG 004V008 P0001 T00500039 KGKT 061655Z AUTO 00000KT 10SM SCT060 BKN075 BKN085 17/16 A2990 RMK A01 P0007 KGKY 061653Z 36023G30KT 10SM CLR 13/M07 A3024 RMK AO2 PK WND 35030/1634 SLP235 T01281067 KGLD 061653Z AUTO 00000KT 10SM CLR M03/M12 A3030 RMK AO2 SLP295 T10331122 KGLE 061655Z AUTO 01017G23KT 10SM CLR 08/M09 A3031 RMK AO2 T00791090 KGLH 061653Z 36022G32KT 10SM BKN050 13/08 A3009 RMK AO2 PK WND 01033/1616 SLP198 T01280078 KGLR 061653Z AUTO 24021G28KT 1SM -SN SCT015 BKN020 OVC025 M01/M04 A2942 RMK AO2 PK WND 24030/1641 SNB20 SLP978 P0000 T10111044 KGLS 061652Z 18011KT 10SM FEW021 BKN047 OVC080 27/22 A3003 RMK AO2 SLP168 T02670217 KGLW 061735Z AUTO RMK TEMPORAIRILY INOPERATIVE KGLY 061735Z AUTO 33011KT 9SM 03/M08 A3034 RMK AO2 KGMJ 061735Z AUTO 36004KT 10SM CLR 04/M06 A3035 RMK AO2 LTG DSNT S KGMU 061653Z 25006KT 5SM BR OVC009 14/12 A3004 RMK AO2 RAB06E43 SLP169 P0000 T01390117 KGNA 061656Z AUTO 34017G48KT M13/M18 A2978 RMK AO1 PK WND 34048/1605 SLP102 T11331183 KGNB 061735Z AUTO 12004KT 10SM OVC120 01/M13 A3012 RMK AO2 T00051134 KGNC 061735Z AUTO 02009KT 10SM CLR 05/M11 A3043 RMK AO2 T00461108 KGNG 061655Z AUTO 00000KT 10SM CLR 00/M06 A3019 RMK AO2 KGNR 061656Z AUTO 12015G21KT 01/M01 A2971 RMK AO1 PRESFR SLP080 P0001 T00111006 KGNT 061655Z AUTO 00000KT 10SM CLR 04/M08 A3026 RMK AO2 T00401077 KGNV 061653Z 21006KT 10SM CLR 25/18 A3013 RMK AO2 SLP201 T02500178 KGOK 061653Z AUTO 03011G20KT 10SM CLR 04/M09 A3040 RMK AO2 SLP299 T00391094 KGON 061725Z 20011KT 10SM BKN015 11/11 A2985 RMK AO2 T01060106 $ KGOO 061655Z AUTO 30007KT 10SM CLR 11/M01 A3013 RMK A01 KGOP 061735Z AUTO 35017G22KT 10SM CLR 13/M05 A3022 RMK AO2 KGOV 061639Z AUTO 26010G17KT 6SM -SN BR BKN007 OVC019 M02/M03 A2947 RMK AO2 SNB09 CIG 007V020 BKN V FEW SLP999 $ KGPC 061735Z AUTO 30018KT 10SM BKN031 BKN035 01/M05 A3007 RMK AO2 T00121054 KGPH 061735Z AUTO 34010G17KT 10SM CLR 01/M08 A3036 RMK AO2 KGPI 061742Z 00000KT 1SM -SN BR VV013 M06/M08 A3001 RMK AO2 P0002 T10611078 KGPM 061650Z 01017G22KT 10SM SKC 11/M06 A3026 KGPT 061653Z 21008G15KT 10SM SCT013 23/21 A3002 RMK AO2 SLP164 T02280206 KGPZ 061656Z AUTO 32019G25KT 10SM CLR M19/M24 A3015 RMK AO2 SLP243 T11941244 FZRANO KGRB 061653Z 30023G34KT 6SM HZ FEW049 M02/M08 A2974 RMK AO2 PK WND 30038/1623 SLP080 T10221083 KGRD 061712Z AUTO 24011KT 10SM SCT022 BKN036 19/13 A3004 RMK AO2 T01890133 KGRF 061637Z 00000KT 1 7/8SM -DZ BR OVC005 04/02 A3006 RMK AO2A TWR VIS 1 SLP186 $ KGRI 061653Z 35006KT 10SM CLR M07/M15 A3041 RMK AO2 SLP329 T10671150 KGRK 061556Z AUTO 01018G24KT 10SM OVC025 13/02 A3017 RMK AO2 PK WND 36029/07 LTG DSNT E CIG 024 RWY15 SLP212 T01270017 KGRN 061655Z AUTO 20005KT 10SM CLR M09/M12 A3022 RMK AO2 T10871119 KGRR 061653Z 27021G33KT 2SM -SN SCT030 OVC036 00/M04 A2973 RMK AO2 PK WND 26035/1638 SLP075 P0000 T00001039 KGRY 061730Z AUTO 00000G13KT 10SM SCT020 BKN027 BKN046 27/21 A3007 RMK A01 KGSB 061556Z 23009KT 10SM FEW160 FEW250 19/12 A3001 RMK AO2A SLP166 T01940123 $ KGSH 052053Z AUTO 13011KT 2SM -RA BR OVC015 02/01 A2973 RMK AO2 RAE29B48UPB29E48 SLP075 P0001 60016 T00170006 56012 $ KGSO 061654Z 24018G29KT 9SM FEW035 OVC250 19/11 A2993 RMK AO2 PK WND 24029/1647 SLP131 T01940106 KGSP 061653Z 27011KT 4SM -RA BR OVC012 14/12 A3003 RMK AO2 RAB18E28B44 SLP165 P0000 T01390117 KGTB 061656Z AUTO 19019G27KT 10SM -RA BKN003 OVC021 10/08 A2943 RMK AO2 PK WND 17027/36 RAE04RAB04E04RAB07E24RAB24E24RAB27E37RAB37E37RAB52 CIG 003V023 SLP970 P0006 T00980082 KGTF 061653Z 23014KT 10SM OVC110 M02/M12 A2986 RMK AO2 SLP177 T10221122 $ KGTR 061707Z 33005KT 10SM SCT015 BKN020 OVC049 16/16 A3006 RMK AO2 LTG DSNT SE PNO $ KGTU 061656Z 34017G22KT 10SM OVC025 14/04 A3019 RMK AO2 SLP220 T01390044 KGUC 061656Z AUTO 00000KT 10SM CLR M04/M12 A3022 RMK AO2 SLP280 T10441122 FZRANO KGUL 061700Z AUTO 23006KT 10SM CLR 25/22 A3005 RMK A01 KGUP 061653Z AUTO 29003KT 10SM CLR 05/M03 A3024 RMK AO2 SLP235 T00501033 KGUR 061558Z AUTO 09006KT 9SM BKN110 M09/M12 A3013 RMK AO2 SLP254 T10881119 KGUS 061656Z AUTO 28019G29KT 10SM OVC037 01/M06 A2995 RMK AO2 PK WND 23033/32 SLP149 T00061065 $ KGUY 061653Z AUTO 05007KT 10SM CLR 00/M11 A3040 RMK AO2 SLP306 T00001111 KGVE 061735Z AUTO 22010G22KT 10SM CLR 19/11 A2977 RMK AO1 T01910105 KGVL 061737Z AUTO 22003KT 5SM -RA BR OVC005 15/13 A3002 RMK AO2 LTG DSNT SW-NW RAB36 CIG 003V009 P0000 T01500133 KGVQ 061656Z AUTO 25009G16KT 10SM -RA FEW028 SCT046 OVC070 11/09 A2944 RMK AO2 SLP971 P0001 T01060089 KGVT 061735Z AUTO 34016G20KT 10SM CLR 11/M04 A3023 RMK AO2 TSNO T01131042 KGWB 061735Z AUTO 25016G29KT 10SM BKN037 OVC046 00/M05 A2987 RMK AO2 KGWO 061653Z AUTO 35010G18KT 9SM OVC008 13/11 A3009 RMK AO2 SLP187 T01330111 KGWR 061735Z AUTO 32013KT 10SM BKN013 M17/M20 A3031 RMK A01 KGWW 061735Z AUTO 22015G18KT 10SM CLR 21/12 A2998 RMK AO2 T02050123 KGXA 291858Z AUTO 00000KT 10SM CLR 20/M15 A3019 RMK AO2 SLP210 WND DATA ESTMD T01951154 KGXF 061558Z AUTO 03005KT 10SM CLR 11/M04 A3005 RMK AO2 SLP172 T01121038 $ KGXY 061656Z AUTO 13005KT 10SM CLR M03/M16 A3020 RMK AO2 SLP277 T10331156 FZRANO KGYB 061655Z AUTO 35016G25KT 10SM OVC018 14/10 A3013 RMK AO2 T01440095 KGYF 061735Z AUTO 17011KT 10SM CLR A3001 RMK AO2 LTG DSNT NE KGYH 061705Z 27011G15KT 7SM OVC009 14/12 A3004 KGYI 061652Z 02016G24KT 10SM SKC 09/M07 A3029 KGYL 061735Z AUTO 29020G27KT 10SM CLR M14/M22 A3027 RMK AO2 T11451221 KGYR 061647Z 08003KT 10SM FEW250 14/01 A3011 KGYY 061645Z 27022G30KT 10SM BKN037 01/M07 A2995 KGZH 061733Z AUTO 22009G17KT 10SM SCT023 BKN031 25/18 A3002 RMK AO2 T02500178 KGZL 061715Z AUTO 36015G19KT 10SM CLR 07/M15 A3029 RMK AO2 KGZN 061720Z AUTO 36018KT 10SM CLR 08/M09 A3028 RMK AO2 KGZS 061655Z AUTO 36012G20KT 340V040 10SM FEW008 BKN013 OVC022 11/10 A3003 RMK A01 KH71 061735Z AUTO 36016KT 10SM CLR 05/M06 A3036 RMK AO2 KHAE 061735Z AUTO 31014G20KT 10SM SCT044 02/M11 A3025 RMK AO2 KHAF 061735Z AUTO 00000KT 3SM BR CLR 11/11 A3018 RMK AO2 KHAI 061735Z AUTO 28015G27KT 10SM BKN038 OVC043 01/M06 A2983 RMK AO2 T00051057 KHAO 061653Z AUTO 29015G25KT 10SM SCT031 03/M04 A3000 RMK AO2 PK WND 27027/1606 SLP160 T00281044 KHBG 061653Z AUTO 25005KT 10SM BKN019 BKN026 23/18 A3002 RMK AO2 SLP162 T02280178 KHBI 061735Z AUTO 21013G19KT 10SM CLR 20/08 A2997 RMK AO2 T01970083 KHBR 061653Z AUTO 03013G21KT 10SM 04/M10 A3040 RMK AO2 PK WND 04027/1601 SLP298 T00441100 PWINO $ KHBV 061735Z AUTO 00000KT 10SM BKN015 25/21 A3005 RMK AO2 T02470205 KHCD 061735Z AUTO 28017G21KT 10SM CLR M14/M20 A3028 RMK AO2 T11381204 KHCO 061735Z AUTO 00000KT 10SM CLR M20/M24 A3025 RMK AO2 KHCR 061655Z AUTO 00000KT 10SM OVC095 M02/M07 A3021 RMK AO2 KHDC 061637Z AUTO 22007KT 10SM CLR 24/21 A3003 RMK AO2 LTG DSNT NW KHDE 061735Z AUTO 33007KT 10SM CLR M05/M12 A3038 RMK AO2 T10531120 KHDN 061656Z AUTO 11006KT 10SM OVC100 M02/M09 A3016 RMK AO2 SLP223 T10171094 FZRANO KHDO 061651Z AUTO 01020G27KT 10SM CLR 16/07 A3014 RMK AO2 PK WND 35030/1610 SLP197 T01560067 KHEF 061656Z 19012G16KT 10SM CLR 17/11 A2977 RMK AO2 SLP087 T01720106 KHEG 061735Z AUTO 24009G15KT BKN037 BKN042 25/17 A3008 RMK AO2 KHEI 061653Z AUTO 26007KT 10SM CLR M12/M16 A3020 RMK AO2 SLP281 T11171161 KHEQ 061735Z AUTO 21005KT 10SM CLR 00/M11 A3025 RMK AO2 KHEY 061648Z AUTO 19003KT 10SM OVC014 21/18 A3006 RMK AO2 SLP180 KHEZ 061725Z AUTO 21005KT 10SM RA SCT012 BKN055 OVC110 21/19 A3004 RMK AO2 LTG DSNT ALQDS P0002 KHFD 061653Z 19012G20KT 3SM HZ OVC022 13/10 A2980 RMK AO2 SLP089 T01330100 KHFF 061636Z AUTO 27014KT 10SM CLR 20/13 A2997 RMK AO2 SLP151 $ KHFJ 061735Z AUTO 33010KT 10SM CLR 02/M07 A3031 RMK AO2 KHFY 061735Z AUTO 30014G25KT 10SM BKN035 02/M04 A3004 RMK AO2 T00211044 KHGR 061653Z 17012KT 10SM SCT120 13/06 A2968 RMK AO2 SLP062 T01280061 KHHF 061655Z AUTO 04011G16KT 10SM CLR 02/M11 A3041 RMK AO2 T00191111 KHHG 061735Z AUTO 28011G26KT 10SM OVC036 00/M07 A2993 RMK AO2 T00001073 KHHR 061653Z 16003KT 3SM HZ CLR 12/09 A3009 RMK AO2 RAB10E23 SLP189 P0000 T01220089 $ KHHV 061655Z AUTO 21010G17KT 170V260 10SM CLR 25/21 A3001 RMK A01 KHHW 061735Z AUTO 02014G22KT 10SM CLR 09/M07 A3023 RMK AO2 LTG DSNT SE KHIB 061653Z AUTO 31017KT 4SM HZ OVC014 M21/M24 A3008 RMK AO2 PK WND 31034/1559 SLP219 T12061244 KHIE 061652Z AUTO VRB03KT 10SM BKN029 BKN036 12/07 A2964 RMK AO2 PRESFR SLP044 T01170067 KHIF 061558Z 12003KT 10SM OVC095 01/M07 A3019 RMK AO2A SLP228 T00051066 KHII 061735Z AUTO 21003KT 10SM CLR 15/M03 A3010 RMK AO2 KHIO 061653Z 04004KT 1 1/2SM BR BKN005 OVC015 04/04 A3011 RMK AO2 RAB07E17 SLP198 P0001 T00390039 KHJH 061735Z AUTO 32009KT 10SM CLR M03/M11 A3042 RMK AO2 T10351109 KHJO 061734Z AUTO 00000KT 3SM BR OVC005 08/07 A3020 RMK AO2 T00780072 KHKA 061653Z AUTO 01022G30KT 10SM CLR 08/M01 A3020 RMK AO2 PK WND 03030/1630 SLP225 T00831011 $ KHKS 061741Z 27005KT 4SM -RA BR SCT006 BKN010 OVC026 17/16 A3006 RMK AO2 LTG DSNT ALQDS TSE05 T01720161 PNO KHKY 061653Z 20014G21KT 180V240 10SM FEW120 18/12 A2994 RMK AO2 SLP125 T01830117 KHLB 061655Z AUTO 29010G23KT 250V320 10SM BKN030 BKN035 OVC120 01/M04 A3001 RMK A01 KHLC 061653Z AUTO 03007KT 10SM CLR M01/M11 A3041 RMK AO2 SLP319 T10111106 KHLG 061653Z 23012G17KT 4SM HZ OVC010 A2969 RMK AO2 RAEMM SLPNO P0006 $ KHLN 061653Z 27003KT 10SM OVC055 M07/M12 A2994 RMK AO2 SLP211 T10721117 KHLR 061558Z AUTO 36018KT 10SM OVC026 13/03 A3018 RMK AO2 PK WND 36028/43 LTG DSNT E RAB24E55 SLP215 P0000 KHLX 061655Z AUTO 19011G18KT 10SM BKN110 15/09 A2990 RMK AO2 T01460092 KHME 241000Z 28010KT CAVOK 22/M07 Q1014 KHMN 061558Z AUTO 18013KT 10SM CLR 06/M06 A3030 RMK AO2 SLP242 T00611062 $ KHMP 061735Z AUTO 22009KT 10SM OVC013 18/16 A3005 RMK AO2 LTG DSNT N AND NW T01770156 KHMT 061655Z AUTO 00000KT 10SM CLR 14/M03 A3011 RMK AO2 T01401027 KHMZ 061730Z AUTO 22004KT 10SM -DZ SCT029 SCT055 OVC065 12/05 A2965 RMK AO2 T01220054 KHNB 061356Z AUTO 32015G25KT 10SM SCT024 04/M01 A3001 RMK AO2 SLP164 T00391011 KHND 061656Z 22004KT 10SM CLR 14/M08 A3014 RMK AO2 SLP218 T01441078 KHNR 061735Z AUTO 34015G22KT 10SM CLR M06/M14 A3035 RMK A01 KHNZ 061735Z AUTO 20014G18KT 10SM CLR 20/10 A2990 RMK AO2 T01960102 KHOB 061650Z 01007KT 10SM SKC 04/M14 A3039 KHOE 061735Z AUTO 21005KT 10SM BKN100 23/13 A3008 RMK AO2 T02310135 KHON 061655Z AUTO 33008KT 10SM OVC035 M13/M19 A3040 RMK AO2 SLP320 T11281194 KHOP 061656Z AUTO 35010G18KT 10SM CLR 07/M00 A3014 RMK AO2 SLP208 T00661002 KHOT 061653Z AUTO 36007KT 330V030 10SM CLR 12/M02 A3019 RMK AO2 SLP219 T01221017 $ KHOU 061730Z 23010KT 10SM -TSRA FEW012 SCT017CB BKN065 OVC250 26/22 A3000 RMK AO2 LTG DSNT SW RAB04 TSB30 OCNL LTGICCG N-NE TS N-NE MOV E CB DSNT SW MOV E P0002 T02610217 KHPN 061656Z 17007KT 7SM BKN007 OVC012 11/09 A2979 RMK AO2 PRESFR SLP089 T01110094 KHPT 061735Z AUTO 31023G30KT 10SM CLR M08/M20 A3024 RMK AO2 KHQG 061735Z AUTO 07003KT 10SM CLR 00/M12 A3039 RMK AO2 T10011123 KHQM 061653Z AUTO 08010KT 2 1/2SM BR SCT005 OVC014 04/03 A3004 RMK AO2 SLP177 T00440028 KHQU 061735Z AUTO 21008G15KT 180V240 10SM BKN026 BKN048 BKN050 21/14 A3002 RMK AO2 T02120143 KHQZ 061650Z 33018G22KT 10SM CLR 12/M05 A3023 KHRF 061735Z AUTO 21006G12KT 10SM SCT040 BKN048 OVC060 01/M09 A2996 RMK AO2 KHRI 061653Z AUTO 00000KT 10SM FEW065 OVC090 02/01 A3010 RMK AO2 RAE03 SLP197 P0000 T00220011 KHRJ 061655Z AUTO 22010G19KT 10SM CLR 20/13 A2999 RMK AO2 T01970130 KHRL 061730Z 19010KT 10SM SCT019 SCT026 BKN043 28/23 A2998 RMK AO2 T02780228 KHRO 061653Z AUTO 35009G16KT 10SM CLR 04/M08 A3027 RMK AO2 SLP246 T00391078 KHRT 061556Z 20011KT 10SM FEW030 SCT060 BKN200 24/19 A3008 RMK AO2A SLP188 T02390192 $ KHRX 061735Z AUTO 04007KT 10SM CLR 02/M10 A3037 RMK AO2 T00161103 KHSA 061647Z 21010KT 10SM BKN018 25/20 A3002 KHSB 061655Z AUTO 32018G22KT 10SM CLR 04/M08 A3021 RMK AO2 T00351080 KHSD 061735Z AUTO 36016G22KT 10SM CLR 04/M10 A3039 RMK A01 KHSE 061651Z AUTO 19008KT 9SM FEW028 SCT050 BKN060 21/17 A3001 RMK AO2 RAB25E34 SLP163 P0000 T02060167 KHSG 061735Z AUTO 00000KT 10SM CLR M07/M12 A3000 RMK AO2 T10671119 KHSI 061653Z AUTO 32009KT 10SM CLR M07/M14 A3041 RMK AO2 SLP326 T10721144 KHSP 181655Z AUTO 23016G21KT 10SM SCT036 17/06 A3013 RMK AO2 T01660064 KHST 061655Z AUTO 16011G17KT 10SM -RA FEW008 SCT014 BKN019 BKN033 OVC060 27/23 A3008 RMK AO2 DZB27E37RAB55 CIG 015V060 CIG 017 RWY24 SLP189 KHSV 061653Z 32004KT 10SM FEW008 BKN060 OVC075 16/14 A3000 RMK AO2 RAE14 SLP153 P0000 T01560144 $ KHTH 061655Z AUTO 00000KT 9SM CLR 04/M06 A3021 RMK A01 KHTL 061737Z AUTO 25014G24KT 2SM -SN SCT021 OVC028 M02/M04 A2951 KHTO 061735Z AUTO 22009KT 10SM OVC006 13/12 A2984 RMK AO2 T01300117 KHTS 061721Z 29015G23KT 10SM BKN014 OVC024 10/07 A2987 KHUA 061620Z AUTO 06005KT 9SM VCTS BKN055 OVC070 15/14 A2998 RMK AO2 RAE20 SLP150 KHUF 061653Z 29016G24KT 10SM OVC032 02/M04 A3011 RMK AO2 PK WND 28028/1616 SLP197 T00171044 KHUL 061736Z AUTO 12007KT 100V160 6SM UP BR OVC006 M01/M02 A2980 RMK AO2 UPB1657E1659B30FZRAE1657B1659E30 PRESFR P0002 I1001 T10061017 KHUM 061647Z 24012KT 7SM SCT015 26/21 A3005 KHUT 061652Z 01011KT 10SM CLR 03/M10 A3043 RMK AO2 SLP306 T00281100 KHVE 061735Z AUTO 00000KT 10SM CLR 04/M10 A3021 RMK AO2 KHVN 061653Z 18010KT 6SM BR OVC029 13/11 A2983 RMK AO2 SLP100 T01330111 KHVR 061653Z AUTO 05008KT 10SM OVC085 M19/M21 A3000 RMK AO2 SLP223 T11891206 KHVS 061735Z AUTO 22011KT 10SM SCT032 21/13 A3000 RMK AO2 KHWD 061654Z 02004KT 1 1/2SM BR OVC004 09/08 A3016 RMK AO2 SLP223 T00940078 KHWO 061653Z 15011KT 10SM SCT019 BKN025 BKN033 27/22 A3010 RMK AO2 RAB1557E08 SLP193 P0000 T02720222 KHWV 061656Z AUTO 18011KT 6SM BR OVC006 12/11 A2987 RMK AO2 SLP114 T01170106 KHWY 061655Z AUTO 18008G16KT 10SM SCT120 18/09 A2976 RMK AO2 T01830092 KHXD 061650Z 24007KT 10SM CLR 22/16 A3010 KHYA 061656Z 20013G20KT 6SM BR OVC012 14/13 A2987 RMK AO2 SLP115 T01390128 KHYI 061656Z 10SM BKN021 OVC029 16/08 A3015 RMK AO2 SLP202 T01560083 PNO $ KHYR 061653Z AUTO 29009G21KT 8SM OVC023 M15/M20 A3002 RMK AO2 PK WND 30027/1621 UPB23E40 SLP190 P0000 T11501200 KHYS 061656Z AUTO 34008KT 10SM CLR M02/M09 A3042 RMK AO2 SLP320 T10171089 FZRANO $ KHYW 061735Z AUTO 22011G19KT 10SM CLR 22/13 A3002 RMK AO2 KHYX 061735Z AUTO 25016G26KT 10SM SCT011 SCT023 SCT031 02/M03 A2962 RMK AO2 T00191029 KHZD 061655Z AUTO 36009G17KT 340V040 10SM FEW095 09/M00 A3014 RMK A01 KHZE 061735Z AUTO 25006KT 10SM BKN013 M18/M22 A3027 RMK AO2 KHZL 061735Z AUTO 16010G23KT 140V210 5SM BR OVC005 08/07 A2968 RMK AO2 KHZR 061735Z AUTO 22013G19KT 10SM VCTS SCT022 BKN060 OVC070 25/20 A3000 RMK AO2 LTG DSNT W THRU NE T02450200 KHZX 061735Z AUTO 30010G17KT 10SM CLR M17/M23 A3015 RMK AO2 KHZY 061653Z AUTO 27016G23KT 10SM BKN019 OVC026 06/03 A2965 RMK AO2 PK WND 27028/1614 RAE1554 SLP044 P0000 T00610028 KI16 061655Z AUTO 10SM RA SCT016 SCT025 OVC060 14/12 A2993 RMK AO2 T01350115 KI19 061715Z AUTO 30013G21KT 280V340 10SM BKN029 OVC034 01/M03 A2997 RMK AO2 T00131032 KI23 061735Z AUTO 28023G28KT 10SM BKN028 BKN033 03/M02 A2991 RMK AO1 KI35 061735Z AUTO 26007KT 10SM BKN010 OVC016 12/12 A2991 RMK AO2 T01170117 KI43 061735Z AUTO 28012G16KT 10SM OVC050 07/02 A2990 RMK AO2 KI63 061735Z AUTO 30017G23KT 10SM SCT040 01/M08 A3021 RMK AO2 T00121078 KI67 061735Z AUTO 29012G24KT 10SM SCT036 SCT120 02/M04 A3002 RMK AO1 KI68 060755Z AUTO 25013G23KT 3SM +RA SCT006 BKN010 OVC017 14/12 A2970 RMK AO1 T01360123 KI69 061735Z AUTO 28013G24KT 10SM BKN120 04/M03 A2999 RMK AO2 T00351032 KI74 061655Z AUTO 28016G21KT 10SM OVC024 00/M02 A2990 RMK AO2 KI75 061655Z AUTO 30016G21KT 10SM BKN028 M01/M08 A3028 RMK AO2 T10111078 KIAB 061656Z AUTO 02014KT 10SM CLR 02/M10 A3041 RMK AO2 SLP310 T00231096 $ KIAD 061652Z 20015G25KT 10SM SCT120 BKN160 BKN220 16/10 A2976 RMK AO2 PK WND 19029/1628 SLP075 T01610100 KIAG 061735Z 26017G25KT 4SM -RA BKN015 BKN025 OVC035 09/06 A2949 RMK AO2 PK WND 27031/1725 RAE05B34 P0000 T00890056 KIAH 061653Z 22007KT 10SM -RA BKN014 BKN035 OVC250 26/22 A3001 RMK AO2 RAB52 SLP162 TCU DSNT N AND E-S P0000 T02560217 KIBM 061735Z AUTO 19013G19KT 10SM SCT120 M03/M18 A3016 RMK AO2 T10301180 KICL 061735Z AUTO 34015G20KT 10SM CLR M03/M12 A3038 RMK AO2 KICR 061653Z AUTO 27006KT 10SM CLR M08/M16 A3034 RMK AO2 SLP306 T10831161 KICT 061653Z 03013G23KT 10SM CLR 03/M08 A3042 RMK AO2 SLP308 T00281083 KIDA 061653Z 21006KT 10SM BKN085 BKN110 M01/M07 A3014 RMK AO2 SLP235 T10111067 KIDI 061735Z AUTO 25013KT 3SM BR SCT009 BKN013 OVC046 11/11 A2968 RMK A01 KIDP 061735Z AUTO 01012KT 10SM CLR 04/M08 A3040 RMK AO2 T00351080 KIEN 061652Z AUTO 23005KT 10SM CLR M08/M11 A3022 RMK AO2 SLP285 T10781111 $ KIER 061735Z AUTO 01013G23KT 10SM TS BKN009 BKN018 OVC033 16/15 A3005 RMK AO2 LTG DSNT E THRU SW T01570153 KIFA 061735Z AUTO 30024G30KT 10SM CLR M08/M18 A3028 RMK AO2 T10761176 KIFP 061650Z 19007KT 20SM BKN140 13/M06 A3008 KIGM 061651Z AUTO 00000KT 10SM CLR 15/M08 A3015 RMK AO2 SLP169 T01501078 KIGQ 061655Z AUTO 29018G27KT 10SM OVC035 00/M07 A2996 RMK AO2 T00031075 KIIB 061735Z AUTO 30025G32KT 10SM CLR M05/M16 A3019 RMK AO2 T10551162 KIIY 061735Z AUTO 28011G16KT 10SM OVC013 18/14 A3003 RMK AO2 T01760145 KIJD 061652Z AUTO 22011G16KT 10SM OVC022 14/11 A2982 RMK AO2 SLP099 T01390106 KIJX 061735Z AUTO 30019G27KT 10SM 01/M08 A3021 RMK AO2 T00131080 KIKG 061735Z AUTO 28003KT 10SM SCT024 27/21 A3001 RMK AO2 T02690209 KIKK 061736Z AUTO 29024G31KT 10SM SCT035 01/M06 A3003 RMK AO2 KIKT 061655Z AUTO 19011KT 8SM FEW029 24/21 A3009 RMK A01 KIKV 061735Z AUTO 33020KT 10SM CLR M05/M15 A3031 RMK AO2 KIKW 061735Z AUTO 25013G23KT 10SM -SN BKN024 BKN034 OVC042 00/M04 A2960 RMK AO2 T00031042 KILE 061656Z AUTO 34015G23KT 10SM OVC026 13/M01 A3020 RMK AO2 SLP218 T01331006 KILG 061651Z 20016G23KT 10SM SCT019 BKN120 16/11 A2982 RMK AO2 SLP097 P0004 T01610111 KILM 061653Z 22014KT 10SM CLR 24/14 A3002 RMK AO2 SLP166 T02440144 KILN 061738Z AUTO 28022G30KT 10SM BKN028 BKN120 02/M03 A2994 RMK AO2 PK WND 29035/1717 T00221033 KIML 061653Z AUTO 18005KT 10SM CLR M04/M11 A3031 RMK AO2 SLP305 T10391111 KIMM 061655Z AUTO 00000KT 10SM SCT020 28/22 A3010 RMK AO2 PWINO KIMS 061735Z AUTO 28013G20KT 10SM BKN032 BKN038 OVC120 03/M02 A3006 RMK AO2 KIMT 061726Z AUTO 31025G41KT 1SM -SN SCT023 BKN032 OVC045 M04/M09 A2967 RMK AO2 PK WND 30041/1700 UPE06SNB06 P0000 T10441094 KIND 061654Z 29017G28KT 10SM BKN036 01/M06 A3004 RMK AO2 PK WND 27035/1629 SLP173 T00111061 KINF 061735Z AUTO 00000KT 5SM HZ SCT034 BKN046 26/18 A3009 RMK AO2 KINJ 061735Z AUTO 36019G25KT 10SM CLR 13/M04 A3021 RMK AO2 LTG DSNT E T01331037 KINK 061653Z AUTO 36009G14KT 10SM CLR 06/M11 A3040 RMK AO2 SLP285 T00561106 KINL 061654Z AUTO 30015G20KT 10SM UP SCT018 M21/M25 A3012 RMK AO2 UPB49 SLP229 P0000 T12061250 KINS 061558Z AUTO 00000KT 10SM CLR 05/M10 A3014 RMK AO2 SLP196 T00501096 $ KINT 061654Z 23010G24KT 200V260 10SM SCT035 19/11 A2994 RMK AO2 SLP132 T01940106 KINW 061656Z AUTO 14007KT 10SM CLR 05/M06 A3023 RMK AO2 SLP233 T00501061 KIOB 061735Z AUTO 30011G16KT 10SM BKN018 OVC025 07/03 A2998 RMK AO2 KIOW 061652Z AUTO 32020G34KT 10SM CLR M04/M14 A3023 RMK AO2 PK WND 29038/1605 SLP243 T10391139 KIPJ 061735Z AUTO 22013G17KT 10SM CLR 19/12 A2995 RMK AO2 T01940115 KIPL 061653Z AUTO 19004KT 5SM HZ CLR 17/00 A3004 RMK AO2 SLP171 T01720000 KIPT 061654Z 14012G21KT 10SM BKN020 12/05 A2962 RMK AO2 PK WND 18027/1632 SLP031 T01170050 KIRK 061655Z AUTO 31014G26KT 10SM BKN035 01/M08 A3028 RMK AO2 PK WND 34030/1637 SLP265 T00061083 KIRS 061728Z AUTO 26012G25KT 10SM -SN SCT029 BKN035 OVC045 00/M05 A2982 RMK AO2 KISM 061656Z 21006KT 10SM SCT025 26/18 A3012 RMK AO2 SLP199 T02560183 PNO $ KISO 061656Z 22011G18KT 10SM CLR 21/13 A3000 KISP 061656Z 20013G21KT 6SM BR OVC005 12/11 A2985 RMK AO2 SLP108 T01220111 KISQ 061735Z AUTO 32017G28KT 4SM -SN SCT020 BKN025 OVC043 M02/M06 A2951 RMK AO2 T10191058 KISW 061654Z AUTO 30022G32KT 6SM -SN BKN021 OVC028 M07/M11 A2992 RMK AO2 PK WND 28035/1605 SNE04B23 SLP148 P0000 T10721111 KITH 061656Z 17016G21KT 10SM BKN022 OVC050 10/06 A2956 RMK AO2 SLP012 T01000061 KITR 061653Z AUTO 11003KT 10SM CLR M02/M13 A3028 RMK AO2 SLP283 T10221133 KIUA 061735Z AUTO 22008G18KT 190V280 10SM -RA BKN070 OVC080 12/07 A2946 RMK AO2 T01150070 KIWA 061650Z 17004KT 10SM CLR 14/00 A3012 KIWD 061656Z AUTO 30018G27KT 1/2SM -SN FZFG FEW007 BKN014 OVC019 M11/M13 A2986 RMK AO2 PK WND 29028/1622 SLP132 P0000 T11111128 FZRANO RVRNO KIWI 061653Z AUTO 19008G21KT 2SM BR OVC003 13/12 A2980 RMK AO2 RAE35 PRESFR SLP089 P0001 T01280122 KIXA 061735Z AUTO 21011G18KT 10SM CLR 19/15 A2993 RMK AO2 KIXD 061653Z 33017KT 10SM CLR 02/M09 A3038 RMK AO2 SLP291 T00171089 KIYA 061735Z AUTO 21008KT 10SM SCT024 26/19 A3000 RMK AO2 LTG DSNT W THRU NE T02630186 KIZA 061735Z AUTO 00000KT 10SM CLR 12/00 A3009 RMK AO2 KIZG 061742Z AUTO 00000KT 10SM BKN008 OVC013 01/00 A2973 RMK AO2 PRESFR T00060000 KJAC 061656Z 19012KT 10SM BKN070 M01/M10 A3007 RMK AO2 SLP214 T10111100 KJAN 061739Z 28004KT 1 3/4SM TSRA BR SCT007 BKN022 OVC041CB 17/16 A3005 KJAQ 061735Z AUTO 15003KT 1SM OVC002 05/05 A3016 RMK AO1 T00510051 KJAS 061735Z AUTO 26006KT 10SM TS BKN014 OVC021 23/23 A2999 RMK AO2 LTG DSNT ALQDS KJAU 061655Z AUTO 00000KT 10SM SCT022 BKN026 BKN060 13/13 A2998 RMK A01 P0001 KJAX 061656Z 23010KT 10SM SCT029 SCT150 BKN250 24/17 A3007 RMK AO2 SLP183 T02440172 KJBR 061653Z AUTO 35015G21KT 10SM CLR 08/M04 A3023 RMK AO2 SLP234 T00831044 $ KJCA 061735Z AUTO 20005KT 10SM OVC006 16/15 A3001 RMK AO2 LTG DSNT W AND NW T01550148 KJCT 061651Z AUTO 01015G22KT 10SM CLR 11/M06 A3027 RMK AO2 SLP230 T01111056 KJDD 061735Z AUTO 34014G17KT 10SM CLR 13/M02 A3020 RMK AO2 LTG DSNT SE KJDN 061648Z AUTO 10005KT M17/M20 A3007 RMK AO1 SLP253 T11721200 KJEF 061653Z 34012G21KT 10SM CLR 03/M09 A3032 RMK AO2 SLP259 T00281089 KJER 061653Z AUTO 27006KT 10SM BKN070 03/M06 A3015 RMK AO2 SLP228 T00281056 KJES 061735Z AUTO 00000KT CLR 23/13 A3010 RMK AO2 PWINO KJFK 061726Z 18017KT 1/2SM R04R/P6000FT BR BKN003 BKN024 BKN110 BKN250 12/11 A2981 RMK AO2 PK WND 19026/1653 SFC VIS 4 T01220111 KJFX 061735Z AUTO VRB03KT 8SM FEW034 OVC045 16/16 A3002 RMK AO2 LTG DSNT S AND SW PWINO KJFZ 061735Z AUTO 24006KT 10SM -RA SCT047 BKN055 OVC070 10/09 A2992 RMK AO2 P0002 T01030092 KJGG 061735Z AUTO 19008KT 170V230 10SM CLR 21/13 A2991 RMK AO1 KJHN 061715Z AUTO 16003KT 10SM CLR M01/M12 A3037 RMK AO2 T10091117 KJHW 061656Z AUTO 28013G19KT 7SM RA SCT006 BKN013 OVC060 08/07 A2953 RMK AO2 WSHFT 1641 SLP013 P0005 T00780067 KJKA 061656Z 21011G17KT 10SM CLR 24/21 A3005 KJKJ 061735Z AUTO 31009KT 10SM CLR M19/M24 A3032 RMK AO2 KJKL 061653Z AUTO VRB04KT 10SM BKN008 BKN040 OVC047 11/09 A2992 RMK AO2 RAE44 SLP125 P0005 T01110094 KJLN 061653Z 36013G20KT 10SM CLR 03/M07 A3036 RMK AO2 SLP282 T00331067 KJMR 061735Z AUTO 32015G24KT 10SM CLR M15/M22 A3019 RMK AO2 KJMS 061656Z AUTO 29010KT 10SM CLR M18/M23 A3029 RMK AO2 SLP296 T11781233 KJNX 061735Z AUTO 21007KT 10SM SCT027 20/13 A2997 RMK AO2 KJOT 061735Z AUTO 29018G28KT 10SM CLR 02/M07 A3001 RMK AO2 T00151067 KJQF 061650Z 23010G25KT 10SM SCT029 21/12 A3001 KJRB 131756Z AUTO 19011G18KT 10SM SCT070 17/10 A2965 RMK AO2 LTG DSNT W AND NW SLPNO 6//// T01720100 KJSL 242300Z AUTO 13010KT 10SM CLR 24/15 A3011 RMK A01 KJSO 061735Z AUTO 36010G16KT 10SM VCTS CLR 13/06 A3014 RMK AO2 LTG DSNT E AND SE T01390063 KJST 061654Z AUTO 23011KT 10SM FEW005 BKN011 OVC020 10/08 A2964 RMK AO2 RAE35 SLP045 P0002 T01000078 KJSV 061735Z AUTO 35008KT 10SM CLR 07/M07 A3030 RMK AO2 LTG DSNT S KJSY 061735Z AUTO 00000KT 10SM BKN050 OVC060 M01/M04 A3004 RMK AO2 T10111039 KJTC 061655Z AUTO 00000KT 10SM CLR 10/M10 A3025 RMK AO2 KJVL 061645Z 28021G31KT 10SM SCT039 00/M07 A2992 KJVW 061735Z AUTO 29009KT 10SM VCTS RA BKN007 BKN021 OVC036 17/17 A3006 RMK AO2 LTG DSNT ALQDS KJVY 061735Z AUTO 30015G20KT 10SM CLR 05/M02 RMK AO2 KJWG 061735Z AUTO 36014G24KT 10SM CLR 04/M10 A3042 RMK AO2 LTG DSNT SE T00351102 KJWN 061655Z 34014KT 10SM BKN030 BKN100 09/02 A3009 KJWY 061735Z AUTO 35015G22KT 10SM CLR 12/M03 A3023 RMK AO2 T01221035 KJXI 061735Z AUTO 33010G19KT 10SM CLR 13/M01 A3017 RMK AO2 T01331006 KJXN 061741Z 24017G27KT 2SM -SN FEW016 BKN034 OVC055 00/M03 A2974 RMK AO2 PK WND 26034/1713 P0001 T00001033 KJYG 061737Z AUTO 31019G26KT 10SM M13/M21 A3030 RMK AO2 KJYL 061655Z AUTO 26007KT 10SM CLR 18/16 A3008 RMK AO2 T01830155 KJYM 061735Z AUTO 26019G26KT 10SM -SN BKN024 BKN041 OVC050 00/M05 A2976 RMK AO2 T00001046 KJYO 061735Z AUTO 20016G23KT 10SM CLR 17/11 A2973 RMK AO2 KJYR 061735Z AUTO 32006G12KT 10SM CLR M06/M13 A3039 RMK AO2 KJZI 061735Z AUTO 24009KT 10SM CLR 21/16 A3005 RMK AO2 KJZP 061735Z AUTO 18004KT 1/2SM +RA OVC002 13/13 A3003 RMK AO2 T01300130 KK62 061735Z AUTO 31011G20KT 10SM SCT030 SCT035 SCT120 03/M02 A2999 RMK AO2 KK82 061735Z AUTO 34008KT 10SM CLR M02/M11 A3041 RMK AO2 KK88 061735Z AUTO 01012G18KT 10SM CLR 03/M08 A3039 RMK AO1 T00301080 KKLS 061656Z AUTO 15009G17KT 10SM -RA BKN011 BKN015 OVC022 06/05 A3009 RMK AO2 SLP194 P0002 T00560050 KKNB 061735Z AUTO 00000KT 10SM CLR 06/M10 A3024 RMK A01 KKY8 061735Z AUTO 31012G18KT 10SM FEW036 05/M02 A3015 RMK A01 KL08 061735Z AUTO 00000KT 10SM CLR 22/M10 A3005 RMK AO2 KL18 061735Z AUTO 00000KT 10SM CLR 18/08 A3010 RMK AO2 KL35 061735Z AUTO 24004KT 10SM CLR 12/M08 A3029 RMK AO2 KL52 061735Z AUTO 13004KT 8SM CLR 14/10 A3010 RMK A01 KLAA 061653Z AUTO 17006KT 10SM CLR M01/M12 A3033 RMK AO2 SLP292 T10111122 KLAF 061654Z 28018G30KT 10SM OVC032 01/M06 A3002 RMK AO2 PK WND 30035/1559 SLP170 T00111056 KLAL 061650Z 18005KT 10SM SCT014 24/19 A3012 KLAM 061735Z AUTO 15006KT 10SM CLR 00/M09 A3025 RMK AO2 T10041087 KLAN 061742Z 26024G33KT 2 1/2SM -SN SCT022 BKN029 OVC047 01/M04 A2972 RMK AO2 PK WND 28036/1729 SNE13B25 P0000 T00111039 KLAR 061653Z AUTO 25016KT 10SM SCT085 02/M18 A3002 RMK AO2 SLP199 T00221183 KLAS 061656Z 00000KT 10SM BKN220 14/M07 A3013 RMK AO2 SLP194 T01441067 KLAW 061653Z 02020G23KT 10SM CLR 06/M11 A3038 RMK AO2 PK WND 03028/1613 SLP287 T00611106 KLAX 061653Z 13005KT 2SM BR FEW060 FEW160 SCT180 13/09 A3008 RMK AO2 SLP186 VIS 1 1/2V2 1/2 T01280094 KLBB 061653Z 03011G18KT 10SM FEW250 03/M11 A3039 RMK AO2 SLP286 T00281106 KLBE 061645Z 21010KT 6SM -RA SCT016 BKN025 OVC040 12/12 A2968 KLBF 061653Z AUTO 00000KT 10SM CLR M07/M13 A3035 RMK AO2 SLP313 T10671128 KLBL 061656Z AUTO 07009KT 10SM CLR M01/M11 A3043 RMK AO2 SLP323 T10061106 FZRANO KLBO 061735Z AUTO 34010G16KT 10SM CLR 02/M10 A3029 RMK AO2 LTG DSNT S KLBX 061724Z AUTO 20010KT 10SM FEW022 SCT036 BKN050 27/22 A3000 RMK AO2 LTG DSNT N AND NW T02720217 KLCG 061735Z AUTO 34011G20KT 10SM CLR M08/M16 A3038 RMK AO2 T10781163 KLCH 061653Z AUTO 21012G18KT 8SM SCT026 24/21 A2999 RMK AO2 SLP164 T02390211 KLCI 061656Z AUTO 01005KT 3SM BR OVC005 03/ A2976 RMK AO2 UPE08 PRESFR SLP082 P0000 T0028 KLCK 061655Z AUTO 27021G28KT 10SM SCT060 05/M01 A2988 RMK AO2 T00471010 KLCQ 061735Z AUTO 25012G15KT 10SM BKN033 25/15 A3008 RMK AO2 KLDJ 061735Z AUTO 22004KT 10SM SCT020 BKN110 16/11 A2978 RMK AO2 T01590111 KLDM 061735Z AUTO 30019G31KT 2 1/2SM -SN OVC016 M01/M05 A2969 RMK AO2 T10081046 KLEB 061737Z 21006KT 2SM BR OVC001 04/03 A2966 RMK AO2 T00440028 KLEE 061653Z 16005KT 10SM CLR 26/20 A3011 RMK AO2 SLP196 T02560200 KLEW 061656Z AUTO 00000KT 2SM UP BR OVC004 00/00 A2978 RMK AO2 SLP096 P0000 T00000000 FZRANO KLEX 061654Z 30011G19KT 10SM SCT026 OVC044 07/02 A2999 RMK AO2 SLP154 T00670017 KLFI 061647Z 20010G17KT 10SM SCT008 SCT020 17/16 A2994 RMK SLP145 $ KLFK 061737Z AUTO 36011G18KT 10SM BKN015 BKN070 OVC110 16/ A3007 RMK AO2 LTG DSNT SE T0161 $ KLFT 061653Z 21013G21KT 10SM SCT017 BKN024 BKN055 26/20 A3001 RMK AO2 PK WND 21026/1557 SLP161 T02560200 KLGA 061720Z 18008KT 10SM FEW008 SCT022 BKN090 14/11 A2979 RMK AO2 T01390106 KLGB 061733Z 14003KT 1/2SM R30/1400V3500FT FG VV001 12/12 A3009 RMK AO2 T01170117 KLGC 061735Z AUTO 21007KT 10SM OVC011 19/16 A3000 RMK AO2 LTG DSNT W THRU NE T01920158 KLGD 061656Z AUTO 17017G21KT 9SM -SN BKN020 OVC029 01/M03 A3011 RMK AO2 SLP221 P0000 T00061028 FZRANO KLGF 061558Z AUTO 00000KT 10SM CLR 12/M05 A3004 RMK AO2 SLP172 T01191055 $ KLGU 061651Z AUTO 19003KT 10SM OVC080 M01/M05 A3021 RMK AO2 SLP248 T10111050 KLHB 061740Z AUTO RMK AO2 PWINO KLHM 061735Z AUTO 32003KT 3SM OVC004 08/07 A3020 RMK AO1 KLHQ 061653Z AUTO 28013G26KT 10SM FEW060 06/00 A2986 RMK AO2 PK WND 27032/1629 SLP112 T00610000 KLHW 061656Z AUTO 24006KT 10SM SCT210 21/14 A3007 RMK AO2 SLP186 T02120143 $ KLHX 061653Z AUTO 15008KT 10SM CLR M01/M14 A3031 RMK AO2 SLP284 T10111139 KLHZ 061655Z AUTO 23012G16KT 10SM CLR 20/12 A2999 RMK AO2 KLIC 061555Z AUTO 16013KT 10SM CLR M05/ A3021 RMK AO2 SLP274 T1050 $ KLIT 061653Z 36015G24KT 10SM FEW200 11/M04 A3022 RMK AO2 PK WND 36028/1554 SLP234 T01061044 KLJF 061655Z 31011G22KT 10SM M16/M27 A3028 RMK AO2 KLKR 061735Z AUTO 25013G18KT 230V300 10SM FEW039 21/13 A3000 RMK AO2 KLKU 061715Z AUTO 20010G20KT 170V230 10SM CLR 19/11 A2984 RMK AO2 T01900108 KLKV 061653Z AUTO 00000KT 10SM FEW075 00/M04 A3017 RMK AO2 SLP256 T00001044 FZRANO KLLJ 061655Z AUTO 00000KT 10SM BKN055 BKN065 OVC080 M03/M10 A3006 RMK AO2 SLP207 T10281100 KLLN 061730Z AUTO 05010KT 10SM CLR 02/M12 A3038 RMK AO2 KLLQ 061653Z AUTO 01009G17KT 330V040 10SM -RA OVC055 12/03 A3013 RMK AO2 SLP200 P0000 T01170033 KLMO 061735Z AUTO 00000KT 10SM CLR M01/M16 A3015 RMK AO2 T10151160 KLMT 061653Z 00000KT 10SM BKN060 BKN095 BKN120 02/M03 A3015 RMK AO2 SLP228 T00171033 KLNA 061655Z AUTO 12004KT 10SM SCT035 BKN075 26/23 A3011 RMK AO2 T02630233 PNO KLNC 061655Z AUTO 01016G24KT 10SM CLR 12/M06 A3023 RMK AO2 T01201059 KLND 061653Z AUTO 32004KT 10SM UP CLR M09/M10 A3001 RMK AO2 UPB30 SLP222 P0000 T10941100 KLNK 061654Z 33012KT 10SM CLR M04/M14 A3042 RMK AO2 SLP317 T10391139 KLNL 061735Z AUTO 30013G19KT 1/4SM SN OVC005 M09/M11 A2978 RMK AO2 T10861107 KLNN 061735Z AUTO 28027G37KT 10SM SCT023 SCT030 OVC035 04/M01 A2971 RMK AO1 T00401012 KLNP 061735Z AUTO 24010G14KT 10SM -DZ SCT050 SCT060 OVC080 11/09 A2991 RMK AO2 KLNQ 090630Z AUTO 13/11 A3025 RMK AO2 T01280109 KLNR 061741Z AUTO 29019G33KT 5SM HZ FEW009 SCT029 M06/M13 A3003 RMK AO2 PK WND 28034/1728 UPB11E31SNE1658 P0000 T10561128 KLNS 061653Z 18009G15KT 10SM BKN019 OVC110 13/09 A2973 RMK AO2 SLP069 T01330089 KLOL 061653Z AUTO 00000KT 10SM BKN100 01/M04 A3017 RMK AO2 SLP236 T00061044 KLOM 061735Z AUTO 19011G23KT 10SM BKN017 BKN110 16/11 A2974 RMK AO2 T01560113 KLOR 061647Z AUTO 18008KT 10SM OVC014 22/18 A3007 RMK AO2 OVC V BKN SLP165 KLOT 061735Z AUTO 29018G29KT 10SM CLR 01/M06 A2999 RMK AO2 T00081057 KLOU 061653Z 28013G21KT 10SM OVC120 06/M02 A3006 RMK AO2 SLP178 T00561017 KLOZ 061720Z AUTO 31013G25KT 10SM BKN008 OVC016 11/ A2995 RMK AO2 CIG 006V013 P0001 T0106 $ KLPC 061656Z AUTO 10004KT 10SM CLR 09/06 A3010 RMK AO2 SLP193 T00890061 KLPR 061653Z AUTO 28018G29KT 10SM BKN031 OVC038 03/M02 A2974 RMK AO2 PK WND 27035/1626 SLP074 T00331017 KLQK 061735Z AUTO 19006KT 10SM OVC011 14/12 A2999 RMK AO2 T01440119 KLRD 061656Z 32006KT 10SM CLR 26/21 A3004 RMK AO2 SLP170 T02560206 KLRF 061556Z AUTO 36018G24KT 10SM CLR 10/M04 A3019 RMK AO2 SLP226 T00981042 $ KLRJ 061735Z AUTO 30014KT 10SM CLR M09/M18 A3036 RMK AO2 KLRO 061735Z AUTO 24007G13KT 9SM CLR 21/16 A3004 RMK AO2 KLRU 061735Z AUTO 14013G17KT 10SM CLR 10/M07 A3027 RMK AO2 T00951070 KLRY 061735Z AUTO 35013G16KT 10SM CLR 03/M08 A3038 RMK AO2 KLSE 061653Z 28013G23KT 10SM FEW029 M07/M15 A3008 RMK AO2 PK WND 29029/1614 SLP201 T10671150 KLSF 061636Z AUTO 18008KT 10SM OVC018 21/20 A3004 RMK AO2 SLP177 $ KLSV 061558Z AUTO 31004KT 10SM CLR 09/M08 A3012 RMK AO2 SLP197 T00861076 $ KLTS 061656Z 01016G22KT 10SM CLR 05/M12 A3039 RMK AO2A SLP293 T00501116 $ KLUA 061735Z AUTO 20017G28KT 10SM CLR 19/08 A2970 RMK AO2 KLUD 061735Z AUTO 03012G18KT 10SM CLR 09/M09 A3028 RMK AO2 T00931095 KLUF 061639Z AUTO 01004KT 6SM HZ CLR 15/00 A3009 RMK AO2 SLP187 $ KLUG 061655Z AUTO 35013G18KT 10SM BKN007 OVC011 09/08 A3006 RMK A01 KLUK 061653Z 28011G22KT 10SM FEW029 05/M02 A3000 RMK AO2 SLP160 T00501017 KLUL 061735Z AUTO 24009KT 10SM OVC019 23/19 A3002 RMK A02 T02270192 KLUM 061735Z AUTO 28021G26KT 10SM M11/M19 A3012 RMK AO2 T11151186 KLUV 061735Z AUTO 04013KT 10SM CLR 05/M11 A3038 RMK AO2 KLUX 061735Z AUTO 23007KT 10SM OVC022 18/13 A3001 RMK AO2 KLVJ 061742Z AUTO 21006KT 9SM -TSRA FEW035 SCT048 OVC070 25/22 A3002 RMK AO2 LTG DSNT N AND NE AND SW RAB26 TSB36 P0000 T02500222 KLVK 061653Z 00000KT 1/2SM FG OVC003 06/06 A3016 RMK AO2 SLP214 T00610061 KLVL 061655Z AUTO 20009G16KT 10SM CLR 19/12 A2993 RMK AO1 T01910115 KLVM 061653Z AUTO 25028G38KT 10SM SCT070 01/M08 A2986 RMK AO2 PK WND 25038/1650 SLP162 T00061078 KLVN 061735Z AUTO 30018G26KT 10SM CLR M13/M23 A3020 RMK AO2 KLVS 061653Z AUTO 20022KT 10SM CLR M04/M14 A3023 RMK AO2 PK WND 19032/1601 SLP230 T10391144 KLWA 061735Z AUTO 27018G28KT 10SM OVC032 01/M05 A2982 RMK AO2 T00081052 KLWB 061651Z 23004KT 10SM -RA SCT045 BKN050 OVC060 12/08 A2985 KLWC 061652Z AUTO 34014G24KT 9SM -SN CLR 02/M07 A3039 RMK AO1 SLP295 P0000 T00221072 KLWD 061653Z AUTO 30018G27KT 10SM CLR M02/M10 A3030 RMK AO2 PK WND 32030/1617 SLP272 T10171100 KLWM 061654Z 24005KT 1/2SM FG OVC003 10/09 A2978 RMK AO2 SLP086 T01000094 KLWS 061656Z AUTO 00000KT 9SM -SN OVC041 00/M04 A3007 RMK AO2 SNB49 SLP197 P0000 T00001044 KLWT 061654Z AUTO 11003KT 10SM BKN055 M08/M12 A2989 RMK AO2 SLP182 T10781122 KLWV 061653Z AUTO 31018G29KT 10SM FEW038 03/M05 A3015 RMK AO2 PK WND 31032/1605 SLP209 T00331050 $ KLXL 061655Z AUTO 31012G20KT 1 1/2SM HZ VV007 M18/M26 A3025 RMK AO2 VIS 1/4V5 KLXN 061735Z AUTO 32003KT 10SM CLR M06/M13 A3039 RMK AO2 T10571129 KLXT 061653Z AUTO 33016KT 10SM CLR 01/M09 A3036 RMK AO2 SLP288 T00111089 KLXV 061653Z AUTO 36010KT 10SM BKN075 01/M21 A3015 RMK AO2 SLP147 T00061206 KLXY 061735Z AUTO 36011G18KT 10SM CLR 15/M01 A3017 RMK AO2 LTG DSNT SE T01491015 KLYH 061654Z 22014G20KT 10SM CLR 19/11 A2985 RMK AO2 PK WND 21026/1623 SLP105 T01940106 KLYO 061735Z AUTO 01009KT 10SM CLR 01/M10 A3041 RMK AO2 T00111096 KLYV 061735Z AUTO 31017G22KT 10SM CLR M11/M20 A3033 RMK AO2 KLZU 061656Z 19005KT 2SM BR OVC006 16/15 A3002 RMK AO2 RAB21E45 CIG 005V009 SLP171 P0000 T01560150 KLZZ 061715Z AUTO 01013G20KT 10SM BKN026 13/M03 A3020 RMK AO2 LTG DSNT E T01271027 KM02 061655Z AUTO 01011G16KT 10SM BKN025 07/03 A3009 RMK A01 KM04 061655Z AUTO 02021KT 10SM CLR 10/M01 A3017 RMK A01 KM08 061655Z AUTO 34012G22KT 320V020 10SM SCT028 BKN032 10/05 A3012 RMK A01 P0002 KM19 061656Z AUTO 01014G20KT 10SM CLR 08/M03 A3024 RMK AO2 PK WND 35029/1612 SLP238 T00781028 KM21 061655Z AUTO 32012G20KT 10SM BKN110 05/M03 A3016 RMK AO2 T00461034 KM25 061735Z AUTO 10SM CLR 06/M04 A3020 RMK AO2 KM30 061655Z AUTO 34011G20KT 10SM CLR 05/M04 A3021 RMK AO2 P0001 T00481044 KM40 061735Z AUTO 36009KT 10SM SCT016 BKN022 OVC032 16/15 A3007 RMK AO2 KM54 061655Z AUTO 33015KT 10SM SCT022 SCT027 BKN034 09/05 A3007 RMK A01 KM75 061655Z AUTO 08009KT 10SM CLR M20/M22 A3008 RMK A01 KM91 061655Z AUTO 34010KT 10SM FEW026 FEW100 07/01 A3011 RMK A01 KMAE 061740Z AUTO 13004KT 1 3/4SM BR OVC004 08/07 A3020 RMK AO2 T00780067 KMAF 061653Z 03014KT 10SM CLR 05/M09 A3037 RMK AO2 SLP270 T00501094 $ KMAI 061653Z AUTO 21011KT 10SM SCT022 SCT027 23/17 A3008 RMK AO2 SLP185 T02280172 KMAN 061735Z AUTO 00000KT 8SM CLR 02/02 A3020 RMK A01 KMAO 061735Z AUTO 24012G23KT 200V260 10SM SCT033 21/13 A3000 RMK AO2 KMAW 061735Z AUTO 36014KT 10SM CLR 07/M03 A3023 RMK AO2 LTG DSNT SW KMBG 061652Z AUTO 31009KT 10SM SCT019 M11/M17 A3029 RMK AO2 SLP292 T11061167 KMBL 061656Z AUTO 28032G38KT 1/2SM SN FZFG BKN014 OVC020 M01/M01 A2960 RMK AO2 PK WND 28041/1628 UPB1557E21SNB21 SLP032 P0000 T10111011 FZRANO KMBO 060915Z AUTO 19004KT 10SM BKN014 BKN019 OVC034 19/18 A3000 RMK AO2 KMBS 061718Z 25020G30KT 9SM UP FEW013 SCT032 OVC050 01/M03 A2962 RMK AO2 PK WND 26035/1658 UPB13SNE13 P0000 T00061028 KMBT 061655Z AUTO 34011G19KT 10SM BKN016 OVC022 08/06 A3005 RMK A01 P0001 KMBY 061735Z AUTO 31015G21KT 10SM CLR 02/M10 A3029 RMK AO2 KMCB 061729Z AUTO 33004KT 5SM RA BR OVC016 21/20 A3003 RMK AO2 P0003 T02110200 KMCC 061655Z AUTO 20003KT 4SM BR OVC012 09/08 A3018 RMK AO2 KMCD 061735Z AUTO 29013G23KT 3SM -SN BKN019 OVC026 01/M03 A2938 RMK AO2 T00051030 KMCE 061653Z AUTO 12003KT 3SM BR OVC006 09/07 A3018 RMK AO2 SLP221 T00890072 KMCF 061623Z COR AUTO 19003KT 10SM SKC 22/20 A3010 RMK AO2A SLPNO ALSTG ESTMD FZRANO $ COR 1632 KMCI 061653Z 33014G23KT 10SM R19R/6000VP6000FT FEW030 FEW250 02/M08 A3036 RMK AO2 PK WND 34026/1615 SLP286 T00171083 KMCJ 061735Z AUTO 26009KT 230V310 6SM VCTS HZ FEW019 BKN026 BKN037 24/22 A2999 RMK A01 LTG DSNT N AND SE AND S KMCK 061653Z AUTO 00000KT 10SM SCT070 M03/M11 A3038 RMK AO2 SLP316 T10331111 KMCN 061653Z 24010G18KT 10SM CLR 22/14 A3005 RMK AO2 SLP175 T02170144 KMCO 061653Z 23005KT 10SM SCT028 27/18 A3011 RMK AO2 SLP193 T02670183 KMCW 061653Z AUTO 31022G32KT 10SM CLR M11/M20 A3026 RMK AO2 PK WND 30034/1631 SLP261 T11061200 KMCX 061715Z AUTO 29023G29KT 10SM OVC034 00/M07 A2999 RMK AO2 T00011071 KMDD 061735Z AUTO 03010KT 10SM CLR 06/M10 A3037 RMK AO2 T00611104 KMDH 061652Z 33013G21KT 10SM CLR 04/M04 A3022 RMK AO2 SLP233 T00391039 KMDJ 291150Z AUTO 02083G102KT M1/4SM FG BKN002 OVC019 26/26 A2858 RMK A01 KMDQ 061735Z AUTO 35014G18KT 7SM BR BKN011 BKN014 OVC027 14/12 A3001 RMK A02 LTG DSNT SW T01410118 KMDS 061715Z AUTO 32019G23KT 10SM BKN023 M13/M18 A3032 RMK AO2 KMDT 061703Z 13006KT 10SM BKN025 BKN120 13/07 A2970 RMK AO2 T01330072 KMDW 061653Z 28020G32KT 10SM BKN037 00/M09 A2996 RMK AO2 PK WND 27035/1643 SLP155 T00001094 KMDZ 061735Z AUTO 29020G24KT 1 1/4SM OVC022 M11/M15 A2989 RMK AO2 T11151151 PWINO KMEB 061652Z AUTO 25016G23KT 10SM CLR 22/13 A3001 RMK AO2 RAB36E45 SLP161 P0000 T02170128 KMEG 121750Z RMK AWOS T02490999 KMEH 061719Z AUTO 00000KT 3SM UP BR OVC017 00/M01 A3004 KMEI 061742Z 22006KT 10SM SCT023 BKN030 BKN050 23/18 A2997 RMK AO2 LTG DSNT W-NE RAE32 P0000 I1000 T02330183 KMEM 061654Z 36013G22KT 10SM FEW065 SCT080 BKN250 12/04 A3015 RMK AO2 SLP207 T01220039 $ KMER 061355Z AUTO 16003KT 4SM OVC006 09/09 A3018 RMK AO1 KMEV 061655Z AUTO 00000KT 10SM FEW110 M00/M05 A3019 RMK AO2 KMEZ 061735Z AUTO 36008G14KT 324V054 10SM CLR 10/M03 A3021 RMK AO2 LTG DSNT S KMFD 061652Z 26021G33KT 10SM BKN023 BKN028 02/M02 A2977 RMK AO2 PK WND 26033/1652 SLP086 T00171022 KMFE 061653Z VRB04KT 8SM BKN014 26/22 A3000 RMK AO2 SLP157 T02560217 KMFI 061654Z AUTO 31025G36KT 9SM BKN019 OVC024 M10/M15 A2990 RMK AO2 PK WND 29036/1641 UPB05E21SNB21E52 SLP147 P0000 T11001150 KMFR 061727Z 35005KT 6SM BR OVC005 04/03 A3023 RMK AO2 CIG 004V007 T00390033 KMFV 061735Z AUTO 19013G20KT 160V230 10SM SCT022 18/18 A2990 RMK AO2 T01820182 KMGC 061655Z AUTO 27015G24KT 10SM OVC035 00/M07 A2992 RMK AO2 KMGE 061601Z 22007KT 3SM BR OVC006 16/15 A3006 RMK AO2A $ KMGG 061729Z AUTO 30012G22KT 10SM CLR M15/M26 A3026 RMK AO2 KMGJ 061654Z AUTO 19007KT 10SM OVC013 10/09 A2973 RMK AO2 SLP069 T01000089 KMGM 061653Z 21016G21KT 10SM FEW023 24/17 A3001 RMK AO2 SLP159 T02440172 KMGN 061735Z AUTO 31018G28KT 3/4SM -SN BKN008 OVC017 00/M02 A2943 RMK AO2 T10021019 KMGR 061735Z AUTO 26007KT 10SM SCT100 22/15 A3009 RMK AO2 KMGW 061737Z 19005KT 2 1/2SM RA BR SCT014 BKN020 OVC050 12/10 A2972 RMK AO2 P0009 T01170100 KMGY 061653Z AUTO 28019G28KT 10SM BKN027 BKN120 02/M05 A2995 RMK AO2 PK WND 28029/1600 SLP143 T00171050 KMHE 061653Z AUTO 31011KT 10SM CLR M11/M19 A3042 RMK AO2 SLP323 T11111189 KMHK 061652Z VRB03KT 10SM CLR 02/M08 A3042 RMK AO2 SNE1557 SLP308 P0000 T00221083 KMHL 061735Z AUTO 32013G19KT 10SM CLR 01/M07 A3034 RMK AO2 KMHP 061735Z AUTO 19005KT 10SM CLR 20/15 A3006 RMK AO2 T01980151 KMHR 061655Z AUTO 16004KT 7SM OVC012 08/08 A3016 RMK A01 KMHS 061656Z AUTO VRB06KT 10SM OVC080 08/01 A3015 RMK AO2 SLP229 T00780006 KMHT 061653Z 00000KT 1/4SM R35/2000V2400FT FG OVC003 06/04 A2976 RMK AO2 SFC VIS 1/2 DZE31 SLP093 P0000 T00560044 KMHV 061720Z AUTO 00000KT 9SM CLR 12/M09 A3015 RMK A01 KMIA 061653Z 14011G22KT 10SM BKN015 BKN020 BKN050 27/24 A3009 RMK AO2 SLP190 T02720239 KMIB 061556Z AUTO 26008KT 10SM CLR M23/M28 A3022 RMK AO2 SLP292 T12331280 $ KMIC 061653Z 30015G37KT 10SM CLR M15/M23 A3021 RMK AO2 PK WND 32037/1602 SLP248 T11501233 KMIE 061653Z 30021G33KT 10SM OVC035 01/M07 A2997 RMK AO2 PK WND 29035/1603 SLP146 T00111072 KMIO 271855Z AUTO RMK AO2 PNO PWINO TSNO KMIS 061735Z AUTO 19013KT 10SM CLR 23/21 A3004 RMK A01 KMIV 061654Z AUTO VRB06KT 10SM FEW006 13/11 A2986 RMK AO2 SLP110 T01280106 PWINO $ KMIW 061653Z AUTO 31025G37KT 10SM CLR M07/M17 A3026 RMK AO2 PK WND 31037/1650 SLP261 T10721167 KMJD 061735Z AUTO 00000KT 10SM BKN017 BKN023 BKN017 BKN023 RMK AO2 KMJQ 061735Z AUTO 31020G25KT 10SM CLR M11/M21 A3028 RMK AO2 PWINO KMJX 031256Z AUTO 28006G18KT 10SM CLR 06/M03 A2994 RMK AO2 SLP141 T00611033 TSNO KMKC 061654Z 33014G22KT 10SM CLR 02/M09 A3036 RMK AO2 SLP286 T00171089 KMKE 061652Z 30019G31KT 9SM BKN034 BKN043 01/M08 A2984 RMK AO2 PK WND 29035/1629 SNE48 SLP113 P0000 T00111083 KMKG 061655Z 29025G43KT 5SM -SN OVC031 01/M06 A2974 RMK AO2 PK WND 27045/1620 SNB1557 SLP075 P0000 T00061056 KMKJ 061735Z AUTO 25012G23KT 7SM -RA 13/11 A2991 RMK AO2 T01280105 KMKL 061653Z 36020KT 10SM FEW027 10/00 A3015 RMK AO2 SLP209 T01000000 KMKN 061655Z AUTO 36015G20KT 10SM CLR 10/M05 A3028 RMK AO2 T00981050 KMKO 061653Z AUTO 01017G26KT 10SM CLR 06/M07 A3035 RMK AO2 PK WND 01026/1555 RAB03E12B30E36 SLP278 P0000 T00561067 KMKS 061735Z AUTO 23006KT 10SM CLR 20/14 A3004 RMK AO2 KMKT 061656Z AUTO 31022G30KT 10SM CLR A3027 RMK AO2 PK WND 31034/1557 SLPNO FZRANO $ KMKY 061656Z AUTO VRB04KT 10SM FEW024 SCT031 27/21 A3012 RMK AO2 SLP197 T02720211 TSNO $ KMLB 061653Z 00000KT 10SM BKN035 OVC065 27/19 A3010 RMK AO2 SLP192 T02670189 $ KMLC 061653Z AUTO 01017G25KT 10SM FEW100 SCT120 07/M07 A3031 RMK AO2 PK WND 36027/1558 RAB1558E24 SLP261 P0000 T00671067 KMLE 061735Z AUTO 30009KT 300V360 10SM SCT030 M04/M13 A3040 RMK AO2 T10421128 KMLF 061652Z AUTO 17003KT 10SM CLR M01/M08 A3019 RMK AO2 SLP239 T10061083 $ KMLI 061735Z 28021G31KT 10SM CLR M01/M11 A3014 RMK AO2 PK WND 28037/1703 SNE1657 P0000 T10061111 KMLJ 061655Z AUTO 19004KT 10SM SCT047 20/16 A3008 RMK AO2 KMLP 061717Z AUTO 1/4SM SN FZFG VV004 M08/M09 A2986 RMK AO2 P0004 T10781094 KMLS 061653Z AUTO 16007KT 10SM CLR M13/M16 A3013 RMK AO2 SLP256 T11331156 KMLT 061742Z AUTO 08003KT 2 1/2SM -FZRA BR OVC004 00/M01 A2977 RMK AO2 PRESFR P0003 I1005 T00001006 TSNO KMLU 061709Z 02015G22KT 10SM SCT011 OVC037 14/11 A3009 KMMH 061737Z AUTO 00000KT 10SM CLR 03/M07 A3026 RMK AO2 KMMI 061655Z AUTO VRB05G13KT 2 1/2SM BR SCT008 BKN021 BKN029 15/15 A2997 RMK A01 P0023 KMMK 061653Z AUTO 19011G18KT 10SM BKN017 BKN021 OVC028 13/09 A2981 RMK AO2 SLP095 T01280094 KMML 061656Z AUTO 31017KT 10SM FEW023 M13/M19 A3033 RMK AO2 SLP296 T11331194 FZRANO KMMT 061556Z 24008KT 10SM FEW035 FEW200 20/14 A3005 RMK AO2A SLP178 T01990138 $ KMMU 061645Z 22007KT 8SM -RA OVC011 11/11 A2981 KMMV 061653Z AUTO VRB04KT 3SM -RA BR OVC024 06/04 A3011 RMK AO2 SLP195 P0000 T00610039 KMNE 061740Z AUTO 36008G22KT 10SM VCTS SCT050 16/06 A3014 RMK AO2 LTG DSNT SE THRU SW KMNH 061735Z AUTO 19021G27KT 10SM CLR M06/M17 A3009 RMK AO2 KMNI 061735Z AUTO 22010KT 10SM CLR 20/13 A3003 RMK AO2 KMNM 061656Z AUTO 31014G24KT 9SM -SN BKN036 OVC110 M01/M06 A2966 RMK AO2 SLP051 P0000 T10111061 FZRANO $ KMNN 061653Z AUTO 29021G33KT 10SM BKN028 OVC110 02/M04 A2983 RMK AO2 PK WND 28036/1633 SLP107 T00171039 $ KMNV 061655Z AUTO 32013KT 3/4SM BR OVC005 14/14 A2995 RMK A01 P0046 KMNZ 061655Z AUTO 36019G22KT 10SM CLR 13/M05 A3024 RMK AO2 T01291050 KMOB 061656Z 20014G19KT 7SM BKN019 BKN050 BKN250 26/19 A3003 RMK AO2 SLP165 T02560194 KMOD 061653Z 16004KT 7SM OVC011 10/07 A3017 RMK AO2 SLP216 T01000072 KMOP 061735Z AUTO 24017G22KT 5SM -SN OVC018 00/M03 A2961 RMK AO2 T10041031 KMOR 061655Z AUTO 30004KT 7SM OVC030 13/13 A2993 RMK A01 P0015 KMOT 061654Z 22005KT 10SM CLR M18/M25 A3023 RMK AO2 SLP284 T11781250 KMOX 061735Z AUTO 31014G17KT 7SM SCT014 SCT020 M17/M22 A3033 RMK AO2 KMP1 131500Z 18005G09KT 5/ A3010 RMK 4/001 SOG 1.3 KMPO 061653Z AUTO 16015G21KT 1/4SM FG VV001 07/07 A2970 RMK AO2 PRESFR SLP071 T00670067 KMPV 061651Z AUTO 17014G20KT 7SM OVC013 06/03 A2965 RMK AO2 PRESFR SLP052 T00560033 KMPZ 061735Z AUTO 30019G25KT 10SM SCT040 00/M08 A3023 RMK AO2 KMQB 061735Z AUTO 31027G32KT 10SM CLR 00/M08 A3022 RMK AO2 T10031084 KMQE 011351Z AUTO 30008KT 24/21 A2986 RMK AO1 SLP116 T02440206 KMQI 061735Z AUTO 20011KT 10SM OVC023 19/14 A2997 RMK AO2 T01880144 KMQJ 061735Z AUTO 28019G28KT 10SM OVC034 01/M05 A3002 RMK AO1 KMQS 061735Z AUTO 18011G20KT 140V220 9SM SCT013 13/12 A2973 RMK AO2 KMQY 061656Z 34015G22KT 10SM OVC030 09/05 A3009 RMK AO2 SLP194 T00890050 KMRB 061653Z 17011KT 10SM CLR 17/07 A2968 RMK AO2 SLP050 T01670072 KMRC 061655Z AUTO 33007G13KT 7SM BKN020 OVC025 09/08 A3006 RMK A01 KMRF 061656Z AUTO 01016G19KT 10SM CLR 04/M07 A3034 RMK AO2 SLP268 T00441067 KMRH 061709Z AUTO 23012KT 10SM SCT023 SCT029 SCT036 22/16 A3001 RMK AO2 I1000 T02170161 KMRJ 271655Z AUTO 21005KT 10SM CLR 02/M01 A2976 RMK AO2 KMRN 061735Z AUTO 21009G14KT 10SM CLR 20/13 A2994 RMK AO2 T01990126 KMRT 061735Z AUTO 30020G31KT 10SM OVC026 01/M04 A2990 RMK AO2 T00061042 KMRY 061654Z 26003KT 8SM FEW001 10/08 A3013 RMK AO2 SLP216 T01000083 KMSL 061653Z AUTO 34013G21KT 10SM BKN013 BKN019 OVC028 14/11 A3003 RMK AO2 RAB10E20 SLP165 P0000 T01390111 KMSN 061726Z 29014G27KT 250V310 10SM BKN029 M02/M09 A2993 KMSO 061653Z AUTO 00000KT 10SM OVC048 M04/M09 A3001 RMK AO2 SLP201 T10391089 KMSP 061653Z 31018G28KT 10SM CLR M13/M22 A3021 RMK AO2 PK WND 31038/1600 SLP247 T11331217 $ KMSS 061717Z AUTO 19006KT 5SM RA BR BKN028 OVC035 07/07 A2941 RMK AO2 P0004 T00720072 KMSV 061016Z AUTO 06005KT 3SM UP BR OVC003 02/02 A2995 RMK AO2 P0000 FZRANO KMSY 061653Z 22012G18KT 10SM SCT020 BKN180 OVC250 26/19 A3004 RMK AO2 SLP175 T02560194 KMTC 061656Z 26022G30KT 10SM BKN045 OVC055 03/M04 A2964 RMK AO2A PK WND 27033/03 SLP046 T00361039 $ KMTH 061653Z AUTO 05003KT 10SM FEW017 27/23 A3009 RMK AO2 SLP187 T02670228 KMTJ 061653Z AUTO 01003KT 10SM CLR 04/M11 A3019 RMK AO2 SLP221 T00391106 KMTK 061740Z AUTO 25008KT SCT028 BKN034 BKN041 25/20 A3007 RMK A01 KMTN 061654Z 16016KT 10SM FEW020 BKN090 12/11 A2981 KMTO 061653Z AUTO 30020G32KT 10SM CLR 02/M06 A3013 RMK AO2 PK WND 30034/1635 SLP205 T00171061 KMTP 061654Z AUTO 21009G19KT 13/11 A2988 RMK AO1 SLP119 T01330111 KMTV 061735Z AUTO 23007G22KT 190V260 10SM SCT036 19/11 A2990 RMK AO2 T01900108 KMTW 061656Z AUTO 28027G37KT 3SM -SN BKN025 OVC031 M02/M07 A2973 RMK AO2 PK WND 28040/1610 SLP076 P0000 T10221067 FZRANO KMUI 061656Z 00000KT 10SM FEW012 OVC017 11/07 A2972 RMK AO2A SLP068 T01060067 KMUO 061628Z VRB02KT 10SM BKN070 OVC090 00/00 A3016 RMK AO2A SLP236 RVRNO $ KMUT 061735Z AUTO 31024G33KT 10SM CLR M02/M14 A3022 RMK AO2 KMVE 061735Z AUTO 35011G17KT 10SM SCT025 M15/M21 A3034 RMK AO2 KMVH 061655Z AUTO 31004KT 10SM CLR M11/M15 A2990 RMK AO2 PWINO KMVL 061654Z AUTO 22005G14KT 10SM BKN017 BKN025 06/03 A2962 RMK AO2 PRESFR SLP036 T00560033 KMVN 061656Z AUTO 31007G15KT 280V350 10SM CLR 03/M06 A3020 RMK AO2 SLP234 T00281056 KMVY 061653Z 21017G25KT 8SM -RA OVC008 14/13 A2990 RMK AO2 PK WND 21027/1615 CIG 006V011 SLP124 P0000 T01440128 KMWA 061645Z 34010KT 20SM CLR 04/M04 A3020 KMWC 061645Z 29018G32KT 10SM BKN032 OVC040 M01/M08 A2984 KMWH 061652Z 00000KT 8SM -SN SCT019 OVC050 00/M04 A3007 RMK AO2 SNB47 SLP197 P0000 T00001044 KMWK 061735Z AUTO 20006KT 10SM 18/10 A2991 RMK AO2 T01810095 KMWL 061653Z AUTO 36014G26KT 10SM CLR 10/M08 A3028 RMK AO2 PK WND 36030/1606 SLP248 T01001078 KMWM 061735Z AUTO 30018G22KT 10SM CLR M12/M20 A3028 RMK AO2 KMWN 061654Z 20042G52KT 0SM FG VV000 01/01 RMK KMWO 061735Z AUTO 31017G23KT 10SM OVC031 02/M06 A3001 RMK AO2 T00181056 KMWT 061653Z AUTO 10SM CLR 12/M03 A3017 RMK AO2 SLP214 T01171028 KMXF 061556Z AUTO 20009G15KT 10SM OVC015 22/18 A3002 RMK AO2 SLP168 T02200176 KMXO 061735Z AUTO 29024G30KT 10SM CLR M05/M15 A3015 RMK AO2 KMYF 061738Z 22005KT 1/4SM FG VV002 12/12 A3011 RMK AO2 T01220117 KMYJ 061735Z AUTO 30015G20KT 10SM CLR 02/M07 A3027 RMK AO2 KMYL 061731Z AUTO 00000KT 3/4SM -SN BR VV016 M03/M05 A3008 KMYP 061740Z AUTO 26032KT 10SM CLR M05/M17 A3027 RMK AO2 KMYR 061656Z 22007KT 10SM CLR 21/15 A3004 RMK AO2 SLP172 T02110150 KMYV 061741Z AUTO 00000KT 3SM BR BKN005 OVC012 09/07 A3020 RMK AO2 T00890067 KMYZ 061735Z AUTO 33009KT 10SM CLR 00/M08 A3040 RMK AO2 KMZH 061659Z AUTO 32014G22KT 280V340 10SM CLR M16/M24 A3011 RMK AO2 KMZJ 061735Z AUTO 15004KT 10SM CLR 17/M01 A3013 RMK AO2 KMZZ 061735Z AUTO 28022G31KT 10SM OVC032 00/M04 A2997 RMK AO2 T10041045 KN KN03 061655Z AUTO 21010G20KT 10SM BKN021 OVC027 09/06 A2956 RMK AO2 KN38 061735Z AUTO 23009KT 1 1/2SM -RA OVC007 06/05 A2957 RMK AO2 KN60 061652Z AUTO 28006KT M19/M23 A3024 RMK AO1 SLP295 T11941228 KNAK 061654Z AUTO 15009G18KT 8SM FEW110 13/11 A2981 RMK AO2 SLP096 T01330106 KNBC 061656Z 25008KT 10SM FEW042 20/15 A3008 RMK AO2 PRESFR SLP185 T02000150 KNBG 061655Z 22015KT 10SM SCT020 BKN120 BKN250 26/21 A3004 RMK AO2 SLP170 T02610206 $ KNBT 061556Z AUTO 22007KT 190V250 10SM 23/16 A3005 RMK AO2 SLP181 T02280161 PNO $ KNCA 061656Z 23010G17KT 10SM CLR 22/14 A3002 RMK AO2 SLP167 T02220144 KNDZ 061656Z VRB06KT 10SM FEW024 SCT045 BKN200 24/19 A3005 RMK AO2 SLP162 T02440194 $ KNEL 061700Z 21012G20KT 10SM FEW100 17/12 A2981 RMK AO2 SLP094 T01670117 $ KNEW 061653Z 23013KT 10SM FEW021 SCT080 24/19 A3003 RMK AO2 SLP163 T02440194 KNFE 061656Z AUTO 20008KT 180V280 10SM CLR 21/13 A2995 RMK AO2 SLP144 T02110133 KNFG 061655Z 00000KT 10SM CLR A3010 RMK AO2 SLPNO $ KNFL 061656Z COR 00000KT 10SM FEW070 BKN110 BKN150 OVC200 03/M04 A3017 RMK AO2 SLP182 T00281039 KNFW 061652Z 01018KT 10SM FEW050 FEW250 10/M06 A3027 RMK AO2 PK WND 01029/1639 SLP233 T01001061 VISNO S $ KNGP 061719Z 17005KT 10SM FEW013 FEW028 BKN200 OVC250 28/23 A3001 RMK AO2 T02780228 KNGU 061659Z 23010G20KT 9SM BKN200 19/13 A2995 RMK AO2 SLP143 T01940128 $ KNHK 061652Z 17008KT 10SM FEW055 SCT100 BKN250 18/12 A2986 RMK AO2 SLP112 T01830117 $ KNID 061656Z 00000KT 10SM OVC250 09/M12 A3013 RMK AO2 SLP207 T00891117 $ KNIP 061653Z 18006KT 10SM SCT035 SCT150 BKN250 24/18 A3009 RMK AO2 SLP186 T02390183 KNJK 061656Z 00000KT 10SM FEW250 18/01 A3006 RMK AO2 SLP195 T01780006 $ KNJM 061712Z AUTO 23007KT 7SM SCT027 BKN036 OVC043 20/15 A3003 RMK AO2 T02000150 $ KNJW 061734Z AUTO 35014G23KT 3SM +TSRA BR SCT004 BKN012 OVC080 17/16 A2998 RMK AO2 WSHFT 1719 P0018 T01670161 KNKT 061656Z 21011KT 7SM BKN027 22/15 A3002 RMK SLP163 T02170150 KNKX 061655Z 23003KT 5SM BR CLR 14/11 A3009 RMK AO2 SLP187 T01390106 $ KNLC 061656Z 09003KT 5SM HZ OVC010 09/06 A3021 RMK AO2 SLP229 RH/79 T00940061 KNMM 061729Z 25009KT 9SM RA BKN023 BKN030 OVC037 22/19 A2998 RMK AO2 RAB28 P0000 T02220189 KNOG 061656Z AUTO 25004KT 10SM SCT019 SCT024 26/20 A3003 RMK AO2 SLP148 T02560200 PNO $ KNOW 061735Z AUTO 18004KT 10SM OVC009 03/02 A3005 RMK AO2 T00310022 KNOZ 061659Z AUTO 00000KT 10SM CLR 17/M06 A3005 RMK AO2 SLP126 T01671056 $ KNPA 061656Z 21009KT 10SM FEW030 BKN180 OVC250 24/19 A3005 RMK AO2 SLP176 T02390194 $ KNQA 061650Z 36018G29KT 10SM SCT065 10/01 A3016 KNQI 061726Z 26008KT 10SM BKN028 BKN040 BKN150 29/21 A3000 RMK AO2 T02890211 $ KNQX 061653Z 01005KT 10SM FEW014 SCT020 26/23 A3010 RMK AO2 SLP192 T02610228 $ KNRB 061652Z 23009KT 10SM BKN250 25/17 A3008 RMK AO2 SLP186 T02500172 KNRN 061735Z AUTO 36006KT 10SM CLR M01/M10 A3041 RMK AO2 KNRS 061741Z 19005KT 2SM BR OVC005 14/13 A3012 RMK AO2 T01390128 KNSE 061656Z 20007KT 10SM FEW025 SCT045 BKN180 BKN250 24/19 A3005 RMK AO2 SLP162 T02440189 $ KNSI 061653Z 06003KT 7SM FEW000 FEW013 16/13 A3006 RMK AO2 SLP174 FG FEW000 FG BANK N OFF SHORE T01560133 $ KNTD 061736Z 00000KT 4SM BR SCT004 12/11 A3008 RMK AO2 T01220111 VISNO N $ KNTU 061656Z 23010G18KT 10SM FEW040 BKN150 21/13 A2994 RMK AO2 SLP142 T02110133 KNUC 061656Z 19006KT 10SM SCT008 SCT200 16/14 A3009 RMK AO2 SLP188 T01560139 $ KNUI 061653Z AUTO 18007KT 10SM CLR 19/12 A2987 RMK AO2 SLP115 T01890117 KNUQ 061655Z AUTO 00000KT 1 1/4SM BR OVC003 10/10 A3016 RMK AO2 KNUW 061742Z 09011KT 6SM BR FEW008 BKN022 OVC050 04/03 A3009 RMK AO2 RAB1658E26 P0000 T00440033 $ KNXF 061656Z AUTO 7SM CLR A3009 RMK AO2 SLPNO PWINO $ KNXP 061656Z AUTO 00000KT 10SM CLR 14/M12 A3019 RMK AO2 SLP200 T01391117 KNY0 061739Z AUTO 21011KT 10SM SCT036 BKN042 OVC050 13/08 A2955 RMK AO2 KNYC 061730Z AUTO VRB03KT 8SM FEW015 SCT023 SCT100 15/11 A2980 RMK AO2 T01500111 KNYG 061656Z 20018G27KT 8SM CLR 18/10 A2980 RMK AO2 PK WND 19027/1654 PRESFR SLP090 T01830100 KNYL 061657Z 01006KT 7SM FEW200 17/M01 A3005 RMK AO2 SLP174 T01721006 KNZY 061652Z 28004KT 1 1/2SM BR OVC005 14/12 A3010 RMK AO2 SLP191 T01390122 $ KO05 061730Z AUTO 00000KT 10SM SCT095 BKN120 02/M01 A3019 RMK A01 KO22 061735Z AUTO 00000KT 10SM CLR 06/06 A3014 RMK A01 KO32 181850Z AUTO 31008KT 10SM FEW039 15/04 A3004 RMK AO2 KO69 061735Z AUTO 00000KT 2SM BR OVC004 08/08 A3019 RMK A01 KO86 061715Z AUTO 00000KT 9SM SCT003 BKN080 04/03 A3018 RMK AO1 KOAJ 061656Z 23014KT 10SM CLR 22/14 A3002 RMK AO2 SLP169 T02220139 KOAK 061653Z 01003KT 5SM BR SCT002 OVC006 09/08 A3018 RMK AO2 SLP219 T00890083 KOAR 061735Z AUTO 11006KT 10SM CLR 05/03 A3015 RMK AO2 KOBE 061735Z AUTO 00000KT 10SM FEW014 BKN032 BKN038 25/22 A3009 RMK AO2 KOCF 061651Z 20007KT 10SM CLR 26/18 A3012 RMK AO2 SLP199 T02560183 KOCH 061723Z AUTO 14/12 RMK AO2 PWINO RVRNO $ KOCQ 061735Z AUTO 30011G20KT 10SM SCT037 BKN046 BKN110 M02/M09 A2974 RMK AO1 T10251091 KOCW 061735Z AUTO 22012G19KT 10SM CLR 22/12 A2998 RMK AO2 T02200120 KODO 061653Z AUTO 02013G20KT 10SM CLR 06/M10 A3038 RMK AO2 SLP270 T00561100 KODX 061653Z AUTO 36007KT 10SM CLR M08/M15 A3037 RMK AO2 SLP317 T10831150 KOEB 061735Z AUTO 28014G20KT 5SM -SN SCT015 BKN022 OVC033 M01/M03 A2981 RMK AO2 T10061031 KOEL 061735Z AUTO 00000KT 10SM CLR M01/M12 A3034 RMK AO1 T10071121 KOEO 061735Z AUTO 31013G28KT 10SM CLR M12/M20 A3021 RMK AO2 T11231198 KOFF 061556Z 32014G21KT 10SM CLR M05/M13 A3040 RMK AO2A SLP313 T10541135 PWINO PNO FZRANO TSNO VISNO RWY12 CHINO RWY12 $ KOFK 061656Z AUTO 33016G22KT 10SM FEW019 M08/M17 A3039 RMK AO2 SLP313 T10831172 KOFP 061654Z AUTO 19015G21KT 8SM CLR 19/11 A2987 RMK AO2 SLP115 T01940111 KOGA 061735Z AUTO 25007KT 10SM BKN060 M01/M13 A3028 RMK AO2 T10141133 KOGB 061653Z AUTO 24011G18KT 10SM CLR 21/13 A3004 RMK AO2 SLP173 T02110133 KOGD 061653Z 18004KT 10SM BKN095 OVC110 02/M06 A3021 RMK AO2 SLP231 T00221056 KOGS 061735Z AUTO 20012G20KT 2SM RA SCT010 BKN015 OVC038 09/08 A2937 RMK AO2 KOIC 061735Z AUTO 18009KT 10SM OVC020 10/07 A2957 RMK AO2 T00950070 PWINO KOIN 061735Z AUTO 00000KT 10SM CLR M02/M10 A3040 RMK AO1 T10201105 KOJA 061735Z AUTO 02016KT 10SM CLR 03/M10 A3040 RMK AO2 T00351105 KOJC 061653Z 35013KT 10SM CLR 01/M09 A3036 RMK AO2 SLP287 T00111094 KOKB 061652Z AUTO 00000KT 8SM CLR 11/07 A3009 RMK AO2 SLP190 T01110072 KOKC 061652Z 02015KT 10SM CLR 04/M11 A3037 RMK AO2 SLP285 T00391106 $ KOKK 061656Z AUTO 28022G28KT 10SM BKN030 OVC036 M01/M04 A2998 RMK AO2 PK WND 29038/1624 UPE07 SLP158 T10061044 FZRANO PNO $ KOKM 061735Z AUTO 02012G19KT 10SM CLR 06/M07 A3035 RMK AO2 LTG DSNT S T00591075 KOKV 061735Z AUTO 21006KT 10SM SCT110 19/09 A2965 RMK AO2 KOKZ 061735Z AUTO 24008KT 10SM CLR 19/14 A3003 RMK AO2 T01940139 KOLE 170401Z 00000KT 10SM SCT018 BKN055 OVC065 07/07 A2986 KOLF 061653Z AUTO 06005KT 8SM OVC007 M20/M23 A3019 RMK AO2 SLP278 T12001233 KOLG 061655Z AUTO 28010G16KT 10SM BKN022 OVC090 M16/M22 A3005 RMK AO1 KOLM 061654Z 2SM BR BKN007 OVC011 A3007 RMK AO2 SLPNO P0001 $ KOLS 061654Z AUTO 19003KT 10SM CLR 15/M03 A3018 RMK AO2 SLP187 T01501028 KOLU 061656Z AUTO 31013KT 10SM CLR M07/M13 A3041 RMK AO2 SLP323 T10671133 FZRANO KOLV 061650Z 01022KT 10SM CLR 11/04 A3013 KOLY 061735Z AUTO 30017G23KT 10SM CLR 04/M05 A3018 RMK AO2 T00351051 KOLZ 061735Z AUTO 30023G30KT 10SM CLR M08/M18 A3018 RMK A01 KOMA 061652Z 33016G23KT 10SM FEW025 FEW250 M06/M14 A3040 RMK AO2 PK WND 34028/1601 SLP307 T10561144 KOMH 061735Z AUTO 21013G30KT 180V240 10SM CLR 18/10 A2977 RMK AO2 KOMK 061738Z AUTO 01003KT 1 3/4SM -SN BR BKN033 OVC042 M02/M04 A3010 RMK AO2 SNB32 P0000 T10221044 KOMN 061650Z 22005KT 7SM FEW030 25/18 A3010 KONA 061735Z AUTO 29017G24KT 10SM CLR M08/M16 A3014 RMK AO2 KONL 061735Z AUTO 35006KT 10SM CLR M09/M16 A3035 RMK AO2 T10861164 KONM 061655Z AUTO 20004KT 10SM CLR 07/M08 A3026 RMK AO2 T00741078 KONO 061653Z AUTO 00000KT 1 1/4SM -SN BKN031 OVC038 01/M03 A3023 RMK AO2 SNB31 SLP258 P0000 T00061028 KONP 061735Z AUTO 12003KT 7SM -RA BKN026 BKN036 OVC046 06/05 A3014 RMK AO2 P0009 KONT 061653Z 00000KT 8SM BKN250 13/03 A3009 RMK AO2 SLP187 T01330033 KONX 061735Z AUTO 20011G15KT 10SM OVC029 19/13 A2995 RMK AO2 T01930125 KONZ 061735Z AUTO 27015G29KT 10SM BKN040 BKN048 OVC060 03/M07 A2972 RMK AO2 T00321072 KOOA 061735Z AUTO 33021G28KT 10SM CLR M01/M13 A3027 RMK AO2 T10151135 KOPF 061653Z 13009KT 10SM FEW020 SCT027 BKN048 27/23 A3009 RMK AO2 RAE1554 SLP191 P0000 T02720228 KOPL 061735Z AUTO 21010G14KT 10SM SCT020 BKN030 OVC042 24/21 A3000 RMK AO2 LTG DSNT W THRU NE T02410212 KOPN 061735Z AUTO 26006KT 10SM OVC016 18/16 A3004 RMK AO2 LTG DSNT N AND NW KOQN 061735Z AUTO 18006G17KT 138V228 10SM SCT019 BKN100 BKN120 15/11 A2974 RMK AO2 KOQT 061653Z AUTO 27004KT 4SM RA BR FEW060 OVC090 13/12 A2994 RMK AO2 SLP138 P0005 T01330122 KOQU 052250Z 19005KT 10SM SCT120 SCT200 06/M03 A3039 RMK LAST KORB 061733Z AUTO 32009G15KT 7SM -SN M19/M24 A3005 RMK AO2 KORD 061651Z 28015G32KT 10SM BKN035 00/M08 A2993 RMK AO2 PK WND 28036/1639 SLP141 T00001083 KORE 061723Z AUTO 18010KT 7SM SCT002 OVC012 08/07 A2976 RMK AO2 T00830072 KORF 061651Z 22018KT 10SM CLR 19/13 A2994 RMK AO2 SLP137 T01890133 KORG 061735Z AUTO 22013G19KT 10SM BKN018 OVC027 27/23 A3002 RMK AO2 LTG DSNT SW THRU N T02670226 KORH 061654Z 21020G28KT 10SM BKN015 BKN023 OVC029 12/11 A2977 RMK AO2 PK WND 20028/1654 SLP088 T01170106 KORK 061735Z AUTO 01013G21KT 10SM CLR 10/M06 A3018 RMK AO2 KORL 061653Z 20006KT 10SM FEW035 SCT042 27/19 A3011 RMK AO2 SLP198 T02720194 KORS 061735Z AUTO VRB06G12KT 3SM -RA BR BKN005 BKN008 OVC022 03/03 A3007 RMK AO2 KOSA 061735Z AUTO 36013G19KT 10SM CLR 14/00 A3019 RMK AO2 T01401002 KOSC 061735Z AUTO 24016G23KT 7SM OVC039 00/M03 A2949 RMK AO2 T00011030 KOSH 061653Z 29024G36KT 10SM OVC029 M03/M08 A2981 RMK AO2 PK WND 29039/1631 SNB30E40 SLP108 P0000 T10331083 KOSU 061653Z 27020G31KT 10SM BKN027 BKN034 OVC060 04/M02 A2987 RMK AO2 PK WND 29031/1650 RAB43E53 SLP115 P0000 T00441017 KOTG 061656Z AUTO 30015KT 10SM CLR M11/M18 A3030 RMK AO2 SLP292 T11111183 FZRANO KOTH 061719Z 14007KT 10SM -RA OVC029 08/07 A3018 RMK AO2 P0002 KOTM 061653Z AUTO 32024G34KT 10SM FEW039 M01/M09 A3024 RMK AO2 PK WND 31037/1627 SLP249 T10111089 KOUN 061647Z 01013KT 10SM CLR 05/M10 A3035 KOVE 061728Z AUTO 11005KT 1SM BR OVC002 09/08 A3020 RMK AO2 T00890078 KOVL 061735Z AUTO 31018G27KT 10SM CLR M15/M21 A3030 RMK AO2 KOVS 061653Z AUTO 30015G24KT 10SM BKN029 M06/M14 A3009 RMK AO2 PK WND 31031/1620 SLP198 T10561139 KOWA 061733Z AUTO 29020G32KT 10SM CLR M13/M21 A3022 RMK AO2 KOWB 061656Z 32013KT 10SM CLR 04/M03 A3015 RMK AO2 SLP212 T00441033 KOWD 061653Z 21015G20KT 10SM SCT018 BKN025 OVC034 17/13 A2979 RMK AO2 SLP088 T01720128 KOWI 061730Z AUTO 34013KT 10SM CLR 03/M08 A3037 RMK AO2 KOWP 061735Z AUTO 36010G14KT 330V030 10SM CLR 07/M08 A3037 RMK AO2 LTG DSNT SE T00671084 PWINO KOWX 061715Z AUTO 27023G34KT 10SM SCT036 BKN046 02/M05 A2987 RMK AO1 KOXB 061653Z AUTO 20007G15KT 180V240 7SM OVC006 13/13 A2992 RMK AO2 SLP131 T01330128 KOXC 061651Z 20008G19KT 8SM OVC009 11/10 A2981 RMK AO2 SLP110 T01110100 KOXD 061735Z AUTO 29017G23KT 10SM OVC026 01/M05 A2998 RMK AO2 T00101052 KOXI 061735Z AUTO 28021G27KT 10SM BKN039 00/M07 A2994 RMK AO1 KOXR 061651Z 36003KT 10SM FEW002 13/04 A3008 RMK AO2 SLP187 T01280039 KOXV 061735Z AUTO 30018G23KT 10SM CLR M02/M12 A3027 RMK AO2 KOYM 061735Z AUTO 24010G17KT 7SM SCT008 BKN013 OVC055 09/08 A2960 RMK AO2 P0002 PWINO KOZA 061735Z AUTO 01009G21KT 10SM CLR 08/M07 A3034 RMK AO2 LTG DSNT E KOZR 061654Z AUTO M 10SM SCT016 23/18 A3006 RMK AO2 SLP180 $ KOZS 061735Z AUTO 30009G16KT 10SM CLR 02/M08 A3031 RMK AO2 KOZW 061735Z AUTO 25018G26KT 10SM BKN013 BKN019 OVC028 00/M02 A2969 RMK AO2 T00001016 KP08 061735Z AUTO 00000KT 10SM CLR 18/M01 A3011 RMK AO2 KP28 061656Z AUTO 02010G19KT 02/M09 A3043 RMK AO1 SLP315 T00221094 $ KP53 061656Z AUTO 34024G42KT M01/M06 A2954 RMK AO1 PK WND 34042/1649 SLP012 T10111056 KP58 061655Z AUTO 24012G26KT 02/M04 A2951 RMK AO1 PK WND 24028/1608 SLP002 T00171039 KP59 061651Z AUTO 01030G43KT M03/M06 A2966 RMK AO1 PK WND 01043/1649 SLP055 T10331056 KP60 061656Z AUTO VRB03KT M06/M11 A3004 RMK AO1 SLP224 T10611111 KP68 061653Z AUTO 25005KT 02/M09 A3021 RMK AO1 SLP238 T00171094 KP69 061652Z AUTO 00000KT M01/M02 A3015 RMK AO1 SLP236 P0001 T10111017 KP92 061659Z AUTO 24/20 A3002 RMK AO1 SLP165 T02390200 KPAE 061734Z VRB04KT 10SM BKN016 OVC034 03/02 A3005 RMK AO2 T00330022 KPAH 061653Z 34010G20KT 10SM CLR 06/M04 A3019 RMK AO2 SLP221 T00561044 KPAM 061556Z 19008KT 10SM BKN100 22/18 A3009 RMK AO2A SLP193 T02180176 $ KPAN 061735Z AUTO 00000KT 10SM CLR 15/M06 A3023 RMK AO2 KPAO 061647Z VRB04KT 2SM BR OVC003 09/09 A3017 KPBF 061453Z AUTO 36015G20KT 10SM BKN060 11/05 A3012 RMK AO2 PK WND 01027/1426 SLP198 60000 T01060050 51050 KPBG 061653Z AUTO 16010G18KT 10SM FEW019 BKN045 OVC055 08/06 A2951 RMK AO2 RAB15E25 PRESFR SLP996 P0000 T00830056 KPBH 061735Z AUTO 30008G20KT 3SM -SN BKN022 OVC027 M13/M17 A2991 RMK AO2 T11321170 KPBI 061653Z 11005KT 10SM FEW026 SCT041 BKN090 26/22 A3010 RMK AO2 RAB39E44 SLP193 P0000 T02610222 $ KPBX 061730Z AUTO 28012G17KT 7SM -RA OVC008 11/11 A2988 RMK AO2 T01060106 KPCD 061735Z AUTO 29016G23KT 10SM CLR 04/M04 A3024 RMK AO2 T00421041 KPCM 061735Z AUTO 20003KT 10SM SCT030 28/19 A3011 RMK AO2 KPCW 061735Z AUTO 27022G33KT 10SM SCT035 BKN048 03/M03 A2977 RMK AO2 KPCZ 061735Z AUTO 28016G28KT 10SM SCT027 SCT031 M05/M12 A2987 RMK AO2 T10481116 KPDC 061735Z AUTO 29019G26KT 10SM CLR M06/M16 A3012 RMK AO2 T10601159 KPDK 061653Z 17005KT 7SM BKN008 OVC017 17/16 A3000 RMK AO2 RAB01E24 PRESFR SLP154 P0001 T01670156 KPDT 061653Z 17005KT 10SM OVC050 03/02 A3006 RMK AO2 RAE33 SLP184 P0002 T00330017 KPDX 061653Z 11005KT 2 1/2SM -RA BR FEW008 OVC011 05/03 A3013 RMK AO2 SFC VIS 3 SLP202 P0007 T00500033 KPEA 291615Z AUTO 21009G15KT 10SM CLR 09/00 A2989 RMK AO2 T00890000 KPEO 061653Z AUTO 20014KT 9SM -RA SCT022 BKN039 OVC049 09/06 A2953 RMK AO2 RAB47 SLP003 P0000 T00940056 KPEQ 061735Z AUTO 35007KT CLR 07/M10 A3041 RMK AO2 T00661103 PWINO KPEX 061735Z AUTO 31015KT 290V350 3SM HZ CLR M17/M23 A3028 RMK AO2 KPEZ 061735Z AUTO 01014G22KT 10SM OVC021 21/15 A3010 RMK AO2 LTG DSNT NE T02070149 KPGA 061653Z AUTO 17003KT 10SM CLR 07/M08 A3019 RMK AO2 SLP211 T00721078 $ KPGD 061653Z 21006KT 10SM CLR 26/19 A3013 RMK AO2 SLP200 T02610194 KPGV 061655Z AUTO 23013KT 10SM CLR 21/12 A3000 RMK AO2 KPHD 061653Z AUTO 27014G19KT 10SM BKN016 BKN023 OVC060 08/03 A2974 RMK AO2 RAE30 SLP073 P0001 T00780033 KPHF 061654Z 19009KT 10SM CLR 17/13 A2993 RMK AO2 SLP134 T01720133 KPHL 061654Z 19012G20KT 10SM FEW017 SCT075 BKN120 16/11 A2981 RMK AO2 RAE13 SLP094 P0000 T01560106 KPHN 061735Z AUTO 26013G22KT 230V300 10SM BKN043 OVC060 03/M05 A2962 RMK AO2 KPHP 061655Z AUTO 13003KT 10SM CLR M10/M15 A3030 RMK AO2 SLP298 T11001150 TSNO KPHT 061735Z AUTO 34008G17KT 330V040 10SM CLR 08/M02 A3016 RMK A01 KPHX 061651Z 11007KT 10SM FEW250 16/00 A3009 RMK AO2 SLP179 T01610000 $ KPIA 061654Z 30019G34KT 10SM CLR 01/M09 A3014 RMK AO2 PK WND 31034/1647 SLP211 T00111089 KPIB 061656Z AUTO 21005KT 10SM BKN017 BKN023 OVC028 23/20 A3003 RMK AO2 SLP166 T02280200 KPIE 061653Z 04007KT 10SM R18/5500VP6000FT FEW025 22/19 A3011 RMK AO2 SLP195 T02170194 KPIH 061653Z 26006KT 10SM OVC065 02/M06 A3015 RMK AO2 SLP225 T00221056 KPIL 061735Z AUTO 17008KT 10SM BKN021 BKN026 28/22 A2998 RMK AO2 T02780222 KPIM 041535Z AUTO 25003KT 10SM CLR 17/14 A3016 RMK AO2 T01670144 KPIR 061653Z AUTO 27008KT 10SM BKN023 M10/M16 A3033 RMK AO2 SLP301 T11001161 KPIT 061651Z 22010KT 5SM -RA BR SCT008 BKN013 OVC018 11/10 A2965 RMK AO2 SLP048 P0006 T01110100 KPJC 061735Z AUTO 25007G16KT 10SM -RA SCT018 SCT026 OVC039 10/08 A2964 RMK AO2 P0001 KPKB 061653Z 27014G21KT 10SM -RA BKN014 BKN060 OVC080 11/08 A2978 RMK AO2 WSHFT 1605 SLP083 P0007 T01060083 KPKD 061724Z AUTO 31016KT 10SM SCT018 M20/M26 A3019 RMK AO2 T12001256 KPKV 061735Z AUTO 24008KT 10SM SCT013 SCT060 27/22 A3002 RMK AO2 T02710222 KPLD 061735Z AUTO 28024G36KT 10SM OVC034 00/M07 A2994 RMK AO2 KPLN 061743Z AUTO 31021G34KT 1/2SM SN FG BKN016 OVC025 00/M02 A2942 RMK AO2 PK WND 31034/1737 UPE08RAB08E10SNB10 PRESRR P0001 T00001022 $ KPLR 061735Z AUTO 00000KT 1 1/2SM BR SCT012 OVC039 16/16 A3000 RMK A01 KPLU 061735Z AUTO 00000KT 1 1/2SM -DZ BKN003 BKN009 BKN025 04/04 A3006 RMK AO2 KPMD 061653Z 00000KT 10SM CLR 11/M08 A3014 RMK AO2 SLP202 T01061078 KPMH 061735Z AUTO 30008KT 240V360 10SM OVC024 09/02 A2991 RMK AO2 T00850021 KPMP 061653Z 14003KT 10SM SCT019 SCT025 BKN050 26/23 A3010 RMK AO2 RAE1557 SLP193 P0000 T02560228 KPMU 061735Z AUTO 03009G18KT 350V050 10SM SCT075 12/04 A3013 RMK AO2 LTG DSNT S AND SW KPMV 061735Z AUTO 30013G17KT 10SM CLR M04/M13 A3038 RMK AO2 T10401126 KPNA 061730Z AUTO 31010KT 10SM SCT110 00/M12 A3008 RMK AO2 KPNC 061653Z AUTO 03018G22KT 10SM CLR 04/M09 A3041 RMK AO2 SLP299 T00391089 KPNE 061654Z 21012G25KT 10SM FEW017 FEW110 15/11 A2982 RMK AO2 SLP096 T01500106 KPNM 061736Z AUTO 29015G23KT 10SM CLR M16/M23 A3021 RMK AO2 KPNS 061653Z 21011KT 10SM CLR 25/20 A3004 RMK AO2 SLP175 T02500200 KPNT 061735Z AUTO 29022G33KT 10SM CLR 01/M06 A3007 RMK AO2 T00091065 KPO1 061730Z AUTO 00000KT 2SM M19/M22 A3017 KPOB 061656Z AUTO 24020G24KT 10SM CLR 20/12 A2998 RMK AO2 SLP155 T01990124 $ KPOC 022347Z 26009KT 3SM CLR 16/10 A3006 KPOE 061558Z AUTO 21008KT 10SM VCTS OVC008 22/22 A2998 RMK AO2 SLP152 T02190217 KPOF 061653Z AUTO 34017G24KT 10SM CLR 07/M06 A3023 RMK AO2 SLP236 T00671056 KPOU 061653Z 18007G15KT 5SM BR OVC016 12/09 A2974 RMK AO2 PRESFR SLP068 T01170094 KPOV 061735Z AUTO 26018G25KT 10SM BKN024 BKN031 OVC065 05/M01 A2968 RMK AO2 T00501006 PWINO KPOY 061735Z AUTO 13017KT 10SM CLR M07/M12 A2992 RMK AO2 KPPA 061615Z AUTO 03010G16KT 10SM CLR 00/M09 A3039 RMK AO2 T00001092 KPPF 061652Z AUTO 35014G24KT 10SM CLR 03/M08 A3039 RMK AO2 SLP295 T00331078 KPPO 061735Z AUTO 28022G32KT 10SM BKN035 00/M07 A2993 RMK AO2 T00001066 KPPQ 061735Z AUTO 28012G15KT 10SM CLR 02/M07 A3023 RMK AO2 T00211074 KPQI 061737Z AUTO 15013G18KT 9SM -SN OVC007 M01/M02 A2980 RMK AO2 UPB03E04FZRAE03B04E31SNB31 PRESFR P0000 KPQL 061653Z 20007G15KT 160V240 10SM SCT023 25/21 A3003 RMK AO2 SLP170 T02500206 KPQN 061735Z AUTO 10SM M13/M19 A3028 RMK AO2 KPRB 061653Z AUTO 00000KT 10SM CLR 06/02 A3015 RMK AO2 SLP210 T00560022 $ KPRC 061653Z 00000KT 10SM CLR 10/M08 A3021 RMK AO2 SLP199 T01001083 KPRG 061735Z AUTO 29019G26KT 10SM BKN029 BKN034 02/M03 A3012 RMK AO2 T00161028 KPRN 061714Z AUTO 22010G19KT 180V240 10SM BKN016 23/17 A3002 RMK AO2 T02280167 KPRO 061735Z AUTO 32016G21KT 10SM CLR M06/M15 A3033 RMK AO2 T10601154 KPRS 061735Z AUTO 36010KT 5SM HZ OVC030 14/M01 A3030 RMK AO2 T01411015 KPRX 061656Z AUTO 01020G26KT 10SM CLR 10/M06 A3022 RMK AO2 PK WND 01027/1639 SLP247 T01001056 KPSC 061653Z 00000KT 10SM BKN080 OVC095 03/M01 A3009 RMK AO2 SLP192 T00281006 KPSF 061654Z AUTO 20012G17KT 6SM BR OVC008 10/08 A2972 RMK AO2 SLP063 T01000083 KPSK 061735Z AUTO 25026G35KT 10SM BKN048 BKN060 OVC110 18/10 A2987 RMK AO2 T01830097 KPSM 061607Z 00000KT 1/2SM R16/5000FT FG VV001 11/11 A2982 RMK AO2A PRESFR SLP101 KPSN 061735Z AUTO 36013G21KT 10SM CLR 15/04 A3014 RMK AO2 LTG DSNT E AND SE KPSO 061735Z AUTO 00000KT 10SM CLR 04/M07 A3024 RMK AO2 T00391072 KPSP 061653Z 00000KT 10SM CLR 21/M02 A3005 RMK AO2 SLP175 T02111017 KPSX 061653Z AUTO 19010KT 10SM SCT020 BKN032 OVC070 25/22 A3001 RMK AO2 RAB34E45 SLP161 P0000 T02500222 KPTB 061735Z AUTO 21009G19KT 10SM CLR 20/11 A2987 RMK AO2 T01980110 TSNO KPTD 061735Z AUTO 19012KT 5SM BR BKN026 OVC032 10/09 A2939 RMK AO2 KPTK 061735Z 26019G45KT 4SM R09R/2600VP6000FT -SN FEW007 BKN034 BKN043 00/M04 A2966 RMK AO2 PK WND 29045/1728 P0000 T00001039 KPTN 061656Z AUTO 21015KT 10SM FEW021 26/22 A3003 RMK AO2 SLP170 T02560217 $ KPTS 061735Z AUTO 01008G14KT 330V030 10SM CLR 03/M07 A3035 RMK AO2 LTG DSNT S T00271068 KPTT 061735Z AUTO 02010KT 10SM CLR 02/M12 A3040 RMK AO2 T00171116 KPTV 061709Z AUTO 29004KT 1 1/2SM BR OVC003 08/07 A3019 RMK AO2 KPTW 061654Z AUTO 20008KT 6SM BR OVC015 12/09 A2979 RMK AO2 RAB32E43 SLP086 P0000 T01170094 KPUB 061653Z 14011KT 10SM CLR M01/M19 A3026 RMK AO2 SLP274 T10111189 KPUC 061653Z AUTO 00000KT 10SM CLR 04/M11 A3017 RMK AO2 SLP237 T00391111 KPUJ 061735Z AUTO 00000KT 3SM TSRA OVC010 16/16 A3000 RMK AO2 LTG DSNT ALQS KPUW 061653Z AUTO 11009KT 1 1/2SM UP BR OVC025 M02/M04 A3003 RMK AO2 UPE01B50SNB01E25B30E50 SLP200 P0001 T10221039 KPVB 061735Z AUTO 28019G31KT 10SM CLR M05/M12 A3007 RMK AO1 T10551118 KPVC 061656Z AUTO 21015G26KT 7SM BKN018 OVC024 13/12 A2986 RMK AO2 PK WND 20026/1648 SLP110 T01330122 KPVD 061651Z 22016G24KT 10SM SCT021 BKN028 BKN300 16/12 A2984 RMK AO2 PK WND 22030/1557 RAE10 SLP105 P0000 T01610117 KPVE 061735Z AUTO 36014G25KT 10SM SCT027 SCT035 10/02 A3011 RMK A01 KPVF 061715Z AUTO 21003KT 10SM CLR 10/00 A3015 RMK AO1 KPVG 061656Z AUTO 21010G15KT 180V280 10SM CLR 19/14 A2996 RMK AO2 SLP147 T01890139 KPVJ 061735Z AUTO 02015G20KT 10SM CLR 06/M10 A3034 RMK AO2 LTG DSNT SE T00631099 KPVU 061656Z 23003KT 10SM FEW100 BKN150 01/M04 A3024 RMK AO2 SLP255 T00061039 KPVW 061735Z AUTO 05010G15KT 10SM CLR 01/M12 A3036 RMK AO2 T00111117 KPWA 061653Z 02016G23KT 10SM CLR 05/M09 A3037 RMK AO2 SLP286 T00501094 $ KPWC 061735Z AUTO 32008G17KT 10SM CLR M17/M24 A3021 RMK AO2 KPWD 061735Z AUTO 11006KT 10SM CLR M24/M27 A3013 RMK A01 KPWG 061656Z AUTO 36017G22KT 10SM BKN036 14/M01 A3020 RMK AO2 PK WND 36028/1635 SLP223 T01441011 KPWK 061652Z 28015G30KT 10SM OVC037 01/M08 A2993 RMK AO2 PK WND 27033/1621 SLP140 T00061078 KPWM 061651Z 31005KT 1 1/2SM -RA BR OVC002 03/03 A2978 RMK AO2 PRESFR SLP086 P0002 T00330033 KPWT 061737Z AUTO 22008KT 3SM BR FEW003 SCT014 OVC038 03/03 A3006 RMK AO2 KPXE 061735Z AUTO 21014G17KT 10SM CLR 23/14 A3003 RMK AO2 T02300145 KPYM 061717Z AUTO 22018G25KT 10SM BKN016 BKN023 16/12 A2983 RMK AO2 PK WND 22030/1700 T01560117 KPYX 061735Z AUTO 03008G17KT 10SM CLR 00/M11 A3039 RMK AO2 T00031112 KPZQ 061735Z AUTO 23009G16KT 10SM BKN036 OVC042 00/M03 A2940 RMK AO2 T00001028 KPZZ 061735Z AUTO 22011KT CLR 25/20 A3007 RMK A01 KQA8 201755Z AUTO 26002KT 9999 CLR 03/01 A3011 RMK AO2 SLP207 WND DATA ESTMD T00260005 KQAJ 300656Z AUTO 30008KT 9999 CLR 22/05 A3010 RMK AO2 SLP204 WND DATA ESTMD T02240049 KQAL 061556Z 34004KT 9999 CLR 13/02 A3023 RMK AO2A SLP212 WND DATA ESTMD T01340023 KQAU 041455Z AUTO 21/ RMK AO2 SLPNO WND DATA ESTMD T0210 PWINO PNO TSNO $ KQAY 250655Z AUTO VRB01KT CLR 42/13 A2968 RMK AO2 SLPNO WND DATA ESTMD T04180132 PWINO TSNO $ KQAZ 061655Z 10006KT 9999 CLR 28/M05 A3000 RMK AO2A SLP133 WND DATA ESTMD T02821052 KQB3 201755Z AUTO VRB03KT 9999 FEW028 BKN039 06/ A2994 RMK AO2 RAB1641E1729SHRAB1729E1741 SLP148 WND DATA ESTMD P0001 60002 T0055 10085 20058 52009 KQBD 121955Z AUTO VRB02KT 10SM BKN042 OVC050 15/04 A3211 RMK AO2 SLP812 WND DATA ESTMD T01460039 KQBG 050956Z AUTO 01011G17KT 320V040 9999 CLR 32/16 A2984 RMK AO2 SLP102 WND DATA ESTMD T03190159 KQBL 031456Z AUTO 35003KT 10SM FEW034 16/15 A3021 RMK AO2 SLP235 WND DATA ESTMD T01550151 52012 KQBR 250555Z AUTO 19002KT 10SM CLR M01/M06 A3227 RMK AO2 SLP943 WND DATA ESTMD T10091058 10057 20010 52016 KQBT 012059Z 00000KT 8000 HZ CLR 10/02 A3016 RMK AO2 SLP188 WND DATA ESTMD T010300200 $ KQCG 281355Z 00000KT 10SM SCT049 BKN070 08/06 A3009 RMK AO2A SLP191 WND DATA ESTMD ALSTG/SLP ESTMD BKN049 S T00800056 FIRST KQD3 061656Z AUTO 12006KT 9999 CLR 27/18 A3001 RMK AO2 SLP147 WND DATA ESTMD T02660184 KQDB 171155Z 12003KT 10SM CLR 17/M01 A2983 KQDG 061656Z AUTO 00000KT 9999 OVC055 03/M05 A3090 RMK AO2 SLP466 T00311046 PNO $ KQEI 061650Z AUTO 00000KT 9999 CLR M02/M03 A3035 RMK A02 TSNO KQEJ 061650Z AUTO 00000KT 8000 FEW180 M03/M03 A3034 RMK A02 TSNO KQEK 061650Z AUTO 08001KT 4800 BRBKN048 07/07 / RMK A02 KQEN 061650Z AUTO 24002KT 9999 BKN150 02/00 / RMK A02 TSNO KQEO 190755Z AUTO RMK AO2 SLPNO WND DATA ESTMD PWINO PNO TSNO $ KQEP 061650Z AUTO 23001KT 6000 BKN110 01/M01 A3037 RMK A02 TSNO KQEQ 061650Z AUTO 31002KT 6000 CLR 00/M02 A3040 RMK A02 TSNO KQER 041610Z AUTO 13001KT 9999 OVC014 22/21 A3008 RMK A02 TSNO KQES 230020Z AUTO 9999 BKN022 10/02 / RMK A02 TSNO KQEV 061650Z AUTO 25001KT 4000 BR SCT180 M01/M02 A3031 RMK A02 TSNO KQEW 061650Z AUTO 11003KT 4000 BR BKN180 01/00 A3030 RMK A02 TSNO KQEX 061650Z AUTO 34001KT 6000 FEW180 04/02 A3024 RMK A02 TSNO KQEY 061650Z AUTO 15001KT 6000 CLR 01/M00 A3003 RMK A02 TSNO KQFB 061650Z AUTO 18001KT 2400 BR BKN180 03/02 A3035 RMK A02 TSNO KQFL 061656Z AUTO 00000KT 5000 HZ CLR M01/M04 A3037 RMK AO2 SLP290 T10141044 $ KQFT 061650Z AUTO 18001KT 9999 CLR M00/M02 A3035 RMK A02 TSNO KQFU 061650Z AUTO 00000KT 4800 HZ FEW049 00/M02 A3040 RMK A02 TSNO KQFV 061650Z AUTO 6000 BR FEW110 M02/M03 A3037 RMK / A02 KQFW 051040Z AUTO 02001KT 9999 CLR M02/M04 A3019 RMK A02 TSNO KQFX 061650Z AUTO 00000KT 4800 FEW160 BKN180 M01/M02 A3033 RMK A02 TSNO KQGE 031456Z AUTO 34003KT 10SM CLR 15/14 A3018 RMK AO2 SLP228 T01510138 52013 KQGX 061556Z 33006KT 9999 CLR 23/15 A3008 RMK AO2A SLPNO ALSTG ESTMD $ KQHB 061656Z AUTO 01003KT 9999 BKN035 10/07 A3030 RMK AO2 SLP264 T01010066 KQHC 061555Z AUTO 00000KT 4SM BR FEW002 SCT004 BKN007 BKN049 12/10 A2983 RMK AO2 SLP103 WND DATA ESTMD T01160102 $ KQHD 231556Z AUTO 35006G15KT 10SM SCT210 02/M18 A2987 RMK AO2 SLPNO T00201181 KQHF 031356Z AUTO 30013G23KT 10SM FEW044 03/M07 A2976 RMK AO2 PK WND 31028/30 PRESRR SLPNO T00301069 KQHG 031156Z AUTO 30008KT 10SM OVC040 04/M02 A2965 RMK AO2 SLPNO 70006 T00431019 10055 20042 52041 KQHK 081955Z AUTO 13005KT 9999 FEW080 10/04 A2992 RMK AO2 SLP122 WND DATA ESTMD T00970035 KQHY 031456Z AUTO 00000KT 10SM CLR 15/15 A3018 RMK AO2 SLP227 T01480145 52013 KQIV 252055Z 23020G28KT 7SM CLR 18/05 A2975 RMK SLP034 WND DATA ESTMD ALT/SLP ESTMD KQIX 260855Z AUTO VRB03KT 9999 BKN140 24/17 A2990 RMK AO2 SLP118 WND DATA ESTMD T02400167 52006 KQIY 061555Z AUTO VRB03KT 10SM CLR RMK AO2 SLPNO WND DATA ESTMD $ KQJ3 031755Z AUTO 29002KT 10SM CLR 13/M07 A2642 RMK AO2 SLP945 WND DATA ESTMD T01301074 10093 21053 50007 KQJC 072055Z 31009G17KT 10SM -SHRA FEW026 BKN030 BKN044 06/M02 A2961 RMK AO2A RAB2032E2048SHRAB2048 SLP014 WND DATA ESTMD P0000 60000 T00601017 58015 KQJD 301755Z AUTO VRB04KT 10SM FEW043 21/10 A2974 RMK AO2 SLP066 WND DATA ESTMD T02080100 KQJE 031555Z 24004KT 7SM CLR 14/M06 A3008 RMK VIS SE 3/ SLPNO/ WIND DATA ESTMD/ ALTSG ESTMD/ 52010 PA +2205 DA +2669 KQJH 051555Z 12010G19KT 9999 OVC011 04/01 A3007 RMK SLPNO WND DATA ESTMD ALSTG ESTMD KQJK 220758Z VRB02KT 5SM BR SCT013 BKN018 BKN026 21/20 A3017 RMK AO2A SHRAB0730E0750 SLP206 WND DATA ESTMD ALTSG/SLP ESTMD P0001 KQJL 102255Z 00002KT 10SM FEW049 18/11 A3016 RMK AO2A SLP213 WND DATA ESTMD ALSTG/SLP ESTMD KQJM 090658Z 34002KT 7SM -RA BKN120 03/M02 A3006 RMK AO2A RAB45 SLPNO WND DATA ESTMD ALSTG ESTMD KQJN 110456Z VRB05KT 7SM CLR 03/00 A3015 RMK SLPNO WND DATA ESTMD ALSTG ESTMD KQJO 101355Z AUTO 00000KT 10SM CLR 04/M01 A3009 RMK AO2 SLP191 WND DATA ESTMD T00371008 KQJP 232255Z 23007G15KT 7SM CLR 30/06 A2990 RMK SLP114 T02950061 KQJQ 052055Z AUTO VRB02KT 10SM FEW050 SCT180 RMK AO2 SLPNO WND DATA ESTMD 56006 $ KQJS 242255Z VRB04KT 10SM SCT150 21/14 A3008 RMK SLP183 WND DATA ESTMD LAST KQJU 111355Z 16003KT 7SM BKN040 BKN100 11/09 A2995 RMK SLP145 WND DATA ESTMD ALSTG/SLP ESTMD LAST KQJV 110558Z 23008KT 10SM CLR 10/00 A3007 RMK SLP188 WND DATA ESTMD ALSTG/SLP ESTMD LAST KQJW 102255Z 13002KT 7SM CLR 14/08 A3018 RMK SLP218 WND DATA ESTMD ALSTG/SLP ESTMD LAST KQJX 120556Z 19005KT 7SM BKN050 07/07 A3017 RMK SLP220 WND DATA ESTMD ALSTG/SLP ESTMD 10150 20060 50000 LAST KQJY 240556Z 10001KT 10SM CLR 03/01 A3066 SLP389 ALSTG ESTMD KQJZ 281255Z VRB02KT 9000 -DZ BKN0250 20/18 A3011 RMK AO2A SLPNO WND DATA ESTMD ALSTG ESTMD KQKC 180656Z 20005KT 7SM CLR M03/M19 A3013 RMK AO2A SLPNO WND DATA ESTMD ALSTG ESTMD KQKD 290155Z AUTO 02010KT 10SM CLR 14/03 A3030 RMK AO2 SLP259 WND DATA ESTMD T01410025 KQKF 180959Z AUTO 35003KT 4SM BR SCT014 BKN018 BKN022 OVC030 07/03 A3027 RMK AO2 SLP248 WND DATA ESTMD T00690034 TSNO KQKI 090656Z 08003KT 10SM FEW018 BKN065 BKN120 OVC220 27/24 A2977 RMK SLP075 WND DATA ESTMD SLP/ALSTG ESTMD KQKJ 091355Z AUTO 19001KT 1/4SM RA FG VV003 14/13 A3010 RMK AO2 SHRAB1228E1335 SLP194 WND DATA ESTMD P0000 T01370126 KQKR 121555Z AUTO VRB03KT 10SM CLR 24/10 A3041 RMK AO2 SLP295 WND DATA ESTMD T02350104 KQKT 171459Z AUTO 01009G17KT 4SM BR FEW025 BKN037 BKN043 08/02 A3032 RMK AO2 SLP268 WND DATA ESTMD T00780022 TSNO KQKU 290155Z 26001KT 10SM FEW130 BKN150 BKN170 13/09 A3020 RMK AO2A RAB0126E0133SHRAB0133E0145 SLP228 WND DATA ESTMD $ KQKV 232155Z AUTO VRB02KT 10SM CLR 12/01 A3049 RMK AO2 SLP327 WND DATA ESTMD T01190005 PWINO $ KQKW 120555Z 18001KT 10SM CLR 00/M06 A3025 RMK AO2A SLP263 WND DATA ESTMD ALSTG/SLP ESTMD T00011057 10104 20041 52010 KQKX 021055Z AUTO VRB03KT 10SM CLR M01/M10 A3029 RMK AO2 SLP262 WND DATA ESTMD T10121099 KQKY 120555Z 21005KT 10SM CLR 09/03 A3005 RMK SLP177 WND DATA ESTMD ALSTG/SLP ESTMD LAST KQLB 120555Z COR VRB01KT 7SM FEW049 OVC080 19/15 A3017 RMK SLP214 WND DATA ESTMD ALSTG/SLP ESTMD 60002 LAST COR 0609 KQLC 120556Z 31002KT 10SM BKN010 16/03 A3050 RMK SLP324 WND DATA ESTMD 10242 20169 55001 KQLD 231355Z 33001KT 7SM SKC 14/00 A2992 RMK SLP107 WND DATA ESTMD ALSTG/SLP ESTMD KQLH 221055Z AUTO VRB01KT 10SM FEW012 15/13 A3000 RMK AO2 SLP160 WND DATA ESTMD T01470126 KQLP 042155Z 17010G18KT 10SM SCT009 BKN012 BKN020 OVC028 27/23 A2984 RMK AO2A SLP075 WND DATA ESTMD T02700229 KQLQ 272159Z AUTO RMK AO2 SLPNO WND DATA ESTMD PWINO PNO TSNO $ KQM2 061656Z AUTO 08009G14KT 030V130 9999 FEW019 27/23 A2993 RMK AO2 SLP138 WND DATA ESTMD T02720229 KQMB 301155Z 23012KT 12SM CLR 12/07 A3007 RMK AO2A SLP203 WND DATA ESTMD ALSTG/SLP ESTMD LAST KQMD 051955Z 28013KT 10SM SCT120 BKN200 18/03 A3013 RMK SLPNO WND DATA ESTMD ALSTG ESTMD KQME 161456Z AUTO 24003KT 7SM FEW025 31/22 A3017 RMK AO2 SLPNO WND DATA ESTMD T03110215 50004 KQMG 160655Z AUTO 09007KT 10SM BKN065 BKN130 18/12 A2987 RMK AO2 SLP112 WND DATA ESTMD T01820124 KQMH 291855Z AUTO VRB02KT 10SM FEW240 24/02 A3034 RMK AO2 SLP235 WND DATA ESTMD T02390020 KQMI 140555Z 00000KT 10SM CLR 13/03 A3010 RMK AO2A SLP167 WND DATA ESTMD ALSTG/SLP ESTMD T01310033 10238 20203 50002 KQMK 141555Z 06005KT 10SM FEW200 26/15 A3012 RMK AO2 SLP198 WND DATA ESTMD T02580148 KQML 141455Z AUTO 09004KT 10SM CLR 21/00 A3029 RMK AO2 SLP254 WND DATA ESTMD T02071005 50002 KQMM 140556Z 00000KT 10SM CLR 08/01 A3022 RMK SLPNO WND DATA ESTMD ALSTG ESTMD KQMO 140356Z 30003KT 7SM SKC 15/03 A3024 RMK SLP240 WND DATA ESTMD ALSTG/SLP ESTMD KQMP 140555Z 24012G18KT 7SM CLR 11/08 A2989 RMK SLP128 WND DATA ESTMD ALSTG/SLP ESTMD LAST KQMR 221356Z 17003KT 9000 HZ SCT060 32/23 A2988 RMK WIND DATA ESTMD ALTSG ESTMD KQMS 202055Z 15005KT 7SM FEW120 37/16 A3020 RMK SLPNO WND DATA ESTMD ALSTG ESTMD KQMU 141255Z 24006KT 7SM SCT030 29/24 A3018 RMK SLP221 T02860241 10282 20275 51011 KQMV 241050Z AUTO 00000KT 10SM CLR 08/07 A3014 RMK AO2 SLP205 WND DATA ESTMD T00810070 KQMZ 261355Z 25012KT 10SM CLR 23/M04 A3011 RMK AO2A SLP098 WND DATA ESTMD ALSTG ESTMD KQN3 061656Z AUTO VRB04KT 9999 CLR 34/M04 A2987 RMK AO2 SLP105 WND DATA ESTMD T03401044 KQNB 160655Z AUTO 00000KT 10SM CLR 24/20 A2999 RMK AO2 SLP150 WND DATA ESTMD T02400201 KQNC 281655Z AUTO 06006KT 10SM FEW039 SCT055 28/16 A3000 RMK AO2 SLP157 WND DATA ESTMD T02820156 $ KQND 051755Z AUTO 31003KT CLR 22/15 A2996 RMK AO2 SLP143 WND DATA ESTMD T02220149 10190 20130 54001 PWINO $ KQNE 272255Z 14006KT 7SM FEW030 SCT050 SCT100 BKN200 28/22 A2994 RMK SPLNO WND DATA ESTMD ALSTG ESTMD KQNO 111256Z VRB03KT 7SM BKN080 27/23 A3010 RMK SLPNO WND DATA ESTMD ALSTG ESTMD KQNP 160255Z 00000KT 7SM 29/M03 A2983 RMK SLP NO WND DATA ESTMD ALSTG ESTMD KQNQ 241655Z 00000KT 2 1/2SM FU BKN001 29/00 A3001 RMK AO2A FU ALQDS BKN001 SLP126 WND DATA ESTMD T02910003 KQNW 260358Z 00000KT 8SM -SHSN FEW005 SCT020 BKN030 A2983 RMK SLP128 WND DATA ESTMD ALSTG/SLP ESTMD P0000 T10341046 KQNX 091853Z 03009KT 10SM CLR 27/17 A3010 RMK SLP190 T02670172 $ KQOA 061558Z VRB06KT 9999 SCT060 29/19 A3011 RMK AO2A SLP161 WND DATA ESTMD ALSTG/SLP ESTMD T02630188 RVRNO PNO FZRANO TSNO $ KQOB 030556Z AUTO VRB06KT 10SM CLR 14/M02 A2982 RMK AO2 SLPNO WND DATA ESTMD T01401021 10140 20107 KQOC 041456Z 030010KT 10SM BKN070 14/07 A3020 RMK AO2A SLP236 KQOE 070655Z AUTO 00000KT 10SM FEW210 19/05 A3011 RMK A02 SLP197 WND DATA ESTMD T01860048 PWINO PNO $ KQOS 090256Z 06007KT 10SM BKN100 25/09 A2995 RMK AO2 SLP137 T02490092 KQPD 100055Z 21007KT 10SM FEW140 34/M09 A2980 KQRD 031456Z AUTO 34003KT 10SM CLR 15/15 A3017 RMK AO2 SLP221 T01490147 52013 KQRH 061656Z AUTO VRB03KT 9000 HZ CLR 26/20 A2996 RMK AO2 SLP148 WND DATA ESTMD T02630199 KQRY 242155Z VRB05KT 7SM SCT210 28/09 A2987 RMK SLP095 WND DATA ESTMD KQSI 020455Z AUTO 30003KT 6SM HZ CLR 28/19 A3003 RMK AO2 SLP167 WND DATA ESTMD T02770192 PWINO $ KQSN 100455Z AUTO 21003KT 9999 CLR 02/M04 A3026 RMK AO2 SLP197 WND DATA ESTMD T00211044 KQTA 052355Z AUTO 20001KT 9999 FEW090 BKN180 10/04 A3007 RMK AO2 SLP179 WND DATA ESTMD 60002 T01000044 10149 20113 401750073 56022 KQTT 150155Z 32005KT 9999 SKC 27/09 A2971 RMK SLP064 KQTZ 061655Z 27005KT 9000 HZ SKC 15/06 A3017 RMK SLP219 KQUT 031955Z AUTO 00000KT 10SM CLR 23/02 A3028 RMK AO2 SLP248 WND DATA ESTMD T02250024 KQUU 191655Z AUTO RMK AO2 SLPNO WND DATA ESTMD PWINO PNO TSNO $ KQVF 061656Z AUTO VRB06KT 9999 CLR 28/23 A2993 RMK AO2 SLP138 WND DATA ESTMD T02800232 KQVY 270455Z 30002KT 7SM CLR 12/00 A3031 RMK AO2A WND DATA ESTMD ALSTG ESTMD KQWD 172350Z AUTO 4000 HZ CLR 19/04 A2998 RMK AO2 SLP002 WND DATA ESTMD T01940040 402350191 54001 TSNO $ KQWM 061555Z AUTO 30007KT 9999 CLR 18/02 A3010 RMK AO2 SLP191 WND DATA ESTMD T01780018 PWINO $ KQX2 200755Z AUTO 9999 CLR 21/08 A3020 RMK AO2 SLP207 WND DATA ESTMD T02100080 $ KQXH 061556Z AUTO 00000KT 9999 BKN230 16/02 A3020 RMK AO2 SLP215 WND DATA ESTMD T01630021 $ KQXT 310256Z AUTO 00000KT 8000 HZ CLR 31/M03 A2970 RMK AO2 SLP990 WND DATA ESTMD T03101026 KQXX 272255Z AUTO 19010G17KT 160V250 10SM BKN060 BKN170 02/M05 A3174 RMK AO2 SLP762 WND DATA ESTMD T00241052 $ KQYD 241955Z AUTO RMK AO2 SLPNO WND DATA ESTMD PWINO PNO TSNO $ KRAC 061653Z AUTO 28018G31KT 10SM OVC039 00/M08 A2986 RMK AO2 PK WND 26037/1607 SLP117 T00001078 KRAL 061653Z 08003KT 5SM HZ CLR 12/06 A3010 RMK AO2 SLP183 T01220056 KRAP 061733Z 16009KT 8SM FEW005 M10/M12 A3017 RMK AO2 T11001122 KRAS 061735Z AUTO 17004KT 7SM SCT013 BKN019 BKN035 24/22 A3003 RMK AO2 LTG DSNT NE T02430221 KRAW 061735Z AUTO 35010G16KT 10SM CLR 02/M08 A3034 RMK AO2 LTG DSNT S T00161082 KRBD 061653Z 34017G26KT 10SM CLR 12/M07 A3022 RMK AO2 PK WND 01029/1605 SLP230 T01171072 KRBG 061653Z AUTO 15003KT 3SM -RA BR OVC039 08/07 A3019 RMK AO2 SLP225 P0004 T00780067 KRBL 061654Z AUTO 16003KT 2SM BR OVC003 08/07 A3017 RMK AO2 SLP216 T00830072 KRBO 061735Z AUTO 24006KT 10SM SCT025 BKN040 BKN048 29/22 A3001 RMK AO2 LTG DSNT NE T02860220 KRBW 061735Z AUTO 26006KT 10SM CLR 21/15 A3005 RMK AO2 KRCA 061656Z AUTO 19009KT 10SM FEW160 FEW200 M10/M13 A3015 RMK AO2 SLP273 T11001131 $ KRCE 061735Z AUTO 01015G23KT 10SM -UP CLR 04/M10 A3038 RMK AO2 KRCM 061735Z AUTO 32010G16KT 10SM CLR 02/M08 A3035 RMK AO2 KRCR 061735Z AUTO 27018G26KT 10SM OVC035 01/M06 A2994 RMK AO2 KRCV 061735Z AUTO 07003KT 10SM CLR 04/M12 A3016 RMK AO2 T00401121 KRCX 061735Z AUTO 29017G20KT 10SM M12/M17 A3001 RMK AO2 T11211167 KRCZ 061735Z AUTO 22016G23KT 10SM SCT030 21/13 A2999 RMK AO2 T02080125 KRDD 061653Z 00000KT 3/4SM BR OVC002 08/07 A3015 RMK AO2 SLP211 T00780072 KRDG 061654Z 18010G21KT 6SM BR OVC015 13/10 A2972 RMK AO2 PRESFR SLP070 T01280100 KRDK 061735Z AUTO 31013G19KT 10SM CLR M03/M12 A3037 RMK AO2 KRDM 061656Z 08004KT 10SM -RA SCT050 BKN060 OVC070 03/02 A3008 RMK AO2 UPB1557E1559 SLP201 P0002 T00330022 KRDR 061556Z 27007KT 10SM CLR M21/M26 A3030 RMK AO2A VIS 7/8 RWY35 SLP292 T12111260 $ KRDU 061651Z 24015G27KT 10SM SCT028 SCT250 20/13 A2996 RMK AO2 PK WND 22027/1650 SLP144 T02000128 KREG 061735Z AUTO 18010G16KT 10SM SCT027 SCT070 SCT080 27/20 A3001 RMK AO2 LTG DSNT W THRU N T02660200 KREO 061652Z AUTO 11003KT 03/M06 A3013 RMK AO1 SLP224 T00281056 KRFD 061654Z 29018G35KT 10SM CLR 01/M08 A2999 RMK AO2 PK WND 31039/1612 SLP162 T00061083 KRFI 061735Z AUTO 35014G19KT 10SM CLR 15/06 A3014 RMK AO2 LTG DSNT SE AND S T01510059 KRGA 061735Z AUTO 29013G18KT 10SM SCT021 OVC033 06/04 A2999 RMK AO2 KRGK 061735Z AUTO 33009G23KT 10SM CLR M12/M22 A3016 RMK AO2 KRHI 061737Z AUTO 30018G30KT 2 1/2SM -SN OVC021 M11/M14 A2981 RMK AO2 PK WND 29033/1710 P0000 T11061144 KRHP 061735Z AUTO 26005KT 5SM -RA BKN017 OVC025 14/14 A2997 RMK AO2 P0005 T01440135 KRHV 061647Z 00000KT 2SM BR OVC005 09/09 A3016 KRIC 061654Z 20011KT 10SM FEW040 FEW150 19/12 A2988 RMK AO2 SLP123 T01890117 KRID 061735Z AUTO 28028G37KT 10SM 00/M03 A2998 RMK AO2 KRIL 061653Z AUTO 00000KT 10SM CLR M02/M07 A3020 RMK AO2 SLP251 T10171072 KRIV 061558Z AUTO 00000KT 9SM CLR 09/01 A3008 RMK AO2 SLP187 T00890011 KRIW 061653Z AUTO 14003KT 10SM CLR M08/M11 A3002 RMK AO2 SLP221 T10831106 KRKD 061712Z AUTO 18009G21KT 4SM BR OVC005 12/12 A2979 RMK AO2 PRESFR KRKP 061724Z AUTO VRB03KT 6SM HZ SCT016 BKN022 27/23 A3001 RMK AO2 T02670228 KRKR 061735Z AUTO 33010G15KT 10SM CLR 08/M07 A3028 RMK AO2 LTG DSNT S KRKS 061654Z AUTO 21012KT 10SM OVC070 M02/M12 A3011 RMK AO2 SLP217 T10171117 KRKW 061735Z AUTO 32008G14KT 300V360 10SM BKN095 BKN120 12/12 A2992 RMK A01 KRLD 061735Z AUTO 00000KT 10SM OVC085 04/M01 A3010 RMK AO2 T00351006 KRME 061653Z 16012G19KT 10SM OVC065 12/08 A2955 RMK AO2 RAE1555 SLP006 P0000 T01170078 KRMG 061737Z AUTO 15003KT 3SM RA BR SCT005 BKN012 OVC075 17/16 A2994 KRMN 061735Z AUTO 21013G26KT 180V240 10SM CLR 22/09 A2980 RMK AO2 T02150091 KRMY 061735Z AUTO 26015G23KT 10SM SCT027 BKN040 OVC050 00/M04 A2977 RMK AO2 T00001040 KRNC 061735Z AUTO 32014G21KT 6SM BR OVC004 09/08 A3002 RMK A01 KRND 061556Z 35018G24KT 10SM OVC015 17/14 A3008 RMK AO2A PK WND 34027/34 DZB1451E02 OVC V BKN CIG 014 RWY15L CIG 014 RWY15R SLP182 P0000 T01730138 KRNH 061735Z AUTO 29016G21KT 10SM CLR M14/M22 A3015 RMK AO2 T11401217 KRNM 061653Z 00000KT 10SM CLR 17/M01 A3009 RMK AO2 SLP185 T01721011 KRNO 061655Z 00000KT 10SM SCT110 OVC190 03/M03 A3018 RMK AO2 SLP216 T00281033 KRNP 061735Z AUTO 26027G33KT 10SM SCT022 BKN040 OVC060 01/M04 A2967 RMK AO2 T00091038 KRNT 061653Z 16003KT 4SM BR OVC007 04/03 A3007 RMK AO2 SLP188 T00390028 KRNV 091235Z AUTO 20005KT 10SM OVC009 23/23 A3003 RMK AO2 LTG DSNT NE AND NW T02320232 KROA 061654Z 07004KT 10SM BKN120 OVC160 17/08 A2986 RMK AO2 SLP107 T01720083 KROC 061654Z 21017G25KT 10SM -RA FEW039 BKN070 OVC080 11/08 A2946 RMK AO2 PK WND 23031/1624 RAB08 SLP980 P0000 T01060083 KROG 061658Z 36010G16KT 10SM CLR 03/M08 A3031 RMK AO2 SLP266 T00281078 $ KROS 061735Z AUTO 30017G23KT 10SM CLR M15/M22 A3018 RMK AO2 T11501223 KROW 061651Z 00000KT 10SM CLR 05/M15 A3040 RMK AO2 SLP277 T00501150 KROX 061735Z AUTO 27008KT 10SM M21/M25 A3021 RMK AO2 KRPD 061735Z AUTO 29017G24KT 10SM SCT020 M12/M20 A3009 RMK AO2 T11231199 KRPH 061735Z AUTO 34018G21KT 310V150 10SM CLR 08/M09 A3032 RMK AO2 SLP861 T00781092 KRPJ 061735Z AUTO 27024G32KT 10SM CLR M01/M08 A3002 RMK AO2 T10061079 KRPX 061649Z AUTO 10SM M08/M12 A2989 RMK Roundup KRQB 061735Z AUTO 27018G28KT M1/4SM SN OVC013 M02/M03 A2962 RMK AO2 T10201035 KRQE 061653Z AUTO 00000KT CLR 04/M09 A3024 RMK AO2 SLP204 T00441089 $ KRQO 061735Z AUTO 02019G25KT 10SM 04/M09 A3039 RMK AO2 T00381095 KRRL 061735Z AUTO 30016G21KT 7SM OVC023 M10/M14 A2986 RMK AO2 T10991144 TSNO KRRT 061735Z AUTO 00000KT 10SM CLR M21/M25 A3018 RMK AO2 KRSL 061653Z AUTO 31009KT 10SM CLR 00/M09 A3041 RMK AO2 SLP313 T00001094 KRSN 061735Z AUTO 01014G19KT 10SM SCT021 13/08 A3013 RMK AO2 T01330075 KRSP 061654Z AUTO 19012G27KT 170V240 9SM SCT110 11/06 A2970 RMK AO2 PK WND 18027/1622 SLP066 T01060061 $ KRST 061654Z 30027G35KT 10SM CLR M12/M19 A3012 RMK AO2 PK WND 31040/1603 SLP224 T11171189 KRSV 061735Z AUTO 30019G24KT 10SM BKN035 02/M04 A3016 RMK AO2 T00221043 KRSW 061653Z 00000KT 10SM FEW026 SCT033 26/19 A3011 RMK AO2 SLP193 T02560194 KRTN 061653Z AUTO 21013KT 10SM OVC024 M04/M14 A3025 RMK AO2 SLP267 T10391139 KRTS 061735Z AUTO 00000KT 10SM FEW041 SCT060 OVC100 02/M04 A3018 RMK AO2 KRUE 061653Z AUTO 02009G15KT 10SM CLR 11/M06 A3023 RMK AO2 SLP233 T01061056 KRUG 061735Z AUTO 25010KT 10SM CLR M22/M24 A3023 RMK AO2 KRUQ 061735Z AUTO 22013G18KT 10SM SCT038 20/11 A2994 RMK AO2 T01950110 KRUT 061656Z AUTO 11017G27KT 10SM BKN028 OVC033 08/06 A2963 RMK AO2 PK WND 12028/1608 SLP032 T00830056 $ KRVF 061730Z AUTO 17005KT 10SM OVC055 M03/M13 A2997 RMK AO2 KRVJ 061735Z AUTO 21008KT 10SM CLR 21/14 A3006 RMK AO2 T02090136 KRVL 061735Z AUTO 00000KT 9SM OVC049 11/07 A2964 RMK AO2 KRVS 061653Z 02011G20KT 10SM CLR 05/M07 A3038 RMK AO2 SLP293 T00501072 KRWF 061653Z AUTO 31017G29KT 10SM CLR M14/M21 A3033 RMK AO2 PK WND 31034/1617 SLP292 T11441211 $ KRWI 041222Z AUTO 00000KT 4SM BR FEW004 06/05 A3005 RMK AO2 T00610050 KRWL 061653Z AUTO 25021G34KT 10SM OVC100 00/M14 A3005 RMK AO2 PK WND 26034/1642 SLP218 T00001144 KRWV 061735Z AUTO 36017G26KT 10SM BKN024 A3013 RMK AO2 LTG DSNT E AND SE KRXE 061653Z AUTO 20009KT 10SM OVC080 M01/M07 A3013 RMK AO2 SLP227 T10111072 KRYM 061656Z AUTO 32015G22KT 10SM CLR M18/M25 A3023 RMK AO2 SLP266 T11841255 FZRANO $ KRYN 061245Z 11006KT 10SM CLR 05/M03 A3007 KRYV 061735Z AUTO 28020G28KT 10SM OVC034 M01/M09 A2989 RMK AO2 T10141091 KRYW 061735Z AUTO 34012G17KT 10SM OVC025 14/03 A3018 RMK AO2 LTG DSNT E T01350032 KRYY 061650Z 21010G15KT 10SM OVC009 17/15 A3000 RMK AO2 SLP155 T01670150 $ KRZL 061735Z AUTO 27021G24KT 10SM BKN031 00/M05 A3000 RMK AO2 KRZN 061655Z AUTO 31021G25KT 10SM CLR M16/M22 A3012 RMK AO2 T11561222 KRZR 061735Z AUTO 26005KT 10SM FEW055 SCT065 SCT100 15/15 A2994 RMK A01 KRZT 061735Z AUTO 31019G26KT 10SM SCT025 BKN031 OVC060 04/M01 A2992 RMK AO2 PWINO P0001 KS21 061735Z AUTO 21007KT 10SM SCT019 BKN024 BKN046 02/01 A3017 RMK AO2 KS25 061735Z AUTO 00000KT 10SM M18/M21 A3019 RMK AO2 KS32 061735Z AUTO 29015KT 10SM CLR M19/M22 A3027 RMK AO2 TSNO KS33 061715Z AUTO 17007KT 10SM RA OVC070 03/02 A3008 RMK AO2 KS34 061555Z AUTO 00000KT 10SM M04/M13 A3004 RMK Plain KS39 061735Z AUTO 00000KT 8SM -UP FEW027 BKN038 OVC045 03/02 A3010 RMK AO2 KS52 061735Z AUTO 00000KT 3SM -SN BR SCT019 BKN027 BKN034 M04/M06 A3010 RMK AO2 T10431056 KS59 061730Z AUTO 00000KT 3/4SM M07/M08 A3004 KS71 061730Z AUTO 09007KT 10SM M19/M21 A3003 KS85 151625Z AUTO 10011KT 10SM M20/M26 A3012 RMK A01 Culbert on KSAA 061735Z AUTO 24009G16KT 10SM OVC090 01/M17 A3009 RMK AO2 KSAC 061653Z 22004KT 2 1/2SM BR OVC012 09/08 A3018 RMK AO2 SLP219 T00890078 KSAD 061651Z AUTO 15010KT 10SM CLR 14/M04 A3017 RMK AO2 SLP199 T01391044 KSAF 061653Z 14017KT 10SM CLR M01/M11 A3027 RMK AO2 SLP247 T10111111 KSAN 061737Z 00000KT 2SM BR OVC007 14/12 A3013 KSAR 061735Z AUTO 32013G19KT 10SM CLR 03/M06 A3024 RMK AO2 T00311060 KSAT 061651Z 35020G30KT 10SM OVC018 14/07 A3013 RMK AO2 PK WND 36030/1614 SLP190 T01440067 KSAV 061653Z 27007KT 10SM BKN200 20/15 A3009 RMK AO2 SLP189 T02000150 KSAW 061647Z 32024G31KT 7SM -SN SCT015 BKN021 M05/M07 A2956 KSAZ 061735Z AUTO 30015KT 10SM CLR M18/M24 A3022 RMK AO2 KSBA 061653Z 04004KT 3SM BR OVC006 13/12 A3008 RMK AO2 SLP185 T01330117 KSBD 061651Z 00000KT 10SM CLR 14/M02 A3010 KSBM 061735Z AUTO 29024G41KT 10SM BKN028 M02/M08 A2980 RMK AO2 PK WND 29045/1715 T10221078 KSBN 061654Z 28019G29KT 10SM OVC040 01/M07 A2988 RMK AO2 PK WND 29033/1637 UPE1558 SLP123 P0000 T00061067 $ KSBO 061735Z AUTO 21004KT 10SM CLR 20/14 A3006 RMK AO2 KSBP 061656Z 00000KT 10SM CLR 16/04 A3009 RMK AO2 SLP187 T01610044 KSBS 061735Z AUTO 00000KT 10SM OVC100 M03/M11 A3013 RMK AO1 T10311110 KSBY 061654Z 19016G21KT 10SM CLR 19/12 A2990 RMK AO2 SLP125 T01890122 KSCD 061735Z AUTO 00000KT 3SM -RA SCT035 SCT045 OVC110 16/15 A3000 RMK AO2 LTG DSNT NE S AND SW P0024 T01550148 KSCF 301850Z AUTO 11010KT 10SM 27/24 A3000 RMK A01 KSCH 061653Z 20008G15KT 10SM OVC011 11/09 A2965 KSCK 061655Z 15005KT 4SM R29R/5000VP6000FT HZ OVC010 09/07 A3018 RMK AO2 SLP219 T00940067 KSCR 061655Z AUTO 22009G18KT 10SM CLR 20/12 A2996 RMK AO2 T01960117 KSCX 061735Z AUTO 32010KT 290V350 10SM OVC009 10/10 A2996 RMK A01 KSDA 061735Z AUTO 34017KT 10SM CLR M03/M13 A3037 RMK AO2 KSDB 061653Z AUTO VRB03KT 10SM CLR 19/M12 A3020 RMK AO2 SLP183 T01891117 $ KSDC 061735Z AUTO 19006KT 10SM BKN070 OVC090 11/07 A2945 RMK AO2 KSDF 061656Z 29017KT 10SM FEW025 BKN120 BKN160 OVC200 06/M02 A3007 RMK AO2 SLP182 T00561017 KSDL 061653Z AUTO 00000KT 10SM 14/02 A3012 RMK AO2 SLP187 T01440017 $ KSDM 061727Z 33004KT 2 1/2SM HZ CLR 14/11 A3011 KSDY 061656Z AUTO 00000KT 10SM CLR M16/M18 A3022 RMK AO2 SLP288 T11561183 FZRANO KSEA 061653Z 21006G15KT 3SM -RA BR BKN005 OVC016 04/03 A3005 RMK AO2 RAB24 SLP187 P0000 T00390033 KSEE 061647Z 00000KT 10SM SKC 11/06 A3010 KSEF 061735Z AUTO 17005KT 10SM SCT029 SCT034 OVC065 26/20 A3009 RMK AO2 T02600199 KSEG 061653Z AUTO 19010G20KT 10SM BKN110 12/06 A2966 RMK AO2 SLP043 T01220061 KSEM 061710Z AUTO 21013G20KT 10SM FEW022 FEW045 BKN070 23/18 A2999 RMK AO2 LTG DSNT NW-NE KSEP 061735Z AUTO 01013G22KT 10SM CLR 11/M08 A3028 RMK AO2 T01071076 KSEQ 061558Z AUTO 36019KT 10SM BKN017 BKN042 BKN055 17/14 A3012 RMK AO2 PK WND 34027/38 LTG DSNT NE RAB09E27RAB28E50 SLP198 P0001 T01650142 $ KSET 061654Z AUTO 32014G25KT 9SM -SN CLR 03/M09 A3024 RMK AO2 PK WND 33031/1617 SLP242 P0000 T00331089 KSEZ 061735Z AUTO 00000KT 10SM CLR 14/M07 A3021 RMK AO2 KSFB 061653Z 17007KT 10SM CLR 27/19 A3010 RMK AO2 SLP191 T02720189 KSFF 061653Z 00000KT 3SM -SN OVC037 M03/M07 A3009 RMK AO2 SNB12 SLP213 P0001 T10331067 KSFM 061712Z AUTO 34003KT 3/4SM UP BR OVC002 03/03 A2977 RMK AO2 P0000 KSFO 061656Z 36007KT 1 1/4SM BR FEW002 OVC004 11/09 A3017 RMK AO2 SLP215 T01060094 $ KSFQ 061735Z AUTO 23014G18KT 10SM CLR 20/13 A2994 RMK AO2 T02020125 KSFY 061735Z AUTO 29020G27KT 10SM CLR M03/M11 A3010 RMK AO2 KSFZ 061656Z AUTO 23012G22KT 10SM BKN017 OVC023 14/11 A2982 RMK AO2 RAB11E27 SLP106 T01440111 PNO $ KSGF 061652Z 32012KT 9SM CLR 02/M07 A3030 RMK AO2 SNE23B41E52 SLP264 P0000 T00221072 KSGH 061656Z AUTO 29023G30KT 10SM OVC025 02/M02 A2992 RMK AO2 PK WND 29033/1621 SLP136 T00171022 FZRANO PNO $ KSGJ 061656Z 22007KT 190V260 10SM CLR 25/18 A3010 RMK AO2 SLP192 T02500178 KSGR 061653Z 23008KT 10SM -RA FEW017 BKN026 OVC085 26/23 A3001 RMK AO2 RAB32 SLP163 P0004 T02610228 KSGS 061735Z AUTO 33015G20KT 10SM CLR M13/M22 A3022 RMK AO2 T11291222 KSGT 061656Z AUTO 36021KT 10SM SCT080 11/00 A3020 RMK AO2 PK WND 36028/1635 SLP225 T01060000 KSGU 061656Z AUTO 00000KT 10SM CLR 04/M06 A3019 RMK AO2 SLP225 T00441056 KSHD 061735Z AUTO 20016G25KT 10SM CLR 17/09 A2977 RMK AO2 T01740087 KSHL 061735Z AUTO 30014G22KT 10SM CLR M10/M19 A3031 RMK AO2 KSHN 061740Z AUTO 00000KT 1SM UP BR BKN006 BKN010 OVC017 03/02 A3004 RMK AO2 UPB40 P0000 T00280022 KSHP 181300Z 12007KT 4SM MRA BR SCT037 BKN055 OVC080 22/22 A2996 RMK TWR VIS 1 1/2SM KSHR 061653Z AUTO 36003KT 10SM CLR M13/M16 A3003 RMK AO2 SLP239 T11331161 KSHV 061712Z 04014G21KT 10SM SCT026 18/05 A3011 KSIF 061735Z AUTO 22013G21KT 10SM CLR 21/10 A2990 RMK AO2 T02120102 KSIK 061735Z AUTO 36013G16KT 10SM CLR 06/M02 A3022 RMK AO2 TSNO KSIY 061653Z AUTO 20006KT 8SM BKN070 OVC085 02/00 A3020 RMK AO2 SLP254 T00170000 KSJC 061725Z 00000KT 3SM BR FEW000 BKN004 OVC006 11/09 A3018 RMK AO2 T01060094 KSJN 061654Z AUTO 00000KT 10SM CLR 06/M08 A3024 RMK AO2 SLP220 T00561078 KSJS 061735Z AUTO 30007KT 270V330 10SM SCT012 BKN029 OVC035 11/10 A2989 RMK AO2 T01070103 KSJT 061651Z 01012G22KT 10SM CLR 09/M08 A3032 RMK AO2 SLP264 T00891078 KSJX 061735Z AUTO 30016G29KT 3SM -SN SCT011 SCT020 OVC027 00/M03 A2949 RMK AO2 T10011033 KSKA 061648Z 03008KT 1 1/2SM -SN BR FEW022 BKN027 BKN033 BKN040 BKN047 M05/M06 A3004 RMK AO2A SNB14 CIG 027V036 SLP207 $ KSKF 061556Z AUTO 36019G24KT 10SM BKN019 18/14 A3008 RMK AO2 CIG 019V037 BKN V SCT CIG 018 RWY16 SLP182 T01800139 $ KSKX 061656Z AUTO VRB03KT 10SM CLR 02/M08 A3026 RMK AO2 SLP257 T00171078 FZRANO KSLB 061735Z AUTO 31016G23KT 10SM CLR M08/M17 A3031 RMK AO2 KSLC 061654Z 12004KT 10SM BKN100 BKN120 BKN200 03/M04 A3020 RMK AO2 SLP232 VIRGA T00281039 KSLE 061656Z 21010KT 10SM -RA OVC033 07/05 A3012 RMK AO2 SLP199 P0001 T00720050 KSLG 061656Z AUTO 01013KT 10SM CLR 04/M07 A3031 RMK AO2 SLP268 T00391067 KSLH 061735Z AUTO 26010G16KT 5SM UP SCT021 OVC026 01/M02 A2938 RMK AO2 KSLI 061558Z 00000KT M1/8SM R22L/0900V1000FT FG VV001 11/11 A3008 RMK AO2A SLP189 T01080108 KSLK 061651Z AUTO 19015G25KT 10SM BKN043 BKN075 09/07 A2945 RMK AO2 PK WND 19026/1635 RAE37 SLP980 P0001 T00890072 KSLN 061653Z 34014KT 10SM CLR 02/M09 A3043 RMK AO2 SLP312 T00171089 KSLO 061655Z AUTO 32017G21KT 10SM CLR 04/M06 A3019 RMK AO2 T00361056 KSLR 061735Z AUTO 01019G26KT 10SM CLR 12/M03 A3024 RMK AO2 LTG DSNT S T01181033 KSMD 061735Z AUTO 22021G27KT 190V250 10SM FEW034 BKN042 OVC047 01/M05 A2989 RMK A01 KSME 061735Z AUTO 32010KT 10SM OVC014 07/05 A3000 RMK AO2 KSMF 061653Z 23004KT 2SM BR OVC011 08/07 A3018 RMK AO2 SFC VIS 3 SLP218 T00830072 KSMN 061656Z AUTO 00000KT 10SM OVC055 M04/M10 A3011 RMK AO2 SLP246 T10441100 FZRANO $ KSMO 061651Z 00000KT 4SM HZ CLR 13/09 A3008 RMK AO2 SLP186 T01330094 $ KSMP 061656Z AUTO 00000KT 1/4SM FZFG VV003 M02/M03 A2994 RMK AO2 SNE02 SLP175 P0002 I1002 T10221028 KSMQ 061653Z AUTO 17005KT 7SM OVC015 13/11 A2978 RMK AO2 RAB17E27 SLP084 P0000 T01280111 KSMS 061655Z AUTO 23009G16KT 10SM SCT029 22/14 A3004 RMK AO2 KSMX 061651Z 00000KT 10SM CLR 13/08 A3009 RMK AO2 SLP191 T01280083 $ KSNA 061728Z 27003KT 1/2SM R20R/2200V4000FT FG VV002 13/11 A3010 RMK AO2 T01280111 $ KSNC 061735Z AUTO 9SM OVC009 13/12 A2982 RMK AO2 KSNH 061655Z AUTO 01012G20KT 10SM BKN020 BKN080 10/07 A3009 RMK A01 KSNK 061735Z AUTO 03014G21KT 10SM CLR 05/M11 A3035 RMK AO2 LTG DSNT E T00491109 KSNL 061735Z AUTO 03014G20KT 10SM CLR 05/M12 A3035 RMK AO2 LTG DSNT SE T00461122 KSNS 061653Z 14013KT 8SM CLR 08/05 A3012 RMK AO2 SLP211 T00780050 KSNT 061651Z AUTO 00000KT M03/M09 A3009 RMK AO1 SLP198 T10331089 KSNY 061653Z AUTO 20009KT 10SM CLR M04/M13 A3021 RMK AO2 SLP276 T10441133 KSOA 061735Z AUTO 36015G21KT 10SM CLR 10/M07 A3032 RMK AO2 KSOP 061656Z AUTO 23015G20KT 10SM CLR 20/13 A2999 RMK AO2 SLP157 T02000128 KSOW 061735Z AUTO 00000KT 10SM CLR 11/M06 A3026 RMK AO2 KSPA 061735Z AUTO 23007G16KT 10SM OVC016 16/12 A3000 RMK AO2 KSPB 061728Z AUTO 13005KT 2SM -RA BR OVC003 06/04 A3010 RMK AO2 RAE1656B23 P0000 T00560044 KSPD 061656Z AUTO 16004KT M02/M13 A3032 RMK AO1 SLP286 T10221128 KSPF 061735Z AUTO 05004KT 10SM CLR M09/M16 A3008 RMK AO2 KSPG 061653Z 15004KT 10SM CLR 21/19 A3010 RMK AO2 SLP191 T02060189 KSPI 061652Z 31017G32KT 10SM CLR 02/M08 A3018 RMK AO2 PK WND 30032/1644 SLP224 T00171083 KSPK 061735Z AUTO 18004KT 10SM CLR 03/M04 A3020 RMK AO2 KSPS 061652Z 02018G24KT 10SM CLR 07/M10 A3037 RMK AO2 PK WND 01027/1614 SLP281 T00671100 KSPW 061653Z AUTO 32018G26KT 10SM CLR M09/M18 A3031 RMK AO2 PK WND 32027/1628 SLP286 T10891183 KSQI 061656Z 28024G35KT 10SM CLR M02/M09 A3006 RMK AO2 PK WND 26035/1652 SLP046 T10171089 FZRANO KSQL 061647Z 00000KT 1SM BR OVC003 10/10 A3018 KSRB 061655Z AUTO 32010KT 10SM BKN010 BKN013 OVC026 12/11 A3001 RMK A01 P0002 KSRC 061656Z AUTO 34013G17KT 10SM CLR 09/M04 A3023 RMK AO2 SLP236 T00941044 KSRE 061735Z AUTO 01012G19KT 10SM CLR 06/M10 A3034 RMK AO2 KSRQ 061653Z 24006KT 10SM CLR 24/20 A3009 RMK AO2 SLP190 T02390200 KSRR 061735Z AUTO 15004KT 10SM CLR 00/M12 A3031 RMK AO2 KSSC 061556Z 21013KT 10SM FEW028 FEW250 20/13 A3005 RMK AO2A SLP177 T02010131 KSSF 061653Z 36014G22KT 10SM OVC018 18/10 A3010 RMK AO2 PK WND 01027/1634 SLP184 T01830100 KSSI 061653Z AUTO 23008KT 10SM CLR 22/17 A3008 RMK AO2 SLP187 T02220172 KSTC 061653Z 31018G29KT 10SM CLR M17/M25 A3024 RMK AO2 PK WND 31029/1623 SLP271 T11721250 KSTE 061655Z AUTO 27021G26KT 10SM BKN020 OVC026 M07/M14 A2987 RMK AO2 T10691137 KSTF 061735Z AUTO VRB05KT 10SM BKN021 BKN027 OVC031 16/14 A3004 RMK AO2 LTG DSNT E-SW KSTJ 061653Z AUTO 33017G24KT 9SM -SN 01/M08 A3038 RMK AO2 SNB40 SLP296 T00111083 PNO KSTK 061655Z AUTO 13003KT 10SM CLR M04/M12 A3024 RMK AO2 KSTL 061651Z 31016G28KT 10SM CLR 04/M08 A3024 RMK AO2 PK WND 32029/1638 SLP242 T00391083 KSTP 061653Z 32023G33KT 10SM CLR M11/M22 A3023 RMK AO2 PK WND 30035/1603 SLP245 T11111222 KSTS 061729Z 00000KT 1/2SM FG VV002 07/07 A3019 RMK AO2 T00720072 KSUA 061647Z 16005KT 7SM VCSH FEW010 SCT018 BKN040 25/21 A3013 RMK CEILOMETER OTS. KSUE 061656Z AUTO 30018G25KT 10SM OVC034 M01/M05 A2966 RMK AO2 PK WND 30032/1641 UPB22E53SNE22 SLP051 P0000 T10111050 FZRANO $ KSUN 061650Z 14004KT 10SM SKC M02/M08 A3012 KSUS 061654Z 33016G24KT 10SM CLR 03/M08 A3025 RMK AO2 PK WND 31030/1600 SLP246 T00331083 KSUT 061735Z AUTO 23006KT 10SM CLR 21/14 A3003 RMK AO2 T02090135 KSUU 061613Z AUTO 00000KT 2 3/4SM BR OVC007 08/08 A3017 RMK AO2 VIS 1 1/2 RWY03L VIS 1 5/8 RWY03R/21L CIG 003 RWY03L CIG 004 RWY03R CIG 004 RWY21R SLP224 $ KSUW 061735Z AUTO 29012G20KT 10SM SCT026 M16/M21 A3014 RMK AO2 T11561214 KSUX 061652Z 33018KT 10SM CLR M08/M16 A3039 RMK AO2 PK WND 31028/1629 SLP309 T10831161 KSUZ 061735Z AUTO 36015G21KT 10SM CLR 11/M05 A3019 RMK A01 KSVC 061735Z AUTO 15011KT 10SM OVC100 14/M07 A3025 RMK AO2 T01401075 KSVE 061655Z AUTO 28004KT 8SM BKN090 BKN110 02/M02 A3018 RMK AO2 KSVH 061735Z AUTO 22015G21KT 10SM SCT120 20/11 A2991 RMK AO2 T01970112 KSVN 061656Z AUTO 23008KT 10SM FEW200 23/15 A3006 RMK AO2 SLP183 T02250146 $ KSWF 061645Z 21012G20KT 4SM BR OVC010 11/10 A2975 KSWO 061653Z 36011G19KT 10SM CLR 05/M08 A3040 RMK AO2 SLP296 T00501083 KSWW 061735Z AUTO 35015G21KT 10SM CLR 07/M09 A3036 RMK AO2 LTG DSNT E T00661091 KSXK 061735Z AUTO 32014G21KT 10SM CLR M10/M19 A3033 RMK AO2 KSXS 061638Z AUTO 22007KT 10SM BKN013 BKN019 21/18 A3006 RMK AO2 SLP179 KSXT 061731Z AUTO 17007KT 10SM OVC028 06/M01 A3015 KSXU 061735Z AUTO 19009KT 10SM CLR 02/M15 A3032 RMK AO2 T00161154 KSYF 061735Z AUTO 16004KT 10SM CLR M02/M12 A3030 RMK AO2 T10231121 PWINO KSYI 061655Z AUTO 35018G23KT 9SM OVC006 10/09 A3003 RMK A01 KSYM 061735Z AUTO 30011G19KT 10SM BKN023 OVC038 06/02 A2996 RMK AO2 KSYN 060255Z AUTO 28023G31KT 10SM SCT026 BKN032 OVC040 00/M05 A2963 RMK AO2 T10011053 KSYR 061654Z 18016G25KT 10SM FEW032 BKN050 OVC080 14/09 A2950 RMK AO2 PK WND 18027/1619 SLP986 T01390089 PNO $ KSZL 061656Z 33012KT 10SM CLR 02/M08 A3030 RMK AO2A SLP269 T00211083 $ KSZT 061735Z AUTO 03004KT 1SM -SN OVC012 M05/M06 A3008 RMK AO2 KSZY 061655Z AUTO 36011G18KT 320V030 10SM SCT090 10/04 A3010 RMK A01 KT KT20 061735Z AUTO 36017G24KT 10SM OVC022 16/11 A3011 RMK AO2 LTG DSNT NE AND E T01600113 KT35 061735Z AUTO 36018G24KT 10SM OVC029 15/03 A3016 RMK AO2 LTG DSNT E AND SE T01520027 KT41 061735Z AUTO 21010KT 10SM TS BKN019 BKN031 OVC060 25/22 A3000 RMK AO2 LTG DSNT SW THRU NE T02540219 KT69 061735Z AUTO 28008KT 10SM SCT021 SCT032 OVC041 27/22 A3002 RMK A01 KT70 061558Z AUTO 34019G23KT 10SM CLR 13/08 A3012 RMK AO2 PK WND 36030/33 SLP194 T01340083 KT74 061735Z AUTO 35020G25KT 10SM OVC028 15/04 A3017 RMK AO2 LTG DSNT E T01520035 KT78 061735Z AUTO 21007KT 10SM SCT016 BKN021 OVC031 24/23 A2999 RMK AO2 LTG DSNT ALQDS KT82 061735Z AUTO 35015G20KT 10SM SCT022 13/00 A3021 RMK AO2 LTG DSNT E T01270002 KT89 061655Z AUTO 03017G26KT 3SM HZ CLR 14/M04 A3026 RMK A01 KTAC 091456Z VRB06KT 10SM SCT019 BKN060 01/M03 A3021 RMK A02A SLPNO WND DATA ESTMD / ALSTG ESTMD KTAD 061654Z AUTO 13004KT 10SM CLR M03/M17 A3021 RMK AO2 SLP252 T10281167 KTAN 061735Z AUTO 22016G23KT 10SM SCT014 15/11 A2982 RMK AO2 PK WND 21028/1657 T01500111 KTAZ 061735Z AUTO 30018G24KT 10SM CLR 01/M07 A3018 RMK AO2 KTBN 061656Z AUTO 31012G18KT 10SM CLR 02/M09 A3027 RMK AO2 SLP257 T00241095 KTBR 061735Z AUTO 21005KT 10SM CLR 19/14 A3005 RMK AO2 T01920135 KTBX 131900Z AUTO 10SM CLR 17/01 A3026 RMK AO2 KTCC 061653Z AUTO 14003KT 10SM CLR M01/M13 A3036 RMK AO2 SLP289 T10061133 KTCL 061726Z 26004KT 1 3/4SM TSRA BR BKN006 OVC085 17/17 A3002 RMK AO2 LTG DSNT ALQDS TSE07B22 CIG 004V010 P0010 T01720167 $ KTCM 061638Z AUTO 00000KT 2SM -DZ BR FEW005 OVC019 03/03 A3007 RMK AO2 CIG 003 RWY34 SLP189 $ KTCS 061653Z AUTO VRB05KT 10SM CLR 09/M07 A3024 RMK AO2 SLP201 T00891067 TSNO KTCY 061655Z AUTO 14005KT 4SM BR OVC007 08/08 A3019 RMK A01 KTDF 061735Z AUTO 21013G18KT 180V240 10SM CLR 20/11 A2992 RMK AO2 KTDR 061656Z AUTO 19009KT 10SM OVC085 23/19 A3006 RMK AO2 LTG DSNT N SLP183 T02340191 $ KTDZ 061653Z AUTO 25019G29KT 10SM FEW036 OVC049 03/M04 A2979 RMK AO2 PK WND 26033/1600 SLP089 T00281039 $ KTEB 061651Z 19011KT 10SM OVC011 12/11 A2979 RMK AO2 PRESFR SLP087 T01220106 KTEW 061735Z AUTO 27016G32KT 7SM -SN BKN019 OVC025 00/M03 A2971 RMK AO2 T00001032 KTEX 061735Z AUTO 00000KT 10SM CLR 05/M21 A3024 RMK AO2 KTFP 061735Z AUTO 21008KT 10SM SCT014 BKN026 A3000 RMK AO2 LTG DSNT NE KTGI 061735Z AUTO 17013G20KT 10SM CLR 14/12 A2988 RMK AO1 T01400115 KTHA 061655Z AUTO 36010G18KT 10SM FEW007 BKN017 OVC035 12/10 A3000 RMK A01 P0001 KTHM 061555Z AUTO 00000KT 5SM BR M04/M06 A3009 RMK Thomp on Fall KTHV 061653Z AUTO 19006KT 10SM BKN110 13/08 A2971 RMK AO2 SLP064 T01330083 KTIF 061735Z AUTO 22005KT 10SM CLR M08/M13 A3031 RMK AO2 T10841130 KTIK 061556Z AUTO 35020KT 10SM CLR 03/M10 A3034 RMK AO2 SLP283 T00301103 $ KTIP 061735Z AUTO 10SM CLR 01/M06 A3009 RMK AO2 T00121061 KTIW 061653Z 25005KT 1SM BR OVC004 03/03 A3007 RMK AO2 CIG 003V009 SLP188 P0001 T00330033 KTIX 061647Z 11003KT 7SM BKN020 28/21 A3012 KTKC 061735Z AUTO 32014G19KT 10SM CLR M12/M20 A3031 RMK AO2 T11161200 KTKI 061653Z 01019G28KT 10SM CLR 11/M08 A3023 RMK AO2 PK WND 01032/1559 SLP242 T01111078 KTKV 061735Z AUTO 31012G19KT 5SM OVC020 M10/M15 A2987 RMK AO2 T11051146 PWINO KTKX 061735Z AUTO 35012G20KT 310V010 10SM FEW039 09/M01 A3021 RMK AO2 KTLH 061653Z 23012KT 10SM BKN024 23/17 A3010 RMK AO2 SLP190 T02330167 KTMA 061735Z AUTO 20007KT 160V250 22/14 A3008 RMK AO2 T02200141 PWINO KTMB 061741Z 24008KT 1SM -RA BR BKN009 BKN019 OVC060 25/23 A3007 RMK AO2 LTG DSNT SE AND S RAB29 P0003 T02500228 KTME 061735Z AUTO 33017G24KT 6SM HZ SCT014 BKN018 OVC044 19/15 A3005 RMK AO2 KTMK 061735Z AUTO 00000KT 10SM BKN019 OVC030 A3007 RMK AO2 P0002 KTMT 061730Z AUTO 30003KT 10SM SCT095 00/M08 A3020 RMK AO2 T00041080 KTNB 061730Z AUTO 22006G14KT 10SM 15/05 A2993 RMK AO2 T01490052 KTNU 061735Z AUTO 31019G29KT 10SM CLR M05/M14 A3027 RMK A01 KTOA 061650Z 00000KT 1/8SM BR VV001 13/13 A3010 KTOB 061735Z AUTO 29016G27KT 10SM M12/M22 A3016 RMK AO2 PWINO KTOC 061735Z AUTO 00000KT 10SM OVC010 15/12 A2999 RMK AO2 T01460120 KTOI 061740Z AUTO 21010G16KT 10SM SCT021 24/17 A3002 RMK AO2 T02440167 KTOL 061652Z 25019G33KT 10SM OVC048 02/M06 A2978 RMK AO2 PK WND 26036/1603 SLP088 T00221056 KTOP 061653Z 34011G21KT 10SM CLR 03/M07 A3040 RMK AO2 SLP299 T00281072 KTOR 061653Z AUTO 13007KT 10SM CLR M07/M12 A3015 RMK AO2 SLP258 T10671117 KTPA 061653Z 23005KT 10SM FEW025 FEW250 22/19 A3012 RMK AO2 SLP198 T02220194 KTPF 061735Z AUTO 22004KT 10SM CLR 26/21 A3010 RMK AO2 KTPH 061656Z AUTO 04003KT 10SM CLR 03/M09 A3021 RMK AO2 SLP222 T00281089 KTPL 061651Z AUTO 35014G27KT 10SM OVC029 14/02 A3019 RMK AO2 PK WND 35027/1643 SLP214 T01390017 KTQE 061654Z AUTO 33017KT 10SM CLR M06/M14 A3041 RMK AO2 PK WND 32027/1558 SLP306 T10561139 KTQH 061735Z AUTO 36013G18KT 330V030 10SM CLR 07/M09 A3033 RMK AO2 KTQK 061735Z AUTO 06005KT 10SM CLR M01/M10 A3036 RMK AO2 T10071101 KTQV 061655Z AUTO 24016G29KT 10SM CLR 19/11 A2994 RMK A01 KTRI 061653Z 25018G27KT 9SM -RA SCT014 BKN034 OVC080 15/13 A2994 RMK AO2 PK WND 23031/1615 SLP121 P0007 T01500133 KTRK 061645Z AUTO 00000KT 10SM SKC M02/M04 A3022 KTRL 061653Z AUTO 01016G29KT 10SM CLR 12/M06 A3022 RMK AO2 PK WND 01033/1601 SLP228 T01171061 KTRM 061652Z AUTO 17004KT 10SM CLR 16/04 A3004 RMK AO2 SLP174 T01610039 KTSP 061735Z AUTO RMK AO2 PNO PWINO FZRANO TSNO KTTA 061735Z AUTO 22009G14KT 10SM SCT034 21/12 A2994 RMK AO2 T02090115 KTTD 061735Z 08005KT 2SM -RA BR BKN012 OVC017 05/03 A3013 RMK AO2 P0002 T00500028 KTTF 061735Z AUTO 25017G26KT 10SM SCT029 BKN039 OVC060 02/M03 A2975 RMK AO2 T00201029 KTTN 061728Z 20014G24KT 10SM SCT024 OVC110 16/12 A2977 RMK AO2 T01560117 KTTS 061636Z AUTO 27003KT 10SM SCT022 BKN027 26/20 A3010 RMK AO2 BKN V SCT SLP197 $ KTUL 061653Z 02013KT 10SM CLR 05/M07 A3037 RMK AO2 SLP285 T00501072 KTUP 061710Z 35016G22KT 10SM BKN016 OVC065 13/09 A3008 KTUS 061653Z 13008KT 10SM CLR 16/M02 A3015 RMK AO2 SLP187 T01561017 KTVC 061731Z 31021G30KT 1SM -SN BR BKN011 OVC018 01/M02 A2951 RMK AO2 PK WND 30030/1729 WSHFT 1715 P0001 T00061017 KTVF 061656Z AUTO 28008KT 10SM CLR M20/M24 A3027 RMK AO2 SLP284 T12001239 FZRANO KTVI 061735Z AUTO 23009KT 10SM BKN100 22/15 A3010 RMK AO2 KTVK 061735Z AUTO 28018G21KT 10SM FEW037 00/M10 A3027 RMK AO2 KTVL 061653Z AUTO 00000KT 10SM BKN100 OVC120 M01/M05 A3021 RMK AO2 SLP239 T10061050 KTVR 061728Z AUTO 36014G26KT 10SM VCTS -RA BKN012 OVC026 15/13 A3009 RMK AO2 PK WND 36026/1655 LTG DSNT SE AND S TSE01 P0000 T01500128 KTVY 061735Z AUTO 32005KT 10SM BKN100 02/M02 A3021 RMK AO2 KTWF 061653Z 23007KT 10SM SCT110 05/M04 A3015 RMK AO2 SLP210 T00501044 KTWM 061735Z AUTO 30013G27KT 261V321 5SM HZ CLR M16/M22 A2999 RMK AO2 KTWT 061655Z AUTO 32013KT 10SM CLR 05/M02 A3019 RMK AO2 KTXK 061653Z 35011G20KT 10SM CLR 15/03 A3016 RMK AO2 SLP209 T01500028 KTXW 061735Z AUTO 20009KT 10SM BKN022 28/22 A2998 RMK AO2 LTG DSNT NE T02760215 KTYL 061735Z AUTO 05003KT 10SM CLR 10/M06 A3025 RMK AO2 KTYQ 061735Z AUTO 27018G25KT 10SM OVC029 00/M06 A3003 RMK AO2 T10021056 KTYR 061553Z 35014G23KT 10SM CLR 14/03 A3013 RMK AO2 PK WND 35029/1503 SLP198 T01390028 KTYS 061653Z 26008KT 1 1/2SM RA BR FEW008 BKN039 OVC060 13/12 A2994 RMK AO2 WSHFT 1617 SLP134 P0035 T01280122 KTZR 061645Z 28012G19KT 10SM CLR 04/M01 A2988 KU16 021558Z AUTO 00000KT 10SM UP CLR M01/M02 A3028 RMK AO2 UPB46 SLP872 P0000 T10061022 TSNO $ KU42 061735Z AUTO 17005KT 10SM SCT090 OVC100 04/M02 A3020 RMK AO1 T00401020 KU52 061655Z AUTO 00000KT 10SM CLR 00/M09 A3021 RMK AO2 KU55 061655Z AUTO 00000KT 10SM CLR M03/M12 A3026 RMK A01 KU68 061735Z AUTO 12006KT 10SM CLR M05/M11 A3002 RMK AO2 KU69 061655Z AUTO 26017G25KT 10SM FEW090 05/M15 A3015 RMK A01 KUAO 061653Z 00000KT 2SM BR BKN005 OVC028 05/05 A3013 RMK AO2 RAE1556B36E52 SLP202 P0001 T00500050 $ KUBE 061735Z AUTO 30015G25KT 7SM CLR M13/M20 A3007 RMK AO2 KUCP 061742Z AUTO 26014KT 10SM SCT014 OVC031 08/05 A2966 RMK AO2 PK WND 25028/1728 RAE28 P0000 KUCY 061655Z AUTO 32016G21KT 10SM FEW035 07/00 A3017 RMK A01 KUDG 061656Z AUTO 23014G24KT 10SM FEW029 21/14 A3002 RMK AO2 SLP167 T02060139 KUES 061645Z 28019G26KT 10SM BKN032 BKN039 M02/M08 A2985 KUGN 061655Z 28015G33KT 10SM OVC037 00/M08 A2987 RMK AO2 PK WND 29033/1654 SLP126 T00001083 KUIL 061718Z AUTO 06/04 A2997 KUIN 061654Z AUTO 31016G26KT 10SM CLR 01/M09 A3023 RMK AO2 PK WND 31029/1628 SLP243 T00111089 TSNO $ KUKF 061735Z AUTO 20006KT 10SM SCT110 17/09 A2993 RMK AO2 KUKI 061656Z AUTO 00000KT 10SM CLR 07/04 A3017 RMK AO2 SLP216 T00670044 KUKL 061735Z AUTO 35013G20KT 10SM CLR 02/M11 A3038 RMK AO2 T00241114 KUKT 061735Z AUTO 17010KT 10SM OVC016 12/12 A2973 RMK A01 KULM 061735Z AUTO 32024G30KT 10SM CLR M14/M23 A3030 RMK AO2 KULS 061735Z AUTO 19003KT 10SM CLR 00/M11 A3037 RMK AO2 KUNI 061735Z AUTO 28016G20KT 10SM SCT020 OVC050 07/04 A2986 RMK AO2 T00690035 KUNO 061653Z AUTO 36011G20KT 10SM CLR 04/M07 A3025 RMK AO2 SLP243 T00441072 KUNU 061735Z AUTO 27014G28KT 10SM SCT030 SCT035 SCT110 M03/M10 A2989 RMK AO2 T10341097 KUNV 061723Z 26007KT 5SM -RA BR SCT027 BKN043 OVC050 09/06 A2963 KUOX 061735Z AUTO RMK AO2 PWINO TSNO KUSE 061655Z AUTO 26023G30KT 10SM SCT044 OVC050 01/M03 A2979 RMK AO2 KUTA 061715Z AUTO 36021G27KT 10SM CLR 10/03 A3016 RMK AO2 TSNO KUTS 061528Z AUTO 24005KT 10SM -RA SCT014 BKN019 OVC029 24/21 A3000 RMK AO2 LTG DSNT NE RAB25 P0000 T02440211 KUUU 061742Z AUTO 21010G21KT 8SM SCT007 14/12 A2984 RMK AO2 T01390117 KUVA 061655Z AUTO 35016G21KT 10SM CLR 14/07 A3018 RMK AO2 T01440073 KUXL 061715Z AUTO 10SM SCT060 26/22 A3001 RMK AO2 T02560220 PWINO KUYF 061735Z AUTO 27026G30KT 10SM OVC026 01/M03 A2990 RMK AO2 KUZA 061733Z AUTO 22011G18KT 10SM BKN030 BKN047 19/12 A2999 RMK AO2 T01890122 KVAD 061555Z 21006KT 7SM SCT200 21/14 A3015 RMK SLPNO WND DATA ESTMD ALSTG ESTMD KVAF 061655Z AUTO 10SM CLR 27/20 A3003 RMK A01 KVAY 061654Z AUTO 20009G21KT 160V240 10SM FEW024 SCT120 17/11 A2982 RMK AO2 SLP097 T01720111 KVBG 061558Z 13006KT 10SM FEW004 BKN250 08/07 A3009 RMK AO2A SLP194 T00780072 $ KVBT 061656Z AUTO 36012KT 10SM CLR 04/M07 A3031 RMK AO2 SLP273 T00391072 KVBW 061735Z AUTO 20011G23KT 10SM SCT055 18/09 A2974 RMK AO1 T01770092 KVCB 061653Z AUTO 24004KT 2 1/2SM BR OVC006 08/07 A3018 RMK AO2 SLP219 T00830072 KVCT 061651Z 22013G18KT 10SM FEW019 SCT055 27/21 A3002 RMK AO2 SLP165 T02670211 KVCV 061655Z 16004KT 10SM CLR 13/M10 A3017 RMK AO2 KVDF 061735Z AUTO 22006KT 10SM CLR 27/20 A3010 RMK AO2 KVDI 061735Z AUTO 20007KT 10SM CLR 22/15 A3006 RMK AO2 KVEL 061653Z AUTO 00000KT 10SM OVC100 01/M13 A3016 RMK AO2 SLP235 T00111133 KVER 061735Z AUTO 30011G19KT 10SM CLR 03/M08 A3032 RMK AO2 T00321079 KVES 061730Z AUTO 28019G30KT 10SM OVC033 00/M05 A2994 RMK AO2 KVGC 061735Z AUTO 16009G14KT 130V190 7SM OVC016 09/06 A2953 RMK AO2 KVGT 061653Z 00000KT 10SM CLR 15/M06 A3012 RMK AO2 SLP209 T01501061 KVHN 061735Z AUTO 03013G17KT 10SM CLR 06/M10 A3039 RMK AO2 T00571095 KVIH 061653Z AUTO 34013G21KT 9SM -SN CLR 03/M08 A3028 RMK AO2 SLP255 P0000 T00281083 KVIS 061656Z AUTO 15004KT 2SM BR OVC003 08/08 A3019 RMK AO2 SLP233 T00780078 KVJI 061655Z AUTO 27014G20KT 5SM RA BKN014 BKN022 OVC028 13/11 A2992 RMK AO2 P0008 T01310111 KVKS 061735Z AUTO 01015G21KT 2SM BR SCT008 BKN023 OVC033 15/15 A3006 RMK A01 KVKY 061735Z AUTO 20015KT 10SM CLR 23/21 A3006 RMK A01 KVLD 061653Z VRB04KT 10SM FEW100 23/15 A3011 RMK AO2 SLP202 T02330150 KVLL 061735Z AUTO 25022G32KT 10SM BKN041 BKN046 OVC055 03/M05 A2969 RMK AO2 T00251052 KVNC 061735Z AUTO 21006KT 8SM CLR 25/19 A3010 RMK AO2 KVNW 061655Z AUTO 28021G30KT 10SM SCT040 BKN047 01/M05 A2990 RMK AO2 KVNY 061651Z 00000KT 4SM HZ CLR 13/07 A3007 RMK AO2 SLP180 T01330072 KVOA 061655Z AUTO 10SM FEW055 28/21 A3008 RMK A01 KVOK 061557Z 29022G39KT 6SM -SN BKN021 M06/M12 A2993 RMK AO2A PK WND 28041/1456 PRESRR SLP151 KVPC 061735Z AUTO 00000KT 1SM VCTS RA BR SCT004 OVC018 17/16 A3000 RMK AO2 LTG DSNT ALQDS KVPS 061557Z 21012KT 10SM FEW025 SCT060 BKN250 24/19 A3008 RMK AO2A SLP192 T02380193 $ KVPZ 061656Z AUTO 29024G34KT 10SM OVC037 00/M07 A2994 RMK AO2 PK WND 29034/1603 SLP144 T00001072 KVQQ 061650Z 21010KT 10SM BKN032 27/19 A3009 KVQT 141805Z AUTO 3SM HZ FEW032 FEW042 21/13 A2997 RMK A01 KVRB 061739Z 28005KT 1 3/4SM RA BR SCT023 BKN033 23/22 A3010 RMK AO2 VIS 1V5 RAB33 P0000 T02330217 KVSF 061654Z AUTO 00000KT 2SM BR OVC007 02/02 A2973 RMK AO2 CIG 002V010 SLP075 T00220017 KVTA 061731Z AUTO 26022KT 10SM OVC028 06/M01 A2984 RMK AO2 PK WND 26027/1731 T00561011 PWINO $ KVTI 061735Z AUTO 31014G27KT 10SM CLR M06/M17 A3022 RMK AO2 T10561173 KVTN 061652Z AUTO 00000KT 10SM CLR M08/M14 A3031 RMK AO2 SLP302 T10831144 KVTP 061655Z AUTO 26012G24KT 10SM CLR M03/M11 A3015 RMK AO2 KVUJ 061655Z AUTO 22013G21KT 10SM SCT032 20/12 A3002 RMK AO2 LTG DSNT E AND W T01950118 KVUO 061653Z AUTO 10005KT 3SM -RA BR SCT004 OVC014 04/04 A3013 RMK AO2 SLP202 P0006 T00440044 KVVS 061735Z AUTO 22009G14KT 10SM RA OVC013 11/10 A2971 RMK AO2 P0005 T01120102 KVVV 061735Z AUTO 32014G17KT 10SM CLR M16/M22 A3033 RMK AO2 KVWU 061735Z AUTO 29007KT 10SM CLR M19/M24 A3017 RMK AO2 KVYS 061735Z AUTO 29022G33KT 10SM CLR 00/M09 A3006 RMK AO2 T00001086 KW13 061735Z AUTO 17010G20KT 10SM OVC110 18/09 A2978 RMK AO1 T01810087 KW22 061735Z AUTO 22011G20KT 4SM -RA SCT007 BKN010 OVC027 11/11 A2975 RMK AO2 KW29 281255Z AUTO 12005KT 2SM VCTSRA BR OVC003 14/ A2984 RMK AO2 LTG DSNT S AND W KW31 061735Z AUTO 22014G21KT 10SM CLR 20/12 A2987 RMK AO1 T01980116 KW43 061735Z AUTO 23005KT 10SM CLR M08/M11 A3006 RMK AO2 KW63 061735Z AUTO 21010G16KT 170V230 10SM CLR 21/11 A2989 RMK AO1 KW75 061735Z AUTO 21010G18KT 10SM CLR 19/12 A2988 RMK AO1 T01900120 KW78 061735Z AUTO 21013G21KT 10SM CLR 22/09 A2988 RMK AO1 T02150094 KW81 061735Z AUTO 20010G23KT 170V230 10SM CLR 20/08 A2985 RMK AO1 T02010083 KW96 061735Z AUTO 20009G22KT 150V240 10SM CLR 19/12 A2987 RMK AO1 T01880115 KW99 061735Z AUTO 26018G27KT 10SM -RA BKN060 OVC070 18/10 A2971 RMK AO2 T01810095 KWAL 061654Z AUTO 17014G20KT 10SM CLR 15/13 A2993 RMK AO2 SLP131 T01500128 KWBF 061655Z AUTO 21013G19KT 10SM CLR 26/20 A3008 RMK A01 KWDG 061645Z 35010G19KT 10SM FEW250 03/M08 A3043 KWDR 061735Z AUTO 22005KT 10SM VCTS OVC008 16/14 A3002 RMK AO2 LTG DSNT W AND NW KWHP 061650Z 00000KT 10SM SKC 16/M01 A3011 KWJF 061656Z 00000KT 10SM CLR 08/M07 A3015 RMK AO2 SLP215 T00781072 $ KWLD 061654Z AUTO 01016KT 10SM CLR 03/M08 A3042 RMK AO2 SLP306 T00331083 KWMC 061656Z AUTO 00000KT 10SM BKN110 02/M04 A3017 RMK AO2 SLP230 T00221039 $ KWRB 061618Z VRB04KT 6SM BR FEW006 SCT120 BKN250 17/17 A3007 RMK A02A SLP185 KWRI 061656Z 21020G27KT 10SM CLR 18/11 A2982 RMK AO2A PK WND 22030/54 SLP098 T01750113 $ KWRL 061653Z AUTO 00000KT 10SM BKN100 M08/M12 A3005 RMK AO2 SLP236 T10831122 KWST 061653Z AUTO 20013KT 9SM BKN007 14/12 A2986 RMK AO2 CIG 006V010 SLP110 T01390117 KWVI 061736Z AUTO 00000KT 3SM BR BKN002 07/07 A3017 RMK AO2 T00670067 KWVL 061656Z AUTO 02005KT 1SM -SN BR OVC003 00/M01 A2977 RMK AO2 SLP112 P0002 T00001006 FZRANO KWWD 061656Z AUTO 19012G19KT 10SM BKN005 13/12 A2989 RMK AO2 SLP125 T01280117 $ KWWR 061735Z AUTO 36012KT 10SM CLR 01/M10 A3044 RMK AO2 KWYS 121630Z AUTO 00000KT 6SM -UP OVC009 M03/M03 A3037 RMK AO2 KX07 061735Z AUTO 21007KT 10SM CLR 27/18 A3011 RMK A01 KX26 061735Z AUTO 12005KT 10SM SCT021 OVC050 25/21 A3010 RMK AO2 T02480211 KX60 061735Z AUTO 22011KT 10SM BKN033 BKN045 25/17 A3009 RMK AO2 T02550172 KXBP 061735Z AUTO 01014G17KT 10SM CLR 10/M06 A3032 RMK AO2 LTG DSNT SE T00981058 KXER 121600Z AUTO 20013KT 2SM BR FEW017 SCT022 SCT028 A3012 RMK A01 P0004 KXIF 061558Z AUTO 00000KT M M SCT120 10/05 A2973 RMK AO2 SLPNO T00950045 $ KXLL 061735Z AUTO 27004KT 10SM OVC012 12/10 A2973 RMK AO2 KXMR 061631Z AUTO 15005KT 10SM SCT020 26/20 A3010 RMK AO2 SLP196 $ KXNA 061653Z 01014KT 10SM CLR 04/M07 A3030 RMK AO2 SLP262 T00441067 KXNO 061656Z AUTO 20012KT 10SM FEW028 BKN200 21/21 A3004 RMK AO2 SLP175 T02070205 $ KXNX 061655Z AUTO 31011G18KT 10SM BKN024 OVC030 08/04 A3012 RMK A01 KXSA 061735Z AUTO 19012G16KT 150V210 10SM CLR 20/12 A2985 RMK AO2 T01980124 KXVG 061733Z AUTO 30006G17KT 10SM CLR M20/M26 A3018 RMK AO2 KXWA 061735Z AUTO 22009KT 10SM SCT003 M21/M24 A3013 RMK AO2 T12061244 KY19 061735Z AUTO 29008KT 10SM CLR M17/M21 A3025 RMK AO2 KY23 061735Z AUTO 31007G20KT 260V350 10SM SCT022 M12/M20 A3007 RMK AO2 T11201200 KY31 061735Z AUTO 25016G27KT 10SM OVC027 00/M05 A2951 RMK AO2 T10051051 KY49 061735Z AUTO 32012G18KT 10SM CLR M20/M26 A3019 RMK AO2 T11981260 KY50 061656Z AUTO 28019G31KT OVC024 M05/M09 A2988 RMK AO2 PK WND 28034/1630 SLP127 T10501094 PWINO FZRANO $ KY51 061735Z AUTO 28015G23KT 10SM CLR M08/M12 A3002 RMK AO1 T10761124 KY63 061735Z AUTO 30012KT 5SM HZ BKN013 OVC017 M18/M22 A3032 RMK AO2 T11841218 KY70 061735Z AUTO 26016G26KT 2SM -SN SCT011 BKN019 OVC024 M01/M04 A2970 RMK AO2 T10061038 KYIP 061653Z 25022G32KT 10SM BKN043 OVC055 04/M05 A2971 RMK AO2 PK WND 25032/1647 SLP061 T00391050 KYKM 061653Z 24004KT 10SM BKN090 00/M04 A3006 RMK AO2 SLP191 T00001044 KYKN 061656Z AUTO 31017KT 10SM CLR M11/M18 A3041 RMK AO2 SLP335 T11061183 FZRANO KYNG 061732Z 26016G23KT 7SM SCT009 BKN026 OVC060 07/02 A2966 KZKP 050458Z AUTO M M M M M M RMK AO2 SLPNO PWINO PNO TSNO $ KZKQ 050458Z AUTO 35010KT 6SM BR OVC001 12/11 A3019 RMK AO2 SLP250 T01230112 $ KZPH 061735Z AUTO 21004KT 10SM SCT029 SCT036 26/18 A3010 RMK A02 T02610176 KZZV 061731Z AUTO 27015G24KT 10SM SCT020 OVC055 07/02 A2979 RMK AO2 T00670017 LATI 061720Z VRB01KT 9999 -RA FEW038 BKN062 09/07 Q1001 NOSIG LBBG 061730Z 16010KT 9000 -RA FEW037 BKN048 15/12 Q1008 NOSIG LBGO 061730Z AUTO 28009KT 0900 R27/1100U FG VV002 04/04 Q1006 TEMPO 0600 FG LBIA 061700Z 17014KT 9999 BKN040 15/13 Q1006 RESHRA LBPD 061730Z AUTO 30003KT 260V360 8000 FEW008/// SCT010/// BKN067/// 07/06 Q1004 NOSIG LBPG 061700Z 36002KT 3000 BR BKN060 07/07 Q1004 LBPL 061727Z 26004KT 6000 -RA OVC004 03/02 Q1008 LBSF 061730Z 29004KT 1600 RA SCT035 OVC045 07/07 Q1004 NOSIG LBWB 061200Z 16006KT 9999 BKN014 BKN100 13/09 Q1008 LBWN 061730Z 12005KT CAVOK 13/11 Q1007 NOSIG LCEN 061720Z 13006KT 9999 FEW025 SCT030 17/14 Q1020 RESHRA NOSIG LCLK 061730Z 09008KT 9999 SCT020 20/17 Q1019 NOSIG LCPH 061730Z AUTO 10007KT 9999 FEW034 SCT044 BKN059 19/13 Q1018 LCRA 061650Z 08008KT 9999 FEW030 SCT070 BKN080 19/15 Q1019 NOSIG RMK BLU BLU LDDU 061730Z 03013KT 320V090 9999 SCT053 10/03 Q1001 NOSIG LDLO 301330Z 27009KT 230V290 9999 FEW050 10/M02 Q1015 LDOS 061730Z 32008KT 8000 SCT013 OVC033 04/02 Q1010 LDPL 061730Z 04008KT CAVOK 06/M02 Q1010 NOSIG LDRI 061730Z 05020G33KT 330V120 9999 FEW040 08/M04 Q1009 LDSB 131100Z 15008KT 100V170 1200 BR SCT002 BKN004 13/12 Q1020 LDSP 061730Z 03008KT 330V080 CAVOK 09/M02 Q1005 TEMPO 04015G25KT LDZA 061730Z 09001KT CAVOK 03/M01 Q1012 NOSIG LDZD 061730Z 04006KT CAVOK 04/M02 Q1007 TEMPO 04012KT LEAB 061730Z 26005KT CAVOK 08/03 Q1025 NOSIG LEAG 061730Z AUTO 30009KT 270V330 CAVOK 15/05 Q1026 LEAL 061730Z 25008KT CAVOK 15/03 Q1022 NOSIG LEAM 061730Z 25004KT CAVOK 14/10 Q1024 LEAO 061730Z 27007KT CAVOK 09/04 Q1026 LEAS 061730Z 28014KT 3000 BCFG SCT002 BKN009 12/12 Q1023 TEMPO 1500 BKN005 LEBA 061730Z 01002KT CAVOK 12/05 Q1027 LEBB 061730Z 29015KT 260V320 2900 -RA FEW006 BKN011 OVC020 14/14 Q1021 TEMPO 3000 BKN012 LEBG 061730Z 20008KT 9999 BKN007 06/06 Q1024 LEBL 061730Z VRB02KT 9999 FEW060 11/01 Q1018 NOSIG LEBR 061730Z AUTO 30007KT 9999 FEW040 BKN056 11/07 Q1021 LEBT 061730Z AUTO 26003KT 230V330 CAVOK 13/03 Q1020 LEBZ 061730Z 24004KT CAVOK 13/07 Q1027 LECH 061730Z AUTO 20003KT 160V230 CAVOK 11/02 Q1020 LECO 061730Z 20002KT 9000 3000S -RA FEW005 SCT010 OVC016 14/13 Q1024 TEMPO 3000 -RA BR BKN009 LECV 061730Z 28006KT 9000 FEW015 BKN040 09/05 Q1024 LEDA 061730Z AUTO 29009KT 250V330 CAVOK 10/06 Q1018 LEEC 031400Z VRB02KT CAVOK 15/03 Q1024 LEGA 061300Z 34004KT 300V050 CAVOK 11/02 Q1026 LEGE 061730Z 26003KT 9999 FEW050 09/03 Q1018 LEGR 061730Z 24006KT CAVOK 10/05 Q1026 LEGT 061730Z 26010KT 9999 SCT049 11/04 Q1025 LEHC 061730Z AUTO 26013KT 230V290 CAVOK 09/06 Q1018 LEIB 061730Z 18003KT CAVOK 11/06 Q1021 NOSIG LEJR 061730Z 30004KT 250V330 CAVOK 13/06 Q1027 LELC 061730Z 19003KT 160V230 CAVOK 14/09 Q1023 NOSIG LELL 061730Z AUTO 30003KT 280V340 CAVOK 10/01 Q1018 LELN 061730Z 28008KT 9999 FEW015 07/06 Q1023 LELO 061730Z 26017KT 9999 FEW035 11/06 Q1021 LEMD 061730Z 24007KT 160V290 9999 FEW060 BKN075 13/05 Q1024 NOSIG LEMG 061730Z 29014KT 260V320 CAVOK 16/05 Q1025 NOSIG LEMH 061730Z 30005KT 280V340 9999 FEW045 08/04 Q1019 LEMI 061730Z 31008KT CAVOK 14/01 Q1023 LEMO 061730Z 16001KT CAVOK 13/04 Q1027 NOSIG LEPA 061730Z 22005KT 9999 FEW030 13/06 Q1020 NOSIG LEPP 061700Z 03004KT 010V070 5000 -RA BR FEW002 SCT010 BKN015 08/08 Q1020 RERA LERI 061730Z 27003KT 220V310 CAVOK 14/01 Q1023 NOSIG LERL 051600Z 27015KT 9999 FEW030 11/03 Q1022 LERS 061730Z 12003KT 9999 FEW047 12/06 Q1018 LERT 061730Z 30006KT CAVOK 13/08 Q1027 NOSIG LESA 061730Z 24006KT 9999 OVC012 08/07 Q1026 LESB 061730Z AUTO 24003KT 200V300 CAVOK 11/06 Q1020 LESO 061730Z 23008KT 170V270 2600 +DZ BR OVC006 13/13 Q1020 LEST 061730Z VRB01KT 1500 0800S R17/P2000 R35/0900N -DZ BCFG VV001 11/11 Q1024 TEMPO 0800 DZ FG VV001 LESU 061600Z 01004KT 340V060 9999 FEW060 SCT080 09/M11 Q1015 LETL 061730Z AUTO 31007KT CAVOK 07/02 Q1022 LETO 061730Z 23004KT 200V270 9999 SCT050 11/04 Q1024 NOSIG LETU 061730Z AUTO 29004KT 9999 OVC048 11/07 Q1021 LEVC 061730Z 26008KT CAVOK 15/03 Q1020 NOSIG LEVD 061730Z 27011KT 9999 BKN009 08/06 Q1024 LEVS 061730Z VRB02KT 9999 SCT050 BKN075 10/04 Q1025 LEVT 061730Z 23008KT 6000 -RADZ OVC020 09/07 Q1022 LEVX 061730Z 19007KT 140V250 0200 R19/1600N R01/0400N -DZ FG VV001 11/11 Q1025 NOSIG LEXJ 061730Z 29018KT 270V330 3000 DZ FEW006 BKN008 OVC012 14/13 Q1022 LEZG 061730Z 24005KT 9999 BKN050 12/07 Q1020 LEZL 061730Z 21003KT CAVOK 15/04 Q1027 NOSIG LFAC 061730Z AUTO 22008KT 9999 RA BKN031/// BKN037/// BKN048/// ///CB 05/03 Q1005 LFAQ 061730Z AUTO 20021KT 9999 BKN012/// BKN021/// OVC026/// ///TCU 05/04 Q1005 BECMG 26007KT SCT013 BKN020 LFAT 061730Z AUTO 02018G31KT 340V080 7000 RA BKN008/// BKN013/// BKN021/// ///CB 04/04 Q1005 BECMG NSW SCT025 LFBA 061730Z AUTO VRB02KT 4200 -DZ BR FEW007 BKN014 BKN022 08/07 Q1018 BECMG 24015G25KT 9999 NSW SCT025 LFBC 061730Z AUTO 30015KT 240V340 9999 // OVC005 13/12 Q1017 LFBD 061730Z AUTO 25005KT 210V310 3700 -RA BR BKN004 OVC009 10/10 Q1016 BECMG 9999 NSW SCT030 LFBE 061730Z AUTO 15004KT 090V190 5000 -DZ BR OVC007 08/07 Q1017 TEMPO 2000 DZ BECMG 30010KT SCT030 LFBG 061730Z AUTO 21016KT 9999 SCT006 OVC011 09/09 Q1015 BECMG SCT030 LFBH 061730Z AUTO 30018KT CAVOK 10/09 Q1015 BECMG 30015G25KT LFBI 061730Z AUTO 21011KT 9000 OVC006 07/07 Q1013 TEMPO 2000 RADZ BECMG 27010KT SCT030 LFBL 061730Z AUTO 18012KT 4100 -RA BR OVC003 05/04 Q1014 NOSIG LFBM 061730Z AUTO 22005KT 180V250 6000 DZ OVC004 10/09 Q1018 TEMPO 24015G25KT 4000 -RA BKN005 LFBO 061730Z AUTO 24004KT 9999 FEW030 BKN040 OVC047 08/06 Q1019 TEMPO 28015G27KT 3000 RA BKN013 LFBP 061730Z AUTO 22004KT 190V270 5000 -DZ BR BKN015 BKN020 BKN026 10/09 Q1019 TEMPO RA BKN010 LFBT 061730Z AUTO 24010KT 9999 FEW019 SCT026 BKN038 10/08 Q1019 TEMPO 27015G30KT 4000 -RA BKN010 LFBU 061730Z AUTO 17011KT 7000 -DZ OVC006 07/07 Q1015 BECMG 27010KT SCT030 LFBX 061730Z AUTO VRB03KT 4800 -DZ BR OVC008 07/07 Q1016 LFBY 061730Z AUTO 21007KT 1000 0900 // BKN005 OVC009 10/10 Q1018 LFBZ 061730Z AUTO 25010KT 210V280 4400 -DZ BR OVC002 12/12 Q1019 TEMPO 28015G25KT 1500 DZRA LFCK 061730Z AUTO VRB02KT 9999 ///TCU 07/04 Q1019 TEMPO 31015G25KT 2000 RA BKN008 LFCR 061730Z AUTO 23007KT 9999 BKN018 OVC033 04/02 Q1017 TEMPO 2500 RA OVC003 LFGA 061730Z AUTO 20006KT CAVOK 02/00 Q1014 LFGJ 061730Z AUTO 19010KT 9999 BKN033 OVC039 04/02 Q1015 NOSIG LFHP 061630Z AUTO VRB03KT 9999 FEW018 SCT026 BKN082 01/M02 Q1015 LFJL 061730Z AUTO 18010KT 9999 FEW026 OVC036 03/01 Q1012 BECMG OVC010 LFJR 061730Z AUTO VRB03KT 6000 BKN008 BKN024 OVC035 07/07 Q1013 LFKB 061730Z AUTO 33006KT 310V010 9999 FEW072 08/M00 Q1011 NOSIG LFKC 061730Z AUTO 18004KT 140V200 CAVOK 05/01 Q1012 NOSIG LFKF 061730Z AUTO 01003KT 330V040 CAVOK 04/02 Q1010 NOSIG LFKJ 061730Z AUTO 05004KT 010V080 CAVOK 10/M02 Q1011 NOSIG LFKS 061730Z AUTO 34003KT 300V360 CAVOK 08/M01 Q1011 LFLB 061730Z AUTO VRB02KT 9999 BKN014 OVC130 01/00 Q1017 NOSIG LFLC 061730Z AUTO 17005KT 9999 OVC054/// ///TCU 05/01 Q1014 TEMPO OVC020 LFLL 061730Z 15006KT 9999 BKN046 03/02 Q1017 NOSIG LFLN 061730Z AUTO 17004KT CAVOK 05/02 Q1015 TEMPO 4000 RA BKN014 LFLP 061730Z AUTO 10002KT 6000 BKN007 OVC150 M00/M01 Q1016 NOSIG LFLS 061730Z AUTO 07005KT 9999 OVC048 01/00 Q1016 NOSIG LFLU 061730Z AUTO 34004KT 9999 FEW039 BKN052 BKN140 03/01 Q1017 LFLW 061630Z AUTO 20002KT 9999 FEW027 BKN052 OVC066 03/01 Q1016 TEMPO 2000 RA OVC006 LFLX 061730Z AUTO 20009KT 6000 -RA BKN013/// OVC019/// ///TCU 06/05 Q1013 TEMPO 20015G25KT 4000 -RA BKN012 LFLY 061730Z AUTO 14004KT 9999 OVC048 04/02 Q1016 TEMPO BKN012 OVC030 LFMC 061730Z AUTO 25007KT 9999 ////// 08/M02 Q1013 LFMD 061730Z AUTO VRB03KT CAVOK 06/M02 Q1011 NOSIG LFMH 061730Z AUTO 16008KT 120V180 CAVOK 03/02 Q1015 LFMI 061730Z AUTO 34018KT CAVOK 07/M00 Q1016 NOSIG LFMK 061730Z AUTO 29007KT 9999 FEW031 BKN041 BKN070 08/05 Q1018 TEMPO BKN014 BECMG 28015G25KT LFML 061730Z AUTO 31017KT CAVOK 08/01 Q1015 NOSIG LFMN 061730Z 33008KT CAVOK 08/M03 Q1011 NOSIG LFMO 061730Z AUTO 34009KT CAVOK 04/00 Q1017 NOSIG LFMP 061730Z AUTO 03011KT 350V060 9999 FEW054 BKN092 OVC110 10/03 Q1017 TEMPO SCT040TCU LFMT 061730Z AUTO 29009KT CAVOK 09/M01 Q1017 NOSIG LFMU 061730Z AUTO 32008KT CAVOK 08/02 Q1018 NOSIG LFMV 061730Z AUTO 33007KT CAVOK 04/M00 Q1017 NOSIG LFMY 061730Z AUTO 33017KT CAVOK 07/M01 Q1015 LFOA 061730Z AUTO 22009KT 9999 FEW026/// SCT040/// BKN046/// ///TCU 06/03 Q1013 TEMPO 23015G25KT 2000 RA BKN008 LFOB 061730Z AUTO 22010KT 190V260 9999 BKN013/// OVC021/// ///TCU 06/05 Q1008 BECMG SCT030 LFOC 110600Z AUTO 36005KT 3100 BR BKN005 BKN023 BKN028 11/11 Q1028 LFOE 061730Z AUTO 26009KT 9999 -RA SCT011/// BKN016/// BKN032/// ///TCU 06/05 Q1009 TEMPO 27015G26KT 4000 -SHRA BKN030CB LFOH 061730Z AUTO 33018KT 9999 FEW031 10/04 Q1009 TEMPO 32025G45KT 2000 SHRA BKN020CB LFOJ 061730Z AUTO 19007KT 9999 // BKN017 OVC041 06/04 Q1012 LFOK 061730Z AUTO 20015KT 9999 -RA BKN018 BKN024 BKN038 04/03 Q1011 BECMG 21015G25KT RA BKN007 OVC013 LFOP 061730Z AUTO /////KT 9999 BKN019/// OVC026/// ///TCU 07/05 Q1008 LFOT 061730Z AUTO 24009KT 200V270 4000 -RA BR OVC005 07/06 Q1012 BECMG CAVOK LFOV 061730Z AUTO 25008KT CAVOK 07/06 Q1012 LFOZ 061730Z AUTO 23006KT 5000 -RA BR FEW013/// BKN018/// BKN025/// ///TCU 06/05 Q1013 LFPB 061730Z AUTO 21011KT 190V250 9999 OVC017/// ///TCU 07/04 Q1009 TEMPO 22015G25KT RA BECMG SCT012 BKN120 LFPG 061730Z 20014KT 9999 -RA BKN016 BKN023 06/04 Q1009 NOSIG LFPM 061730Z AUTO 21015KT 9999 SCT044 BKN054 BKN070 05/04 Q1010 LFPN 061730Z AUTO 22015KT 9999 BKN013/// BKN041/// OVC140/// ///TCU 05/03 Q1009 TEMPO 4000 SHRA BKN020 LFPO 061730Z 22011KT 190V260 9999 BKN017 BKN034 BKN046 06/04 Q1010 NOSIG LFPT 061730Z AUTO 23015KT 7000 -SNRA BKN018/// OVC024/// ///TCU 06/05 Q1009 LFPV 061730Z AUTO 22011KT 190V250 9999 BKN014/// BKN019/// BKN033/// ///TCU 05/03 Q1009 TEMPO 4000 RA BKN010 LFQA 061730Z AUTO 19011KT 7000 -RA BKN017 BKN023 BKN036 05/03 Q1010 LFQB 061730Z AUTO 20009KT 9999 -RA FEW017/// BKN034/// BKN047/// ///TCU 05/04 Q1012 LFQG 061630Z AUTO 17004KT CAVOK 06/04 Q1014 LFQQ 061730Z AUTO 18012KT 9999 -RA BKN013/// OVC019/// ///CB 05/04 Q1005 BECMG 28011KT SCT030 LFRB 061730Z AUTO 31012KT 9999 FEW031/// SCT038/// BKN054/// ///TCU 08/06 Q1015 BECMG SCT025 LFRC 061730Z AUTO 30020G30KT 9999 FEW034 BKN042 BKN050 09/03 Q1010 TEMPO 29020G40KT 4000 SHRA SCT030TCU LFRD 061730Z AUTO 31017KT 9999 FEW027 BKN034 BKN043 10/06 Q1013 TEMPO 29015G25KT SHRA BKN035TCU LFRG 061730Z AUTO 30009KT 270V330 9999 FEW034/// BKN062/// OVC072/// ///TCU 09/06 Q1009 TEMPO 29025G45KT 4000 SHRA BKN020CB LFRH 061730Z AUTO 29010KT CAVOK 09/06 Q1015 TEMPO 4500 SHRA SCT025TCU LFRI 061730Z AUTO 29011KT CAVOK 09/08 Q1015 TEMPO 4000 SHRA BKN020TCU LFRJ 061730Z AUTO 31015G27KT 9999 FEW014/// SCT054/// BKN072/// ///TCU 08/05 Q1015 LFRK 061730Z AUTO 28015KT CAVOK 08/05 Q1010 TEMPO 29025G40KT 4000 SHRA BKN020TCU LFRL 061730Z AUTO 30014KT 9999 FEW029 SCT036 09/05 Q1015 TEMPO 4000 SHRA BKN015TCU BECMG 30015G25KT LFRM 061730Z AUTO 00000KT 9999 FEW003/// SCT024/// BKN031/// 06/06 Q1012 LFRN 061730Z AUTO 29009KT 9999 FEW031 BKN064 BKN074 09/06 Q1014 NOSIG LFRO 061730Z AUTO 30014KT 9999 BKN029/// BKN037/// OVC066/// ///CB 09/06 Q1015 LFRQ 061730Z AUTO 30012KT 9999 FEW028 09/06 Q1016 NOSIG LFRS 061730Z AUTO 27007KT 9999 FEW034 BKN043 BKN052 09/08 Q1014 TEMPO 4000 SHRA BKN025TCU LFRT 061730Z AUTO 28010KT 9999 BKN039 08/05 Q1013 LFRU 061730Z AUTO 28013G32KT 9999 FEW033/// SCT058/// BKN068/// ///CB 09/05 Q1014 LFRV 061730Z AUTO 30010KT CAVOK 09/05 Q1014 LFRZ 061730Z AUTO 29007KT 9999 FEW044 10/07 Q1015 NOSIG LFSB 061730Z 13003KT 9999 FEW020 BKN046 BKN180 03/M00 Q1014 NOSIG LFSD 061730Z AUTO 19010KT 160V220 9999 SCT015 OVC022 04/01 Q1014 LFSG 061730Z AUTO 20011KT 9999 OVC038 02/00 Q1013 LFSI 061730Z AUTO 18010KT 9999 BKN038 OVC100 04/01 Q1012 LFSL 061730Z AUTO 17005KT 6000 -DZ BKN015 OVC032 06/05 Q1017 TEMPO 2000 RA OVC003 LFSM 061730Z AUTO 00000KT 9999 FEW044 BKN170 BKN200 00/M00 Q1014 LFSN 061730Z AUTO 18008KT 9999 BKN040 OVC150 03/01 Q1013 LFSO 061730Z AUTO 19011KT 9999 SCT037 OVC120 02/00 Q1012 LFST 061730Z AUTO 19003KT 9999 FEW028 BKN170 OVC230 02/M00 Q1014 NOSIG LFSX 061730Z AUTO 19006KT 9999 ////// 02/01 Q1014 LFTH 061730Z AUTO 33006KT 280V360 CAVOK 08/M03 Q1013 NOSIG LFTW 061730Z AUTO 30005KT CAVOK 04/00 Q1017 NOSIG LFVP 061700Z 25013KT 9999 BKN035 BKN090 03/M03 Q1033 NOSIG LFYR 061730Z AUTO 19006KT 170V230 6000 -RADZ SCT007/// BKN011/// BKN018/// ///CB 06/06 Q1012 LGAD 061720Z 23006KT 9999 -RA FEW018TCU SCT030 BKN080 13/11 Q1003 LGAL 061720Z 17015KT 9999 FEW015 BKN025 15/14 Q1007 LGAV 061720Z 18023G33KT 9999 FEW020 SCT040 17/10 Q1006 NOSIG LGBL 061650Z 17007KT 9999 FEW030 BKN080 16/07 Q1002 RMK SCT180 BLU LGEL 061720Z 17020KT 9999 SCT020 18/10 Q1003 LGHI 061650Z 22008KT 9999 FEW020 14/12 Q1008 RERA LGIO 061720Z 12009KT 7000 -RA FEW018TCU BKN020 OVC070 08/07 Q1002 LGIR 061720Z 18016KT 9999 FEW025 16/07 Q1010 NOSIG LGKC 061650Z 17020G30KT 9999 FEW018TCU BKN025 13/11 Q1007 LGKF 061550Z 21014KT 6000 -RA SCT012 FEW015TCU SCT020 BKN070 14/12 Q1003 LGKL 061720Z AUTO 19013KT //// // ////// 17/10 Q1005 RE// LGKO 061720Z 17016G26KT 9999 RA FEW014TCU BKN018 15/11 Q1012 LGKP 061720Z 19019KT 9999 FEW018 BKN020 19/13 Q1013 LGKR 061720Z 15005KT 9999 -RA FEW016TCU BKN025 BKN080 12/10 Q1000 NOSIG LGKV 061720Z 00000KT 9999 SCT018 SCT080 14/12 Q1005 LGKZ 061720Z AUTO VRB02KT //// -RA ////// 07/06 Q1004 RE// LGLM 061720Z 16011G21KT 9999 FEW025 17/13 Q1005 LGLR 061650Z 00000KT 8000 -RA FEW020 BKN030 BKN070 12/11 Q1003 BLU LGMK 061650Z 19010KT 9999 FEW010 14/10 Q1009 LGMT 061720Z 17020KT 7000 -RA FEW018 SCT025 16/14 Q1010 LGNX 061150Z 18012KT 9999 RA FEW018 BKN030 19/11 Q1011 LGPA 061450Z 15006KT 9999 FEW020 SCT030 15/13 Q1009 LGPZ 061650Z 10005KT 7000 RA FEW018TCU BKN025 BKN080 12/11 Q1002 WHT LGRP 061720Z 12008KT 090V170 9999 FEW015 BKN020 18/12 Q1014 NOSIG LGRX 061720Z VRB03KT 9999 BKN025 BKN060 12/11 Q1003 LGSA 061720Z 05004KT 9999 FEW020 SCT025 14/10 Q1008 LGSK 051050Z 20006KT 9999 FEW025 16/10 Q1012 LGSM 061650Z 18017KT 9999 RA FEW018 BKN025 17/14 Q1011 LGSO 061650Z 18011KT 9999 FEW020 16/12 Q1009 LGSR 061650Z 18010KT 9999 SCT025 15/12 Q1010 LGSY 061650Z 18017G27KT 9999 FEW020 17/10 Q1005 RMK FEW080 BKN180 BLU HAND WIND ANEMOMETER OBSERVATION LGTG 061550Z 14007KT 9999 FEW030 16/07 Q1005 RMK FEW080 BKN180 BLU LGTS 061720Z 31007KT 9999 FEW010 FEW020TCU BKN025 13/12 Q1003 TEMPO FM1830 5000 SHRA LGZA 060950Z 18019G31KT 8000 -RA FEW014 FEW016TCU BKN020 17/12 Q1007 LHBC 310545Z VRB02KT CAVOK 10/05 Q1027 LHBP 061730Z 31010KT 9999 BKN032 03/M00 Q1009 NOSIG LHDC 061715Z AUTO 01005KT 330V060 9999 BKN010 04/02 Q1008 NOSIG LHKE 061715Z 32006KT 9999 OVC017 04/02 Q1009 NOSIG RMK WHT LHPA 061715Z 01006KT 9999 FEW033 01/M01 Q1012 NOSIG RMK BLU LHPP 061715Z AUTO 35011KT 9999 BKN024 BKN069 03/M00 Q1011 LHPR 061715Z AUTO 32008KT 9999 FEW035 01/M01 Q1012 NOSIG LHSM 061715Z AUTO 35005KT 8000 BKN020 02/00 Q1012 LHSN 061715Z 31004KT 9999 OVC030 04/03 Q1009 NOSIG RMK BLU LIBA 061555Z 29013KT 8000 -RA FEW010 SCT030 BKN060 08/07 Q1002 RMK OVC VIS MIN 8000 WIND THR11 29012KT WIND THR29 /////KT BLU LIBC 061650Z 36007KT 9999 FEW030 09/07 Q1000 LIBD 061720Z 26009KT 3000 +RA FEW010 SCT020 BKN040 09/09 Q1001 LIBF 061450Z 33011KT 9000 RA SCT025 08/07 Q1002 LIBG 061650Z 02003KT 9999 FEW040 10/08 Q1000 LIBH 061555Z 36004KT 9999 FEW030 13/11 Q1000 RMK OVC SCT100 BKN200 QUK 1 QUL 0 VIS MAR 20 KM VIS MIN 9999 LIBN 061555Z 06006KT 8000 -TSRA FEW020CB BKN040 12/11 Q1000 RMK OVC VIS MIN 8000 WIND THR14 06007KT WIND THR32 07008KT BLU LIBP 061720Z AUTO 32013KT 280V350 9999 OVC073 09/03 Q1007 LIBQ 061555Z 26004KT 200V320 0000 -SN FZFG VV/// 00/M01 Q0998 RMK MON INVIS VAL INVIS VIS MIN 0000 LIBR 061720Z VRB02KT 9999 FEW030 12/08 Q1000 LIBV 061555Z 34004KT 9999 SCT040 10/07 Q0999 RMK BKN SCT060 VIS MIN 9999 WIND THR32 35007KT WIND THR14 33007KT BLU LIBY 061555Z 35010KT 9999 -TSRA BKN013CB SCT015TCU 12/10 Q0999 RMK OVC QUK 4 QUL 2 S VIS MAR 10 KM VIS MIN 9999 LICA 061720Z VRB05KT 8000 TSRA FEW015CB BKN030 10/08 Q1002 LICB 061720Z AUTO 28004KT 240V330 9999 NCD 08/04 Q1004 LICC 061720Z 26008KT CAVOK 09/06 Q1002 LICD 061720Z AUTO 29024G34KT 9999 BKN034 12/05 Q1008 LICF 061555Z 32007G20KT 9999 -RA SCT025 SCT030 10/07 Q1001 RMK BKN BKN080 QUK 2 QUL 1 NW VIS MAR 10 KM MON CIME INC NC VIS MIN 9999 LICG 061718Z 32019G34KT 8000 TSRA SCT020CB 11/04 Q1007 LICJ 061720Z 16009KT 9999 -RA SCT025 BKN050 09/06 Q1002 LICL 061555Z 29008KT 9999 SCT030 14/08 Q1002 RMK SCT SCT090 QUK 3 QUL 1 W VIS MAR 10 KM VIS MIN 9999 LICR 061720Z AUTO 05006KT 9999 FEW210 10/04 Q1002 LICT 061655Z 33025KT 9999 -RA FEW018CB SCT022 12/08 Q1003 LICZ 061555Z 24012KT 9999 FEW080 13/11 Q1001 RMK BKN SCT190 VIS MIN 9999 WIND THR28 25011KT WIND THR10 25010KT A2957 BLU LIEA 061720Z 36007KT 320V030 9999 SCT025 13/M00 Q1007 LIEB 061555Z 34016KT 9999 SCT030 11/M04 Q1006 RMK SCT QUK 3 QUL 0 VIS MAR 30 KM MON LIB VIS MIN 9999 LIEC 061555Z 33014KT 9999 FEW020 11/02 Q1007 RMK FEW QUK 4 QUL 0 VIS MAR 20 KM VIS MIN 9999 LIED 061555Z 31016KT 9999 FEW020 SCT035 11/07 Q1009 RMK SCT VIS MIN 9999 WIND THR35 31013KT WIND THR17 31015KT BLU LIEE 061720Z 32016KT CAVOK 10/02 Q1011 LIEF 261455Z 31008KT 9999 FEW008 28/28 Q1013 LIEH 261455Z 29009KT 9999 FEW015 25/22 Q1013 LIEO 061720Z VRB01KT 9999 SCT020 10/04 Q1010 LIMA 061550Z 18005KT CAVOK 06/M04 Q1011 LIMC 061720Z VRB02KT CAVOK 03/M01 Q1011 NOSIG LIME 061720Z 24003KT 190V330 6000 NSC 01/00 Q1011 NOSIG LIMF 061720Z 28003KT CAVOK 04/M06 Q1011 LIMG 061650Z VRB03KT CAVOK 03/M06 Q1012 LIMH 061355Z 04015KT CAVOK M20/M23 Q1001 RMK SKC MON LIB VAL N CLD SCT VIS MIN 9999 LIMJ 061720Z 03010KT CAVOK 08/M06 Q1012 LIMK 051555Z 10003KT CAVOK 05/M07 Q1000 RMK FEW FEW200 VAL FOSCHIA VIS MIN 9999 LIML 061720Z 27005KT CAVOK 03/01 Q1011 NOSIG LIMN 061555Z /////KT CAVOK 05/M01 Q1010 RMK SKC VIS MIN 9999 BLU LIMP 061650Z 24003KT 3000 BR NSC 02/01 Q1012 LIMS 061655Z 24002KT 3500 BR NSC 02/02 Q1010 LIMU 061555Z 34005KT CAVOK 13/M02 Q1009 RMK SKC QUK 2 QUL 1 E VIS MAR 25 KM VIS MIN 9999 LIMV 021255Z /////KT 8000 3000N SCT006 04/02 Q0996 RMK BKN SCT200 MON N INVIS S LIB VAL FOSCHIA VIS MIN 3000N LIMW 061420Z AUTO 27012KT 9999 NCD 06/M09 Q1012 LIMY 021555Z 32003KT CAVOK 07/02 Q0996 RMK SCT SCT070 VAL FOSCHIA VIS MIN 9999W LIMZ 061720Z AUTO 22005KT 9999 NCD M00/M04 Q1011 LIPA 061555Z 34002KT CAVOK 07/01 Q1009 RMK SKC VIS MIN 9999 WIND THR05 /////KT WIND THR23 /////KT A2980 BLU LIPB 061650Z 36006KT 300V050 CAVOK 05/M05 Q1012 LIPC 061655Z 30008KT CAVOK 05/03 Q1010 LIPE 061720Z 23005G15KT 8000 NSC 04/01 Q1011 LIPF 061655Z 30005KT 8000 NSC 04/01 Q1010 LIPH 061720Z 24002KT CAVOK 05/M00 Q1011 LIPI 061555Z 03005KT CAVOK 08/M05 Q1009 RMK SKC VIS MIN 9999 WIND THR06 06005KT WIND THR24 07005KT BLU LIPK 061650Z 29006KT 9999 FEW040 05/M01 Q1010 LIPL 061555Z 34003KT 8000 NSC 06/04 Q1010 RMK SKC VIS MIN 8000 WIND THR31 31004KT WIND THR13 33004KT BLU LIPO 061720Z AUTO 20003KT //// // NCD 01/01 Q1011 LIPQ 061720Z AUTO 13005KT 9999 NCD 06/M03 Q1011 LIPR 061720Z 30012KT 9999 SCT040 07/02 Q1010 LIPS 061555Z 00000KT CAVOK 07/00 Q1009 RMK SKC VIS MIN 9999 WIND THR26 00000KT WIND THR08 00000KT BLK BLU LIPU 050700Z VRB03KT 3500 -RA BR BKN035 03/03 Q1002 LIPX 061720Z 30007KT 270V350 CAVOK 05/M01 Q1011 LIPY 061720Z AUTO 31006KT 9999 08/03 Q1009 RERA LIPZ 061720Z 25003KT CAVOK 06/M00 Q1011 NOSIG LIQC 061555Z 04007KT 9999 -RA SCT015 BKN020 10/06 Q0998 RMK OVC QUK / QUL / VIS MAR 15 KM VIS MIN 9999 LIQN 061550Z 31008KT 240V340 9999 FEW045 06/02 Q1005 LIQO 021555Z 24004KT 0000 FG VV/// 09/09 Q0997 RMK VAL INVIS NC VIS MIN 0000 LIQW 061255Z /////KT CAVOK 12/M05 Q1008 LIRA 061720Z 02013KT 9999 SCT070 08/02 Q1005 LIRE 061555Z 34008KT 9999 FEW025 SCT040 10/06 Q1004 RMK BKN VIS MIN 9999 WIND THR13 34011KT WIND THR31 /////KT BLU LIRF 061720Z 01015KT CAVOK 09/01 Q1006 NOSIG LIRG 061655Z 33016KT CAVOK 08/01 Q1005 LIRH 061655Z 34008KT 9999 FEW035 08/03 Q1002 LIRI 061550Z 05005KT 360V090 9999 OVC040 09/05 Q1001 LIRK 061555Z AUTO 07036KT //// M05/M07 Q1000 LIRL 061655Z /////KT 9999 SCT030 SCT060 10/04 Q1003 LIRM 061655Z /////KT 9999 FEW020 SCT070 09/05 Q1002 LIRN 061720Z VRB02KT 9999 BKN070 09/04 Q1003 NOSIG LIRP 061715Z 20002KT CAVOK 05/M01 Q1010 NOSIG LIRQ 061720Z 34007KT 300V010 CAVOK 07/M03 Q1010 LIRS 061655Z 35009KT 9999 FEW060 08/02 Q1010 LIRT 061555Z 02008KT 0000 FG VV/// 01/00 Q0999 RMK MON INVIS VAL INVIS VIS MIN 0000 LIRU 061550Z 36008KT CAVOK 10/03 Q1005 LIRV 061655Z 03015KT CAVOK 05/02 Q1006 LIRX 061555Z 36012KT 9999 FEW015 07/00 Q1006 RMK FEW VIS MIN 9999 VIS MAR 30 KM LIRZ 061720Z AUTO 02006KT 9999 NCD 04/02 Q1008 LIVC 061555Z AUTO 33005G20KT //// M05/M08 Q1004 LIVD 061555Z /////KT CAVOK M05/M09 Q1010 RMK SKC VIS MIN 9999 LIVE 061555Z 02008KT 9999 SCT020 M03/M10 Q1008 RMK SCT VIS MIN 9999 LIVF 061555Z 28004KT 0800 FG VV/// 03/03 Q1006 RMK MON INVIS VAL INVIS VIS MIN 0800 LIVM 061555Z AUTO 31005KT 270V350 //// 09/02 Q1009 LIVO 061555Z 00000KT CAVOK M02/M03 Q1009 RMK SKC VIS MIN 9999 LIVP 051155Z 35019KT 0900 FZFG VV/// M09/M10 Q0995 RMK MON INVIS VAL INVIS VIS MIN 0900N LIVR 061555Z 27009KT CAVOK M09/M13 Q1005 RMK SKC MON LIB VIS MIN 9999 LIVT 061555Z 24002KT CAVOK 08/M02 Q1009 RMK SKC QUK 2 QUL 0 VIS MAR 20 KM VIS MIN 9999 LJCE 061730Z 08004KT 9999 BKN040 04/01 Q1012 RMK BLU LJLJ 061730Z VRB01KT 2000 BR OVC001 M00/M00 Q1012 NOSIG LJMB 061730Z 36006KT CAVOK 01/M02 Q1012 LJPZ 061730Z 04006KT 010V080 CAVOK 07/M03 Q1011 LKCV 061700Z 30008KT 7000 -SN OVC010 M00/M02 Q1013 NOSIG LKKB 061700Z 31005KT 9999 OVC016 M00/M03 Q1014 NOSIG LKKU 061500Z 36006KT 9000 FEW011 BKN017 OVC025 01/M01 Q1012 LKKV 061730Z VRB01KT 9999 OVC019 M02/M04 Q1012 LKLN 061729Z AUTO VRB02KT 4700 -RASN BKN007 OVC012 00/M01 Q1014 LKMT 061730Z 36005KT 320V020 9999 -SN BKN012 OVC015 M00/M02 Q1012 NOSIG LKNA 061700Z 32009KT 9999 OVC010 M01/M03 Q1012 NOSIG LKPD 061700Z 27003KT 9999 -SN BKN017 OVC024 00/M02 Q1013 NOSIG LKPR 061730Z 34005KT 310V030 9999 -SN SCT013 OVC017 M01/M02 Q1014 NOSIG LKTB 061730Z 33006KT 9999 OVC024 01/M03 Q1012 NOSIG LKVO 061300Z 34005KT 290V070 9999 FEW013 BKN020 BKN051 01/M02 Q1013 LLBG 061720Z VRB03KT CAVOK 18/10 Q1018 NOSIG LLER 061650Z 03006KT CAVOK 19/02 Q1017 LLHA 061650Z VRB01KT CAVOK 19/12 Q1019 LLIB 061550Z AUTO 13005KT CAVOK 18/09 Q1019 LMML 061715Z 29015KT 9999 FEW025 SCT049 10/07 Q1005 NOSIG LOAN 061500Z 32012KT 15KM FEW025CU SCT035SC LOAV 061500Z 30008KT 15KM FEW012CU BKN020CU 04/02 LOGK 261520Z AUTO 08004KT 6000 RA OVC042 13/12 Q1012 LOGM 261520Z AUTO 30003KT 9999 -RA FEW031 OVC049 11/08 Q1013 LOWG 061720Z AUTO 27003KT CAVOK 01/M04 Q1012 NOSIG LOWI 061720Z VRB02KT 9999 FEW015 BKN075 M01/M02 Q1014 NOSIG LOWK 061720Z 29003KT 240V310 9000 4000W BR FEW002 BKN005 M01/M02 Q1012 TEMPO 0800 BCFG BKN004 LOWL 061720Z AUTO 28004KT 9999 FEW017 BKN018 01/M01 Q1014 NOSIG LOWS 061720Z VRB01KT 9999 FEW012 BKN060 01/00 Q1014 NOSIG LOWW 061720Z 33010KT 9999 FEW025 SCT035 02/M02 Q1013 NOSIG LOWZ 261520Z AUTO 04011KT 8000 -RA OVC038 14/12 Q1012 LOXT 061620Z 29004KT 15KM FEW028CU BKN040SC 03/M00 Q1013 NOSIG RMK WIND INFO EST/BKN LOXZ 061650Z 24003KT 210V280 10KM SCT004ST SCT050SC M09/M10 Q1011 LPAR 061700Z 31005KT 270V010 9999 FEW025 16/11 Q1028 LPAZ 061730Z 33006KT 310V010 9999 FEW025 BKN032 18/12 Q1031 LPBJ 061700Z 32006KT 9999 FEW030 15/09 Q1027 LPCS 061730Z 32008KT 6000 FEW006 BKN011 14/12 Q1028 LPFL 061730Z 18007KT 100V230 9999 FEW022 19/13 Q1029 LPFR 061730Z 14003KT CAVOK 15/11 Q1027 LPGR 091700Z 30009KT 9999 FEW020 SCT042 18/11 Q1020 RMK WIND RWY09 31008KT 280V340 LPHR 061730Z 25013KT 9999 FEW020 BKN035 18/12 Q1030 LPLA 061700Z /////KT 9999 FEW025 20/15 Q1030 LPMA 061730Z 01009KT 340V040 9999 BKN016 SCT030 18/11 Q1027 LPMR 061700Z 23004KT 190V270 3000 -DZ BR BKN005 BKN007 14/13 Q1027 LPMT 061700Z 28003KT 9999 SCT026 16/11 Q1027 LPOV 061700Z 16008KT 2000 -DZ SCT002 OVC004 13/12 Q1026 LPPD 061730Z 24009KT 9999 FEW025 SCT040 18/10 Q1030 LPPI 091700Z 30006KT 260V360 9999 FEW020 SCT034 18/10 Q1021 RMK WIND RWY09 32008KT RWY27 31008KT LPPR 061730Z 18012KT 2500 -DZRA BR BKN003 13/13 Q1026 LPPS 061730Z 07012KT 040V110 9999 SCT015 BKN030 18/11 Q1028 LPPT 061730Z 30006KT 9999 BKN014 14/12 Q1028 LPSJ 091700Z 28009KT 9999 FEW020 18/10 Q1020 RMK WIND RWY13 31008KT RWY31 30010KT LPST 061700Z 31006KT 9999 BKN011 14/12 Q1028 LQBK 061730Z 32007KT 9999 BKN034 OVC041 04/01 Q1011 NOSIG LQMO 061700Z VRB02KT 9999 FEW045 BKN064 07/04 Q1002 LQSA 061730Z 30004KT 7000 -SN SCT010 OVC030 01/01 Q1008 NOSIG LQTZ 061730Z 27005KT 5000 -RASN BR BKN005 OVC015 02/02 Q1010 LRAR 061730Z 33004KT 3800 -RA BR SCT002 OVC005 04/04 Q1008 LRBC 061730Z 32004KT 300V020 0650 R34/0750N FG VV002 03/03 Q1007 LRBM 061730Z 27004KT 4300 -RA BR FEW007 SCT009 BKN012 05/05 Q1007 LRBO 061700Z VRB02KT 0500 FG BKN003 OVC040 02/02 Q1007 RED RED LRBS 061730Z VRB02KT 0200 R07/0600N FG VV001 03/03 Q1006 NOSIG LRCK 061730Z 17010KT CAVOK 10/09 Q1007 NOSIG LRCL 061730Z 35001KT 4000 -RA BR BKN010 OVC026 04/04 Q1006 LRCT 061700Z VRB02KT 1000 -RA BR OVC030 04/04 Q1006 AMB AMB LRCV 061730Z 28005KT 3000 RA BR SCT001 OVC003 03/03 Q1006 LRFT 061700Z VRB03KT 9999 SCT200 09/08 Q1006 BLU BLU LRIA 061730Z 31003KT 280V350 0400 R14/1100N -DZ FG VV001 04/04 Q1007 LROD 061730Z 32005KT 3500 -RA BR SCT002 BKN005 04/04 Q1008 RERA LROP 061730Z 04003KT 350V080 0400 R08R/0600N R08L/0550N FG VV002 03/03 Q1006 NOSIG LRSB 061730Z 27002KT 5000 BR SCT010 OVC030 04/04 Q1006 NOSIG LRSM 061730Z AUTO 29006KT 1700 FG VV002 04/04 Q1007 LRSV 061730Z 33002KT 290V360 0500 R34/0800N FG VV002 02/02 Q1006 LRTC 061730Z AUTO 15004KT 9000 FEW220 10/09 Q1007 LRTM 061730Z 24004KT 2500 -RA BR SCT007 BKN036 04/04 Q1006 LRTR 061730Z 29005KT 6000 BKN003 OVC010 04/04 Q1008 LRTZ 061700Z 18014KT 9999 BKN100 13/10 Q1007 BLU BLU LSGC 061720Z AUTO 22004KT 9999 NSC M04/M06 Q1012 LSGG 061720Z 24007KT 9999 FEW050 00/M01 Q1016 NOSIG LSGS 061720Z AUTO VRB02KT CAVOK 00/M03 Q1016 LSMA 061720Z AUTO VRB02KT 8000NDV NCD 00/M01 Q1015 RMK LSMD 061720Z AUTO 12003KT 9999NDV FEW019 M00/M02 Q1015 RMK LSME 061720Z AUTO 00000KT 2300NDV BR FEW052 00/M00 Q1015 RMK LSMM 061720Z AUTO 11005KT 9999NDV SCT034 SCT045 M02/M03 Q1015 RMK LSMP 061720Z AUTO 21004KT 9999NDV SCT043 BKN150 02/M01 Q1015 RMK LSZA 061720Z VRB02KT CAVOK 04/M08 Q1012 NOSIG LSZB 061720Z 13003KT 100V160 CAVOK 00/M01 Q1014 NOSIG LSZC 061720Z AUTO 30004KT 220V330 9999 NSC 01/M02 Q1015 LSZG 061720Z 00000KT 9999 BKN019 BKN021 01/01 Q1014 NOSIG LSZH 061720Z 12004KT 9999 FEW016 M01/M02 Q1014 NOSIG LSZL 061720Z AUTO 09003KT 070V160 9999NDV NCD 06/M09 Q1012 RMK LSZR 061720Z VRB02KT 9999 FEW030 BKN065 02/02 Q1015 NOSIG RMK M LSZS 061720Z AUTO VRB02KT 9999 NCD M11/M13 Q1010 LTAB 061550Z 16004KT 140V210 9999 SCT040 12/05 Q1017 NOSIG RMK RWY06 13004KT LTAC 061720Z 03006KT 360V060 9999 SCT040 SCT100 08/05 Q1017 NOSIG LTAD 061550Z VRB02KT 9999 BKN040 12/05 Q1017 NOSIG RMK RWY29 10006KT LTAE 061550Z VRB02KT 9999 SCT040 BKN100 10/06 Q1017 NOSIG RMK RWY21 VRB02KT LTAF 061720Z 05002KT 9999 FEW040 SCT100 15/08 Q1021 NOSIG LTAG 061720Z 03005KT 9999 FEW040 SCT100 13/06 Q1021 NOSIG LTAH 061350Z 14006KT 9999 BKN040 12/07 Q1016 RMK RWY13 17010KT 140V210 LTAI 061720Z 20007KT 9999 -SHRA FEW020CB BKN030 16/15 Q1018 NOSIG LTAJ 061720Z 00000KT CAVOK 06/01 Q1023 NOSIG LTAL 061350Z VRB02KT CAVOK 10/04 Q1016 LTAN 061650Z 18013KT 9999 FEW040 SCT180 08/04 Q1018 NOSIG LTAP 061720Z 26006KT CAVOK 08/04 Q1017 NOSIG LTAR 061650Z 16011KT CAVOK 04/M01 Q1022 LTAS 061350Z VRB02KT 9999 FEW040 17/11 Q1012 LTAT 061720Z 19003KT CAVOK 01/M02 Q1025 NOSIG LTAU 061720Z 03007KT CAVOK 05/01 Q1019 NOSIG LTAV 061350Z 12007KT 9999 SCT040 12/08 Q1015 RMK RWY11 15007KT LTAW 061250Z VRB02KT CAVOK 14/05 Q1018 RMK RWY22 VRB01KT LTAY 061650Z 16012KT 9999 SCT035 11/05 Q1016 LTAZ 061720Z 14008KT CAVOK 08/02 Q1019 LTBA 061720Z 08004KT CAVOK 17/10 Q1010 NOSIG LTBD 061450Z 09006KT 060V120 9999 SCT030 BKN100 18/12 Q1012 LTBF 061650Z 00000KT 9999 SCT035 BKN100 15/09 Q1010 NOSIG LTBG 061550Z 17013KT 9999 SCT035 16/10 Q1010 NOSIG RMK RWY18 19012KT LTBH 061650Z 18005KT 150V310 9999 -SHRA SCT035 BKN100 16/12 Q1007 LTBI 061550Z 15004KT 9999 BKN040 13/06 Q1015 NOSIG RMK RWY08 15007KT 120V180 LTBJ 061720Z 17014KT 9999 -SHRA SCT030 BKN100 16/11 Q1010 NOSIG LTBL 061620Z 14014KT 9999 -SHRA SCT040 BKN100 17/11 Q1010 NOSIG RMK RWY17 15015KT LTBO 061350Z 20007KT 9999 SCT035 BKN100 13/06 Q1014 LTBQ 061650Z 17008KT 130V200 CAVOK 20/06 Q1010 NOSIG LTBR 061720Z 18010KT 9999 FEW040 SCT100 18/07 Q1011 NOSIG LTBS 061720Z 16013KT 130V190 9999 SCT030 BKN080 19/12 Q1015 NOSIG LTBT 061350Z 14008KT 110V170 9999 SCT035 BKN100 17/11 Q1011 RMK RWY13 10007KT 060V160 LTBU 061720Z 16006KT 9999 -SHRA SCT040 BKN070 14/11 Q1009 LTBY 061650Z 14007KT 110V180 9999 BKN040 13/06 Q1014 LTCA 061650Z 23005KT CAVOK 04/M00 Q1024 NOSIG LTCB 061650Z 24004KT CAVOK 11/05 Q1017 LTCC 061720Z 32003KT CAVOK 06/M02 Q1024 NOSIG LTCD 061650Z VRB01KT 7000 NSC 01/M02 Q1024 NOSIG LTCE 061720Z VRB02KT 2000 BR NSC M09/M10 Q1026 NOSIG LTCF 061650Z 13006KT CAVOK M05/M09 Q1025 LTCG 061720Z VRB02KT CAVOK 13/05 Q1018 NOSIG LTCI 061650Z 05002KT 8000 FEW035 00/M02 Q1028 NOSIG LTCJ 061720Z 03004KT CAVOK 04/01 Q1024 LTCK 061450Z VRB01KT 2000 BR OVC003 M00/M00 Q1027 RMK RWY11 10003KT LTCL 061350Z 00000KT CAVOK 10/03 Q1024 LTCM 061450Z VRB02KT CAVOK 13/08 Q1015 LTCN 061650Z 08009KT CAVOK 10/01 Q1023 NOSIG LTCO 061350Z VRB02KT 0050 R16/0150N R34/0125N FZFG VV001 M07/M08 Q1027 LTCP 061250Z 24003KT 200V290 CAVOK 14/02 Q1022 LTCR 061350Z 25002KT 9000 4300SW HZ NSC 15/M01 Q1022 LTCS 061720Z 32004KT CAVOK 09/00 Q1025 LTCT 061350Z 00000KT CAVOK 04/M02 Q1025 LTCU 061250Z VRB02KT CAVOK 12/01 Q1024 LTCV 061350Z 27005KT CAVOK 12/M01 Q1022 LTCW 061250Z VRB01KT CAVOK 09/M09 Q1024 LTDA 061650Z 04004KT CAVOK 10/03 Q1023 NOSIG LTFA 061250Z 15013KT 9999 SCT035 BKN100 19/12 Q1011 RMK RWY17 16014KT LTFC 061720Z 16011KT 9999 SCT035 12/05 Q1017 LTFD 061730Z 29003KT 250V020 9999 -SHRA SCT030 BKN090 16/12 Q1009 LTFE 061720Z 16015KT 9999 SCT035 BKN100 18/10 Q1012 NOSIG LTFG 061650Z VRB01KT 9999 BKN030 18/10 Q1019 LTFH 061650Z 18009KT 9999 FEW036 15/05 Q1016 NOSIG LTFJ 061720Z 06006KT CAVOK 15/10 Q1010 NOSIG LTFK 061250Z VRB19G32KT 9999 SCT028 BKN080 18/13 Q1006 LTFM 061720Z 20011KT CAVOK 16/10 Q1010 NOSIG LUBM 010900Z 26010KT 9999 BKN044 05/M01 Q1001 LUKK 061730Z 17004KT 9000 3200NE BKN020 06/06 Q1007 BECMG 1000 BR OVC003 LWOH 061700Z VRB01KT 9999 -RA FEW020 OVC030 06/05 Q1003 LWSK 061730Z 00000KT 9999 -RA FEW013 SCT040 OVC070 08/07 Q1004 NOSIG LXGB 061720Z 27014KT CAVOK 15/07 Q1026 NOSIG LYBE 061730Z 29006KT 9999 BKN007 03/02 Q1010 NOSIG LYBM 281129Z LYUZ 270V060 9999 FEW010 SCT 017 17/13 Q1022 LYBT 061730Z 26003KT 9999 BKN008 03/03 Q1010 NOSIG LYKV 061730Z 31008KT 9999 SCT015 BKN030 03/01 Q1009 NOSIG LYNI 061730Z 33011KT 300V360 9999 -RA BKN007 OVC030 03/02 Q1007 NOSIG LYPG 061730Z 33007KT 9999 -RA FEW015 BKN034 OVC070 08/07 Q1002 NOSIG LYTV 061600Z 00000KT 9999 -RA FEW033TCU BKN053 10/10 Q1001 TEMPO TSRA FEW030CB BKN040 LYUZ 032330Z AUTO VRB05KT 9999 ////// 14/07 Q1010 LYVR 061730Z AUTO 22003KT 190V260 9999 OVC004/// 03/03 Q1009 LZIB 061730Z 33012KT 9999 FEW020 BKN027 03/M01 Q1012 NOSIG LZKZ 061730Z 02008KT CAVOK 02/00 Q1008 LZPP 061730Z 33009KT 9999 BKN025 01/M02 Q1012 LZSL 090733Z 18001KT CAVOK 22/13 Q1018 LZTT 061730Z VRB02KT 9999 OVC010 M00/M02 Q1007 LZZI 061730Z 33003KT 300V010 9999 OVC015 00/M03 Q1011 MACB 191200Z 11009KT 9999 FEW016 29/25 Q1015 MAPC 050600Z 10009KT 9999 SCT016 26/22 Q1016 MBGT 020100Z 05007KT 9000 SCT012TCU BKN040 26/22 Q1019 MBPV 061700Z 10008KT 9999 SCT012 26/24 Q1018 MDAB 061700Z 09008KT 9999 SCT018 29/25 Q1018 MDAR 121300Z 00000KT 9999 FEW019 25/24 Q1017= MDBH 061700Z 13014KT 9999 FEW024 30/21 Q1017 MDCT 081900Z 09014KT 9999 SCT020 30/22 30/22 Q1018 MDCY 061700Z 04008KT 9999 SCT020 28/24 Q1018 MDJB 061700Z 03010KT 9999 FEW018 30/24 Q1019 MDLR 061700Z 09010KT 9999 SCT022 32/23 Q1017 MDPC 061700Z 08014KT 9999 FEW023 29/22 Q1018 MDPP 061700Z 09010KT 9999 SCT020 29/25 Q1018 MDSD 061700Z 12004KT 9999 FEW022 32/22 Q1018 MDST 061700Z 12010KT 080V150 9999 SCT020 29/22 Q1018 MEAT 171000Z 34012KT CAVOK 35/12 Q1013 NOSIG MEBA 290400Z 22005KT CAVOK 20/16 Q1012 NOSIG MEPS 170700Z 26010KT 9999 SCT025 27/24 Q1010 NOSIG MESC 121200Z 31008KT CAVOK 32/07 Q1019 NOSIG MESG 150800Z 32011KT CAVOK 34/15 Q1006 NOSIG MESH 031200Z 02015KT CAVOK 32/16 Q1010 NOSIG MEYX 271316 FAPRYMYX 271316 SAAP37 FAPR 271300 CCB METAR COR FYWB 271300Z 25011KT CAVOK 24/15 Q1014 MFTL 210600Z 09004KT 9999 FEW017TCU 27/23 Q1013 MFTV 191400Z 17006KT 9999 FEW020 23/19 Q1012 MGCB 061700Z 09006KT 9999 FEW018 24/16 QFE872.8 MGES 061700Z 00000KT 9999 BKN016 24/17 QFE911.9 FEW200 MGGT 061700Z 36014KT CAVOK 24/14 Q1024 A3024 SCT200 MGHT 061700Z 00000KT CAVOK 23/13 MGMM 061700Z 12006KT CAVOK 31/22 Q1017 A3003 MGMT 061300Z 00000KT CAVOK 24/22 MGPB 061700Z 30004KT 9999 SCT018 27/23 Q1016 A3000 MGQZ 061700Z 05006KT CAVOK 22/14 QFE775.3 FEW200 MGRT 061700Z 00000KT CAVOK 32/22 Q1016 A3000 FEW200 VOL. SANTA MARIA Y SANTIAGUITO EN ACTIVIDAD MGSJ 061700Z 14010KT 8000 BKN200 32/24 Q1014 A2994 FU MGTA 210200Z 10012KT 9999 FEW020 31/26 Q1006 MGTU 061700Z 00000KT 9999 FEW022 30/20 QFE991.2 FEW200 MGZA 061700Z 00000KT 9999 FEW022 30/20 QFE991.2 FEW200 MHAM 101500Z METAR MHTR 10150Z 00000KT 9999 FEW024 26/21 MHCA 061700Z 06003KT 9999 SCT028 29/21 MHCH 061700Z 04014KT 9999 BKN034 34/22 MHCL 282100Z 08004KT 9999 FEW030TCU SCT070 BKN200 30/25 Q1010 A2983 NOSIG MHGR 201700Z 29006KT 9999 BKN038 28/19 MHGS 061700Z 36004KT 9999 SCT034 25/19 MHLC 061700Z 05003KT 9999 FEW024 28/23 Q1017 A3003 NOSIG MHLE 061700Z 03004KT 9999 SCT022 20/14 MHLM 061700Z VRB03KT 9999 SCT028 28/23 Q1016 A3000 NOSIG MHNO 061700Z 34008KT 9999 FEW040 27/18 MHPL 061700Z 00000KT 9999 SCT026TCU SCT080 28/24 MHPR 061700Z 35008KT 9999 BKN048 28/17 Q1023 A3020 NOSIG MHRO 061700Z 14006KT 9999 SCT020 29/25 Q1017 A3003 NOSIG MHSC 071258Z AUTO 33005KT 9999 OVC070 23/23 M RMK AO2 SLPNO T02260226 PNO FZRANO TSNO $ MHSR 061700Z 36005KT 9999 BKN025 24/18 MHTE 061700Z 36007KT 9999 SCT022TCU 29/25 Q1014 A2994 MHTG 061700Z 36008KT 9999 BKN030 24/16 Q1022 A3018 NOSIG MHTJ 290000Z 00000KT 9999 SCT024 BKN080 25/23 MHTL 141400Z VRB02KT 9999 SCT026TCU BKN080 27/25 Q1009 MHTR 061700Z 00000KT 9999 FEW025TCU BKN080 28/23 MHYR 061700Z 34004KT 9999 SCT023TCU SCT080 27/21 MKJP 061700Z 14022KT 9999 FEW022 32/22 Q1016 MKJS 061700Z 09019KT 9999 FEW022 31/23 Q1016 MLSP 270319Z 05008KT 9999 3000NE TSRA FEW023 FEW030CB BKN057 26/24 Q1012 TEMPO 04006G18KT 5000 +TSRA RMK CB N NE E MMAA 061645Z 07003KT 6SM SKC 31/21 A2995 RMK HZY MMAN 061141Z 28003KT 5SM SKC 16/16 A2996 RMK SLP/// 5//// 9// HZ RTS MMAS 061645Z 31004KT 10SM OVC230 19/05 A3037 RMK 8/007 HZY BINOVC MMBT 061614Z RTD 00000KT 10SM FEW200 32/18 A2996 RMK 8/001 HZY MMCB 061649Z 00000KT 8SM FEW200 25/11 A3025 RMK 8/001 MMCE 061646Z 13012KT 7SM SKC 28/22 A3000 MMCL 061648Z 00000KT 10SM SCT150 26/14 A3002 RMK 8/030 HZY MMCM 061658Z RTD 12010KT 7SM SCT020 29/24 A3003 RMK 8/500 MMCN 061346Z 07002KT 10SM SKC 08/05 A2999 RMK HZY MMCP 061503Z 14004KT 3SM HZ OVC007 22/22 A3006 RMK 8/6// BINOVC MMCS 061553Z 09012KT 10SM FEW250 06/M06 A3031 RMK 8/005 MMCU 061240Z 20009KT 10SM FEW200 05/M02 A3019 RMK 8/002 RTS MMCV 061546Z E27005KT 7SM BKN200 22/20 A3001 RMK 8/007 HZY MMCZ 061546Z 13006KT 8SM FEW015 29/26 A3005 RMK 8/500 CI MMDO 061446Z 00000KT 14SM FEW080 OVC200 10/02 A3035 RMK SLP200 52017 927 8/077 BINOVC MMEP 061646Z 09003KT 12SM OVC250 23/14 A3013 RMK 8/007 MMGL 061645Z 00000KT 4SM BKN300 20/10 A3030 RMK 8/008 HZY MMGM 061356Z 00000KT 10SM SKC 14/09 A2998 RMK RTS MMHO 061445Z 13003KT 10SM SKC 14/02 A3006 RMK SLP181 52018 929 HZY MMIA 061300Z RTD 00000KT 6SM SKC 21/15 A3008 RMK RTS MMIO 061454Z 18005KT 10SM BKN200 20/11 A3025 RMK 8/008 S MMLM 061401Z RTD 04005KT 2SM BR VV003 11/09 A3002 RMK 8//// RTS MMLO 061448Z 00000KT 9SM BKN220 14/08 A3040 RMK SLP200 52010 905 8/008 HZY MMLP 061400Z RTD 18004KT 10SM FEW200 11/07 A3003 RMK 8/008 HZY RTS MMLT 061445Z 29010KT 10SM SKC 20/10 A3000 RMK SLP159 HZY MMMA 061547Z 17011KT 7SM BKN020CB OVC200 27/25 A2998 RMK 8/302 HZY MMMD 061647Z 14006KT 7SM SCT015 30/22 A3004 RMK 8/100 MMML 061408Z RTD 09004KT 10SM SKC 09/M03 A3002 RMK RTS MMMM 061622Z 00000KT 6SM SKC 18/09 A3035 RMK HZY CI MMMT 061447Z 09002KT 5SM SKC 24/22 A2997 RMK SLP224 967 HZ MMMV 061341Z 18004KT 10SM BKN200 17/08 A3002 RMK 8/002 RTS MMMX 061645Z 33004KT 5SM SCT220 19/05 A3043 NOSIG RMK 8/004 HZY MMMY 061046Z 30006KT 6SM SKC 16/16 A2991 MMMZ 061445Z 05004KT 14SM BKN240 20/19 A3001 RMK SLP162 52020 937 8/004 HZY MMNL 061402Z RTD 00000KT 8SM BKN200 19/19 A2997 RMK 8/008 RTS MMOX 061646Z 05005KT 10SM FEW020 23/10 A3030 RMK 8/100 HZY MMPA 061646Z 00000KT 4SM BKN280 27/21 A3001 RMK 8/008 HZY MMPB 061649Z 07003KT 7SM SKC 19/05 A3043 RMK HZY CI MMPE 061454Z 36005KT 10SM SKC 07/M04 A3002 RMK HZY RTS MMPG 061500Z RTD 30012KT 1/2SM FG VV003 16/14 A3007 RMK 8//// MMPN 061240Z 00000KT 15SM SKC 11/09 A3024 RMK HZY MIFG CI RTS MMPQ 061645Z 00000KT 7SM SKC 27/22 A2990 MMPR 061258Z RTD 03006KT 13SM SCT110 19/16 A2995 RMK 8/070 RTS MMPS 061247Z 05005KT 13SM SCT070 22/18 A2995 RMK 8/010 RTS MMQT 061346Z 00000KT 6SM SKC 06/06 A3039 RMK HZY AC MMRX 061548Z 16005KT 6SM SCT012 OVC250 24/20 A2999 RMK 8/107 HZY MMSD 061645Z 32006KT 12SM SKC 25/14 A3007 MMSL 061650Z 12006KT 9SM FEW240 25/17 A3008 RMK 8/001 ISOL CU MMSM 041935Z 05007KT 7SM SKC 23/M02 A3031 NOSIG RMK HZY DU CU MSGTX MMMX MMSP 061649Z 00000KT 10SM OVC230 19/02 A3033 RMK 8/007 AC BINOVC MMTC 061548Z 10004KT 10SM FEW030 BKN080 21/03 A3020 RMK 8/570 CI MMTG 061654Z 17005KT 7SM FEW030 FEW300 28/19 A3005 RMK 8/101 HZY MMTJ 052147Z 26010KT 6SM SKC 19/11 A3006 RMK HZ ST W MMTM 061647Z 22004KT 6SM FEW020 SCT200 27/23 A2998 RMK 8/101 HZY MMTO 061650Z 17008KT 4SM SCT250 16/05 A3048 RMK 8/002 HZ BR MMTP 061247Z 03003KT 12SM SKC 21/21 A2992 RMK HZY MMUN 061354Z 14009KT 7SM FEW015 27/24 A3004 RMK 8/100 MDT CU MMVA 061251Z 00000KT 6SM SKC 19/19 A2998 RMK HZY CI MMVR 061446Z 00000KT 5SM SKC 24/22 A3000 RMK SLP123 52008 985 MMZC 060845Z 20015KT 10SM SKC 07/02 A3028 MMZH 061548Z 00000KT 6SM SKC 28/22 A3002 RMK HZY MMZO 061348Z 36006KT 12SM FEW250 21/17 A2992 RMK 8/004 RTS MNBL 052300Z 07004KT 8000 VCRA BKN017 28/25 Q1011 RA/W/NW MNCH 061700Z 36004KT 9999 FEW025 31/21 Q1013 MNCP 142300Z 05004KT 7000 SCT016 28/26 Q1009 HZ MNJG 061700Z 36010KT 9999 SCT014 SCT200 23/17 Q1015 MNJU 061700Z 09004KT 9999 SCT020 31/22 Q1013 MNMG 061700Z 06010KT 9999 FEW021 30/22 Q1012 A2990 NOSIG MNPC 061700Z 06008KT 6000 VCRA SCT016TCU 30/26 Q1013 TCURA NE E MNRS 061700Z 09010KT 9999 SCT014 30/24 Q1012 MPBO 061700Z 26006KT 9000 VCSH FEW008 SCT015 OVC080 24/23 Q1014 RERA RWY WET MPDA 061700Z 33004KT 9999 DZ SCT016 SCT120 28/24 Q1012 RWY WET MPMG 061700Z 21005KT 9999 SCT016TCU SCT090 28/25 Q1011 RERA RWY DAMP NOSIG MPMP 110200Z 00000KT 9999 FEW015 24/24 Q1011 RWY WET MPPA 061700Z 18003KT 9999 FEW018TCU SCT080 29/25 Q1011 MPPN 182020Z 00000KT 9000 TSVCSH FEW012CB SCT015TCU BKN100 25/// RERA RWY WET MPSM 061700Z 16008KT 9999 SCT020TCU 30/24 Q1011 MPTO 061700Z 02006KT 9000 VCSH SCT018 SCT090 31/24 Q1011 NOSIG MR0C 021500Z 09014G27KT 9999 FEW045 25/15 A3001 NOSIG MRLB 061700Z 07013KT 9999 SCT030 32/20 A2987 MRLM 061700Z 21006KT 6000 RA BKN015 25/23 A2995 MROC 061700Z 08013KT 9999 FEW040 SCT060 27/17 A3003 NOSIG MRPV 061700Z 08014G24KT 9999 SCT035 24/16 A3006 NOSIG MSAC 061650Z 09005KT CAVOK 30/18 Q1012 A2988 MSDS 240500Z 24005KT 9999 FEW018 26/24 Q1012 MSLK 290600Z 05004IT 9999 FEW030 14/09 Q1020 MSLP 061650Z 08004KT 030V120 9999 FEW037 33/21 Q1013 A2992 NOSIG MSLU 061650Z 00000KT CAVOK 36/19 Q1013 A2993 MSPC 040300Z 14006KT 9999 FEW018 23/21 Q1016 MSSA 061650Z 00000KT CAVOK 29/19 Q1021 A3015 MSSM 061650Z 13002KT CAVOK 34/20 Q1013 A2992 MSSS 061650Z 02004KT 9999 FEW033 28/18 Q1017 A3005 MTCH 061701Z 10008KT 9000 SCT028CB 29/21 Q1017 RMK MTHG 250712Z 03007KT 6000 RA BKN026 21/19 Q1017 A3003 TEMPO 8000 MTPP 061651Z 10017KT 9999 FEW028 32/18 Q1016 A3001 MUCC 061650Z 15008KT 120V190 9000 FEW025 29/24 Q1018 MUCF 061650Z VRB05KT 9999 FEW025 30/22 Q1019 MUCL 061650Z 10006KT 050V120 9999 FEW020 30/23 Q1018 MUCM 061650Z 08007KT 050V120 9000 FEW020 30/22 Q1018 MUCU 061650Z 18006KT 140V230 9000 SCT020 30/24 Q1018 MUGM 061651Z 13011KT 10SM FEW030 FEW280 30/24 A3006 RMK SLP178 T03000244 MUHA 061650Z VRB03KT 9000 SCT025 29/22 Q1019 MUHG 061650Z 10007KT 060V150 9000 SCT033 30/22 Q1018 MUPB 190450Z AUTO 11005KT 20/16 Q1021 MUSC 061650Z 15005KT 110V200 9000 SCT020 30/24 Q1019 MUTE 312100Z 02016KT 9999 FEE024TCU 28/25 Q1010 MUVR 061650Z VRB02KT 9000 SCT020 29/23 Q1019 MWCB 061700Z 11009KT 9999 SCT018 30/24 Q1019 MWCR 061700Z 12010KT 100V170 9999 SCT018 30/24 Q1017 MYAF 261100Z AUTO 23003KT 190V280 9999 FEW016 20/19 A3004 MYCB 101200Z AUTO /////KT ///V/// //// R09///// // //////CB 28/26 A3001 MYEM 260000Z AUTO 08012KT //// R33///// // BKN024 OVC045 22/19 Q1019 A3009 MYGF 061700Z 16012KT 9999 BKN018 27/23 A3011 MYIG 271800Z AUTO 01007KT 330V060 //// // FEW034/// ///// A//// MYNN 061700Z 16013KT 9999 FEW025 29/24 A3013 MYSM 271800Z AUTO 35007KT 310V020 9999 FEW031 25/19 A3000 MZBZ 061700Z 09005KT 9999 BKN021 29/25 A3002 Q1016 NOSIG MZMZ 051505Z 35008KT 9000 -RA BKN007 OVC030 24/24 A2983 Q1010 TEMPO 4000 SHRA NCAI 061700Z AUTO 06004KT //// ////// 27/23 Q1011 NCAT 061700Z AUTO 35004KT //// ////// ///// Q//// NCMG 061700Z AUTO 32005KT //// ////// ///// Q//// NCMH 061700Z AUTO 08005KT //// ////// ///// Q1009 NCMK 061700Z AUTO 03004KT //// ////// 26/25 Q1010 NCMR 061700Z AUTO 09004KT //// ////// ///// Q1010 NCNS 061700Z AUTO 03004KT //// ////// 27/23 Q1008 NCPK 122200Z AUTO 10005KT //// ////// 31/24 Q1012 NCPL 061700Z AUTO 35003KT //// ////// 25/23 Q1010 NCPY 061700Z AUTO 04020KT //// ////// 27/20 Q1009 NCRG 061730Z AUTO 33006KT 9999 BKN046/// 26/24 Q1011 NCRK 061700Z AUTO 02005KT //// ////// 28/22 Q1008 NCSW 061700Z AUTO 08002KT //// ////// 28/24 Q1008 NFFN 061700Z 12003KT 9999 FEW030 SCT120 24/24 Q1008 NOSIG NFKD 212100Z 09007KT 9999 FEW030 SCT300 30/24 Q1014 NFLB 240300Z 12008KT 50KM SCT020TCU BKN048 BKN300 27/25 Q1008 NFMT 051800Z AUTO 16008KT //// 26/24 Q1004 NFNA 061700Z 11003KT 9999 -SHRA FEW007 BKN017TCU OVC044 24/23 Q1009 NFNB 051800Z AUTO 18003KT //// 26/26 Q1004 NFNK 050000Z AUTO 27006KT //// 30/25 Q1005 NFNL 060300Z 34005KT 9999 -SHRA SCT025 BKN045 BKN100 29/23 Q1006 NFNM 282100Z 12014KT 9999 SCT022 BKN085 27/21 Q1013 NFNR 212100Z 10005KT 9999 -DZ SCT018 BKN042 29/26 Q1012 NFNS 060300Z AUTO 10005KT 050V160 //// ///// Q//// NFSW 050000Z 32012KT 20KM -SHRA SCT020 SCT040 BKN110 29/28 Q1004 NFTF 061700Z 11006KT 9999 FEW015 BKN270 24/23 Q1012 NFTL 061700Z 09012KT 9999 FEW017 SCT290 25/19 Q1010 NFTP 080000Z 14005KT 9999 SCT017 BKN035 BKN100 28/25 Q1012 NFTV 061700Z 11005KT 9999 FEW015 BKN280 25/23 Q1010 NFUP 051800Z 06003KT 50KM FEW025 SCT280 26/26 Q1005 NFVA 051800Z AUTO 08007KT //// 27/26 Q1002 NFVB 051800Z 28003KT 50KM SCT028 BKN048 BKN110 26/25 Q1005 NGFU 061700Z 10012KT 9999 FEW018TCU SCT020 BKN300 29/25 Q1007 NGTA 061700Z 12011KT 9999 FEW018TCU SCT040 28/24 Q1006 NGTT 011000Z 10006KT 9999 FEW020 28/23 Q1009 NHLC 260000Z 10004KT 9999 5000W -TSRA VCSH SCT028 FEW030CB BKN070 26/24 Q1011 A2986 BECMG 8000 TSVCSH= NHLE 221800Z 02006KT 9999 SCT024 BKN200 23/16 NHTE 232100Z 01012KT 9999 82822TCU 32/30 Q1008 A2977 DU NIUE 061700Z 13008KT 9999 -SHRA SCT018 BKN030 24/22 Q1009 NLWW 061730Z AUTO 09005KT 9999 FEW020/// SCT035/// 27/24 Q1008 TEMPO 4000 SHRA BKN014 FEW015TCU BKN020 NNCH 131500Z 36004KT 9999 FEW025 SCT300 29/26 Q1015 1AC090 NSFA 061700Z 09004KT 9999 SCT023 24/22 Q1008 NSTU 061650Z VRB03KT 12SM FEW021 SCT200 26/25 A2977 RMK SLP081 T02550246 NTAA 061730Z 07009KT 9999 FEW018 SCT300 28/22 Q1014 WS R04 NOSIG NTGA 200300Z 12011KT 9999 FEW020 29/24 Q1005 NVSC 061500Z 00000KT 9999 BKN020 25/25 Q1007 NVSG 060600Z 00000KT 9999 FEW020 BKN120 29/25 Q1006 NVSS 061500Z 33004KT 9999 SCT025 24/24 Q1007 NVVA 061500Z VRB02KT 9999 SCT020 23/22 Q1008 NVVS 082100Z VRB02KT 9999 FEW016 BKN020 28/24 Q1005 NVVV 061600Z 00000KT 9999 FEW020 24/23 Q1007 NVVW 061500Z 00000KT 9999 FEW025 24/23 Q1008 NWSD 040555Z 25014KT 4800 -SN DRSN OVC020 M16/M19 A2857 RMK SDF/HDF NWWW 061730Z AUTO 10005KT CAVOK 21/20 Q1009 NOSIG NZAA 061730Z AUTO 03009KT 9999 FEW012/// BKN046/// 20/18 Q1021 TEMPO BKN012 NZCH 061730Z AUTO 26003KT 3100 +DZ BR SCT004/// OVC013/// 10/10 Q1023 TEMPO 6000 RADZ BKN004 NZCM 061655Z AUTO 34010G17KT 300V010 9999 CLR M05/M10 A2872 RMK AO2 SLP730 T10481097 $ NZFX 060508Z COR 33005KT 9999 FEW030 BKN060 M04/M08 A2883 RMK GRID14005KT SDG/HDG LAST COR 0510 NZOH 301800Z 07010KT 20KM VCSH FEW005 BKN040 16/16 Q1020 NOSIG NZQN 211700Z AUTO 20004KT 7000 FEW055/// OVC080/// 11/07 Q1004 NZSP 061650Z 03017KT 1800 IC BLSN FEW000 FEW100 M27/ A2825 RMK BLSN FEW000 SKWY WNDS ESTMD CLN AIR 05017KT ALL WNDS GRID SDG/HDP NZWD 061655Z 33008KT 9999 FEW025 FEW130 SCT170 M09/M15 A2873 RMK SLP728 GRID14008KT SDG/HDG NZWN 061730Z AUTO 20017KT 1500 RA BCFG BKN004/// OVC010/// 13/13 Q1021 BECMG 6000 RA BKN012 TEMPO 2000 RA BKN004 NZWP 270400Z 26008KT 220V300 20KM SCT030 SCT040 23/14 Q1022 NOSIG OAHR 120655Z VRB03KT CAVOK 32/M02 Q1013 RMK A2993 BLU OAIX 271151Z 33010KT 280V020 9999 BKN120 24/07 A3012 RMK AO2A SLP077 WND DATA ESTMD LAST OAKB 301650Z AUTO VRB03KT 9999 -SHRA FEW060 BKN075 OVC090 23/08 A3007 RMK AO2 SHRAB1541E1551B1616 SLP015 WND DATA ESTMD P0000 T02270083 TSNO $ OAKL 270700Z 07018KT 8000 SCT026 BKN100 22/01 Q1019 OAKN 241555Z AUTO 23002KT 6000 BR CLR 10/06 A3010 RMK AO2 SLP183 WND DATA ESTMD T00950062 OALK 040900Z 16012G22KT 9999 FEW026CB SCT030 BKN090 17/15 Q1012 OAMS 250050Z 21013KT 9999 31/M04 Q1006 BLU+BLU+ OBBI 061730Z 14006KT CAVOK 23/09 Q1017 NOSIG ODKL 281100Z 18004KT CAVOK 43/01 Q1005 ODLK 041200Z 23006KT 9999 FEW030 31/20 Q1007 OEAB 061700Z 03006KT CAVOK 17/M04 Q1027 NOSIG OEAH 061700Z 24004KT CAVOK 20/M03 Q1017 NOSIG OEAO 061700Z 27004KT CAVOK 21/01 Q1021 OEAR 061700Z 24003KT CAVOK 28/18 Q1016 OEBA 061700Z 09010KT CAVOK 20/09 Q1025 NOSIG OEBH 061700Z 06007KT CAVOK 19/03 Q1022 NOSIG OEDF 061700Z 15006KT CAVOK 19/10 Q1016 NOSIG OEDM 061700Z 03010KT 8000 NSC 17/01 Q1022 OEDR 061700Z 10007KT CAVOK 20/10 Q1016 OEER 051400Z 28010G21KT 250V320 CAVOK 37/03 Q1008 OEGN 061700Z 21003KT CAVOK 28/24 Q1015 NOSIG OEGS 061700Z 02002KT 9999 SCT040 18/06 Q1022 OEGT 061700Z 09004KT CAVOK 13/03 Q1021 NOSIG OEHL 061700Z 03004KT CAVOK 16/02 Q1024 OEJB 041400Z AUTO 34011KT CAVOK 18/03 Q1019 NOSIG OEJN 061700Z 35004KT CAVOK 29/19 Q1014 NOSIG OEKJ 061700Z VRB02KT CAVOK 22/00 Q1021 OEKM 061700Z 04006KT CAVOK 17/05 Q1027 NOSIG OEMA 061700Z 06004KT CAVOK 26/07 Q1020 NOSIG OEMN 231600Z 28004KT 8000 SCT040 37/20 Q1005 OENG 061700Z 06004KT CAVOK 21/01 Q1022 NOSIG OENI 280800Z 00000KT 7000 NSC 41/01 Q1004 OEPA 061700Z 34006KT CAVOK 19/01 Q1020 NOSIG OEPS 061556Z VRB06KT 9000 HZ CLR 23/M01 A3019 RMK AO2A SLP202 WND DATA ESTMD T02251013 OERF 061700Z 32005KT CAVOK 14/M02 Q1021 NOSIG OERK 061700Z 01005KT CAVOK 20/03 Q1021 NOSIG OERR 061700Z 04004KT CAVOK 13/M02 Q1023 NOSIG OERY 061000Z 35005KT CAVOK 27/01 Q1019 OESH 061700Z 06006KT CAVOK 21/M01 Q1020 NOSIG OESK 061700Z 09003KT CAVOK 16/M02 Q1025 OESP 130900Z 34004KT 9999 FEW020 SCT070 27/M01 Q1023 NOSIG OETB 061700Z 02008KT CAVOK 17/M02 Q1020 NOSIG OETF 061700Z 08008KT CAVOK 22/07 Q1024 NOSIG OETR 061700Z 09008KT CAVOK 11/03 Q1023 NOSIG OEWD 061700Z 11008KT CAVOK 21/08 Q1020 NOSIG OEWJ 061700Z 35004KT CAVOK 22/14 Q1016 NOSIG OEYN 061700Z 28009KT CAVOK 26/18 Q1014 NOSIG OFAM 121500Z 10003KT 7000 FEW030 SCT080 29/10 Q1012 TEMPO VRB10KT 5000 -SHRA SCT040TCU OIAA 061700Z 26002KT CAVOK 17/11 Q1017 OIAD 150900Z 17004KT CAVOK 25/05 Q1016 A3003 FEW170 OIAG 061700Z 09004KT CAVOK 19/13 Q1019 OIAH 061700Z 00000KT CAVOK 13/04 Q1021 OIAI 241000Z 27006KT CAVOK 31/04 Q1012 OIAM 061700Z 12006KT CAVOK 20/16 Q1018 OIAW 061730Z 00000KT CAVOK 16/09 Q1017 OIBA 061500Z 30004KT 6000 NSC 24/16 Q1015 OIBB 061700Z 00000KT CAVOK 21/14 Q1017 A3006 OIBH 061500Z 17004KT CAVOK 20/15 Q1016 A3002 OIBJ 061500Z 21006KT 7000 NSC 18/14 Q1020 OIBK 061700Z 29004KT CAVOK 21/15 Q1018 OIBL 061700Z 33004KT 7000 NSC 22/14 Q1016 OIBP 061700Z 00000KT 9999 FEW040 20/16 Q1017 A3004 OIBQ 061500Z 00000KT CAVOK 21/15 Q1017 A3004 OIBS 061500Z 27004KT 4000 HZ FEW025CB 25/17 Q1017 OIBV 061500Z 27004KT 8000 FEW030 22/15 Q1016 OICC 061730Z 00000KT CAVOK 05/03 Q1025 A3029 OICI 061700Z 12004KT CAVOK 05/03 Q1025 A3028 OICJ 241000Z 29004KT 9999 FEW040 21/M07 Q1019 OICK 061400Z 07006KT 9999 FEW035 10/04 Q1022 OICM 061400Z 30008KT CAVOK 21/07 Q1009 OICS 061300Z 19004KT 9999 FEW035TCU SCT040 11/02 Q1023 A3022 OIFK 241000Z 00000KT CAVOK 22/M03 Q1016 A3002 OIFM 061730Z 31012KT 9999 FEW040 BKN100 08/01 Q1025 A3029 OIFS 061700Z 31006KT 9999 SCT035 05/M00 Q1025 OIGG 061630Z 00000KT CAVOK 11/11 Q1023 OIGK 240950Z 12006KT 7000 -SHRA SCT035CB 13/M02 Q1018 OIHH 061300Z 33006KT 9999 SCT040 07/01 Q1022 OIHM 241000Z 31010KT 9999 FEW040 17/M08 Q1020 OIHR 061200Z 28012KT 8000 FEW035 08/03 Q1022 OIIE 061700Z 26008KT CAVOK 08/03 Q1024 OIII 061730Z 30004KT 3500 HZ NSC 08/02 Q1023 A3023 OIIK 061700Z 01002KT CAVOK 03/01 Q1023 OIIP 061700Z 30008KT 7000 NSC 05/03 Q1023 A3022 OIIS 241000Z 00000KT 9999 FEW035 SCT090 BKN200 20/M06 Q1016 OIKB 061730Z 29004KT 8000 NSC 22/15 Q1016 A3003 OIKK 061700Z 33008KT CAVOK 10/M12 Q1021 A3017 OIKM 061700Z 36008KT CAVOK 13/00 Q1018 OIKO 241000Z 21006KT CAVOK 35/12 Q1010 OIKQ 061700Z 32006KT CAVOK 21/15 Q1016 OIKR 061500Z 22010KT CAVOK 13/M16 Q1020 A3013 OIMB 061700Z 09008KT CAVOK 08/M07 Q1021 A3017 OIMC 260700Z 29012KT CAVOK 20/06 Q1022 OIMD 061700Z 24006KT CAVOK 08/M01 Q1018 OIMJ 021000Z 23006KT 9999 SCT040 BKN170 15/M03 Q1013 OIMM 061730Z 00000KT CAVOK 08/02 Q1022 A3019 OIMN 061700Z VRB02KT CAVOK 06/M00 Q1024 OIMQ 061700Z 00000KT CAVOK 08/02 Q1022 OIMS 061500Z 00000KT 9999 FEW035 SCT200 08/01 Q1023 OIMT 050800Z 23002KT CAVOK 14/00 Q1022 OINB 241000Z 24006KT 9999 FEW025TCU BKN100 22/15 Q1017 OINE 061700Z 17004KT 9999 FEW030 SCT100 13/11 Q1023 OING 061700Z 22006KT 9999 FEW100 11/09 Q1025 OINK 241000Z 24006KT 9999 FEW030 22/10 Q1015 A2997 OINN 061700Z 17004KT CAVOK 11/10 Q1023 OINR 061700Z 00000KT 9999 FEW025CB SCT027 BKN090 13/12 Q1023 OINZ 061700Z 18004KT CAVOK 10/09 Q1024 OISA 241000Z 27012KT CAVOK 22/M08 Q1019 A3010 OISF 061700Z 00000KT CAVOK 09/M05 Q1022 A3019 OISL 061700Z 20004KT CAVOK 14/04 Q1018 A3008 OISR 061500Z 26004KT CAVOK 20/13 Q1018 A3008 NOSIG OISS 061700Z 36004KT CAVOK 13/M09 Q1022 A3019 OISY 061700Z 00000KT CAVOK 08/M05 Q1024 OITK 041100Z 29002KT 9999 FEW035 SCT190 08/M05 Q1019 OITL 061400Z 20012KT CAVOK 07/M00 Q1022 OITM 061700Z 08006KT 8000 NSC 03/01 Q1024 OITP 061700Z 17004KT CAVOK 05/04 Q1022 OITR 061730Z 27004KT 5000 BR NSC 01/M02 Q1025 OITT 061730Z VRB02KT 8000 NSC 01/M01 Q1027 A3033 OITU 240952Z 19004KT CAVOK 17/M03 Q1018 OITZ 061600Z 02002KT 0070 +FG BKN004 FEW030CB SCT035 02/02 Q1022 A3019 OIYY 061730Z 28008KT 8000 NSC 09/M03 Q1026 OIZB 061700Z 34008KT CAVOK 09/M03 Q1021 OIZC 061700Z 00000KT 5000 HZ NSC 19/15 Q1017 OIZH 061730Z 00000KT CAVOK 07/M05 Q1021 A3017 OIZI 061700Z 00000KT CAVOK 17/M04 Q1019 OIZJ 061700Z 32006KT 8000 NSC 24/18 Q1017 OJAI 061700Z 19012KT 6000 NSC 14/06 Q1021 NOSIG OJAM 061700Z 00000KT 8000 NSC 15/01 Q1022 NOSIG OJAQ 061700Z 00000KT 8000 NSC 21/03 Q1016 NOSIG OKAS 061558Z AUTO 31011KT 9999 CLR 18/02 A3005 RMK AO2 SLP175 T01810024 $ OKBK 061700Z 33008KT CAVOK 20/05 Q1018 NOSIG OLBA 061600Z 03004KT 360V060 9999 FEW026 20/13 Q1020 NOSIG OMAA 061700Z 32005KT CAVOK 23/16 Q1018 NOSIG OMAD 061700Z 33004KT 310V010 CAVOK 23/15 Q1018 NOSIG OMAL 061700Z 31006KT CAVOK 21/13 Q1019 NOSIG OMDB 061700Z 26005KT CAVOK 25/15 Q1017 NOSIG OMDW 061700Z 25005KT CAVOK 22/14 Q1019 NOSIG OMFJ 061650Z 22002KT 8000 NSC 24/17 Q1018 RMK A3006 OMRK 061700Z 19002KT CAVOK 21/12 Q1018 A3008 OMSJ 061700Z VRB02KT CAVOK 24/14 Q1018 NOSIG OOAD 061650Z AUTO 25005KT 9999 // NCD 23/09 Q1019 NOSIG OODQ 061650Z AUTO 14002KT CAVOK ////// 23/17 Q1017 NOSIG RMK RH69? 0 OOKB 061650Z 26005KT 200V280 9999 FEW035 25/15 Q1017 NOSIG OOKL 240300Z 33004KT CAVOK M02/M06 Q1024 OOMS 061650Z 09006KT CAVOK 25/19 Q1017 NOSIG OOSA 061650Z 34005KT CAVOK 25/14 Q1018 NOSIG OOSH 061450Z AUTO 12004KT //// ////// 25/18 Q1016 RMK 1013 OPFA 061655Z 00000KT 4000 FU NSC 15/11 Q1019 NOSIG OPGD 090925Z 23010KT 6000 NSC 33/24 QNH1008 OPHN 300100Z 13504KT 4000M HZ NSC 29/23 Q0999 NOSIG OPIS 061730Z 22007KT 6000 NSC 11/08 Q1020 NOSIG OPKC 061730Z 03005KT 6000 NSC 19/05 Q1018 NOSIG OPLA 061725Z 00000KT 4000 FU NSC 15/11 Q1019 NOSIG RMK QFE991 A 30.10 OPMT 061700Z 00000KT 1500 BR NSC 15/12 Q1020 TEMPO 1200 OPNH 061700Z 31504KT 3000M FU NSC 17/13 Q1019 TEMPO 2500 FU OPPS 061700Z 18006KT 4000 HZ NSC 13/09 Q1020 OPRN 111200Z NI METAR OPNH 111155Z 13510KT 6000M NSC 39/25 Q0997 NOSIG OPSK 061700Z 00000KT 4000 HZ NSC 16/12 Q1017 NOSIG OPSR 011425Z 05035KT 0800 DS SCT040 SCT100 37/19 Q0995 RH37 OPSS 121100Z 00000KT 2500 FU NSC 28/16 Q1016 TEMPO 2500 FU OPST 061655Z 00000KT 4000 FU NSC 15/09 Q1019 NOSIG RH68 ORBI 061600Z 30003KT CAVOK 15/04 Q1021 NOSIG ORBR 280500Z 08003KT 030V110 9999 BKN030 24/05 Q1016 NOSIG ORER 061700Z VRB02KT CAVOK 10/05 Q1024 NOSIG ORIN 091800Z 3506KT 8000 NSC 41/06 Q0997 NOSIG ORMM 061700Z 27006KT CAVOK 13/04 Q1018 NOSIG ORNI 061700Z 34007KT 7000 NSC 17/06 Q1021 NOSIG ORNN 092000Z 00000KT CAVOK 13/09 Q1019 NOSIG ORSU 061700Z VRB01KT CAVOK 06/04 Q1025 ORUR 272100Z 30004KT CAVOK 25/M01 Q1011 ORUS 311100Z 11008KT 8000 -RA SCT045 BKN070 12/11 Q1018 OSAB 200900Z 00000KT 5000 -SN RA BKN030 OVC100 01/01 Q1017 OSAO 122100Z 32002KT CAVOK 07/02 Q1022 OSAP 061200Z 12008KT CAVOK 16/00 Q1022 OSDI 061700Z 04004KT CAVOK 12/05 Q1023 OSDL 310700Z 12004KT CAVOK 18/04 Q1019 OSDO 261100Z 15008KT CAVOK 30 01 Q1018 OSDU 301100Z 21005KT CAVOK 37/05 Q1009 OSKJ 251200Z 32004KT CAVOK 35/M02 Q1005 OSKL 061500Z 27002KT CAVOK 14/M02 Q1022 OSLK 061700Z 03002KT 9999 FEW030 15/08 Q1020 OSLO 052100Z 02003KT CAVOK 11/03 Q1021 OSLP 200700Z 06002KT 6000 -RA BKN030 OVC100 02/02 Q1016 OTBD 061730Z 16005KT CAVOK 21/10 Q1018 NOSIG OTBH 061656Z AUTO 13006KT 9999 CLR 18/07 A3006 RMK AO2 SLP181 T01840069 $ OTER 190100Z 10005KT 8000 BKN045 09/03 Q1020 NOSIG OTHH 061700Z 17006KT CAVOK 21/09 Q1017 NOSIG PAAD 061735Z AUTO 18018KT 10SM SCT110 M03/M07 A2910 RMK AO2 T10281074 PAAK 161911Z AUTO OVC030 A3013 RMK AO2 PWINO FZRANO $ PAAQ 061653Z 33013G21KT 10SM OVC070 M03/M07 A2952 RMK AO2 PK WND 11026/1555 SLP003 T10281067 PABA 061652Z AUTO 10011KT 10SM CLR M12/M16 A2917 RMK AO2 SLP885 T11221156 FZRANO PABE 061720Z 26008KT 2 1/2SM BR OVC003 M01/M02 A2909 PABI 061653Z 11019G25KT 10SM SCT120 M14/M19 A2941 RMK AO2 PK WND 10028/1641 SLP007 T11391194 $ PABL 061656Z AUTO 15017KT 10SM OVC110 M03/M06 A2891 RMK AO2 SLP790 T10281056 FZRANO PABR 061653Z 15020KT 8SM CLR M05/M08 A2885 PABT 061729Z VRB05KT 1/2SM SN FZFG VV010 M07/M08 A2924 PABV 061656Z AUTO 00000KT 10SM UP OVC049 M02/M03 A2953 RMK AO2 UPB09E20B41SNB20E41 SLP007 P0000 T10171028 FZRANO PACD 061653Z 30020KT 1 1/2SM -SN BR OVC003 01/00 A2917 PACM 061725Z AUTO 25014G22KT 9SM SCT028 OVC036 M03/M06 A2910 RMK AO2 SNE24 FZRANO PNO $ PACV 061741Z 07008G18KT 3/4SM R27/4500V6000FT SN OVC001 M01/ A2980 RMK AO2 T1011 PNO $ PACZ 061611Z AUTO 27008KT 240V300 10SM -SN BKN012 OVC038 M05/M05 A2902 RMK AO2 SLP834 PADE 060022Z AUTO 13033G46KT 1/4SM FZFG VV010 M03/M03 A2874 RMK AO2 PK WND 13046/0015 T10281028 PWINO FZRANO TSNO $ PADG 061657Z 17023G35KT 1-1/4SM -SN BR OVC007 M05/M05 A2869 PADK 061656Z AUTO 29023G33KT 10SM FEW040 01/M04 A2994 PADL 061656Z 13005KT 1SM -SN BR OVC010 00/M00 A2905 PADM 061656Z AUTO 19006KT 10SM FEW023 BKN042 OVC050 M01/M02 A2909 RMK AO2 UPE10SNB10E39 SLP858 P0000 T10111022 FZRANO PADQ 061653Z 14018G29KT 6SM -SN OVC017 03/00 A2931 PADU 061714Z 29024G30KT 9SM -RA SCT012 OVC035 02/M03 A2946 RMK AO2 PK WND 28031/1703 RAB11SNE11 PNO $ PAEC 060153Z 00000KT 1/8SM +SN VV001 M10/M11 A2978 RMK NOSPECI LAST PAED 061629Z 32008KT 6SM -SN FEW027 OVC035 00/M02 A2951 RMK SLP991 $ PAEG 061653Z AUTO 12012G19KT 080V140 10SM CLR M20/M26 A2973 RMK AO2 SLP096 T12001261 TSNO PAEH 061600Z 00000KT 8SM OVC004 00/M01 A2907 RMK AO2A SLP852 PAEI 061556Z 12008KT 10SM FEW210 M07/M10 A2934 PAEL 261649Z 10008KT 20SM SCT010 OVC024 05/04 A2908 RMK SPB E01015KT SEA 0 SWELL 2 SW MIN 4.1 NOSPECI PAEM 300256Z AUTO 00000KT 10SM CLR M05/M08 A2983 RMK AO2 SLP101 T10501083 58013 FZRANO PAEN 061653Z 08005KT 10SM OVC037 00/M02 A2946 PAFA 061653Z 00000KT 10SM BKN120 OVC200 M08/M12 A2935 PAFB 061558Z 10005KT 9SM BKN180 M07/M10 A2937 PAFE 061656Z AUTO 06004KT 10SM CLR M07/M08 A3006 RMK AO2 SLP191 T10671078 FZRANO $ PAFM 061656Z AUTO 13019G28KT 10SM OVC050 M05/M07 A2900 RMK AO2 PK WND 13030/1628 SLP829 T10501067 FZRANO PAFR 061638Z AUTO 00000KT 10SM FEW030 OVC036 M01/M03 A2948 RMK AO2 SLP992 PAFS 061701Z AUTO 15008G15KT 090V180 10SM SCT043 OVC050 02/M07 A2916 PAGA 061656Z AUTO 12015KT 1 1/2SM -SN BR OVC019 M03/M03 A2906 RMK AO2 SLP843 P0000 T10281033 FZRANO PAGB 012050Z 30003KT 10SM BKN010 M36/ A2963 PAGG 071935Z 24010KT 10SM BKN055 OVC150 12/ A2959 RMK /LAST PAGH 232056Z AUTO 12005KT 10SM CLR M31/M34 A3010 RMK AO2 SLP204 T13111344 58010 FZRANO PAGK 061653Z AUTO 16020G27KT 10SM FEW110 M03/M09 A2958 RMK AO2 PK WND 16031/1614 SLP058 T10331089 TSNO PAGL 052256Z AUTO 16038G43KT 1/2SM FZFG OVC015 M02/M03 A2882 RMK AO2 PK WND 16047/2206 SLP755 T10221028 PWINO FZRANO $ PAGM 060756Z AUTO 26027G31KT 5SM BR OVC012 M02/M04 A2859 RMK AO2 PK WND 26033/0720 SLP686 T10221039 FZRANO PAGN 061656Z AUTO 00000KT 10SM FEW019 OVC050 M03/M04 A3007 RMK AO2 SLP171 T10331039 FZRANO PAGS 061730Z AUTO 35004KT 3SM -SN BR BKN012 OVC022 M02/M03 A3003 RMK AO2 P0000 FZRANO PAGY 061653Z AUTO 00000KT 5SM BR OVC027 M07/M08 A3005 RMK AO2 SNE08 SLP174 P0000 T10721083 TSNO PAHC 060408Z AUTO 16016G25KT SCT012 OVC028 01/M01 A2912 RMK AO2 PWINO FZRANO RVRNO $ PAHL 061656Z AUTO 16012G17KT 5SM -SN BR SCT023 OVC029 M01/M02 A2905 RMK AO2 SLP841 P0000 T10111022 FZRANO PAHN 172354Z AUTO 10015G29KT 8SM -RA BKN015 OVC022 04/02 A2957 RMK AO2 PK WND 12031/2302 SLP014 P0002 6//// T00390017 10044 20033 56015 TSNO PAHO 061653Z 11011G23KT 1 1/2SM -SN BR OVC010 01/00 A2943 RMK AO2 SLP966 VIS SE 4SM P0009 T00110000 PAHP 061656Z AUTO 29015KT 9SM -SN SCT018 SCT023 OVC030 M03/M06 A2907 RMK AO2 SLP845 P0000 T10331056 FZRANO PAHX 060308Z AUTO 19016G23KT BKN012 OVC018 01/00 A2912 RMK AO2 PK WND 19029/0227 SLP860 60001 T00060000 56030 PWINO FZRANO $ PAHY 061656Z AUTO 10SM CLR M03/M05 A2999 RMK AO2 SLP151 T10281050 FZRANO PNO $ PAIG 061656Z AUTO 06011KT 1 1/4SM BR SCT039 OVC049 00/00 A2911 RMK AO2 SLP865 T00000000 PWINO FZRANO $ PAII 061256Z AUTO 14017G22KT 4SM -SN BR OVC010 01/00 A2916 RMK AO2 SLP874 P0000 T00060000 FZRANO PAIK 061656Z AUTO 18012G21KT 9SM -SN SCT034 BKN041 OVC050 M01/M04 A2892 RMK AO2 UPB52E54SNE52B54 SLP797 P0000 T10111044 FZRANO PAIL 061653Z 09018G25KT 1 1/4SM -SN BR OVC011 00/00 A2919 RMK AO2 SLP889 P0002 T00000000 PAIM 061555Z AUTO VRB01KT 6SM -SN BKN013 OVC039 M05/M06 A2915 PAIN 061656Z AUTO 17008KT 9SM -SN BKN036 OVC045 M03/M08 A2933 RMK AO2 SLP964 P0000 T10281078 FZRANO PAIW 051211Z AUTO M1/4SM +SN FZFG M04/M04 A2887 RMK AO2 SNB1158 FZRANO $ PAJC 041011Z AUTO 03004KT 9SM -SN FEW015 SCT028 BKN034 M02/M04 A3012 RMK AO2 FZRANO PNO $ PAJN 061735Z 10009KT 9SM FEW004 FEW013 OVC029 M02/M04 A3004 PAJZ 060036Z AUTO 16034G38KT 3/4SM -SN BR OVC008 01/M01 A2958 RMK AO2 PK WND 16041/0010 CIG 006V012 P0000 FZRANO $ PAKF 132033Z AUTO 28011G22KT 5SM -RA SCT019 BKN027 BKN041 04/00 A2976 RMK AO2 P0000 PAKH 061739Z AUTO 15016KT 02/02 A2915 RMK AO2 P0004 PWINO FZRANO $ PAKI 061656Z AUTO 29011KT 10SM OVC036 M02/M02 A2910 RMK AO2 SLP857 T10171022 FZRANO PAKK 061719Z AUTO 20008KT 10SM BKN013 BKN018 OVC065 M03/M03 A2892 RMK AO2 FZRANO PAKN 061654Z 13015KT 7SM -SN OVC022 01/00 A2903 PAKP 061741Z AUTO 17019G29KT 2SM -SN BKN030 BKN038 OVC049 M06/M11 A2903 RMK AO2 PK WND 17029/1739 VIS 1 1/2V3 P0000 FZRANO PAKT 061653Z 00000KT 10SM FEW005 M07/M08 A3001 PAKU 061653Z 20015KT 10SM R24/P6000FT FEW090 FEW100 SCT210 M05/M08 A2906 PAKV 061653Z AUTO 18004KT 1 1/4SM -SN BR OVC019 01/M01 A2903 RMK AO2 SLP832 P0002 T00111011 TSNO $ PAKW 061553Z AUTO 03006KT 10SM CLR M03/M06 A3000 RMK AO2 SLP161 T10331056 TSNO PAKX 061735Z AUTO 00000KT 10SM BKN055 OVC070 01/M02 A2917 RMK AO2 PALG 061032Z AUTO 1 1/4SM -SN BR OVC004 00/M01 A2911 RMK AO2 CIG 003V008 P0003 FZRANO PALH 061653Z 14006G14KT 10SM OVC044 01/M01 A2951 RMK AO2 SNB1559E18 SLP993 P0003 T00061006 PALI 181953Z 01006KT 10SM SKC 06/M02 A2962 PALJ 060150Z 15005KT 5SM -SN BKN020 OVC040 01/M01 A2967 RMK LAST EST PASS CLSD NOSPECI PALP 061705Z 18014KT 10SM BKN100 BKN170 M05/M09 A2904 PALU 061655Z AUTO 15014KT 070V180 5SM -SN OVC017 M02/M05 A2855 PAMB 060956Z AUTO 1 1/4SM -SN BR OVC009 00/M01 A2921 RMK AO2 SLPNO P0002 T00001006 FZRANO $ PAMC 061653Z AUTO 13006KT 9SM OVC040 00/M01 A2915 RMK AO2 SNE52 SLP876 P0002 T00001006 TSNO $ PAMD 061651Z AUTO 15021G26KT 10SM -RA OVC007 01/01 A2975 RMK AO2 PK WND 16026/1651 SLP062 P0000 T00110006 FZRANO PAMH 061656Z AUTO 00000KT 10SM OVC075 M13/M16 A2924 RMK AO2 SLP913 T11281156 FZRANO PAMK 061741Z AUTO 26015G18KT 1 1/2SM -SN BR FEW004 BKN009 OVC016 M02/M04 A2902 RMK AO2 P0000 FZRANO PAMM 272110Z AUTO 15013G19KT 8SM -RA OVC011 08/07 A2933 RMK AO2 P0000 $ PAMO 061742Z AUTO 28012KT 9SM -SN BKN013 BKN020 OVC042 M04/M06 A2907 RMK AO2 SNB13 FZRANO PNO $ PAMR 061653Z 08004KT 9SM OVC050 M01/M03 A2951 RMK AO2 SNE50 SLP994 P0000 T10061028 $ PAMY 201956Z AUTO 23015G21KT 10SM -RA FEW019 BKN024 BKN029 03/01 A2928 RMK AO2 UPE1858RAB04 SLP915 T00280011 PNO $ PANA 291456Z AUTO 01013G17KT 10SM CLR M27/M29 A2960 RMK AO2 SLP024 60000 T12721294 58018 FZRANO TSNO PANC 061710Z 10011KT 5SM -SN FEW008 OVC039 01/M02 A2949 PANI 061714Z AUTO 17003KT 3SM -SN BR BKN008 BKN020 OVC034 00/M01 A2912 RMK AO2 P0001 FZRANO PANN 061653Z AUTO 08015KT 10SM OVC100 M04/M11 A2926 RMK AO2 SLP921 T10391111 TSNO PANV 061656Z AUTO 18007KT 9SM UP OVC003 M01/M01 A2901 RMK AO2 UPE04B38SNB04E38B44E56 SLP887 P0000 T10061006 FZRANO TSNO PANW 060056Z AUTO 16019G26KT 3/4SM -SN OVC006 A2954 RMK AO2 PK WND 17034/0002 CIG 004V008 SLPNO P0001 FZRANO PAOH 061730Z AUTO 10003KT 10SM BKN011 OVC027 M03/M04 A3003 RMK AO2 CIG 007V014 FZRANO PAOM 061653Z 23014KT 7SM -SN OVC021 M03/M05 A2888 PAOO 061656Z AUTO 27007KT 9SM -SN FEW015 BKN032 OVC038 M03/M03 A2913 RMK AO2 SNE12B35 SLP870 P0000 T10281033 FZRANO TSNO $ PAOR 061653Z 00000KT 10SM BKN080 M25/M28 A2965 PAOT 061653Z 18023KT 10SM OVC032 M03/M06 A2880 PAOU 061656Z AUTO 31019KT 1 1/4SM -SN BR OVC004 M01/M01 A2908 RMK AO2 UPB18E25SNE18B25 SLP846 P0000 T10061006 FZRANO PAPB 061653Z AUTO 29025G32KT 7SM FEW026 OVC037 01/M05 A2933 RMK AO2 PK WND 29036/1631 SNE1558B17E52 SLP920 P0000 T00111050 TSNO $ PAPC 271750Z 01005KT 25SM SCT030 BKN050 BKN100 M02/ A2991 RMK LAST PAPG 061725Z 22003KT 10SM FEW004 BKN021 BKN070 M07/M07 A3006 RMK AO2 PAPH 061656Z AUTO 19006KT 10SM -RA FEW030 03/01 A2897 RMK AO2 SLP810 P0000 T00280011 PAPM 061709Z AUTO 32007KT 3SM BR OVC005 M01/M01 A2908 RMK AO2 FZRANO PAPN 061656Z AUTO 11010KT 10SM -RA BKN034 OVC041 01/01 A2896 RMK AO2 SLP809 P0001 T00110006 FZRANO PAPO 052156Z AUTO 13035G43KT 5SM UP BR OVC012 M07/M08 A2876 RMK AO2 PK WND 14049/2134 UPE22B43SNB22E43 SLP738 P0000 T10721083 FZRANO PAPR 231913Z 03010KT 10SM BKN030 OVC050 M15/ A2994 RMK LAST PAPT 060146Z 16008KT 3SM -SN OVC025 M11/M11 A2970 RMK NO SPECI LAST PAQH 061718Z AUTO 26005KT 7SM BKN005 OVC027 M01/M01 A2909 RMK AO2 CIG 003V007 FZRANO PAQT 061651Z 15019KT 10SM BKN110 M06/M09 A2903 RMK (SCC FSS) PARC 061656Z AUTO 34004KT 2 1/2SM -SN BR OVC019 M23/M25 A2933 RMK AO2 VIS 1 3/4V3 SLP024 P0000 T12281250 FZRANO PARS 061734Z AUTO 26004KT 4SM UP BR FEW007 BKN010 OVC043 M01/M01 A2906 RMK AO2 UPB1657E11B33 P0000 FZRANO $ PARY 061731Z AUTO 09009KT 8SM -SN SCT007 BKN013 OVC037 M10/M12 A2910 PASA 061656Z AUTO 24021KT 6SM -SN BR OVC018 M05/M07 A2891 RMK AO2 PK WND 24031/1638 SLP791 P0000 T10501072 FZRANO PASC 061653Z 22014KT 10SM BKN160 M05/M09 A2909 PASD 061723Z 34022G31KT 8SM -RA FEW010 BKN017 OVC027 02/01 A2902 RMK AO2 PK WND 33031/1717 P0001 $ PASH 061742Z AUTO 21010KT 10SM BKN023 BKN044 M04/M06 A2877 RMK AO2 FZRANO PNO $ PASI 061653Z 09004KT 10SM BKN150 M02/M04 A3000 PASK 061656Z AUTO 18011KT 10SM BKN065 OVC090 M02/M04 A2894 RMK AO2 SLP797 T10171039 FZRANO PASL 061656Z AUTO 16004KT 7SM -RA OVC010 A2915 RMK AO2 UPE00RAB00 SLPNO P0004 FZRANO PASM 061734Z AUTO 27003KT 9SM SCT023 OVC033 M04/M06 A2907 RMK AO2 SNB1659E34 P0000 FZRANO PASN 061653Z AUTO 29021G28KT 10SM FEW036 BKN046 OVC055 M01/M05 A2932 RMK AO2 PK WND 30033/1602 SNB07E25 SLP929 P0000 T10061050 TSNO $ PASO 061738Z AUTO 19004KT 1SM -SN BR VV007 01/00 A2937 RMK AO2 P0017 T00060000 TSNO PASV 061555Z AUTO 14012G27KT 110V230 3SM -SN OVC024 M01/M02 A2913 PASX 061656Z AUTO 13008KT 10SM SCT055 02/M02 A2947 RMK AO2 SLP990 T00221017 FZRANO PASY 060155Z 27018G28KT 10SM VCSHSN SCT015 BKN035 01/M05 A2961 RMK AO2A PK WND 28035/0140 VIS LWR SW SHSNB0135E0153 SLP027 ALSTG/SLP ESTMD WND DATA ESTMD T00081055 RVRNO PNO FZRANO $ PATA 061729Z 00000KT 1/2SM SN FZFG VV007 M15/M17 A2928 RMK AO2 T11501167 PATC 061655Z AUTO 22016KT 6SM BR OVC007 M07/M08 A2876 PATE 061737Z AUTO 21026G30KT 5SM BR OVC008 M03/M04 A2880 RMK AO2 PK WND 21032/1722 UPB19E21SNE19 CIG 006V011 P0000 FZRANO PATG 061731Z AUTO 36008KT 4SM UP BR FEW005 BKN012 OVC018 00/00 A2905 RMK AO2 P0000 FZRANO PATK 061712Z 1SM -SN BR VV015 M04/M07 A2952 PATL 061655Z AUTO 03006KT 5SM -SN OVC007 M01/M01 A2915 RMK AO2 SNB1455 SLP884 P0002 T10091011 PATO 061728Z AUTO 09015G44KT 3SM -SN OVC017 02/M01 A2954 RMK AO2 PK WND 06045/1658 P0006 T00221011 TSNO $ PATQ 061456Z AUTO 13019KT 10SM OVC070 M04/M07 A2886 PAUN 061656Z AUTO 19008KT 9SM OVC038 M02/M02 A2901 RMK AO2 SNE52 SLP828 P0000 T10171022 FZRANO PAUT 120750Z AUTO 17019G27KT 10SM OVC005 11/M05 A2939 RMK AO2 P0007 T01131048 PWINO PAVA 061713Z AUTO 29016KT 9SM -SN FEW017 SCT023 OVC030 M04/M06 A2908 RMK AO2 P0000 FZRANO PAVC 061724Z AUTO 29025G38KT 1 1/2SM -SN BR OVC011 01/M01 A2912 RMK AO2 PK WND 28038/1718 VIS 1V2 1/2 FZRANO PNO $ PAVD 061656Z 00000KT 1/2SM SN BR FEW002 OVC006 M03/M03 A2984 PAVL 061653Z AUTO 19030G37KT 10SM OVC010 M03/M04 A2864 RMK AO2 PK WND 18039/1600 SLP697 I1001 T10331044 PWINO FZRANO TSNO $ PAWD 061729Z AUTO 18020G30KT 5SM -SN BR OVC015 02/00 A2954 RMK AO2 PK WND 18031/1711 P0004 T00220000 TSNO PAWG 061656Z 31005KT 10SM SCT009 BKN020 BKN040 M06/M07 A3006 PAWI 061653Z AUTO 12019KT 10SM OVC075 M03/M06 A2873 RMK AO2 SLP729 T10281056 TSNO $ PAWM 061737Z AUTO 19009G16KT 2 1/2SM -SN BR OVC006 M04/M05 A2892 RMK AO2 CIG 004V009 FZRANO PNO $ PAWN 061706Z AUTO 16021G27KT OVC029 M03/M04 A2877 RMK AO2 PK WND 15027/1703 PWINO FZRANO $ PAWS 061656Z AUTO 08011G16KT 9SM -SN OVC043 M01/M03 A2953 RMK AO2 SLP007 P0000 T10061033 FZRANO PAYA 061735Z AUTO 2SM -SN BR OVC018 M01/M02 A2998 PAZK 061739Z AUTO 00000KT 10SM FEW001 OVC080 M11/M13 A2940 RMK AO2 FZRANO PFCL 061419Z AUTO 14014KT 1SM -SN BR OVC013 00/00 A2908 RMK AO2 P0000 FZRANO TSNO PFEL 300556Z AUTO 11010KT 10SM FEW045 OVC055 03/M06 A2950 RMK AO2 SLP991 T00331056 10033 20017 56009 PFKT 061706Z AUTO 21021KT 4SM -SN BR OVC008 M03/M03 A2881 RMK AO2 SNB00 CIG 007V012 P0000 FZRANO PFKW 061656Z AUTO 25006KT 10SM UP BKN011 OVC034 00/M01 A2907 RMK AO2 UPB45 CIG 007V012 SLP845 P0000 T00001006 FZRANO PFNO 061656Z AUTO 16017KT 8SM -SN OVC044 M02/M03 A2889 RMK AO2 PK WND 18027/1559 SNE26B50 SLP865 P0000 T10221028 FZRANO PFNU 032250Z AUTO 21010KT 10SM FEW055 M13/M14 A2971 RMK A01 PFSH 060151Z AUTO 16031G38KT 8SM UP SCT019 00/00 A2894 RMK AO2 PK WND 16043/0059 UPB45SNE45 P0000 FZRANO PFWS 060356Z AUTO 16027G33KT 5SM -SN BR BKN007 OVC016 01/00 A2946 RMK AO2 PK WND 15035/0336 SLPNO P0001 T00110000 FZRANO PFYU 061656Z 00000KT 10SM OVC065 M16/M19 A2946 PGRO 060750Z 11011KT 7SM FEW015 BKN080 26/24 A2967 RMK LAST PGSN 061735Z 12013G19KT 9SM -RA FEW018 BKN037 OVC110 26/24 A2974 RMK AO2 RAB11 P0006 T02560239 $ PGUA 061556Z 14008KT 10SM FEW010 25/23 A2974 RMK AO2A SLP061 T02530228 $ PGUM 061654Z 11006KT 10SM FEW021 26/24 A2973 RMK AO2 SLP057 T02610244 PGWT 060853Z 13014G19KT 4SM RA FEW010 BKN014 OVC080 26/23 A2972 RMK LAST PHBK 061651Z AUTO 14007KT 10SM FEW110 24/18 A2987 RMK AO2 SLP116 T02390183 PHHI 061656Z AUTO 19009KT 10SM -RA FEW009 BKN015 BKN021 BKN026 OVC033 22/20 A2995 RMK AO2 RAE37RAB37E37RAB41 CIG 013V018 SLP134 P0003 T02190202 $ PHHN 300045Z 03014KT 9SM BKN024 BKN028 OVC049 26/20 A3005 PHJH 152345Z 05015KT 10SM SCT045 29/20 A2996 PHJR 061653Z 18012KT 9SM FEW028 OVC080 26/21 A2994 RMK AO2 RAE20 SLP145 P0000 T02610211 PHKO 061653Z 02017KT 10SM -RA SCT040 BKN060 OVC100 24/21 A2992 RMK AO2 SLP131 P0001 T02390206 PHLI 061736Z 21009KT 1 3/4SM RA BR FEW015 BKN036 OVC110 21/21 A2994 RMK AO2 PRESRR P0004 T02110206 PHMK 061726Z 12016G26KT 3SM +RA BR BKN017 BKN039 OVC090 23/21 A2998 RMK AO2 PK WND 11026/1702 P0014 T02280206 PHMU 102350Z 06014G22KT 3/4SM CLR 20/19 A3022 RMK LTRA PHNG 061733Z 13008KT 6SM -RA BR SCT031 BKN042 OVC100 23/21 A2991 RMK AO2 P0009 T02330211 $ PHNL 061730Z 14012KT 10SM -RA FEW019 SCT025 OVC100 20/20 A2994 PHNY 061656Z AUTO 12010KT 7SM -RA OVC003 20/ A3003 RMK AO2 PK WND 17026/1633 SLP150 P0028 T0200 PHOG 061727Z COR 00000KT 8SM -RA BR BKN013 22/22 A2999 PHSF 061556Z AUTO 19004KT 10SM -RA FEW004 BKN080 12/10 A3028 RMK AO2 RAB56 SLP148 $ PHTO 061653Z 23007KT 1 3/4SM +RA BR FEW009 BKN019 OVC027 23/22 A2997 RMK AO2 SLP148 P0064 T02330222 PKMJ 061059Z 06020KT 15SM FEW015 SCT050 BKN300 28/25 A2976 RMK LAST PKMR 061653Z 08008KT 15SM FEW015 SCT050 BKN300 28/23 A2972 RMK SLP064 T02780232 PKWA 061740Z AUTO 06022KT 5SM -RA SCT014 BKN022 OVC055 26/24 A2975 RMK AO2 P0010 T02590239 PLCH 061700Z 10004KT 9999 FEW020 26/23 Q1009 PMDY 061656Z AUTO 02016G25KT 350V060 10SM BKN038 OVC060 19/13 A3013 RMK AO2 PK WND 04026/1622 RAB28E51 SLP203 P0000 T01940133 PPIT 050856Z AUTO 15037G43KT 1 3/4SM -SN A2972 RMK AO2 PK WND 15043/0854 SNB02 SLPNO P0000 60000 57071 FZRANO TSNO $ PPIZ 061656Z AUTO 11011KT 10SM SCT042 OVC085 M05/M07 A2869 RMK AO2 SLP718 T10501072 FZRANO PNO $ PPVM 031700Z 08005KT 9999 FEW020 SCT300 27/21 Q1013 RMK A2991 PRVD 061200Z 14004KT 9999 TS-SHRA FEW015 OVC070 27/24 Q1011 RMK A2985 CB SE PSLK 151000Z 28008KT 9999 FEW030 25/17 Q1013 PTKK 061652Z VRB05KT 15SM FEW014 BKN280 28/25 A2967 RMK SLP050 T02780250 PTPN 060550Z 11005KT 15SM SCT018TCU BKN130 OVC300 30/26 A2968 RMK TCU SW LAST PTR0 120850Z 08003KT 14SM BKN015TCU BKN110 BKN290 27/25 A2981 RMK TCU ALQDS PTRO 061654Z 09008KT 14SM BKN016 BKN290 27/25 A2966 PTRP 160425Z 35006KT 10SM -SHRA BKN015CB BKN110 OVC290 26/24 A2982 RMK CB ALQDS PTSA 060550Z 05008KT 10SM BKN019TCU BKN130 BKN300 30/24 A2968 RMK TCU SW LAST PTTP 061654Z 12005KT 12SM -SHRA BKN017TCU OVC130 25/24 A2973 RMK SHRAB44 TCU ALQDS SLP066 T02520243 PTYA 061650Z 00000KT 12SM FEW016 SCT130 BKN300 26/25 A2969 RMK SLP054 T02550246 PWAK 061648Z AUTO 05025G33KT 9999 -RA SCT032 SCT055 25/22 A2995 RMK AO2 RAB48 SLP148 RCFN 061200Z 36006KT 310V050 9999 FEW030 21/16 Q1020 NOSIG RMK A3012 RCKH 061700Z VRB02KT 6000 FEW015 19/17 Q1017 NOSIG RMK A3004 RCMQ 061700Z 01005KT 9999 FEW012 15/14 Q1017 RMK A3005 RCNN 061700Z 33002KT 9000 FEW012 15/13 Q1017 RMK A3006 RCSS 061700Z 10007KT 8000 -RA FEW008 BKN030 BKN045 19/19 Q1021 NOSIG RMK A3015 RCTP 061730Z 05016KT 9999 -RA FEW008 BKN020 BKN040 19/16 Q1021 WS R05L NOSIG RMK A3015 REPF 241000Z 12006KT 9999 FEW018 26/24 Q//// RJAA 061730Z 32005KT 6000 FEW015 SCT060 06/06 Q1022 TEMPO 4000 BR RJAF 060900Z 01002KT 2500 -RA BR FEW002 SCT010 BKN015 03/03 Q1027 RJAH 061700Z 03002KT 9999 FEW020 BKN120 07/06 Q1023 RJAI 010027Z 32005KT 9999 FEW004 SCT006 BKN010 13/12 Q0995 RMK 1ST004 4ST006 6ST010 A2940 RJAK 052245Z 34003KT 280V020 9999 FEW030 SCT050 BKN250 06/02 Q1030 RMK 1SC030 4SC050 6CI250 A3043 RJAO 161507Z 11007KT 5000 BR FEW010 BKN015 27/25 Q1012 RMK 2ST010 6CU015 A2988 RJAT 060420Z 32003KT 3000 -RA BR FEW000 SCT005 BKN015 08/07 Q1026 RMK 2ST000 3ST005 7SC015 A3032 RJAW 061500Z 12008KT 4000 BR FEW003 BKN006 BKN010 25/23 Q1010 RMK 1ST003 5ST006 6CU010 A2983 RJBB 061730Z AUTO 33010KT 9999 OVC020 13/10 Q1021 NOSIG RJBD 061000Z 30006KT 270V350 9999 FEW030 BKN060 BKN070 15/10 Q1022 RJBE 061300Z 29007KT 9999 FEW015 SCT025 BKN/// 13/07 Q1023 RJBT 060900Z 32003KT CAVOK 09/05 Q1024 RJCA 012331Z 24015G25KT 3000 -SHSN FEW005 BKN010 BKN020 M03/M05 Q0996 RMK 1ST005 5ST010 6CU020 A2943 RJCB 061100Z VRB02KT 9999 FEW030 M02/M04 Q1024 RJCC 061730Z 17005KT 9999 FEW010 SCT015 BKN045 02/02 Q1025 RJCH 061100Z 02005KT 9999 FEW030 SCT040 05/05 Q1025 RJCK 061100Z 23007KT 9999 FEW030 03/M02 Q1024 RJCM 061100Z 20006KT CAVOK M00/M03 Q1024 RJCN 060900Z 26003KT 9999 FEW030 SCT/// 02/M02 Q1024 RJCO 061100Z 17011KT 9999 FEW010 SCT040 BKN070 05/03 Q1026 RJCT 050548Z 31006KT 9999 FEW040 01/M09 Q1025 RMK 1CU040 A3027 RJCW 060900Z 20014KT 9999 -SHRA FEW015 SCT020 BKN045 07/04 Q1019 RJDB 061700Z AUTO 10009KT 060V140 9999 NCD 14/08 Q1023 RJDC 061200Z 03003KT 9999 FEW030 09/06 Q1024 RJDM 030606Z 31002KT 9999 -RA FEW020 SCT035 BKN050 09/07 Q1016 RMK 1CU020 3SC035 5SC050 A3002 RJDT 061100Z 09004KT 9999 FEW035 11/07 Q1024 RJEB 060700Z 19004KT 160V220 9999 FEW040 05/M03 Q1024 RJEC 061100Z 18014KT 9999 FEW015 SCT020 BKN060 03/M00 Q1024 RJFE 061000Z 07003KT 030V100 9999 FEW015 SCT040 10/08 Q1024 RJFF 061730Z AUTO 14003KT 9999 NCD 06/04 Q1023 NOSIG RJFG 060900Z VRB02KT 9999 FEW025 12/07 Q1022 RJFK 061200Z 03005KT CAVOK 07/05 Q1023 RMK A3023 RJFM 061200Z 28009KT 9999 FEW030 09/06 Q1023 RJFO 061300Z 27005KT 9999 FEW035 08/04 Q1024 RJFR 061700Z 27002KT 9999 FEW030 08/07 Q1023 RJFS 061400Z 36004KT CAVOK 05/04 Q1024 RJFT 061200Z 06009KT CAVOK 07/03 Q1024 RJFU 061200Z 12003KT CAVOK 09/07 Q1024 RJFY 040435Z 31018G28KT 280V350 9999 FEW035 13/M02 Q1021 RMK 1CU035 A3017 RJGG 061730Z 01006KT 9999 VCSH FEW005 BKN040 BKN060 12/11 Q1020 NOSIG RJKA 061000Z 05017KT 9999 FEW030 BKN035 20/15 Q1021 RJKI 061700Z AUTO 03012KT 9999 FEW038 19/12 Q1020 RJKN 040717Z AUTO 02017G27KT 340V050 9999 FEW037 OVC050 17/09 Q1022 RMK A3018 RJNG 061430Z VRB01KT 7000 FEW001 SCT030 BKN050 10/10 Q1022 RMK 1ST001 3CU030 5SC050 A3019 RJNK 061700Z 05006KT 9999 -RA FEW005 BKN035 OVC050 09/08 Q1022 RJNS 061200Z VRB05KT 9999 -SHRA FEW015 BKN050 BKN080 12/12 Q1023 RJNT 061200Z VRB01KT 4000 -SHRA BR FEW001 BKN013 BKN050 08/08 Q1025 RJNW 061000Z 00000KT 9999 FEW000 BKN020 BKN035 07/07 Q1025 RJNY 061008Z 05011KT 9999 -SHRA FEW020 BKN045 BKN080 14/10 Q1024 RMK 1CU020 6SC045 7AC080 A3026 RJOA 061300Z 33003KT CAVOK 06/04 Q1024 RJOB 061200Z 36002KT 9999 FEW025 SCT170 BKN/// 06/04 Q1024 RJOC 061100Z VRB03KT 9999 FEW025 BKN060 06/05 Q1025 RJOE 060721Z 30005KT 3000 RA BR FEW003 BKN005 BKN010 11/11 Q1025 RMK 1ST003 6ST005 6CU010 A3027 RJOF 042149Z 03005KT 9999 FEW030 SCT050 05/02 Q1028 RMK 1CU030 3SC050 A3036 RJOH 061700Z 17003KT 9999 FEW050 03/03 Q1023 RJOI 061656Z 30008KT 10SM FEW030 07/03 A3022 RMK AO2 SLP234 T00720033 RJOK 061100Z 35008KT 9999 FEW035 BKN/// 12/06 Q1023 RJOM 061200Z 12007KT 9999 FEW030 09/06 Q1024 RJOO 061100Z 09003KT 050V160 9999 FEW025 SCT035 BKN070 12/09 Q1023 RMK 1CU025 4CU035 6AC070 A3023 RJOP 041132Z 30017G28KT 260V330 9999 FEW030 SCT050 10/M01 Q1023 RMK 1CU030 3SC050 A3024 RJOR 061200Z 13007KT CAVOK 06/05 Q1025 RJOS 061700Z 30007KT 9999 FEW030 SCT050 08/04 Q1021 RJOT 061200Z 18005KT 9999 FEW025 SCT180 BKN/// 07/05 Q1024 RJOW 061000Z VRB02KT 9999 FEW035 08/06 Q1025 RJOY 061000Z VRB02KT 9999 FEW030 BKN070 BKN/// 13/09 Q1023 RJOZ 040103Z 32022G32KT 9999 FEW030 BKN050 09/M03 Q1023 RMK 1CU030 5SC050 A3023 RJSA 061200Z 18008KT 9999 FEW015 BKN060 05/02 Q1025 RJSC 061000Z 09003KT 8000 PRFG BR FEW001 SCT070 03/03 Q1028 RJSF 061100Z 25003KT 9999 FEW015 SCT120 BKN150 06/04 Q1027 RJSH 042031Z 23004KT 190V250 5000 -SHSN FEW010 BKN020 BKN030 M01/M02 Q1024 RMK 1ST010 5CU020 7CU030 A3024 RJSI 061000Z 26004KT 9999 FEW030 SCT100 BKN/// 03/03 Q1028 RJSK 061200Z 13005KT 9999 FEW050 BKN060 03/03 Q1026 RJSM 061700Z 21003KT 160V260 9999 FEW030 BKN050 06/03 Q1025 RJSN 061200Z 35003KT 9999 FEW030 BKN050 BKN080 09/06 Q1025 RJSO 041635Z 28003KT 220V360 5000 -SHSN FEW012 SCT015 BKN030 M01/M01 Q1020 RMK 1ST012 3CU015 7CU030 A3012 RJSR 061000Z VRB01KT 9999 FEW003 SCT040 BKN060 03/03 Q1027 RJSS 061200Z VRB02KT 9999 FEW040 BKN150 06/02 Q1027 RJSU 060419Z VRB02KT 9999 -SHRA FEW030 SCT070 BKN120 10/04 Q1029 RMK 1CU030 4AC070 5AC120 A3038 RJSY 061200Z 11005KT 9999 FEW020 SCT060 BKN/// 03/02 Q1026 RJTC 302323Z 36005KT 5000 -SHRA BR FEW003 SCT005 BKN010 11/11 Q0996 RMK 1ST003 3ST005 7ST010 A2942 RJTE 041512Z 02015G25KT 320V050 9999 NSC 11/M01 Q1018 RMK A3009 RJTF 060700Z 33007KT 280V010 9999 FEW025 SCT035 BKN050 10/04 Q1028 RJTI 060700Z 33008KT 280V080 9999 FEW020 BKN050 10/02 Q1027 RJTK 052350Z 02009KT 9999 FEW025 BKN210 10/03 Q1031 RMK 1SC025 7CI210 A3045 RJTL 010012Z 31006KT 260V360 5000 BR FEW005 BKN015 BKN035 12/11 Q0995 RMK 1ST005 5CU015 7CU035 A2941 RJTO 060700Z 03018KT 9999 FEW020 SCT035 BKN050 13/07 Q1026 RJTR 302353Z AUTO 29004KT 4SM BR SCT003 BKN010 OVC014 15/14 A2940 RMK AO2 CIG 003V010 BKN V OVC SLP958 RJTT 061730Z 35013KT 9999 FEW035 BKN/// 11/08 Q1022 NOSIG RJTU 060430Z 35004KT 310V030 9999 FEW030 BKN040 BKN050 10/03 Q1028 RMK 1SC030 6SC040 7SC050 A3036 RJTY 061656Z AUTO 35004KT 10SM SCT026 OVC038 10/08 A3027 RMK AO2 SLP256 T01000078 RKJB 061700Z AUTO 09004KT 5000 BR NCD 02/00 Q1027 RKJK 061656Z 05004KT 10SM BKN180 01/M01 A3031 RMK AO2A SLP269 T00111008 $ RKNF 270929Z 06007KT 3200 BR BKN002 18/17 A2984 RMK CIG002 RKNN 270056Z 05006KT 9000 BR FEW013 SCT030 29/25 A2969 RKNO 260014Z 14001KT 9000 BR FEW013 BKN035 28/25 A2975 RMK CIG035 RKNR 190703Z 31002KT 9999 -RA SCT040 BKN100 26/23 A3002 RMK CIG100 RKNW 271025Z 13007KT 8000 -RA BR FEW025 BKN040 BKN120 26/25 A2962 RMK CIG040 TS E25 MOVD S RKNY 061700Z AUTO 26007KT 9999 NCD 07/M01 Q1026 RKPC 061700Z 20004KT CAVOK 07/03 Q1026 NOSIG RKPK 061700Z 05004KT CAVOK 07/05 Q1025 RKPM 252028Z 12024G034KT 9999 -RA OVC010 25/24 A2958 RMK CIG010 RKSD 190725Z 20006KT 9000 -TSRA BR FEW020CB BKN030 24/19 A2994 RMK CIG030 OCNL LTG CC TS S MOV SE RKSF 200812Z 20001KT 9999 FEW020CB BKN040 32/22 A2992 RMK CIG040 TS E47 MOVD NW CB NW RKSG 061656Z AUTO 00000KT 7SM SCT095 01/01 A3034 RMK AO2 SLP278 T00130010 $ RKSI 061730Z 10001KT CAVOK 05/M00 Q1028 NOSIG RKSM 061500Z 35002KT 9999 SCT170 02/M01 A3036 RKSO 061558Z 00000KT 9SM FEW090 00/00 A3034 RMK AO2A SLP278 T00020001 TSNO $ RKSP 182102Z 11008KT 9999 BKN040 BKN070 22/21 RMK CIG040 RKSQ 271120Z 29007KT 9999 SCT060 28/21 A2966 RKSS 061700Z 33004KT 6000 NSC 01/M02 Q1028 NOSIG RKSU 271048Z 22002KT 9999 -RA BKN060 31/23 A2960 RMK CIG060 RKSV 090619Z 10002KT 1600 BR OVC001 23/22 A2971 RMK CIG001 RKSW 261459Z 14006KT 9999 FEW200 32/22 A2971 RKSY 171858Z AUTO 00000KT 9999 CLR M A3028 RMK AO2 SLPNO $ RKTB 190732Z 26006KT 9999 FEW040 SCT100 BKN150 28/22 A2996 RMK CIG150 RKTE 260009Z 17006KT 9999 FEW030 FEW200 29/22 A2968 RMK RWY16 0908 RKTF 262245Z 25001KT 9999 SKC 26/22 A2968 RKTI 260408Z 24002KT 9999 SCT050 33/24 A2969 RKTN 061700Z 14002KT 9999 SCT050 BKN200 02/01 Q1026 RKTP 260533Z 04007KT 9999 FEW040 SCT200 34/23 A2964 RKTS 192318Z 00000KT 4800 BR SCT005 BKN030 BKN180 26/26 A3003 RMK CIG030 RKTU 061700Z 36001KT CAVOK M01/M02 Q1027 RKTW 090127Z 00000KT 9999 SCT010 BKN200 25/23 A2966 RMK CIG200 RKTY 261247Z 04003KT 9999 FEW050 FEW200 26/23 A2970 RMLL 210643Z 04014KT 9999 -SHRA FEW023CB FEW025 BKN100 31/25 Q1008 NOSIG RMK A2977 CB NW-E RNCM 230700Z 04011KT 9999 FEW018 28/24 Q1014 ROAH 061730Z 03006KT 9999 FEW030 19/15 Q1019 RODE 061659Z AUTO 05010KT 10SM FEW026 SCT034 BKN043 21/17 A3012 RMK AO2 SLP242 T02110167 PWINO $ RODN 061656Z AUTO 06006KT 10SM CLR 15/13 A3009 RMK AO2 SLP196 T01450129 $ ROIG 061100Z 05016KT 9999 FEW032 22/16 Q1019 ROLB 011100Z 02010KT 9999 FEW020 OVC100 29/22 Q1012 RMK A2988 ROMD 061700Z AUTO 05014KT 9999 FEW030 SCT033 BKN048 21/16 Q1017 ROMY 061100Z 05011KT 9999 FEW025 21/15 Q1019 RORK 061700Z AUTO 05017KT 9999 FEW030 SCT050 21/16 Q1017 RORS 061000Z 05015KT 9999 FEW035 22/15 Q1018 RORY 061700Z AUTO 11013KT 9999 RA FEW023 SCT032 BKN040 //////TCU 18/16 Q1019 ROTM 061656Z 04005KT 9999 FEW030 18/16 A3012 RMK SLP186 T01780161 ROYN 061700Z AUTO 05024KT 9999 FEW027 SCT047 BKN050 //////TCU 22/19 Q1019 RPLB 061700Z 09002KT 9999 FEW020 23/18 Q1011 NOSIG RMK A2985 RPLC 280400Z 14002KT 8000 SCT020 BKN100 32/25 Q1008 NOSIG RMK A2977 RPLI 061500Z 03007KT 9999 FEW018 SCT100 25/19 Q1012 NOSIG RMK A2988 RPLL 061700Z 06003KT 040V100 9999 FEW030 25/21 Q1011 NOSIG RMK A2985 RPLR 210700Z 04002KT 9999 VCSH FEW018CB BKN080 31/23 Q1006 RMK A2971 CB VCSH NW W RPLZ 211500Z 07003KT 340V130 9999 -RA FEW016CB FEW017 OVC080 26/25 Q1011 RETS RMK A2985 CB NW-NE.OHD RPMC 190300Z 02010KT 9999 SCT020 BKN100 28/19 Q1012 NOSIG METAR EPCD 191000Z 34010KT 9999 SCT015 SCT220 29/24 Q1008 RMK A2977 RPMD 061700Z 36005KT 320V030 9999 FEW016 SCT090 OVC260 26/22 Q1008 RMK A2977 RPMI 090700Z 05011KT 010V080 60000 TS -SHRA SCT017CB SCT018 OVC090 27/26 Q1007 TEMPO 3000 TSRA RMK A2974 CB NE SSW RPML 070300Z 36004KT 9999 SCT020 BKN300 32/23 Q1014 NOSIG RMK A2994 RPMR 060700Z 17009KT 110V180 9999 VCSH FEW018CB BKN080 31/23 Q1007 RMK A2974 CB NNW VCSH NNW SW RPMX 241200Z 08003KT 060V150 9000 -SHRA FEW017 OVC090 26/23 Q1010 RMK A2983 RPMZ 061500Z 00000KT 9999 FEW017 SCT300 25/23 Q1009 RMK A2980 RPVD 060700Z 09004KT 9999 VCSH FEW014CB FEW015 OVC20 30/25 Q1007 RMK A2974 CB VCSH NE NW RPVK 302000Z AUTO 22003KT 190V270 0000 R23/0050N NCD 25/24 Q1006 RPVM 061700Z 01007KT 9999 FEW020 BKN100 27/21 Q1009 RMK A2980 RPVP 060700Z 18040KT 9999 SCT019 OVC080 28/24 Q1007 RMK A2974 SAAC 061700Z 14007KT 9999 SCT025 30/12 Q1018 SAAE 281518Z 20003KT 9000 VCTS -RA FEW050CB OVC100 20/18 Q1007 SAAG 061600 14006KT BKN030 27/15 Q1020 SAAJ 061700Z 05009KT 9999 SCT040 26/14 Q1019 SAAP 061600Z 11008KT 9999 SCT020 29/13 Q1019 SAAR 061700Z 12007KT 050V200 CAVOK 27/15 Q1019 PP000 SAAV 061700Z 14009KT 9999 FEW035 31/16 Q1018 RMK PP/// SABE 061700Z 11012KT 9999 FEW030 24/17 Q1022 NOSIG RMK PP000 SACE 010212Z 20022G32KT 5000 DURA BKN025 FEW050 21/16 Q1016 SACO 061700Z VRB03KT 9999 BKN030 25/17 Q1020 NOSIG RMK PP000 SADF 061700Z 08010KT 050V120 9999 FEW030 26/16 Q1021 RMK PP000 SADJ 131220Z 00000KT 2500 BR NSC 02/01 Q1029 SADM 061700Z 05006KT 9999 SCT035 27/15 Q1021 SADO 061700Z 09010KT 9999 FEW035TCU 26/16 Q1021 SADP 061700Z 09008KT 9999 FEW045 26/13 Q1021 RMK PP000 SAEZ 061600Z 09009KT 9999 SCT037 SCT050 25/16 Q1022 NOSIG RMK PP000 SAME 061600Z 05010KT 9999 FEW045 SCT050 28/16 Q1018 SAMM 061600Z 02004KT 9999 SCT030 23/12 Q1022 SAMR 061700Z 07012KT 9999 SCT035 SCT100 28/15 Q1018 SANC 061600Z 02020KT CAVOK 32/17 Q1016 SANE 061600Z 36004KT 9999 FEW025 SCT100 31/19 Q1018 SANL 061600Z 23004KT CAVOK 29/15 Q1017 SANR 121635Z 14006KT 5000 BR FEW012 16/12 Q1015 SANT 061700Z 00000KT 9999 FEW035 OVC100 27/19 Q1018 SANU 061700Z 34004KT 9999 SCT050 30/16 Q1017 SAOC 061700Z 02014KT 9999 SCT035 25/16 Q1019 SAOR 030125Z 36020KT 8000 TSRA FEW040CB SCT050 25/13 Q1010 SAOS 061330Z 00000KT 8000 08/08 Q1028 SAOU 061600Z 34008KT 9999 BKN035 30/15 Q1019 SARC 061700Z 14014KT 9999 BKN030 31/19 Q1015 SARE 061600Z 14009KT 9999 SCT045 BKN200 32/18 Q1016 RMK PP/// SARF 061700Z 14011KT 9999 FEW025 OVC200 33/18 Q1014 SARI 061700Z 18009KT 9999 SCT030 33/17 Q1013 SARL 061700Z 16014KT 9999 SCT020 31/14 Q1017 SARM 210912Z 14009KT 8000 -TSRA SCT018 OVC035 FEW045CB 12/10 Q1016 SARP 061700Z 16011KT 9999 FEW030 32/15 Q1015 SARS 280341Z 09012KT 9999 TS BKN025 FEW035CB BKN060 25/19 Q1003 SASA 061700Z VRB01KT 9999 VCSH SCT017 OVC025 20/16 Q1023 SASJ 061700Z 27006KT 200V300 9999 BKN073 24/15 Q1021 SAST 241340Z 36002KT 7000 DZ SCT010 OVC020 22/21 Q1014 SATR 061700Z 11010KT 9999 BKN035 32/19 Q1016 SAVC 061700Z 07012KT CAVOK 26/01 Q1014 RMK PP000 SAVE 061700Z VRB07KT CAVOK 30/07 Q1016 SAVT 061700Z 14006KT 8000 NSC 31/10 Q1015 SAVV 061700Z 36007KT 290V090 CAVOK 33/07 Q1018 SAVY 061700Z 09012KT CAVOK 30/10 Q1016 SAWB 281912Z 36008KT 2000 SG BR OVC002 00/M02 Q0982 SAWC 061700Z 27025G35KT 9999 FEW040 SCT200 23/02 Q1004 SAWE 061600Z 36015KT 9999 SCT020 OVC080 08/06 Q1005 SAWG 061700Z 30020G30KT 9999 FEW035 BKN200 26/M03 Q1000 SAWH 061700Z 34020KT 9999 -DZ FEW025 BKN040 09/02 Q0997 SAWJ 291413Z 25025G43KT 9999 SCT030TCU 18/M04 Q1004 SAWT 061410Z 27020G33KT 9999 FEW025 SCT100 ///// Q1002 SAWU 052343Z 09020KT 9999 FEW030 15/07 Q1014 SAZA 042222Z 14003KT 9999 RA BKN020 OVC045 16/13 Q1021 SAZB 061700Z 35006KT 320V040 CAVOK 27/13 Q1021 SAZG 061600Z 05014KT 9999 BKN030 25/15 Q1020 SAZI 091415Z 09020KT 4000 DZRA BKN010 BKN02014/12 Q1022 SAZM 061600Z 09011KT 9999 FEW040 22/14 Q1024 RMK P/// SAZN 061600Z 36007KT CAVOK 30/11 Q1017 SAZR 061700Z 05013KT 9999 SCT040 26/15 Q1020 SAZS 061700Z 05005KT 060V130 CAVOK 30/M03 Q1016 RMK PP/// SAZT 061600Z 09002KT 9999 FEW025 24/12 Q1023 SAZY 061700Z 09014KT 030V120 CAVOK 29/06 Q1014 SBAA 170300Z AUTO VRB02KT CAVOK 25/22 Q1013 SBAF 061700Z 25009KT 9999 FEW025 SCT045 BKN100 27/20 Q1012 SBAN 061700Z VRB04KT 9999 VCSH FEW015 BKN020 FEW030TCU 27/20 Q1016 SBAR 061700Z 08013KT 9999 FEW021 30/24 Q1011 SBAT 061700Z 25002KT 9999 VCSH FEW025 FEW036TCU SCT100 31/23 Q1012 SBAU 061700Z 16008KT 9999 FEW035 34/19 Q1011 SBAX 061700Z 21006KT 9999 SCT018 22/20 Q1015 RETS SBBE 061700Z 28007KT 9999 -RA FEW016 SCT032 FEW048TCU BKN070 27/25 Q1009 SBBG 061700Z 11014KT 9999 SCT036 27/14 Q1018 SBBH 061700Z 12008KT 4800 -RA SCT007 BKN035 OVC100 20/17 Q1016 RERA SBBI 061700Z 10009KT 9999 BKN030 23/17 Q1017 SBBQ 061700Z 36005KT 3000 -RA BR OVC010 18/17 Q1019 SBBR 061700Z 29012KT 9999 BKN030 FEW040TCU BKN100 28/18 Q1015 SBBU 061700Z 13005KT 9999 SCT040 30/19 Q1013 SBBV 061700Z 06013KT 9999 SCT040 BKN070 33/21 Q1011 SBBW 061700Z 02005KT CAVOK 31/23 Q1012 SBCA 061700Z 22009KT 9999 SCT030 29/13 Q1016 SBCB 061700Z 20006KT 9000 TS BKN020 FEW025CB 26/21 Q1012 SBCC 061700Z 31003KT CAVOK 27/22 Q1013 SBCF 061700Z 09004KT 5000 -RA BKN010 SCT025 BKN070 21/19 Q1016 SBCG 061700Z 24008KT 9999 SCT045 FEW050TCU 33/21 Q1013 SBCH 061700Z 22008KT 9999 SCT035 28/11 Q1015 SBCI 170300Z AUTO /////KT ///V/// //// // ///////// ///// Q//// SBCJ 061700Z 09006KT 9999 SCT027 29/20 Q1012 SBCO 061700Z 11015KT 9999 BKN040 25/18 Q1017 SBCP 061700Z 01010KT 9999 SCT020 BKN090 28/21 Q1011 SBCR 061700Z 02006KT 340V060 9999 SCT045 FEW050TCU 35/21 Q1010 SBCT 061700Z 11010KT 9999 SCT015 BKN030 21/18 Q1017 SBCX 061700Z 15006KT 9999 SCT036 FEW060TCU 22/14 Q1018 SBCY 061700Z 16005KT 9999 BKN020 32/23 Q1012 SBCZ 061700Z 14004KT 5000 -RA BKN004 OVC080 25/25 Q1014 RERA SBDN 061700Z 20004KT CAVOK 33/18 Q1010 SBEG 061700Z 22002KT 9999 SCT005 SCT017 BKN090 25/24 Q1011 SBEK 061700Z 33003KT 9999 SCT015 34/25 Q1009 SBES 061700Z 35010KT 300V060 9999 TS VCSH BKN020 //////CB 24/20 Q1012 SBFI 061700Z 17010KT 9999 SCT030 32/14 Q1013 SBFL 061700Z 17009KT 9999 FEW020 FEW035TCU 23/18 Q1017 SBFN 061700Z AUTO 12011KT 090V150 9999 SCT020 30/23 Q1010 SBFS 061700Z 32009KT 9999 SCT025 BKN070 29/27 Q1011 SBFZ 061700Z 12018KT 6000 -RA SCT011 BKN018 26/25 Q1010 SBGL 061700Z 28010KT 230V320 9999 VCSH SCT030 BKN040 27/20 Q1011 SBGM 061700Z 26004KT 210V300 9999 FEW020 SCT030 29/24 Q1013 SBGO 061700Z 33004KT 260V040 9999 VCSH SCT030 FEW040TCU 29/22 Q1014 SBGR 061700Z 12008KT 9999 SCT033 FEW040TCU 26/16 Q1015 SBGW 061700Z 25006KT 190V300 9999 SCT040 28/18 Q1014 SBHT 061700Z 06006KT 9999 BKN030 32/25 Q1009 SBIH 061700Z 12006KT 9999 SCT022 FEW025TCU 33/25 Q1009 SBIL 061700Z 05006KT 9999 FEW020 30/25 Q1012 SBIP 061700Z AUTO VRB02KT 9999 -RA FEW038 23/22 Q1014 SBIZ 061700Z 06008KT 9999 BKN030 33/25 Q1009 SBJE 061700Z 06015KT 9999 FEW020 34/24 Q1008 SBJH 190200Z 12012KT 9999 SCT020 SCT080 16/14 Q1019 SBJP 061700Z 10014KT 070V130 9999 SCT030 31/22 Q1011 SBJR 061700Z 22011KT 9999 SCT020 SCT050 26/23 Q1011 WS R21 SBJU 061600Z 20005KT CAVOK 34/17 Q1014 SBJV 061700Z 07005KT 9000 4000N BKN010 OVC040 22/19 Q1016 RESHRA SBKG 061700Z 11018KT 9999 BKN025 30/19 Q1013 SBKP 061700Z VRB04KT 9999 VCSH VCTS SCT045 FEW050CB SCT100 27/16 Q1014 SBLB 061700Z AUTO /////KT 9999 NCD 25/22 Q1012 W26/S4 SBLE 171700Z AUTO 09008KT 010V160 CAVOK 31/12 Q1017 SBLO 061700Z 04005KT 9999 SCT040 FEW050TCU 31/20 Q1012 SBLP 301900Z AUTO /////KT ///V/// //// // ///////// ///// Q//// SBLS 061700Z 15004KT 6000 BKN010 BKN035 BKN080 21/19 Q1016 RERA SBMA 061700Z 03011KT 9999 TS BKN023CB SCT080 30/24 Q1009 SBME 061700Z 16003KT 8000 -RA FEW030 OVC090 27/25 Q1011 SBMG 061700Z 21006KT 9999 VCSH FEW040 FEW040TCU 33/19 Q1011 SBMI 080800Z 09006KT 9999 SCT016 28/23 Q1012 SBMK 061700Z 01006KT 9999 -RA SCT045 BKN100 26/18 Q1013 SBML 061700Z 18010KT 9999 FEW026 27/19 Q1014 SBMN 061700Z 25002KT 9999 SCT006 FEW020TCU BKN090 25/25 Q1011 RETS SBMO 061700Z 09013KT 9999 BKN030 31/21 Q1012 SBMQ 061700Z 07007KT 9999 SCT020 FEW023TCU 33/25 Q1010 SBMS 061700Z 03016KT 9999 VCSH BKN020 BKN090 29/25 Q1010 SBMT 061700Z 13012KT 9999 SCT035 BKN045 24/16 Q1015 SBMY 151200Z AUTO 09003KT 060V130 CAVOK 26/23 Q1015 SBNF 061700Z 11008KT 9999 FEW015 BKN100 24/18 Q1016 RERA SBNM 061700Z AUTO 16012KT 120V190 CAVOK 29/13 Q1015 SBNT 061700Z 12017KT 9999 SCT025 31/24 Q1010 SBOI 061700Z 04006KT 9999 SCT015 BKN020 BKN080 26/24 Q1012 SBPA 061700Z 12014KT 9999 BKN040 27/18 Q1017 SBPB 061700Z 06014KT 9999 FEW020 33/24 Q1008 SBPC 061700Z /////KT 9999 SCT020 FEW021TCU 25/17 Q1017 SBPF 052000Z 23008KT 9999 SCT025 BKN050 28/18 Q1011 SBPG 032000Z 06008KT CAVOK 24/16 Q1014 SBPJ 061700Z 20005KT 9999 FEW023 FEW030TCU SCT100 26/23 Q1011 SBPK 061700Z 12017KT 9999 SCT020 27/17 Q1020 SBPL 061700Z /////KT 9999 SCT035 31/20 Q1012 SBPP 061715Z 18006KT 9999 FEW020 33/17 Q1015 SBPR 061700Z 11006KT 3000 -RA BR BKN008 BKN012 OVC070 19/19 Q1017 SBPS 061700Z 06012KT 9999 SCT015 FEW025TCU 28/23 Q1012 SBPV 061700Z 35005KT 9999 BKN010 BKN040 27/24 Q1012 SBRB 061700Z 10002KT 9999 FEW005 SCT013 BKN100 28/25 Q1013 SBRF 061700Z 12010KT 060V170 9999 FEW025 30/22 Q1011 SBRJ 061700Z 20014KT 9999 SCT025 FEW030TCU BKN060 28/21 Q1010 SBRP 061700Z 13006KT 9999 SCT035 29/19 Q1012 SBSC 061700Z 19012KT 9999 FEW040 BKN090 27/22 Q1012 SBSG 061700Z 17014G24KT 130V220 9999 SCT033 SCT049 31/22 Q1011 SBSJ 061700Z VRB04KT 9999 SCT035 BKN100 26/15 Q1015 SBSL 061700Z 07012KT 9999 BKN025 33/24 Q1009 SBSM 061700Z 12011KT 090V170 9999 BKN045 29/16 Q1016 SBSN 061700Z 09012KT 9999 SCT020 BKN100 30/27 Q1010 SBSP 061700Z 14015KT 9999 SCT026 FEW030TCU 24/17 Q1017 SBSR 061700Z 27006KT CAVOK 30/17 Q1012 SBST 061700Z 19009KT 9000 4000N FEW005 BKN015 OVC100 25/21 Q1013 SBSV 061700Z 08014KT 9999 FEW023 30/25 Q1012 SBSY 061300Z AUTO 17009KT 120V210 CAVOK 26/08 Q1017 SBTA 061700Z 14002KT 9999 SCT035 FEW040TCU BKN100 26/15 Q1014 SBTC 052000Z 08002KT 9999 FEW030 26/24 Q1015 SBTD 061630Z 21013KT 9999 BKN030 28/16 Q1014 SBTE 061700Z 09005KT 9999 BKN040 34/21 Q1008 SBTF 061700Z 28005KT 9999 FEW012 BKN090 28/25 Q1012 SBTK 081300Z AUTO 32006KT 290V350 CAVOK 28/24 Q1012 SBTT 061700Z 19007KT 9999 SCT015 BKN100 28/24 Q1013 SBTU 061700Z AUTO VRB03KT 9999 SCT026 30/24 Q1011 SBUA 061700Z 26004KT 210V320 9999 SCT019 BKN040 29/25 Q1012 SBUF 061700Z 11007KT 9999 BKN022 37/15 Q1010 SBUG 071700Z 09025KT 9999 SCT013 SCT033 OVC100 21/18 Q1005 RETS SBUL 061700Z 30009KT 9999 FEW027TCU BKN030 25/19 Q1015 SBUR 061700Z 21010KT 9999 SCT030 28/18 Q1014 SBUY 061700Z 02004KT 9999 SCT020 FEW025TCU 28/24 Q1011 SBVH 061700Z 09008KT 050V120 9999 SCT030 FEW035TCU 29/22 Q1014 SBVT 061700Z 04013KT 9999 FEW013 BKN060 27/23 Q1013 SBYS 061700Z 17004KT 110V230 9999 SCT025 SCT100 27/21 Q1013 SCAP 060000Z AUTO 22006KT 180V260 9999 ////// 23/08 Q1021 SCAR 060000Z 18005KT 9999 OVC032 19/14 Q1015 SCAS 031900Z 26017G27KT CAVOK 17/08 Q1021 SCAT 060000Z AUTO 26008KT 9999 OVC015/// 14/11 Q1014 SCBA 052100Z 31024KT 9999 FEW040 20/08 Q1018 SCCC 031900Z 29021KT 9999 FEW040 23/M02 Q1015 SCCF 060000Z AUTO 27015KT 9999 SCT240/// 19/M06 Q1025 SCCH 060000Z AUTO 27005KT //// R/////// NCD 28/11 Q1009 SCCI 060000Z 25014KT 210V270 9999 BKN040 11/00 Q1016 NOSIG SCCY 060000Z 00000KT 9999 SCT040 17/09 Q1020 SCDA 060000Z 22005KT 9999 OVC030 19/13 Q1015 SCEL 060000Z 15012KT CAVOK 25/09 Q1011 NOSIG SCFA 060000Z 21008KT 9999 FEW017 SCT300 16/11 Q1014 NOSIG SCFM 041700Z 26012KT 9999 SCT020 BKN040 13/07 Q1006 SCFT 060000Z AUTO VRB02KT CAVOK 22/10 Q1018 SCGE 052200Z 21007KT CAVOK 35/07 Q1010 SCGZ 050400Z 24004KT 9999 SCT050 BKN076 07/04 Q1004 SCHR 031900Z 20007KT CAVOK 19/02 Q1016 SCIC 060000Z AUTO 28004KT 240V320 9999 NCD 26/10 Q1009 SCIE 060000Z 01009KT CAVOK 15/13 Q1011 SCIP 060000Z 33010KT 300V360 9999 SCT020 SCT040 24/18 Q1020 NOSIG SCIR 041900Z 15017G27KT 9999 BKN025 15/09 Q1022 SCJO 060000Z VRB07KT CAVOK 20/10 Q1017 SCMI 082000Z /////KT 9999 FEW016 29/23 Q1014 SCMK 060000Z AUTO 21005KT //// // NCD 16/13 Q1021 SCNT 052300Z 30019KT 9999 FEW050 13/00 Q1017 SCON 060000Z AUTO 24012KT CAVOK 14/12 Q1022 SCPQ 060000Z AUTO 18012KT 130V200 CAVOK 19/11 Q1020 SCQP 060000Z 18008KT CAVOK 25/12 Q1011 SCRD 060000Z 29003KT 4000 BR OVC003 13/13 Q1013 SCRG 060000Z 20008KT CAVOK 26/10 Q1012 SCRM 060000Z 25026KT 9999 SCT015 BKN060 M00/M02 Q0987 NOSIG SCSE 060000Z 28006KT 9999 FEW012 14/11 Q1013 SCSN 060000Z 30005KT 260V040 4500 BR OVC009 15/14 Q1013 SCTB 060000Z 00000KT CAVOK 26/08 Q1013 SCTE 060000Z 16009KT CAVOK 17/11 Q1019 NOSIG SCTN 060000Z AUTO 17010KT 2300 BKN002 OVC006 12/12 Q1020 SCVC 091400Z 33006KT 9999 FEW030 14/07 Q1018 SCVD 060000Z AUTO 17009KT CAVOK 23/09 Q1014 SCVM 060000Z 28007KT 9999 BKN015 14/12 Q1013 SCVN 280900Z VRB02KT 0900 FG OVC002 10/09 Q1017 SEAM 061700Z /////KT 9999 SCT020 BKN100 16/14 Q1028 SECA 061700Z 04009KT 9999 BKN040 27/14 Q1017 SECO 061700Z 17003KT 9999 SCT020 BKN100 26/23 Q1014 RMK A2996 SECU 061700Z 07010KT 9999 BKN040 23/11 Q1025 SEGS 061700Z 14015KT 9999 FEW020 25/18 Q1014 RMK A2995 SEGU 061700Z 06006KT 9999 FEW023 SCT200 31/19 Q1010 NOSIG RMK A2984 SEJD 061700Z 19002KT 9999 BKN016 BKN100 24/23 Q1015 RMK A2998 SELT 061700Z 19012KT 9999 BKN030 SCT100 14/10 Q1030 SEMC 061700Z 05006KT 9999 BKN023 BKN100 24/17 Q1018 RMK A3008 SEMT 061700Z 30008KT 9999 SCT020 26/22 Q1012 RMK A2988 SENL 061700Z 13004KT 9999 FEW020 BKN100 28/23 Q1015 RMK A2998 SEQM 061700Z 34006KT 9999 FEW040 BKN300 22/11 Q1024 NOSIG RMK A3024 SEQU 022200Z METAR SELT 022200Z 18012KT 9999 SCT030 16/06 Q1024 SER0 221500Z 28003KT 9999 FEW013 BKN020 23/20 Q1014 SERB 061700Z 06010KT 9999 BKN040 BKN100 17/13 Q1028 SERO 061700Z 31004KT 9999 OVC023 25/21 Q1011 SESA 061700Z 24005KT CAVOK 25/20 Q1012 RMK A2989 SESG 241000Z 25014KT 9999 FEW035 SCT100 22/M06 Q1016 SESM 061700Z 22002KT 9999 FEW010 SCT020 OVC100 21/19 Q1018 RMK A3008 SEST 061700Z 18010KT 9999 BKN020 22/18 Q1011 RMK A2987 SETN 061700Z 29006KT 9999 BKN023 27/23 Q1012 RMK A2989 SETU 061700Z 08008KT 9999 BKN020 16/12 Q1032 SFAL 061650Z 33023KT CAVOK 15/02 Q1015 SGAE 141230Z 04007KT 9999FEW010 BKN070 25/22 Q1006 SGAS 061700Z 15008KT 090V190 9999 FEW040 33/18 Q1015 SGCO 060900Z 18003KT CAVOK 22/19 Q1012 SGEN 061600Z 09006KT 9999 FEW030 31/15 Q1015 SGES 061700Z 17014KT 9999 SCT033 BKN080 34/17 Q1012 SGGR 261500Z 27008KT 9999 SCT033 28/15 Q1007 SGLV 230000Z 00000KT CAVOK 31/19 Q1006 SGME 261500Z 09005KT CAVOK 32/22 Q1006 SGPC 230000Z 12004KT 9999 SCT033 27/21 Q1001 SGPI 261500Z 09006KT 9999 SCT040 29/20 Q1007 SGPJ 261500Z 33014KT CAVOK 28/17 Q1009 SGSJ 261500Z 00000KT CAVOK 27/16 Q1011 SGSP 261500Z 09002KT CAVOK 29/16 Q1005 SGVR 230000Z 36003KT CAVOK 26/20 Q1004 SKAR 061700Z 29003KT 9999 SCT020 SCT090 26/19 Q1018 RMK A3007 SKAS 151200Z 00000KT 7000 BR NSC 22/22 Q1014 RMK A2994 SKBG 061700Z 30005KT 9999 SCT017 28/20 Q1015 RMK A2999 SKBO 061700Z VRB04KT 9999 SCT025 21/08 Q1027 NOSIG SKBQ 061700Z 06010KT 9999 FEW018 30/24 Q1010 NOSIG RMK A2984 SKBS 151200Z 00000KT 9999 CAVOK 24/24 Q1011 RMK A2985 SKBU 151300Z 00000KT 5000 VCFG OVC015 25/24 Q1012 A2990 SKCC 061700Z 36010KT 330V060 9999 SCT020 30/22 Q1014 RMK A2995 SKCG 061700Z 32008KT 280V010 9999 FEW017 SCT200 31/25 Q1010 RMK A2983 SKCL 061700Z VRB04KT 9999 SCT023 SCT120 28/20 Q1015 NOSIG SKCO 270300Z AUTO 24006KT 9999 SCT026/// BKN030/// BKN045/// 25/23 Q1012 SKCZ 151200Z VRB01KT 5000 BR BKN003 25/24 Q1010 RMK A2984 SKEJ 061700Z 26003KT 9999 SCT015 32/25 Q1009 RMK A2982 SKFL 121400Z 05005KT 010V080 8000 VCSH BKN020 23/25 Q1015 RMK A2997 SKGI 151200Z VRB03KT 9000 VCFG FEW020 24/22 Q1012 RMK A2989 SKGO 302300Z 03004KT 9999 SCT035 BKN090 23/19 Q1014 RMK A2994 SKGP 171100Z 00000KT 4000 BR BKN010 23/23 Q1010 RMK A2985 SKGY 151200Z 36005KT 9000 BKN025 10/10 Q1029 SKIB 061700Z 17009KT 9999 BKN020 27/20 Q1019 RMK A3009 SKIP 061700Z 10010KT 9999 VCSH BKN016 16/11 Q1029 RMK VCSH/SE A3041 SKLC 061700Z 21006KT 9999 BKN015 29/25 Q1011 RMK A2987 SKLT 061700Z 19004KT 9999 BKN013 BKN080 29/25 Q1011 RMK A2988 SKMD 061700Z 18005KT 9999 SCT030 26/17 Q1020 RMK A3012 SKMR 061700Z 00000KT 9999 SCT018 33/23 Q1010 RMK A2983 SKMU 302300Z 00000KT 9999 NSC 27/24 Q1007 RMK A2976 SKMZ 061600Z 28007KT 7000 VCFG BKN015 19/17 Q1027 RMK VCFG/W A3034 SKNV 061700Z 23003KT 9999 FEW027 32/22 Q1012 RMK A2989 SKPC 061700Z 05009KT 9999 FEW023 33/22 Q1011 RMK A2985 SKPD 151200Z VRB03KT 9999 FEW005 SCT100 24/23 Q1015 RMK A2998 SKPE 061700Z 21004KT 9999 SCT015TCU SCT080 23/18 Q1018 RMK TCU E/SE A3007 SKPP 021300Z 00000KT 8000 HZ FEW030 16/14 Q1023 RMK A3021 SKPS 061700Z 01008KT 9999 SCT020 20/17 Q1020 RMK A3013 SKPV 061700Z 11022KT 9999 FEW020 33/21 Q1011 RMK A2986 SKQU 151200Z 00000KT 9000 BKN060 BKN100 24/21 Q1013 REDZ RMK VCFG A2992 SKRG 061700Z 35006KT 9999 SCT020 21/15 Q1024 NOSIG RMK A3028 SKRH 061700Z 11022KT 9999 FEW020 33/21 Q1011 RMK A2986 SKSA 141200Z 35004KT 9999 SCT080 22/21 Q1015 RMK A2997 SKSJ 151200Z 00000KT 5000 BR OVC002 21/21 Q1015 RMK A2999 SKSM 061700Z 28004KT 9999 FEW020 SCT200 31/25 Q1011 RMK A2987 SKSP 061700Z 08012KT 040V110 9999 FEW018 30/24 Q1014 RMK A2994 SKTM 121400Z 25007KT 9999 VCSH FEW050 BKN150 23/22 Q1016 RMK VCSH W/NW A3001 SKUC 061700Z 05004KT 9999 SCT020 30/23 Q1013 RMK A2993 SKUI 061700Z 17007KT 4000 -DZ BKN009 OVC070 25/24 Q1011 RMK A2987 SKVP 061700Z 07010KT 040V110 9999 FEW020 34/18 Q1012 RMK A2988 SKVV 061700Z 03004KT 9999 FEW020 SCT200 31/20 Q1014 RMK A2995 SKYP 151200Z VRB02KT 9999 NSC 23/XX Q1016 RMK A3001 SLAG 161600Z 13005KT 9999 FEW070 30/22 Q1010 SLAL 061700Z 35010KT 5000 FEW002 SCT015 BKN070 14/11 Q1034 SLAP 201600Z 00000KT 9999 FEW023 27/15 Q1021 A3016 861.5 HR49 AC/CI SLAS 271400Z 36005KT 9999 OVC010 27/24 Q1012 SLCA 061700Z 36004KT 9999 FEW036 SCT070 26/17 Q1021 SLCB 061700Z 24004KT 9999 BKN027 FEW030TCU BKN070 20/12 Q1027 SLCO 061700Z 20010KT 9999 BKN006 OVC080 25/25 Q1014 SLCP 061700Z 18005KT 9999 BKN017 30/23 Q1016 SLET 061700Z 16015G26KT 9999 FEW020 FEW027CB 32/21 Q1014 SLGM 232000Z 33005KT 7000 VCSH SCT017 FEW020CB BKN200 32/25 Q1006 SLHI 261100Z 00000KT 9999 NSC 18/17 Q1015 SLJE 011200Z WO ATTN SLJO 061700Z 14006KT 8000 VCSH SCT015 FEW020CB BKN080 29/25 Q1011 SLJV 191900Z 18010KT 9999 OVC017 26/17 Q1011 SLLP 061700Z 12009KT 9999 SCT017 FEW020 SCT070 BKN200 11/06 Q1038 SLMG 061700Z 18004KT 9999 SCT017 FEW023CB BKN080 29/26 Q1010 SLOR 061700Z 07014KT 9999 SCT017 BKN070 16/07 Q1036 SLPO 061700Z 06010KT 7000 -RA FEW005 BKN010 BKN015 09/08 Q1042 SLPS 061700Z 09004KT 9999 SCT017 FEW030CB BKN200 36/23 Q1011 SLRA 141400Z WO ATTN SLRB 061700Z 00000KT 9999 FEW020 BKN200 33/24 Q1015 SLRI 061700Z 18008KT 9999 BKN015 BKN070 30/24 Q1013 SLRQ 061700Z 20004KT 9999 FEW020 BKN080 30/25 Q1014 SLRY 061700Z 00000KT 9999 FEW020 OVC080 30/24 Q1011 SLSA 061700Z 16008KT 9999 BKN015 BKN080 29/24 Q1013 SLSB 031900Z 33004KT 9999 FEW020 BKN200 32/25 Q1005 SLSI 162100Z 18006KT 9999 SCT070 24/18 Q1012 SLSM 202000Z 00000KT 9999 NSC 36/18 Q1008 A2977 HR36 CI FU RWY NML SLSR 112200Z 12008KT 9999 FEW015 FEW023CB OVC070 26/25 Q1010 SLSV 061700Z 00000KT 9999 FEW017 BKN070 30/23 Q1013 SLTI 301100Z 00000KT 9999 OVC070 24/21 Q1015 SLTJ 061700Z 12004KT 9999 SCT025 BKN070 21/16 Q1025 SLTR 061700Z 10007KT 9999 FEW017 SCT070 BKN200 30/25 Q1013 SLUY 281200Z 00000KT 9999 NSC 13/02 Q1031 SLVG 061400Z 18007KT 9999 SCT025 BKN070 16/12 Q1029 SLVM 061700Z 18005KT 9999 FEW030 OVC070 30/21 Q1017 SLVR 061700Z 18013G25KT 9999 FEW023 FEW027TCU SCT200 32/20 Q1014 SLYA 061700Z 00000KT 9999 FEW023 BKN070 31/22 Q1016 SMJP 061700Z 05005KT 9999 SCT012 28/24 Q1011 NOSIG SMLT 101800Z 26012KT 8000 TSRA FEW018CB SCT019 26/24 Q//// NOSIG RMK CB ALQDS SMSO 301300Z 04006KT 9999 SCT010 29/24 Q1012 NOSIG SMZ0 311800Z 02010KT 9999 SCT030 31/22 Q1009 NOSIG SMZO 061700Z 07008KT 9999 SCT018 FEW020CB 29/23 Q1011 NOSIG SOCA 061730Z AUTO 13003KT 080V180 9999 BKN009 OVC140 27/24 Q1011 TEMPO SHRA BKN015TCU SPAY 061722Z 16002KT 7000 BCFG BKN015 BKN080 25/23 Q1016 SPCL 061700Z 15006KT 9999 BKN020 BKN070 28/24 Q1014 RMK BIRD HAZARD RWY 02/20 PP000 SPEC 010820 EGYD 09006KT 6000 BR BKN004 11/11 Q1017 BECMG 9999 NSW FEW012 RMK YLO2 BECMG BLU SPEO 021500Z 20013KT 9999 FEW015 20/16 Q1015 RMK BIRD HAZARD RWY 01 PP000 SPGM 061700Z 06003KT 9999 FEW020 BKN100 27/22 Q1015 RMK PP000 SPHI 061700Z 20013KT CAVOK 24/16 Q1012 RMK BIRD HAZARD RWY 19/01 PP000 SPHO 061700Z 17007KT 110V220 9999 VCSH FEW013 SCT040TCU BKN150 18/09 Q1028 RMK PP000 SPHY 061700Z 01006KT 9000 SCT012 BKN070 10/06 Q1036 RMK BIRD HAZARD RWY03/21 PP000 SPHZ 201300Z /////KT 5000 BR BKN030 OVC080 12/11 Q//// RMK TN///.TX/// RA NOCHE PP180 SPJA 251400Z 34003KT 9999 SCT015TCU BKN070 23/20 Q1017 RMK PP000 SPJC 061700Z 18008KT 150V220 9999 BKN015 BKN020 21/17 Q1012 NOSIG RMK BIRD HAZARD RWY 15 PP000 SPJE 022030Z 08008KT 6000 RA BKN040 OVC080 24/23 Q1012 SPJI 061700Z 13003KT 9999 FEW020TCU BKN080 31/25 Q1020 RMK PP000 SPJJ 241926Z 07008KT 9000 3000S SCT040TCU BKN120 09/08 Q1031 SPJL 061700Z 30009KT 9999 BKN020 BKN080 12/07 Q1035 RMK RAB10E20 PP007 SPJR 061730Z 16005KT 120V200 9999 SCT025 BKN050 17/11 Q1027 SPLO 061700Z /////KT 9999 OVC030 22/16 Q1013 RMK PP000 SPME 061700Z 01007KT 9999 OVC017 25/21 Q1011 RMK BIRD HAZARD RWY 32/14 PP000 SPMF 111940Z 35007KT 7000 3000N RA BKN030 BKN070 30/24 Q1012 RMK PP002 SPMS 061700Z 33005KT 9999 FEW015 SCT100 29/// Q1012 RMK BIRD HAZARD RWY09/27 PP000 SPNC 041700Z 08012KT 9999 SCT040TCU 29/14 Q1018 RMK PP000 SPPY 021500Z 32009KT 9999 SCT012 SCT020 BKN040 15/11 Q1029 RMK PP000 SPQT 061700Z 01006KT 340V040 8000 DZ BKN010 OVC070 27/24 Q1012 NOSIG RMK BIRD HAZARD RWY 06/24 PP012 SPQU 061700Z 25010KT 210V290 9999 FEW080 SCT120 22/01 Q1024 NOSIG RMK PP000 SPRU 061700Z 16011KT 8000 FEW004 SCT007 19/16 Q1013 RMK BR QUAD N/S PP000 SPSO 061700Z 23013KT CAVOK 23/17 Q1012 RMK BIRD HAZARD RWY 22/04 PP000 SPST 061700Z 17004KT 9999 SCT015TCU BKN080 32/24 Q1012 RMK BIRD HAZARD RWY 17/35 PP000 SPTN 061700Z 18005KT 130V240 CAVOK 22/14 Q1013 RMK PP000 SPTU 061700Z 18005KT 150V210 8000 -DZ FEW012 SCT020 BKN090 24/23 Q1014 RMK BIRD HAZARD RWY 01/19 PP010 SPUR 301100Z 19005KT CAVOK 18/15 Q1013 RMK BIRD HAZARD RWY 19/01 PP000 SPYL 061700Z 17011KT CAVOK 27/18 Q1011 RMK BIRD HAZARD RWY 17/35 PP000 SPZ0 241100Z 05004KT 9999 NSC 10/06 Q1033 NOSIG RMK BIRD HAZARD PP000 SPZA 151100Z VRB02KT 9999 FEW090 14/10 Q1014 RMK PP000 SPZO 061730Z 10003KT 9999 SCT040 BKN100 17/06 Q1032 NOSIG RMK BIRD HAZARD RWY 28 STMB 272100Z 00000KT 9999 BKN012 SCT032 OVC080 FEW014CB 24/23 Q//// NOSIG RMK CB ALQDS SUAA 061700Z 14010KT 9999 SCT023 25/16 Q1022 SUAG 030200Z 12007KT CAVOK 19/15 Q1013 SUCA 061700Z 15012KT 9999 FEW020 23/16 Q1022 SUDI 172300Z 05008KT 9999 FEW030 29/12 Q1009 SUDU 061700Z 12008KT 9999 SCT033 27/15 Q1020 SULS 061700Z 17014KT 9999 FEW033 24/16 Q1022 SUMU 061700Z 14011KT 9999 FEW016 SCT040 23/16 Q1022 WS R06 NOSIG SURV 110000Z 16002KT CAVOK 19/11 Q1020 SUSO 061700Z 17014KT 9999 BKN027 30/15 Q1018 SUSU 271000Z 25008KT CAVOK 03/00 Q1019 SVBC 232200Z 2400/2500 07005KT 9999F SVSA 232200Z 2400/2500 14003KT 9999 SCT020 TX33/2419Z TN21/2408Z TEMPO 2400/2404 17002KT 8000 +TSDZ OVC020 SVBI 272303Z AUTO 00000KT NCD 0/// Q//// SVBM 061700Z 11011KT 9999 SCT016 31/18 Q1015 SVBS 061503Z AUTO 09004KT NCD 28/// Q1019 SVCM 281900Z 09002KT 9999 SCT016 BKN100 30/24 Q1012 SVCR 251100Z ZNIL SVCS 272003Z AUTO 00000KT NCD 0/// Q//// SVFM 081703Z AUTO 17006KT NCD 28/18 Q1014 SVGD 061503Z AUTO 02005KT NCD 29/22 Q1016 SVGU 061503Z AUTO 22002KT NCD 29/23 Q1017 SVIM 101000Z 00000KT 9999 SCT016 SCT080 23/20 Q1015 SVJM 061503Z AUTO 19008KT NCD 27/20 Q1017 SVMB 131200Z 09002KT 9999 FEW016 24/19 Q1017 SVMC 042103Z AUTO 00000KT NCD 34/// Q//// SVMG 061503Z AUTO 13013KT NCD 32/25 Q1016 SVMI 061700Z 09005KT 9999 FEW016 31/25 Q1015 SVMM 101900Z 09003KT 9999 SCT016 31/24 Q1012 SVMO 110200Z 05003KT 9999 BKN016 24/22 Q1012 SVNI 100800Z 00000KT 9999 SCT016 BKN080 23/21 Q1015 SVPA 121403Z AUTO 30001KT NCD 26/24 Q1016 SVSA 232200Z 0Z 2400/2500 06002KT 9999 SCT013 TX35/2419Z TN24/2408Z TEMPO 2400/2404 27004KT 9000 DZ SCT013 SVSR 040003Z AUTO 16002KT NCD 28/21 Q1016 SVVA 061700Z /////KT 9999 BKN016 31/22 Q1016 SVVB 061700Z 09009KT 9999 BKN016 28/18 Q1015 SVVG 021600Z ////// 9999 FEW027 SCT300 31/23 Q1013 SVVM 012013Z 09006KT 9999 SCT016 30/20 Q1013 SWVM 040900Z 12008KT 9999 SCT016 26/21 Q1013 SYCJ 061700Z 07008KT 6000 RA SCT013CB BKN014 BKN036 OVC060 24/24 Q1013 NOSIG RMK CB ALQDS SYEC 061700Z 05004KT 9000 -RA FEW015CB SCT016 BKN032 OVC060 25/24 Q1013 NOSIG RMK CB ESE-N SYGC 112100Z 02006KT 9999 FEW022 SCT100 29/24 Q1012 SYKM 061500Z VRB02KT 9999 FEW013CB SCT015 BKN090 26/22 Q//// NOSIG RMK CB ALQDS SYLT 061500Z 07012KT 9999 BKN024 29/24 Q//// NOSIG SYMB 061500Z 00000KT 9000 VCSH BKN019 SCT100 28/24 Q//// NOSIG RMK VCSH ALQDS TAPA 061700Z 08013KT 050V120 9999 -SHRA SCT018 SCT036 29/22 Q1017 NOSIG TBPB 061700Z 08021KT 9999 SCT018 29/22 Q1014 NOSIG TDCF 061700Z 11007G18KT 9999 SCT019 30/20 Q1015 TDPD 061700Z 11013KT 9999 BKN016 28/23 Q1017 TDPF 041900Z 12006KT 9999 FEW01728/22 Q1014 TFFF 061730Z AUTO 11019KT 9999 BKN035 30/22 Q1015 TEMPO 09018G30KT TFFR 061730Z AUTO 10012KT 9999 BKN037 BKN045 BKN054 29/22 Q1016 TEMPO 10015G25KT 4000 SHRA SCT025TCU TGPY 061700Z 08017KT 9999 SCT018 30/23 Q1014 NOSIG THMW 010300Z 15008KT 9999 FEW018 FEW019CB 19/15 Q1015 NOSIG TIST 061653Z 13016KT 10SM SCT039 29/21 A3005 RMK AO2 RAB1557E06 SLP177 P0000 T02940206 TISX 061653Z 10017KT 10SM SCT028 32/22 A3006 RMK AO2 SLP176 T03170217 TJBQ 061650Z 09015G20KT 10SM CLR 29/22 A3008 TJIG 061651Z 10011KT 10SM SCT025 BKN060 28/23 A3007 TJNR 061653Z AUTO 08011G17KT 10SM FEW022 FEW110 29/24 A3008 RMK AO2 SLP187 T02940244 TJSJ 061656Z 07011G19KT 10SM FEW026 SCT043 SCT055 29/23 A3007 TKON 042200Z 11011KT 9999 FEW018 27/23 Q1016 TKPK 061700Z 07016KT 9999 FEW021 29/23 Q1017 TKPM 251100Z 08014KT 9999 BKN020 28/25 Q1015 TKPN 061700Z 07016KT 9999 FEW024 29/23 Q1018 TLPC 061700Z 08014KT 9999 SCT024 29/22 Q1015 NOSIG TLPL 061700Z 07021KT 9999 SCT029 30/22 Q1015 NOSIG TNCA 061700Z 10020KT 9999 FEW025 30/22 Q1014 NOSIG TNCB 061655Z 10019KT 070V140 9999 BKN022 BKN025 BKN029 30/23 Q1014 TNCC 061700Z 10015KT 9999 SCT025 29/24 Q1014 NOSIG TNCE 061655Z AUTO 06015KT //// // ///////// 29/23 Q1017 RE// TNCM 061700Z 08011KT 040V100 9999 BKN020 29/21 Q1019 NOSIG TNCN 161700Z 08008KT 050V110 9999 BKN016 30/23 Q1016 NOSIG TPKN 061500Z 09009KT 9999 FEW024 SCT048 30/24 Q1019 TPRG 011400Z 10015KT 9999 SCT015 28/25 Q1018 TPRO 202350Z 06006G17KT 13SM BKN015CB BKN110 BKN300 29/25 A2983 RMK CB OHD AND ALQDS TQPF 061700Z 09014KT 9999 SCT020 29/22 Q1018 TROG 062200Z 12010KT 360V140 9999 SCT017 26/23 Q1014 TRPG 061700Z 08014KT 040V130 9999 SCT021 27/23 Q1017 TTCP 061700Z 11013KT 9999 VCSH FEW015CB 31/21 Q1013 NOSIG RMK CB S TTPP 061700Z 11017KT 9999 FEW022 31/22 Q1013 Q1013 NOSIG TUPJ 061700Z 09009KT 10SM SCT020 29/23 A3008 RMK Q1018 VIS16KM TVSA 061700Z 07013KT 9999 SCT020 29/23 Q1015 NOSIG TXKF 061655Z 13012KT 9999 FEW025 FEW037 BKN300 23/17 Q1027 UAAA 061730Z 00000MPS 1600 R05L/P2000N R05R/P2000D BR SCT050 OVC100 02/01 Q1022 TEMPO 1200 BR FU UAAH 061130Z 18002MPS 9999 SCT046 M00/M03 Q1022 NOSIG RMK QFE729/0972 UAAT 061330Z 01002MPS 340V040 3800 BR OVC042 03/01 Q1023 NOSIG RMK QFE715/0954 UACC 061730Z 25009MPS 2500 FZRA SN BKN003 OVC013 M00/M01 Q1018 TEMPO 2000 FZRA SN OVC003 RMK QBB110 QFE732/0976 UACK 061200Z 24005MPS 9999 OVC010 M05/M07 Q1014 NOSIG RMK QFE737/0982 UACP 061130Z 24006MPS 6000 -SN OVC033 M04/M05 Q1012 NOSIG RMK QFE747/0996 UADD 061730Z 25002MPS 4000 BR NSC M01/M02 Q1022 NOSIG RMK QFE709/0946 UAII 061730Z 11002MPS 4000 BR NSC 04/02 Q1022 NOSIG RMK QFE731/0975 UAIT 061730Z 06004MPS CAVOK 02/00 Q1023 NOSIG RMK QFE742/0990 UAKD 200922Z 07008MPS 050V110 CAVOK 24/01 Q1018 R04/0///65 NOSIG RMK QFE730/0973 UAKK 061730Z 24007MPS 9000 -SN BKN009 OVC023 M01/M02 Q1019 NOSIG RMK QFE717/0956 UAOO 061730Z 09003MPS 070V130 9999 BKN046 M01/M02 Q1024 NOSIG RMK QFE756/1009 UARR 061730Z 35003MPS CAVOK M14/M15 Q1027 NOSIG RMK QFE767/1022 UASK 061700Z VRB01MPS 5000 BR SCT100 M07/M08 Q1022 NOSIG RMK QFE741/0988 UASP 061730Z 24007MPS 5000 -SHSNRA OVC004CB 01/00 Q1017 NOSIG RMK QBB130 OBST OBSC QFE751/1002 UASS 061330Z 12003MPS CAVOK M03/M03 Q1021 NOSIG RMK QFE745/0993 UATE 061730Z 01003MPS 9999 SCT011 03/02 Q1023 NOSIG RMK QFE766/1021 UATG 061730Z 23002MPS 5000 BR OVC002 05/04 Q1022 NOSIG RMK QBB060 QFE768/1025 UATT 061730Z 01004MPS 9999 BKN011 M01/M03 Q1022 NOSIG RMK QFE747/0996 UAUU 061330Z 33004MPS 9999 -SN SCT006 OVC033 M04/M05 Q1018 NOSIG RMK QBB190 QFE748/0997 UBBB 061730Z 15006KT 8000 FEW009 06/06 Q1024 NOSIG UBBF 061730Z AUTO 31004KT 9999 // ///////// 04/01 Q1023 UBBG 061730Z 26004KT 5000 BR FEW100 05/03 Q1023 NOSIG UBBL 061700Z 15005KT 9000 BKN020 09/09 Q1024 NOSIG RMK MT OP UBBN 061730Z 02008KT 8000 NSC M01/M04 Q1025 NOSIG RMK MT OBSC QFE693 UBBQ 061700Z 09004KT 7000 NSC 04/01 Q1024 NOSIG RMK MT OP UBBY 061700Z 10010KT 9999 NSC 08/02 Q1026 NOSIG RMK MT OP UBEE 061500Z 11005KT CAVOK 09/05 Q1022 NOSIG UCFL 061700Z 34004MPS 9999 SCT023CB BKN100 M00/M03 Q1022 R07/CLRD95 UCFM 061730Z 11005MPS 2500 BR FU NSC 04/03 Q1022 R08/0///95 NOSIG UCFO 061730Z 18002MPS 0900 0800N R12/P1500 FG FU FEW049 00/M02 Q1022 R12/0///95 NOSIG UDSG 061730Z 09001KT 9999 NSC M07/M10 Q1026 RMK R02/CLRD70 NOSIG UDYZ 061730Z 36002KT 6000 NSC M01/M04 Q1026 R09/010070 NOSIG UEEE 061730Z 30001MPS 9999 -SN NSC M35/M39 Q1012 R23L/490155 NOSIG RMK QFE750 UERP 061700Z 25002MPS CAVOK M32/M35 Q0999 R35/850245 RMK QFE705 UERR 061700Z 25007GMPS 9999 -SN DRSN BKN020 M25/M29 Q1006 R25/820442 NOSIG RMK QFE724/0965 UGAM 061730Z AUTO 07006KT //// ////// 05/02 Q1022 UGKO 061730Z 06008KT CAVOK 10/05 Q1018 NOSIG UGMS 061730Z AUTO VRB01KT //// ////// M00/M01 Q1026 UGSB 061730Z 13013KT CAVOK 15/04 Q1018 NOSIG UGTB 061730Z 30003KT CAVOK 08/02 Q1024 NOSIG UHBB 061700Z 21002MPS CAVOK M10/M16 Q1021 R36/821050 NOSIG RMK QFE748/0997 UHHH 061730Z 25005MPS CAVOK M11/M15 Q1025 R23R/090060 NOSIG RMK QFE762/1016 UHMA 061700Z 30013MPS 0350 R01/0500N -SN BLSN VV/// M21/M23 Q0986 R01/////// NOSIG RMK TDZ R01/30013G17MPS END R01/29015G19MPS QFE735/0981 UHMD 060400Z 23005MPS P1000 SCT030 M02/M05 Q0958 RMK QFE718/0957 UHMM 061700Z 02001MPS 9999 FEW040 M28/M31 Q0999 RMK QFE735 R28/06001MPS UHPP 061700Z 08002MPS 3400 -SHSN FEW007 OVC042CB M01/M01 Q1010 R34L/150060 NOSIG RMK QFE754/1005 UHSS 061700Z 28007MPS 9999 SCT040CB 04/M03 Q1017 R19/290060 NOSIG RMK QFE761/1015 UHWW 061730Z 01002MPS 9999 NSC M02/M09 Q1030 R25L/0///70 NOSIG RMK QFE771 UIAA 061730Z AUTO 21006MPS 9999 NCD M04/M14 Q1016 RMK QFE704/0938 UIBB 061730Z AUTO 24004MPS 210V270 9999 // ///011/// M01/M02 Q1013 RMK QFE717/0956 UIII 061730Z 09003MPS CAVOK M11/M13 Q1019 R12/820550 NOSIG RMK QFE722/0963 UIUU 061730Z 00000MPS 0750 0600NE R26/0800D FZFG NSC M19/M21 Q1022 R26/820550 NOSIG RMK QFE722/0963 UKBB 061730Z 07003MPS 3200 -RA BR OVC002 01/01 Q1010 TEMPO 0400 FG VV001 UKDD 061730Z 12005MPS 090V150 3800 BR OVC003 05/04 Q1015 NOSIG UKDE 061730Z 10004MPS 070V140 7000 OVC005 06/05 Q1015 NOSIG UKDR 061730Z 14007MPS 1200 1100S R18/P2000N BR OVC003 06/06 Q1011 TEMPO 1000 RA BR UKHH 061730Z 12006MPS 5000 BR BKN005 OVC020 01/00 Q1016 NOSIG UKKE 060755Z 19006MPS 9999 -SHRA SCT///CB 21/19 Q1006 UKKK 061730Z 09004MPS 3700 -RA BR BKN002 OVC020 01/01 Q1009 TEMPO 0300 -SHRASN FG BKN001 SCT010CB UKKM 061730Z 08003MPS 3900 -RA BR BKN002 OVC008 00/M01 Q1009 TEMPO 0300 FG VV001 UKLI 061730Z 00000MPS 1900 1400N BR OVC004 01/00 Q1008 NOSIG UKLL 061730Z 35002MPS 320V020 6000 -SNRA OVC003 00/M00 Q1008 NOSIG UKLN 061730Z 27002MPS 3600 BR OVC004 01/01 Q1007 NOSIG UKLR 061500Z 07003MPS 2000 -SN BR OVC004 M01/M01 Q1008 NOSIG UKLU 061730Z 00000MPS 9999 OVC029 02/02 Q1008 NOSIG UKOH 240700Z 34005MPS 9999 SCT020 03/01 Q1026 UKON 061500Z 15007MPS 9999 SCT006 SCT///CB 10/09 Q1010 NOSIG UKOO 061730Z 17004MPS 7000 SCT014 11/11 Q1009 NOSIG UKWW 061730Z 10003MPS 0150 -DZ FG VV001 01/01 Q1006 NOSIG ULAA 061730Z 25003MPS 220V280 9000 -SHSN BKN005 OVC020CB M08/M10 Q1027 R26/490536 NOSIG RMK QBB150 QFE769/1026 ULLI 061730Z 10004MPS 9999 FEW010 OVC021 M16/M19 Q1020 R10R/451045 NOSIG ULMM 061730Z 27003MPS 9999 -SHSN SCT011CB M16/M17 Q1022 R31/390139 NOSIG RMK QFE759 ULOO 061730Z 03002MPS 5000 -SN BKN043 M17/M20 Q1017 RESN R01/490340 NOSIG RMK QFE759 ULPB 061700Z AUTO 12003MPS 9999 // M10/M13 Q1025 RMK QFE765/1020 ULWC 061730Z 09003MPS 9999 -SN BKN011 OVC016 M16/M19 Q1025 R21/950244 NOSIG RMK QFE758/1011 UMBB 061300Z 04003MPS 1700 SHSN BR OVC003CB M01/M01 Q1010 NOSIG RMK QBB100 UMGG 061730Z 11004MPS 0150 R10/0500 FZFG VV002 M03/M03 Q1012 NOSIG RMK QBB060 UMII 061600Z 10002MPS 3100 -SHSN BKN008 OVC016CB M04/M05 Q1013 TEMPO 2100 BKN005 UMIO 061730Z 15003MPS 5000 -SN BR BKN007 OVC023 M03/M04 Q1012 NOSIG RMK QFE742/0989 UMKK 061730Z 05004MPS 9999 OVC006 M06/M07 Q1017 R06/19//95 NOSIG RMK QBB200 OBST OBSC QFE761/1015 UMMG 061600Z 01004MPS 4800 -SN BR OVC008 M02/M03 Q1013 NOSIG UMMS 061741Z 09003MPS 5000 BR OVC004 M02/M03 Q1011 NOSIG RMK QBB140 UMOO 061300Z 12004MPS 4800 -SHSN BR BKN008 OVC016CB M02/M04 Q1013 NOSIG UNAA 061730Z 19002MPS 2400 FU NSC M09/M10 Q1019 R20/CLRD65 NOSIG RMK QFE742 UNBB 061730Z 19004MPS 2700 -SHSN SCT005 BKN016CB M02/M03 Q1017 R24/190053 NOSIG RMK QFE740 UNEE 061730Z 15003MPS CAVOK M05/M07 Q1014 R23/820540 NOSIG RMK QFE738 UNKL 061730Z 20004MPS CAVOK 00/M04 Q1014 R29/190060 NOSIG RMK QFE735 UNNT 061730Z 19003MPS CAVOK M05/M06 Q1015 R25/290150 R16/220160 NOSIG RMK QFE751/1001 UNOO 061730Z 26007MPS 9999 -SHSN BKN011 BKN033CB M04/M05 Q1012 R25/591040 NOSIG RMK QFE751 UNTT 061730Z 20005MPS 9999 SCT012CB M04/M06 Q1012 R21/////// NOSIG RMK QFE744 UNWW 061730Z 13003MPS CAVOK M03/M07 Q1018 R19/920245 NOSIG RMK QFE736 UOOO 061700Z 19009MPS 0750 R19/2000N SN BLSN OVC013 M23/M25 Q1001 R19/39//35 NOSIG RMK QFE735/0980 URFF 061730Z 14004MPS 9999 SCT064 12/07 Q1013 R19/090095 NOSIG URKA 061730Z 15006MPS CAVOK 13/11 Q1016 R22/010070 NOSIG RMK QFE757/1010 URKK 061730Z 10004MPS CAVOK 10/07 Q1018 R05R/CLRD70 NOSIG RMK QFE760 URMG 061730Z 03002MPS 1900 BR BKN002 04/04 Q1022 R26/090070 NOSIG RMK QBB080 MT OBSC OBST OBSC QFE752/1002 URML 061730Z 34003MPS 1300 R32/P2000D BR BKN003 06/05 Q1023 R32/01//70 TEMPO 0400 FG BKN002 RMK QBB090 MT OBSC QFE767/1023 URMM 061730Z 11006MPS 4500 BR NSC 04/03 Q1020 R12/090070 NOSIG RMK QFE737/0983 URMN 061730Z 07001MPS 2000 HZ OVC005 04/03 Q1020 R24/010070 NOSIG RMK MT OBSC OBST OBSC QFE729 URMO 061730Z 00000MPS 0100 R27/0450N FZFG BKN001 M02/M02 Q1021 R27/010070 NOSIG RMK QBB040 MT OBSC QFE720/0961 URMT 061730Z 15003MPS CAVOK 05/04 Q1019 R07/010070 NOSIG RMK QFE724 URRP 061730Z 09005MPS 9999 FEW/// SCT038 05/04 Q1020 R05/CLRD70 NOSIG RMK QFE760/1014 URSS 061730Z 04003MPS 9999 NSC 09/06 Q1018 R02/010070 R06/010070 NOSIG RMK R06/00000MPS QFE762 URWA 061730Z 27002MPS 9999 -DZ OVC005 04/04 Q1023 R27/010070 TEMPO 2000 BR OVC004 RMK OBST OBSC QFE769/1025 URWI 061730Z 14003MPS 9999 BKN010 05/04 Q1022 NOSIG URWW 061730Z 09004MPS 0300 0200NE R06/0750N -DZ FG VV002 00/M00 Q1022 R06/290057 NOSIG RMK QBB060 OBST OBSC USCC 061730Z 31006MPS CAVOK M11/M16 Q1021 R27/450245 NOSIG RMK QFE745 USCM 061730Z 34001MPS 9999 OVC025 M10/M13 Q1021 R18/820155 NOSIG RMK QFE728 USDA 061730Z AUTO 03013MPS 0700 0550NE R22/0700D // ///023/// M14/M15 Q0998 RMK QFE747/0997 USHH 061730Z 31001MPS 9999 -SN SCT047 M29/M32 Q1017 R06/320050 NOSIG USNN 061730Z 33001MPS CAVOK M28/M31 Q1015 R03/32//65 NOSIG RMK QFE757 USPP 061730Z 29003MPS 9999 SCT003 M20/M23 Q1027 R21/090060 TEMPO 1000 BR RMK QBB100 QFE759 USRR 061730Z 34001MPS 9999 SCT004 M32/M36 Q1016 R07/75//37 NOSIG RMK OBST OBSC QFE757 USSS 061730Z 29006MPS CAVOK M16/M20 Q1021 R26L/410250 NOSIG RMK QFE745/0994 USTR 061730Z 29003MPS CAVOK M18/M21 Q1019 R30/350343 R03/350343 NOSIG UTAA 061700Z 26006KT 9999 SCT050 BKN100 08/01 Q1022 R88/CLRD70 NOSIG UTAK 061700Z 00000KT CAVOK 03/01 Q1024 R16R/CLRD70 NOSIG UTAM 061700Z 32004KT 4700 HZ SCT066 OVC100 10/04 Q1021 R88/CLRD70 NOSIG UTAT 061700Z 08006KT 7000 NSC 03/01 Q1020 R08/CLRD70 NOSIG UTAV 061700Z 04006KT 3500 HZ SCT029 OVC100 11/04 Q1019 R13/CLRD70 NOSIG UTDD 061730Z VRB01MPS 5000 FU NSC 07/M02 Q1022 R09/CLRD// NOSIG RMK QFE698/0930 UTDK 061730Z VRB01MPS 9999 NSC 09/01 Q1021 R01/09//70 RMK QFE708/0944 UTDL 061730Z 06005MPS 1900 R08/1900N BR FEW086 06/03 Q1023 R08/CLRD70 NOSIG RMK QFE728/0970 UTDT 061730Z 00000MPS 6000 SCT090 07/03 Q1021 R35/////// RMK QFE726/0968 UTFA 040730Z VRB02KT 2200 BR NSC 11/02 Q1020 R88/09//70 UTFF 061700Z 14006KT 1500 BR BKN014 02/M01 Q1023 R18/CLRD70 UTFN 061730Z 32004KT 1700 R28/P2000D BR NSC 02/M01 Q1024 R28/CLRD70 NOSIG UTNN 061730Z 33002KT 8000 NSC 00/M01 Q1021 R33/CLRD60 NOSIG UTNU 061730Z VRB02KT 7000 NSC 03/01 Q1020 R13/CLRD70 NOSIG UTSA 061730Z 10008KT 7000 NSC 08/01 Q1020 R07/CLRD70 NOSIG UTSB 061700Z 00000KT 9999 BKN036 09/03 Q1019 R01/CLRD70 NOSIG UTSK 061730Z VRB02KT CAVOK 10/02 Q1019 R16/CLRD70 UTSS 061730Z 14006KT 6000 NSC 08/01 Q1020 R09/CLRD70 NOSIG UTST 061730Z 02004KT CAVOK 10/01 Q1020 R25/CLRD70 NOSIG UTTT 061730Z 06006KT 2600 BR NSC 07/04 Q1022 R08R/CLRD70 NOSIG UUBC 061730Z 12004MPS 9999 OVC012 M03/M05 Q1018 R13/820150 NOSIG RMK QFE745/0994 UUBP 061730Z AUTO 09003MPS 2100 -SN M02/M02 Q1014 RMK QFE743/0991 UUBW 061730Z 11004MPS 8000 OVC008 M03/M05 Q1021 R30/520240 NOSIG UUDD 061730Z 12005MPS 7000 OVC007 M03/M05 Q1020 R88/520242 NOSIG UUDL 061730Z 10004MPS 9999 OVC012 M13/M15 Q1025 R23/850443 NOSIG RMK QFE761 UUEE 061730Z 09006MPS 5000 BR OVC004 M05/M06 Q1020 R88/520340 NOSIG UUMO 061730Z 13004MPS 7000 OVC008 M03/M04 Q1020 R07/590242 NOSIG RMK QFE750/1000 UUOB 061730Z 14006MPS 2900 -FZDZ BR OVC003 M00/M01 Q1017 R11/390135 NOSIG RMK QBB110 UUOK 061730Z 14006MPS 6000 -SN BKN005 OVC/// M01/M02 Q1016 R30/090060 NOSIG RMK QBB150 QFE743/0991 UUOL 061730Z 14006MPS 6000 -SN OVC011 M02/M04 Q1020 R15/090060 NOSIG UUOO 061730Z 13005MPS 9999 -SN OVC005 M02/M02 Q1020 R12/010070 NOSIG RMK QFE751 UUWW 061730Z 12005MPS 7000 OVC006 M04/M05 Q1019 R06/510345 NOSIG UUYY 061730Z 24003MPS CAVOK M22/M24 Q1026 R36/420345 NOSIG RMK QFE761/1014 UWGG 061730Z 12002MPS 9999 OVC011 M09/M12 Q1027 R18L/490140 NOSIG UWKD 061730Z 04003MPS CAVOK M15/M18 Q1030 R11/CLRD60 NOSIG RMK QFE762/1016 UWKE 061730Z 34002MPS CAVOK M16/M19 Q1028 R03/810070 NOSIG RMK QFE754/1006 UWKS 061730Z 06002MPS 040V150 CAVOK M16/M18 Q1029 R06/010060 NOSIG RMK QFE756 UWLL 061730Z 05004MPS 9999 OVC014 M04/M06 Q1028 R02/190060 NOSIG RMK QFE758/1011 UWLW 061700Z 04003MPS 9999 OVC016 M05/M07 Q1028 R02/CLRD60 NOSIG RMK QFE764 UWOO 061730Z 02003MPS CAVOK M12/M14 Q1026 R08/850550 NOSIG RMK QFE758/1011 UWOR 061700Z 29003MPS 9999 BKN023 M04/M05 Q1022 R25/450150 NOSIG RMK QFE743/0990 UWPS 061730Z 09001MPS CAVOK M08/M09 Q1026 R20/CLRD60 TEMPO 1000 BR BKN002 RMK QFE751 UWSG 061730Z 10004MPS CAVOK M03/M07 Q1027 R08/CLRD70 NOSIG RMK QFE768/1024 UWUU 061730Z 32003MPS 9999 BKN026 M14/M17 Q1027 R32L/1///48 NOSIG UWWW 061730Z 04004MPS 9999 BKN012 M04/M07 Q1028 R33/CLRD59 NOSIG RMK QFE760/1014 VAAH 061730Z 03002KT 4000 HZ NSC 21/16 Q1015 NOSIG VAAU 061500Z 00000KT 2000 HZ SCT020 BKN100 23/18 Q1016 NOSIG VABB 061730Z 02003KT 2200 HZ SCT100 27/21 Q1013 NOSIG VABO 061530Z 04003KT 5000 HZ NSC 25/17 Q1014 NOSIG VABP 061700Z 36004KT 2500 BR NSC 19/14 Q1018 NOSIG VABV 061200Z 02003KT 4000 FU NSC 27/19 Q1013 BECMG 3000 FU VADN 271000Z 32004KT 4000 FU FEW020 33/22 Q1010 NOSIG VADU 061030Z 05008KT 6000 NSC 31/17 Q1011 NOSIG VAID 061700Z 05006KT 3000 HZ FEW100 20/14 Q1018 NOSIG VAJB 061500Z 03005KT 3000 HZ NSC 19/14 Q1017 VAJJ 061200Z 32008KT 3000 HZ FEW100 28/23 Q1010 BECMG 3000 HZ VAKE 061030Z 35012KT 3500 FU NSC 29/05 Q1013 VAKP 061200Z 07004KT 9999 FEW020 27/15 Q1013 VAKR 101100Z 33006KT 6000 NSC 32/09 Q1011 VANO 260100Z 00000KT 2000 BR FEW010 SCT018 BKN080 25/25 Q1006 NOSIG VANP 061730Z 01002KT 2500 HZ NSC 23/14 Q1016 NOSIG VAOZ 061500Z 36002KT 2000 BR FEW030 18/17 Q1017 NOSIG VAPB 051500Z 23004KT 3000 -TS FEW018 FEW030CB SCT100 25/23 Q1007 NOSIG VAPO 311330Z 06002KT 6000 FEW080 27/16 Q1015 NOSIG VAPR 061500Z 01008KT 6000 NSC 23/08 Q1015 VARK 061500Z 36005KT 6000 NSC 23/12 Q1015 NOSIG VASD 061130Z 08005KT 3000 HZ FEW020 SCT025 26/12 Q1014 NOSIG VASU 061700Z 02005KT 4000 HZ NSC 25/19 Q1014 NOSIG VAUD 061600Z 02003KT 2500 HZ FEW030 19/16 Q1019 NOSIG VAUU 220700Z HZ 2SCT010 SCT020 OVC080 NOSIG VAVB 250900Z 12012KT 5000 FU FEW025 36/26 Q1004 NOSIG VAZO 050800Z 29006KT 6000 SCT025 SCT030 32/21 Q1010 NOSIG VCBI 061710Z 09002KT 9000 NSC 26/26 Q1012 NOSIG VCCC 241200Z 34002KT 8000 SHRA BKN016 FEW018CB(E/SE) OVC280 28/25 Q1006 A2973 VCRI 061510Z 01003KT 320V040 9999 BKN018 25/25 Q1012 NOSIG VDPP 061730Z 36004KT 330V030 9000 FEW017 24/20 Q1012 VDSR 061700Z 33002KT 9000 SCT017 22/17 Q1013 VDSV 061630Z /////KT 9000 FEW017 ///// Q//// VEAB 311330Z 00000KT 6000 SKC 22/15 Q1013 NOSIG VEAT 061600Z 00000KT 3000 -RA SCT018 BKN100 21/21 Q1014 NOSIG VEBD 140630Z 14004KT 6000 FEW030 28/16 Q1012 NOSIG VEBI 061130Z 14003KT 2500 BR FEW008 SCT018 BKN080 18/17 Q1015 VEBN 061730Z 34004KT 2000 BR FEW100 20/18 Q1015 NOSIG VEBS 061730Z 02003KT 3500 BR SCT018 BKN100 23/22 Q1013 NOSIG VEBU 061200Z 29002KT 4000 HZ NSC 26/19 Q1011 VECC 061730Z 35006KT 2800 DZ BKN015 OVC090 22/21 Q1012 NOSIG VECO 061200Z 00000KT 3500 BR FEW100 22/19 Q1012 VEDG 061700Z 00000KT 2800 BR FEW020 19/19 Q1014 NOSIG VEGK 250130Z 28004KT 6000 SKC 21/11 Q1009 NOSIG VEGS 191100Z 29002KT 5000 HZ SCT020 40/06 Q1003 VEGT 061730Z 00000KT 3000 BR SCT020 BKN100 20/19 Q1014 NOSIG VEGY 061700Z 00000KT 1600 BR NSC 19/17 Q1015 VEIM 061430Z 33002KT 3000 BR FEW008 SCT018 BKN090 16/16 Q1018 NOSIG VEJH 061730Z 00000KT 5000 HZ SCT020 SCT100 21/19 Q1015 VEJR 061000Z 26002KT 5000 HZ BKN020 OVC080 24/20 Q1013 VEJS 061200Z 00000KT 2000 HZ SCT015 BKN100 23/20 Q1012 VEJT 250100Z VRB01KT 6000 FEW025 SCT090 27/20 Q1010 NOSIG VEKI 200000Z 20003KT 2000 DZ FEW012 SCT020 OVC090 24/24 Q1008 NOSIG VEKO 061200Z 02002KT 1500 BR NSC 23/18 Q1014 VEKU 250130Z 09004KT 6000 FEW200 25/19 Q1011 NOSIG VELP 061000Z 01003KT 1000 -RA SCT006 SCT015 OVC090 21/20 Q1014 NOSIG VELR 061300Z 02002KT 6000 FEW020 18/17 Q1014 VEMN 061200Z 00000KT 3000 BR FEW020 BKN100 22/19 Q1013 NOSIG VEMR 061000Z 00000KT 3000 HZ SCT018 BKN090 24/16 Q1013 VEPT 061730Z 00000KT 3000 BR NSC 17/16 Q1014 NOSIG VEPY 060900Z 20003KT 5000 HZ FEW015 SCT020 19/11 Q1018 NOSIG VERB 010700Z 02003KT 3500 FU NSC 27/08 Q1016 VERC 061700Z 00000KT 2500 HZ NSC 19/17 Q1017 NOSIG VERK 210700Z 27003KT 5000 HZ FEW100 36/16 Q1009 VERP 061700Z 17003KT 3000 HZ NSC 22/19 Q1015 NOSIG VGEG 061500Z 00000KT 3500 RERA SCT014 FEW030CB OVC090 22/22 Q1013 NOSIG VGHS 061730Z 02003KT 3500 HZ SCT012 BKN100 23/20 Q1013 NOSIG VGSY 110500Z 08005KT 3500 HZ NSC 31/24 Q1005 NOSIG VHHH 061730Z 12004KT 070V180 CAVOK 17/09 Q1020 NOSIG VIAG 311330Z VRB02KT 4000 HZ SKC 23/15 Q1012 NOSIG VIAR 061730Z 00000KT 2800 BR NSC 13/13 Q1019 NOSIG VIBR 050500Z 00000KT 5000 BR SCT035 13/10 Q1020 VICG 311330Z 00000KT 5000 HZ SKC 22/14 Q1013 NOSIG VICH 131800Z 00000KT 4500 BR SCT040 17/14 Q1015 NOSIG VIDD 150500Z 28002KT 1500 FU NSC 21/11 Q1014 NOSIG VIDN 261300Z 07004KT 2500 BR FEW030 15/13 Q1017 VIDP 061730Z 00000KT 2500 BR NSC 19/17 Q1018 NOSIG VIGG 050700Z 16002KT 5000 HZ SCT030 FEW035CB BKN080 21/12 Q1020 VIGR 311330Z VRB01KT 4000 HZ SKC 22/15 Q1014 NOSIG VIJO 311330Z VRB02KT 6000 SKC 28/03 Q1013 NOSIG VIJP 061730Z VRB01KT 2500 HZ FEW030 17/11 Q1019 NOSIG VIJU 311330Z VRB02KT 5000 HZ FEW090 23/14 Q1013 NOSIG VIKG 250430Z 00000KT 2500 HZ NSC 24/18 Q1018 VIKN 110730Z 24007KT 5000 SCT012 34/24 Q1010 NOSIG VIKO 270600Z 00000KT 2000 HZ NSC 25/15 Q1017 NOSIG VILD 050900Z 02013KT 5000 HZ SCT30 BKN080 34/09 Q1009 VILH 311330Z 30010KT 6000 SCT100 SCT150 07/-2 Q1026 NOSIG VILK 061730Z 31003KT 2000 BR SCT020 SCT100 19/17 Q1016 NOSIG VIPT 050700Z 15006KT 0700 FU NSC 32/08 Q1010 VISM 050500Z 00000KT 6000 SCT020 17/10 Q1023 VISR 311330Z 23003KT 4000 FU FEW025 BKN200 13/04 Q1020 NOSIG VLLB 061000Z 00000KT CAVOK 25/08 Q1015 NOSIG VLLN 061000Z 32002KT CAVOK 22/16 Q1018 NOSIG VLPS 060800Z 36008KT 9999 FEW023 29/15 Q1013 NOSIG VLSK 060600Z 02004KT 9000 FEW020 28/11 Q1017 NOSIG VLVT 061000Z 36004KT 8000 NSC 26/10 Q1015 NOSIG VMMC 061730Z 34008KT CAVOK 15/10 Q1020 NOSIG VNKT 060250Z 00000KT 3500 BR FEW015 13/12 Q1022 NOSIG VOAR 061600Z VRB02KT 3400 BR SCT018 BKN100 26/24 Q1013 BECMG 2100 BR VOAT 060930Z 36008KT 6000 FEW015 32/25 Q1010 NOSIG VOAZ 211030Z 08010KT 6000 FEW020 SCT030 FEW030TCU BKN100 27/23 Q1012 TEMPO -RA VOBG 061700Z 05002KT 3000 BR SCT012 23/21 Q1017 NOSIG VOBL 061730Z VRB03KT 4000 BR SCT012 21/19 Q1018 TEMPO 3000 BR VOBM 061400Z 31003KT 6000 FEW012 21/14 Q1016 VOBZ 061730Z 08003KT 4000 HZ FEW020 25/24 Q1012 NOSIG VOCB 061730Z VRB01KT 3000 BR SCT012 BKN080 26/23 Q1015 NOSIG VOCC 020100Z VRB02KT 4500 BR SCT014 BKN080 25/24 Q1010 NOSIG VOCI 061730Z 07002KT 3500 BR SCT012 BKN080 25/24 Q1012 NOSIG VOCL 061730Z 06003KT 5000 HZ FEW015 SCT080 25/24 Q1012 NOSIG VOCO 100330Z 00000KT 4000 HZ NSC 28/20 Q1015 BECMG 4500 HZ VOCP 061100Z 00000KT 5000 HZ FEW020 32/21 Q1009 NOSIG VOGB 061100Z 00000KT 8000 NSC 31/15 Q1012 VOGO 061500Z VRB02KT 6000 FEW090 25/19 Q1012 NOSIG VOHB 061600Z 29004KT 6000 NSC 21/18 Q1016 VOHS 061730Z 06006KT 6000 FEW015 23/16 Q1017 NOSIG VOHY 061730Z VRB02KT 5000 HZ SCT100 20/16 Q1017 NOSIG VOJV 060700Z VRB03KT 7000 FEW015 28/19 Q1014 VOKN 061730Z VRB02KT 5000 BR SCT012 25/22 Q1012 NOSIG VOKU 061030Z 02007KT 5000 HZ FEW020 32/18 Q1012 VOMD 061700Z 10002KT 5000 BR FEW020 BKN100 27/25 Q1013 NOSIG VOML 061730Z 00000KT 6000 FEW018 25/17 Q1012 NOSIG VOMM 061730Z 06003KT 4000 BR SCT018 SCT100 27/26 Q1012 NOSIG VOMY 061430Z 00000KT 6000 FEW015 25/21 Q1015 VOND 061130Z 35002KT 6000 FEW025 28/14 Q1013 NOSIG VOPB 060330Z 09007KT 6000 P/CLOUDY FEW14 FEW020 28/21 Q1013 NOSIG VOPC 061200Z 12002KT 6000 SCT020 30/24 Q1004 NOSIG VORY 061630Z 08004KT 6000 SCT020 27/24 Q1012 NOSIG VOSM 060700Z 15003KT 4000 RA SCT020 OVC100 24/24 Q1013 NOSIG VOSR 060830Z 26004KT 5000 HZ FEW025 29/18 Q1011 NOSIG VOTK 061200Z 10004KT 5000 HZ SCT020 FEW030CB BKN100 30/23 Q1009 NOSIG VOTP 061530Z VRB03KT 3000 BR FEW020 27/25 Q1012 NOSIG VOTR 061730Z VRB01KT 3000 BR SCT015 BKN080 25/24 Q1012 NOSIG VOTV 061730Z 05003KT 3000 BR SCT015 FEW025CB BKN080 26/24 Q1012 NOSIG VOVZ 061700Z 09004KT 6000 FEW016 SCT070 26/24 Q1013 NOSIG VQAT 040700Z 00000KT 6000 FEW015 31/24 Q1011 NOSIG VQPR 061100Z 15010KT 9999 NSC 15/M01 Q1019 VRMG 031800Z 27011KT 9999 FEW018TCU 27/26 Q1013 NOSIG VRMH 031800Z 19004KT 9999 FEW018 27/25 Q1012 VRMM 061700Z 32005KT 9999 FEW018TCU 28/25 Q1012 NOSIG VSMI 241700Z 09008KT 9999 SCT016 25/22 Q1011 VTBD 061730Z 06003KT 9999 FEW030 23/16 Q1015 NOSIG VTBO 060900Z 03015KT 9000 NSC 32/18 Q1010 VTBS 061730Z 05005KT 9999 FEW040 23/16 Q1014 NOSIG VTBU 061730Z 36007KT 7000 FEW025 21/18 Q1014 NOSIG VTCC 061730Z 00002KT CAVOK 18/15 Q1018 NOSIG VTCH 061200Z 00000KT CAVOK 23/16 Q1015 NOSIG VTCL 061200Z 00000KT CAVOK 20/14 Q1016 NOSIG VTCN 061100Z 34002KT CAVOK 23/16 Q1015 NOSIG VTCP 061100Z 00000KT 9000 NSC 24/14 Q1014 NOSIG VTCT 061700Z 00000KT 7000 NSC 15/15 Q1019 NOSIG VTPB 061100Z VRB02KT CAVOK 24/11 Q1014 NOSIG VTPH 061400Z VRB03KT 9999 FEW030 23/17 Q1014 NOSIG VTPM 061100Z 07007KT CAVOK 24/11 Q1013 NOSIG VTPO 061000Z VRB02KT CAVOK 28/13 Q1013 NOSIG VTPP 061300Z 00000KT CAVOK 19/16 Q1015 NOSIG VTPT 061100Z /////KT CAVOK 25/13 Q//// NOSIG VTSB 061500Z 34001KT 9999 FEW020 23/23 Q1013 NOSIG VTSC 061000Z 08006KT 030V110 9999 FEW022 28/21 Q1010 NOSIG VTSE 061100Z VRB03KT 9999 SCT020 25/22 Q1011 NOSIG VTSF 061400Z 00000KT 9999 FEW018 25/24 Q1012 NOSIG VTSG 061700Z 04004KT 010V070 9999 FEW020 23/22 Q1012 NOSIG VTSM 061400Z 05005KT 9999 FEW020 27/22 Q1013 VTSP 061730Z 07004KT 010V110 9999 FEW020 24/22 Q1012 NOSIG VTSR 061300Z VRB04KT 9999 FEW020 26/19 Q1010 NOSIG VTSS 061730Z 00000KT 9999 FEW020 23/23 Q1012 NOSIG VTST 061300Z 03004KT 350V060 9999 FEW030 26/21 Q1010 NOSIG VTUD 061200Z 05002KT CAVOK 19/11 Q1016 NOSIG VTUI 061200Z 00000KT 9000 NSC 21/13 Q1016 NOSIG VTUK 061700Z 08005KT 040V130 8000 NSC 20/11 Q1018 NOSIG VTUL 061200Z VRB02KT 8000 NSC 17/14 Q1016 NOSIG VTUO 061300Z 05003KT CAVOK 21/16 Q1016 NOSIG VTUQ 061100Z 04003KT 360V060 CAVOK 23/14 Q1015 NOSIG VTUU 061700Z 03008KT CAVOK 19/14 Q1016 NOSIG VTUV 061400Z 07004KT 9000 NSC 19/13 Q1016 NOSIG VTUW 061300Z 11006KT 9000 NSC 19/11 Q1017 NOSIG VVCI 061730Z 06002KT CAVOK 16/13 Q1020 NOSIG VVCR 061730Z 02012KT 9999 FEW015 23/18 Q1015 NOSIG VVCT 061730Z VRB01KT CAVOK 24/23 Q1012 NOSIG VVDN 061730Z 19001KT 8000 SCT015 BKN050 20/16 Q1018 NOSIG VVNB 061730Z VRB01KT 8000 NSC 14/12 Q1021 NOSIG VVPB 061730Z 24003KT 7000 FEW015 SCT060 19/16 Q1020 NOSIG VVPQ 061730Z 00000KT CAVOK 25/19 Q1013 NOSIG VVTS 061730Z 02004KT 9999 FEW017 SCT050 24/20 Q1012 NOSIG VYMD 061130Z 36007KT 6000 BKN020 26/20 Q1013 VYNT 070300Z 19008KT 7000 BKN018 FEW020CB BKN110 29/25 Q1012 NOSIG VYYY 061730Z 02003KT 6000 NSC 21/20 Q1015 NOSIG WAAA 061730Z 13003KT 7000 -RA FEW017CB SCT018 24/24 Q1009 TEMPO TL1900 1000 TSRA RMK CB IN APCH WABB 031230Z VRB02KT 9999 FEW018 26/24 Q1011 NOSIG WADD 061730Z 26008KT 9999 SCT015 28/25 Q1008 NOSIG WADL 061730Z 00000KT 3000 RA FEW015CB BKN016 23/23 Q1011 TEMPO TL1800 RA RMK CB ALL RWY WAHQ 191100Z 21005KT 7000 SCT015 29/22 Q1006 NOSIG WAHS 061300Z 08004KT 4000 -RA FEW013CB SCT014 26/26 Q1010 NOSIG WAJJ 061700Z 00000KT 9000 SCT013 25/23 Q1004 NOSIG WAKK 061130Z 00000KT 7000 FEW016 27/24 Q1007 NOSIG WALL 061000Z 24002KT 9999 FEW020 28/25 Q1008 WAMM 061730Z 11003KT 070V160 8000 -RA SCT018 24/22 Q1008 TEMPO TL1800 RA WANN 080530Z 08003KT 010V150 8000 -RA FEW018CB SCT019 27/25 Q1009 TEMPO TL0600 RA RMK CB IN APCH WAOO 061730Z AUTO 06003KT 4000 BR FEW090 BKN130 OVC170 24/24 Q1008 WAPP 061130Z 34006KT 9999 SCT017 26/24 Q1006 NOSIG WAQQ 061730Z 35004KT 8000 SCT015 25/23 Q1008 NOSIG WARR 061730Z 25003KT 4000 HZ SCT020 25/24 Q1008 NOSIG WATT 061300Z 16003KT 7000 BKN016 25/25 Q1007 NOSIG WAYY 140600Z 26005KT 8000 BKN014 28/26 Q1006 NOSIG WBGB 061700Z 15004KT 080V230 9999 -RA SCT016 24/23 Q1010 WBGG 061730Z 00000KT 9999 SCT020 25/24 Q1010 NOSIG WBGP 250800Z VRB03KT 9999 FEW017 33/21 Q1005 WBGR 061700Z 20004KT 160V230 9999 SCT014 24/22 Q1009 WBGS 061700Z VRB02KT 9999 FEW007 SCT016 25/25 Q1010 WBGY 061700Z AUTO 00000KT //// // ////// 25/24 Q1010 WBKK 061730Z 06004KT 9999 -RA FEW013 SCT035 24/23 Q1010 NOSIG WBKL 061700Z VRB03KT 9999 FEW040 25/23 Q1009 WBKS 061700Z 27003KT 9999 FEW015 26/25 Q1008 WBKT 061700Z VRB03KT 9999 FEW014 24/24 Q1009 WBKW 061700Z 31004KT 280V010 9999 FEW016 25/23 Q1009 WBMU 250800Z VRB03KT 9999 X WBFCZQZX 250808 WMKKYMYX ?SAMS35 WMKK 25080 METAR WBGG 250800Z 33010KT 270V030 9999 FEW020 30/22 MADYFYX WMKKYFYX WMASYFYM WMFCZQZX WMKKMASD WMKQYWYX WMKSYWYX WMKZYFYX WSSSYMYX WSZZYPYM YBBBYPYX YMMCY020 30/22 Q1007 NOSIG WBSB 061730Z 19004KT 9999 FEW014 BKN300 24/24 Q1019 NOSIG WIBB 061730Z 00000KT 7000 BKN010 FEW015CB 26/22 Q1009 WIDD 061200Z 04006KT 9999 FEW014 28/23 Q1012 NOSIG WIDN 060900Z 35010KT 9999 SCT017 29/22 Q1009 NOSIG WIEE 061700Z VRB01KT 9999 SCT020 25/23 Q1011 NOSIG WIHH 061430Z 00000KT 5000 -RA SCT018 24/24 Q1011 NOSIG WIII 061730Z VRB02KT 7000 -RA BKN020 24/23 Q1009 TEMPO -RA WIMM 061730Z 24002KT 6000 SCT017 26/25 Q1011 NOSIG WIOO 061730Z AUTO 05003KT 9999 FEW180 25/24 Q1009 WIPP 061500Z 36004KT 9999 FEW010 27/24 Q1010 NOSIG WMAU 061700Z AUTO VRB09KT //// // ////// 27/24 Q1011 WMBA 061700Z 00000KT 9000 FEW031 25/24 Q1011 WMKA 061700Z VRB02KT 9000 FEW030 25/22 Q1011 WMKB 061700Z 01003KT 8000 FEW024 25/22 Q1011 NOSIG WMKC 061700Z 09003KT 9999 FEW020 25/23 Q1013 WMKD 061700Z 34005KT 310V010 9999 FEW025 24/22 Q1012 NOSIG WMKE 061700Z AUTO VRB02KT //// // ////// 25/23 Q1012 WMKI 061700Z VRB02KT 9000 FEW026 24/22 Q1011 WMKJ 061700Z VRB02KT 9999 FEW022 25/23 Q1011 WMKK 061730Z 04005KT 340V080 9999 FEW030 26/23 Q1010 NOSIG WMKL 061700Z 04005KT 350V100 9999 FEW026 27/22 Q1012 WMKM 061700Z VRB04G14KT 9999 FEW028 26/22 Q1011 WMKN 061700Z 04005KT 360V090 9999 SCT022 27/23 Q1012 WMKP 061730Z 02009KT 340V060 8000 FEW025 26/21 Q1010 NOSIG WMSA 061700Z 00000KT 9999 FEW026 25/22 Q1011 WSAP 061700Z 05007KT 9999 FEW016 BKN300 27/23 Q1011 WSSL 061700Z 01006KT 330V040 9999 FEW018 BKN300 26/23 Q1011 WSSS 061730Z 33007KT 9999 FEW016 BKN300 26/23 Q1011 NOSIG WSVM 260600Z 00000KT 9999 SCT080 24/22 Q1013 YABA 061700Z AUTO 09012KT 9999 // BKN037 14/07 Q1021 YAMB 061730Z AUTO 18003KT 9999 // SCT032 19/18 Q1013 YARG 061700Z AUTO 13004KT 9999 // NCD 31/18 Q1007 YAYE 061700Z AUTO 15009KT 9999 // NCD 23/14 Q1011 YAYT 241000Z 00000KT CAVOK 25/M17 Q1014 YBAS 061730Z AUTO 06012KT 9999 // NCD 21/18 Q1011 RESHRA RF00.0/016.0 DL-W/DL-NW YBBN 061730Z 21006KT 9999 FEW024 20/19 Q1013 YBCG 061730Z AUTO 25004KT 5000 SHRA SCT018 BKN022 BKN029 20/19 Q1013 YBCS 061730Z AUTO 16005KT 9999 // SCT029 SCT040 26/21 Q1008 YBCV 061700Z AUTO 03006KT 9999 // NCD 19/17 Q1011 YBDV 061700Z AUTO 18010KT 9999 // NCD 26/10 Q1009 YBHI 061700Z AUTO 20014KT 9999 // NCD 19/06 Q1011 YBHM 061730Z AUTO 13018KT 9999 // BKN026 26/22 Q1009 RF00.0/000.0 YBLN 061730Z AUTO 11010KT 9999 // NCD 13/07 Q1017 RF00.0/000.0 YBMA 061730Z AUTO 14007KT 9999 // NCD 23/18 Q1011 RF00.0/002.0 YBMK 061700Z AUTO 11011KT 9999 // SCT026 SCT033 26/21 Q1010 YBNA 061700Z AUTO 27004KT 9999 // SCT023 SCT028 19/18 Q1013 YBOK 061700Z AUTO 07008KT 9999 // ////// 18/17 Q1014 YBPN 061700Z AUTO 17007KT 9999 // SCT026 BKN039 BKN046 24/21 Q1009 YBRK 061730Z AUTO 16006KT 9999 // SCT020 23/20 Q1012 RF00.0/000.0 YBRM 061742Z AUTO 01017KT 9999 -TSRA SCT085 29/26 Q1004 RERA YBTL 061730Z AUTO 14007KT 9999 // SCT057 BKN067 26/22 Q1009 YBUD 061700Z AUTO 18006KT 9999 // NCD 21/19 Q1012 YBWP 061700Z AUTO 00000KT 9999 // NCD 25/24 Q1006 YBWW 061730Z AUTO 05002KT 9999 // NCD 18/16 Q1014 RF00.0/000.0 YBWX 061700Z AUTO 23018KT //// // ////// 26/22 Q1004 YCAR 061730Z AUTO 22017KT 9000 // OVC014 22/19 Q1005 YCAS 061700Z AUTO 19003KT //// // ////// 19/19 Q1014 YCBA 061700Z AUTO 05004KT 9999 // NCD ///// Q1010 YCBB 061730Z AUTO 01005KT 0900 FG OVC001 16/16 Q1013 YCBP 061700Z AUTO 17011KT 9999 // NCD 19/10 Q1013 YCCY 061700Z AUTO 20012KT 9999 // SCT086 27/17 Q1009 YCDU 061700Z AUTO 18011KT 9999 // SCT023 OVC032 16/09 Q1016 YCFS 061730Z AUTO 24003KT 9999 // NCD 19/18 Q1013 RF00.0/001.4 YCIN 061730Z AUTO 31005KT 9999 // NCD 27/18 Q1004 RF00.0/038.2 YCNM 061700Z AUTO 07006KT //// // ////// 18/18 Q1011 YCOM 061730Z AUTO 01003KT 3600 // SCT002 SCT058 07/07 Q1013 YDBY 061700Z AUTO 36007KT 9999 // SCT110 25/21 Q1005 YEML 061700Z AUTO 15010KT 9999 // OVC050 21/18 Q1012 YESP 061700Z AUTO 10006KT 9999 // OVC035 13/11 Q1021 YFRT 061730Z AUTO 18006KT 9999 // NCD 13/10 Q1018 RF00.0/000.0 YGEL 061730Z AUTO 19007KT 9999 // NCD 20/18 Q1006 RF00.0/001.0 YGFN 061730Z AUTO 00000KT 0400 // SCT002 SCT025 BKN038 18/18 Q1014 YGLA 061730Z AUTO 17005KT 9999 // NCD 23/19 Q1012 RF00.0/000.0 YGTE 061700Z AUTO 00000KT 9999 // NCD 24/24 Q1005 YGTH 061700Z AUTO 05005KT 9999 // ////// 16/15 Q1009 YHID 061730Z AUTO 00000KT 9999 // NCD 25/23 Q1006 RF00.0/000.0 YHUG 061700Z AUTO 10006KT 9999 // NCD 25/19 Q1010 YKRY 061700Z AUTO 19003KT 9999 // NCD 17/17 Q1015 YLEC 061700Z AUTO 20013KT 9999 // NCD 18/10 Q1011 YLHI 061730Z AUTO 11007KT 090V180 9999 // SCT024 OVC030 20/18 Q1015 YLIS 061734Z AUTO 22003KT 0800 FG ////// 19/19 Q1014 YLRE 061700Z AUTO 15004KT 110V170 9999 // BKN125 25/18 Q1010 YMAV 061730Z AUTO 29006KT 9999 // NCD 12/11 Q1010 RF00.0/004.2 YMAY 061700Z AUTO 16003KT 9999 // OVC039 16/16 Q1011 YMDG 061730Z AUTO 00000KT 9999 -SHRA OVC012 15/15 Q1013 YMEK 061700Z AUTO 07009KT 9999 // NCD 26/11 Q1010 YMEN 061732Z AUTO 18006KT 9999 // BKN010 BKN083 BKN120 14/13 Q1010 YMER 061700Z AUTO 00000KT 9999 // NCD 11/11 Q1011 YMHB 061730Z AUTO 01010KT 9999 // OVC098 17/12 Q1004 RF00.0/000.0 YMIA 061700Z AUTO 23007KT 9999 // NCD 16/07 Q1010 YMLT 061730Z AUTO 35007KT 9999 // SCT029 BKN051 13/11 Q1005 YMML 061739Z 18005KT 9999 BKN010 14/13 Q1010 YMOR 061700Z AUTO 05008KT 9999 // NCD 20/17 Q1012 YMTG 061700Z AUTO 22011KT 9999 // BKN026 OVC030 12/10 Q1012 YNAR 061700Z AUTO 11003KT 9999 // SCT125 17/15 Q1010 YNBR 061700Z AUTO 05009KT 9999 // OVC059 21/15 Q1011 YNTN 061700Z AUTO 24005KT 9999 // SCT100 27/23 Q1006 YNWN 061700Z AUTO 14010KT 9999 // ////// 29/10 Q1009 YOLD 061700Z AUTO 17011KT 9999 // NCD 19/11 Q1012 YPAD 061730Z 16007KT 9999 SCT018 BKN025 15/12 Q1013 YPBO 061700Z AUTO 11007KT 9999 // NCD 32/09 Q1006 YPCC 061730Z AUTO 13008KT 9999 // SCT021 26/22 Q1010 RF00.0/000.0 YPDN 061730Z AUTO 36005KT 9999 // NCD 28/25 Q1005 YPEA 061730Z AUTO 11015G28KT 9999 // NCD 16/09 Q1013 YPGV 061730Z AUTO 00000KT 9999 // NCD 26/23 Q1006 RF00.0/000.0 YPJT 061730Z AUTO 10019KT 9999 // NCD 16/09 Q1013 RF00.0/000.0 YPKG 061730Z AUTO 11019KT 9999 // NCD 18/07 Q1016 RF00.0/000.0 YPKU 061730Z AUTO 36002KT 9999 // NCD 27/25 Q1006 RF00.0/000.0 YPLM 061730Z AUTO 24021KT 9999 // NCD 23/20 Q1005 RF00.0/000.0 YPMQ 051224Z AUTO 21007KT 170V240 9000 // SCT031 BKN037 BKN045 17/16 Q1020 YPPD 061730Z AUTO 27008KT 9999 // NCD 30/18 Q1003 RF00.0/000.0 YPPH 061730Z 10013G25KT CAVOK 16/09 Q1013 YPTN 061730Z AUTO 00000KT 9999 // NCD 28/21 Q1007 RF00.0/000.2 YPWR 061730Z AUTO 17015KT 9999 // NCD 16/09 Q1013 RF00.0/000.0 YPXM 061730Z AUTO 12006KT 0200 -RA OVC002 24/24 Q1007 RERA RF00.2/018.2 YRMD 061700Z AUTO 11006KT 9999 // NCD 25/17 Q1008 YSCB 061730Z AUTO 03001KT 9999 // SCT018 BKN033 OVC042 12/12 Q1013 YSDU 061730Z AUTO 09008KT 9999 // BKN089 16/15 Q1012 RF00.0/015.0 YSNF 061730Z AUTO 06012KT 5000 BR OVC003 OVC007 22/21 Q1014 YSNW 061700Z AUTO 00000KT 9999 // OVC115 15/15 Q1012 YSRI 061730Z AUTO 00000KT 9999 // SCT120 16/15 Q1012 RF00.0/000.2 YSSY 061730Z 27005KT CAVOK 18/14 Q1012 YSTW 061730Z AUTO 17005KT 9999 // BKN039 OVC054 17/17 Q1013 YSWG 061700Z AUTO 09006KT 9999 // BKN031 18/15 Q1011 YTEF 061700Z AUTO 22012KT 9999 // NCD 33/// Q1006 YTNK 061700Z AUTO 10015KT 9999 // BKN100 28/17 Q1008 YTRE 061700Z AUTO 01003KT 9999 // SCT077 SCT100 BKN120 18/18 Q1013 YWGT 061700Z AUTO 17003KT 9999 // BKN037 OVC064 15/14 Q1011 YWHA 061700Z AUTO 22006KT 9999 // SCT029 15/11 Q1014 YWLM 061730Z AUTO 02004KT 9999 // BKN061 BKN069 BKN094 18/17 Q1012 ZBAA 061730Z 33001MPS CAVOK M03/M07 Q1034 NOSIG ZBAD 061730Z 33001MPS CAVOK M03/M08 Q1034 NOSIG ZBHH 061700Z 07003MPS CAVOK M10/M16 Q1031 NOSIG ZBSJ 061700Z VRB01MPS CAVOK M03/M06 Q1035 NOSIG ZBTJ 061730Z VRB01MPS 7000 NSC 00/M05 Q1034 NOSIG ZBYN 061730Z 03002MPS CAVOK M05/M11 Q1032 NOSIG ZGGG 061730Z 08002MPS CAVOK 14/02 Q1021 NOSIG ZGHA 061700Z 02002MPS 7000 NSC 08/05 Q1026 NOSIG ZGKL 061700Z VRB01MPS CAVOK 07/04 Q1024 NOSIG ZGNN 061700Z 00000MPS 7000 NSC 09/07 Q1021 NOSIG ZGOW 061700Z 00000MPS 7000 NSC 14/13 Q1021 NOSIG ZGSZ 061700Z 04003MPS CAVOK 16/05 Q1021 NOSIG ZHCC 061700Z 02004MPS 340V050 CAVOK 06/M05 Q1034 NOSIG ZHHH 061700Z 03005MPS 330V060 6000 NSC 10/M01 Q1028 NOSIG ZJHK 061700Z 27001MPS CAVOK 13/12 Q1020 NOSIG ZJSY 061700Z 07007MPS CAVOK 20/13 Q1019 NOSIG ZLGL 022100Z VRB01MPS 9999 -SNRA FEW016 SCT026 OVC080 01/M01 Q1033 NOSIG ZLLL 061700Z 32004MPS CAVOK M07/M15 Q1019 NOSIG ZLTG 140055Z 15002KT 9999 FEW080 02/M05 A2898 RMK SDG/HDG ZLXY 061700Z 07006MPS 7000 NSC 07/M05 Q1026 NOSIG ZMCK 061730Z 09006MPS CAVOK M16/M20 Q1021 NOSIG ZMKB 140300Z 36009MPS 9999 -RA FEW023 FEW030CB BKN033 08/06 Q1012 NOSIG RMK QFE658.0 85 MOP ZMUB 061700Z VRB01MPS CAVOK M21/M24 Q1022 NOSIG RMK QFE658.5 75 ZPPP 061700Z 23004MPS 8000 FEW020 08/06 Q1025 NOSIG ZSAM 061700Z 04002MPS 9999 BKN043 17/10 Q1021 NOSIG ZSCN 090100Z VRB01MPS CAVOK 28/24 Q1012 NOSIG ZSFZ 061700Z 02006G11MPS 340V040 9999 BKN050 16/09 Q1024 NOSIG ZSHC 061730Z 23001MPS 6000 NSC 08/05 Q1027 NOSIG ZSJN 060136Z 35005MPS 320V020 5000 HZ NSC 09/M01 Q1028 NOSIG ZSNB 061700Z 00000MPS 6000 NSC 07/05 Q1027 NOSIG ZSNJ 061700Z VRB01MPS 5000 BR NSC 02/02 Q1029 NOSIG ZSOF 061700Z 30003MPS 3200 BR NSC 05/02 Q1029 BECMG TL1800 2800 ZSPD 061730Z 36003MPS CAVOK 08/06 Q1028 NOSIG ZSQD 061700Z 34005MPS CAVOK 02/M00 Q1032 NOSIG ZSSS 061730Z 36002MPS CAVOK 09/06 Q1028 NOSIG ZSTX 120900Z 22003MPS 9999 -RA FEW006 SCT016 OVC033 25/24 Q1005 NOSIG ZSWX 120900Z VRB01MPS 9999 FEW033 28/26 Q1005 NOSIG ZSWZ 120900Z 31002MPS 220V030 9999 TS FEW016 SCT033 FEW033CB 30/25 Q1006 BECMG TL1000 -RA NSC ZSXZ 020200Z 06005MPS 8000 BKN020 27/24 Q1004 NOSIG ZSYT 041000Z 18003MPS 6000 NSC 14/07 Q1017 NOSIG ZUCK 061700Z VRB01MPS 5000 BR NSC 11/09 Q1021 NOSIG ZUGY 061700Z 02002MPS 350V050 9999 FEW033 07/04 Q1023 NOSIG ZUTF 061700Z VRB01MPS 2500 -RA BR FEW026 SCT040 10/09 Q1021 NOSIG ZUUU 061700Z 35001MPS 2500 BR SCT033 12/08 Q1021 NOSIG ZWSD 111755Z COR 01028G33KT 0200 SN BLSN VV003 M18/M21 A2883 RMK SLPNO GRID26028G33KT SDF/HDN ZWSH 061700Z AUTO 31004MPS 9999 // ////// M01/M11 Q1023 ZWWW 061730Z 24002MPS 6000 NSC M04/M07 Q1024 NOSIG ZYCC 061700Z 21002MPS CAVOK M07/M11 Q1031 NOSIG ZYHB 061700Z 18002MPS CAVOK M09/M11 Q1029 NOSIG ZYTL 061730Z 30002MPS CAVOK 00/M10 Q1033 NOSIG ZYTX 061730Z VRB01MPS CAVOK M07/M10 Q1034 NOSIG
More info

Charts for


NOTAM


Warning: file_get_contents(http://api.vateud.net/notams/.json): failed to open stream: HTTP request failed! HTTP/1.1 404 Not Found in /var/www/customers/vh-7192/web/home/phpvms/core/common/NOTAMSData.class.php on line 18

Warning: Invalid argument supplied for foreach() in /var/www/customers/vh-7192/web/home/phpvms/core/common/NOTAMSData.class.php on line 22